Now boarding.
Please wait.

menu

Important!

Any data obtained from this website should not be used in real world navigation/ flight!

Weather Service

METAR Weather Service:

GlobalOne Weather Service with live information directly from Vatsim. To get your latest METAR simply enter the ICAO of your desired destination.


Enter ICAO code to obtain METAR from Vatsim:

ICAO code:



Metar and TAF for
METAR

Please issue an ICAO code.

TAF

AGGH 191110Z 1912/2012 09010KT 9999 FEW015 SCT025 T 25 24 23 26 Q 1010 1008 1007 1009 BGTL 190900Z 1909/2015 10009KT 9999 SCT060 QNH2963INS TXM08/1912Z TNM21/2009Z BIAR 190748Z 1909/2009 19015G25KT 9999 FEW020 SCT040 TX09/1915Z TN03/2003Z TEMPO 1912/1921 20025G35KT SHRA BKN015 BECMG 2003/2006 16018KT 5000 RADZ BKN015 OVC025 BECMG 2006/2009 20008KT 9000 -DZ BKN030 BIEG 190748Z 1909/2009 17012KT 9999 FEW020 BKN050 TX08/1912Z TN01/2004Z BECMG 2004/2006 16025G35KT 5000 RADZ BKN015 BECMG 2006/2009 16015KT 9000 -DZ BKN025 BIKF 190748Z 1909/2009 23025G35KT 9999 -SHRA FEW017CB SCT035 TX09/2009Z TN05/1921Z TEMPO 1909/1914 5000 SHRA SCT013CB BECMG 1915/1919 21015KT BECMG 1921/1923 14022G35KT 5000 RADZ BKN012 OVC020 PROB40 2003/2006 1200 +RADZ OVC006 BECMG 2006/2008 22020G30KT BIRK 190748Z 1909/2009 25018KT 9999 -SHRA SCT013 BKN025 OVC040 TX09/2006Z TN07/1909Z TEMPO 1909/1914 5000 SHRA BKN015CB BECMG 1916/1918 25008KT BECMG 1922/1924 14018G28KT 5000 RADZ BKN015 OVC030 PROB40 2003/2007 1500 +RADZ OVC006 BECMG 2007/2009 20015KT BKPR 190530Z 1906/2006 01008KT 9999 FEW040 SCT080 TEMPO 1906/1907 3000 BR CBBC 191238Z 1913/2001 VRB03KT P6SM OVC010 TEMPO 1913/1920 OVC005 FM192000 VRB03KT P6SM OVC025 TEMPO 1920/2001 OVC010 RMK FCST BASED ON AUTO OBS. NXT FCST BY 191900Z CWSA 190738Z 1908/1920 31025G35KT P6SM OVC060 BECMG 1912/1914 FEW060 RMK FCST BASED ON AUTO OBS. NXT FCST BY 191400Z CWWU 191200Z 1912/2012 30020G30KT P6SM BKN015 OVC025 TEMPO 1912/1915 6SM -SHRA FM191500 30015G25KT P6SM -SHRA BKN020 FM192200 VRB03KT P6SM OVC025 TEMPO 1922/2006 6SM -SHRA BR OVC012 FM200600 24010G15KT P6SM OVC015 FM201000 18008KT P6SM OVC025 RMK NXT FCST BY 191800Z CYAB 191238Z 1913/1920 VRB03KT P6SM FEW020 RMK NXT FCST WILL BE ISSUED AT 201845Z CYAH 191214Z 1912/1921 09005KT P6SM BKN005 TEMPO 1912/1914 SCT005 BECMG 1912/1914 14012KT FM191400 09005KT P6SM FEW020 TEMPO 1914/1916 BKN020 FM191900 12015G25KT P6SM BKN040 FM192000 12015G25KT 4SM -SN BKN020 OVC040 RMK FCST BASED ON AUTO OBS. NXT FCST BY 191800Z CYAM 190742Z 1908/1920 24012KT P6SM FEW160 BECMG 1911/1912 BKN180 FM191400 24012G22KT P6SM -SHRA FEW012 OVC090 TEMPO 1914/1919 4SM -SHRA BR BKN012 OVC090 FM191900 24012G22KT 4SM -SHRA BR OVC012 RMK NXT FCST BY 191400Z CYAT 190838Z 1909/1919 12006KT 6SM -SN OVC030 TEMPO 1909/1916 2SM -SN BKN008 OVC020 FM191600 09006KT 6SM -RA BR BKN010 OVC030 TEMPO 1916/1919 2SM -SNRA BR BKN007 OVC010 RMK FCST BASED ON AUTO OBS. NXT FCST BY 191500Z CYAY 190738Z 1908/1920 36015G25KT P6SM BKN025 TEMPO 1908/1911 4SM -RASN BR BKN008 OVC020 FM191100 34015G25KT P6SM BKN025 TEMPO 1911/1918 BKN020 FM191800 31010KT P6SM BKN030 BECMG 1918/1920 24008KT RMK FCST BASED ON AUTO OBS. RMK AUTO OBS NON-REPRESENTATIVE OF CURRENT WX. NXT FCST BY 191400Z CYBC 190738Z 1908/1920 28008KT P6SM SKC BECMG 1909/1911 25005KT BKN100 FM191600 18010G20KT 5SM -SHSN BKN030 OVC100 RMK FCST BASED ON AUTO OBS. NXT FCST BY 191400Z CYBG 191213Z 1912/2012 09005KT 4SM -SN OVC030 TEMPO 1912/1914 1SM -SN OVC020 PROB30 1912/1914 3/4SM -SN FM191400 09005KT 6SM -SN OVC030 TEMPO 1914/1916 3SM -SN OVC020 FM191600 09015KT P6SM OVC030 FM192200 09012KT P6SM -SHRA OVC030 FM200300 10012KT WS005/21022KT P6SM -SHRA BKN030 OVC080 FM200900 14005KT WS005/21022KT P6SM -SHRA OVC030 RMK NXT FCST BY 191500Z CYBK 191138Z 1912/1924 03015G25KT P6SM -SN BKN020 BECMG 1912/1914 01025G35KT 3/4SM -SN BLSN VV005 FM192100 35025G35KT 11/2SM BLSN VV010 RMK NXT FCST BY 191800Z CYBL 190038Z 1901/1904 VRB03KT P6SM BKN230 RMK NXT FCST WILL BE ISSUED AT 191445Z CYBN 191130Z 1912/1924 20005KT WS005/25030KT P6SM SKC BECMG 1912/1914 23012KT FM191600 23015G25KT P6SM BKN200 FM192000 23015G25KT P6SM SCT060 OVC140 FM192200 20015G25KT P6SM -SHRA OVC060 RMK FCST BASED ON AUTO OBS. NXT FCST BY 191800Z CYBR 191138Z 1912/1924 30012KT P6SM FEW250 BECMG 1913/1915 32020G35KT FM192000 32020G35KT P6SM BKN040 RMK NXT FCST BY 191800Z CYBW 191147Z 1912/1924 34005KT P6SM SKC BECMG 1916/1918 07005KT FM192100 14005KT P6SM SCT250 RMK FCST BASED ON AUTO OBS. NXT FCST BY 191800Z CYBX 190738Z 1908/1920 03012KT P6SM SCT020 BKN050 TEMPO 1908/1914 P6SM -RA BKN020 BKN050 FM191400 01010KT P6SM BKN050 BECMG 1916/1918 33008KT BECMG 1918/1920 22006KT RMK NXT FCST BY 191400Z CYCA 190738Z 1908/1920 34012G22KT P6SM BKN030 TEMPO 1908/1920 3SM -SHRASN BR OVC020 RMK FCST BASED ON AUTO OBS. NXT FCST BY 191400Z CYCB 191238Z 1913/2001 34015KT P6SM BKN015 TEMPO 1913/2001 SCT015 RMK NXT FCST BY 191900Z CYCG 190038Z 1901/1904 VRB03KT P6SM BKN220 RMK NXT FCST WILL BE ISSUED AT 191445Z CYCO 191238Z 1913/2001 23010KT P6SM BKN015 TEMPO 1913/1916 SCT015 FM191600 23010KT P6SM SCT015 TEMPO 1916/2001 BKN015 RMK NXT FCST BY 191900Z CYCX 191130Z 1912/1924 25005KT P6SM FEW170 SCT210 FM191400 27005KT P6SM FEW030 SCT100 TEMPO 1914/1917 P6SM -SHSN BKN030 OVC100 FM191700 22008KT P6SM BKN030 RMK NXT FCST BY 191800Z CYCY 191238Z 1913/2001 26010KT P6SM SCT030 RMK FCST BASED ON AUTO OBS. NXT FCST BY 191900Z CYDB 191142Z 1912/1924 13012G22KT P6SM -RA OVC040 TEMPO 1912/1916 5SM -RASN BR BKN020 OVC030 FM191600 13015G25KT P6SM SCT040 BKN200 TEMPO 1916/1918 BKN040 BECMG 1916/1918 12020G30KT FM191800 13020G30KT P6SM SCT200 BECMG 1920/1922 13030G40KT RMK FCST BASED ON AUTO OBS. NXT FCST BY 191800Z CYDF 190738Z 1908/1920 VRB03KT P6SM -RA SCT008 OVC025 TEMPO 1908/1911 4SM -RASN BR OVC008 FM191100 03007KT P6SM SCT015 BKN025 TEMPO 1911/1915 P6SM -SN OVC015 FM191500 VRB03KT P6SM BKN025 RMK NXT FCST BY 191400Z CYDN 191138Z 1912/1924 28012KT P6SM FEW040 BECMG 1915/1917 30020G30KT FM191800 30020G30KT P6SM BKN040 RMK FCST BASED ON AUTO OBS. NXT FCST BY 191800Z CYDP 190938Z 1910/1922 28012G22KT P6SM SCT025 BKN220 TEMPO 1910/1915 BKN020 BKN220 FM191500 30015G25KT P6SM BKN025 BKN060 TEMPO 1915/1920 P6SM -SHSN OVC020 FM192000 30015G25KT P6SM FEW025 SCT060 RMK NXT FCST BY 191400Z CYDQ 191238Z 1913/2001 VRB03KT P6SM BKN180 BECMG 1919/1921 16012KT RMK FCST BASED ON AUTO OBS. NXT FCST BY 191900Z CYED 191130Z 1912/1924 29008KT P6SM FEW060 BKN220 BECMG 1920/1922 VRB03KT RMK FCST BASED ON AUTO OBS. NXT FCST BY 191800Z CYEG 191147Z 1912/2012 23004KT P6SM SKC FM191700 27006KT P6SM SCT150 BKN250 BECMG 1918/1920 01005KT BECMG 1920/1922 09005KT FM192300 12008KT P6SM BKN150 BECMG 2004/2006 15012KT WS008/16035KT FM200800 15015KT WS008/18045KT P6SM BKN150 FM201100 17012KT P6SM SCT200 RMK NXT FCST BY 191500Z CYEK 191138Z 1912/1924 FCST NOT AVBL DUE NO OBS RMK FCST BASED ON AUTO OBS. NXT FCST BY 191800Z CYEN 191138Z 1912/1924 30012KT P6SM OVC220 BECMG 1912/1914 30020KT SCT220 RMK FCST BASED ON AUTO OBS. NXT FCST BY 191800Z CYER 190838Z 1909/1919 12008KT 6SM -SN OVC030 TEMPO 1909/1919 2SM -SN BKN008 OVC020 RMK FCST BASED ON AUTO OBS. NXT FCST BY 191500Z CYEV 191238Z 1913/2001 VRB03KT P6SM SCT006 TEMPO 1913/2001 4SM BR BKN006 PROB30 1913/1917 1SM BR RMK NXT FCST BY 191900Z CYFB 191138Z 1912/2012 33008KT P6SM FEW010 FEW100 TEMPO 1914/1917 BKN010 BECMG 2004/2006 03005KT FM201000 03005KT P6SM FEW020 SCT060 RMK NXT FCST BY 191800Z CYFC 191138Z 1912/1924 22006KT P6SM OVC170 FM191500 24010G20KT P6SM BKN040 BECMG 1920/1922 18010G20KT RMK FCST BASED ON AUTO OBS. NXT FCST BY 191800Z CYFS 191138Z 1912/1924 VRB03KT P6SM FEW010 PROB30 1912/1916 1/2SM FZFG OVC002 FM191600 12012KT P6SM FEW015 FM192300 12012G22KT P6SM SCT015 OVC060 TEMPO 1923/1924 P6SM -RA RMK NXT FCST BY 191800Z CYGK 191138Z 1912/1924 25015G28KT P6SM FEW020 FEW240 FM191800 24020G35KT P6SM BKN220 RMK NXT FCST BY 191400Z CYGL 191143Z 1912/2012 11012KT P6SM SCT010 BKN220 TEMPO 1912/1915 BKN010 FM191500 11012G22KT P6SM -SN SCT015 BKN025 OVC040 TEMPO 1915/1918 2SM -SN BKN015 OVC025 FM191800 11012G22KT 4SM -SN OVC015 TEMPO 1918/2002 3/4SM -SN VV006 FM200200 08015G25KT P6SM -SN OVC015 TEMPO 2002/2012 11/2SM -SHSN BLSN OVC008 RMK NXT FCST BY 191800Z CYGP 190738Z 1908/1920 29012G22KT P6SM SCT050 TEMPO 1908/1910 BKN050 FM191000 30012G22KT P6SM SKC BECMG 1917/1919 30005KT RMK NXT FCST BY 191400Z CYGQ 190738Z 1908/1920 23010KT P6SM FEW030 BKN210 FM191300 23010KT P6SM SCT015 BKN180 TEMPO 1913/1917 BKN015 FM191700 28010KT P6SM FEW030 BKN080 RMK NXT FCST BY 191400Z CYGT 191138Z 1912/1921 27005KT P6SM -SN OVC040 TEMPO 1912/1921 21/2SM -SN OVC020 BECMG 1915/1917 32015KT RMK NXT FCST BY 191900Z CYGV 190738Z 1908/1920 31012G22KT P6SM FEW100 BECMG 1917/1919 27008KT RMK FCST BASED ON AUTO OBS. NXT FCST BY 191400Z CYGW 191143Z 1912/1924 11012KT P6SM FEW030 BECMG 1912/1914 12015G25KT FM191700 11015G25KT P6SM SCT020 TEMPO 1917/1924 BKN020 RMK FCST BASED ON AUTO OBS. NXT FCST BY 191800Z CYGX 191238Z 1913/2001 32012KT 2SM -SN OVC006 TEMPO 1913/1915 6SM -SN SCT006 OVC012 FM191500 33020G30KT 5SM -SN OVC015 TEMPO 1915/2001 P6SM NSW OVC025 RMK NXT FCST BY 191900Z CYHD 190738Z 1908/1920 23010KT P6SM BKN240 BECMG 1910/1912 29010KT FM191200 29010KT P6SM BKN120 BECMG 1913/1915 31015G25KT FM191800 31015G25KT P6SM -SHRA BKN030 RMK FCST BASED ON AUTO OBS. NXT FCST BY 191400Z CYHK 191138Z 1912/1924 35015KT P6SM SCT010 BKN040 TEMPO 1912/1924 4SM -SN BR SCT003 BKN010 OVC040 PROB30 1912/1916 3/4SM BR BKN003 RMK FCST BASED ON AUTO OBS. NXT FCST BY 191800Z CYHM 191138Z 1912/2012 22012G22KT P6SM SKC FM191500 23015G25KT P6SM FEW150 SCT200 BECMG 1917/1919 23020G30KT FM192300 23015G25KT P6SM SCT080 BKN150 FM200200 23015G30KT P6SM -RA OVC040 FM200500 24015G25KT 3SM -RA BR OVC015 FM200900 27010G20KT 5SM -SHRA BR BKN020 RMK NXT FCST BY 191800Z CYHU 191216Z 1912/2012 23012G22KT P6SM BKN220 FM191400 23015G25KT P6SM FEW025 FM191700 23020G30KT P6SM SCT030 FM192300 23015G25KT P6SM FEW025 OVC150 FM200400 22015G25KT P6SM OVC100 FM200700 21015G25KT P6SM -RA OVC030 FM201100 21017G27KT 3SM -RA BR OVC020 RMK FCST BASED ON AUTO OBS. NXT FCST BY 191800Z CYHY 191138Z 1912/1924 32008KT P6SM FEW008 PROB30 1912/1916 2SM BR BKN008 FM191600 VRB03KT P6SM FEW010 BECMG 1918/1920 13010KT RMK NXT FCST BY 191800Z CYHZ 191138Z 1912/2012 29008G18KT P6SM FEW030 FM192200 20010G20KT P6SM BKN040 RMK NXT FCST BY 191500Z CYIO 191238Z 1913/2001 18005KT P6SM SCT040 FM191900 20005KT P6SM FEW020 BKN040 TEMPO 1919/2001 5SM -SN BKN020 BKN040 RMK FCST BASED ON AUTO OBS. NXT FCST BY 191900Z CYIV 191238Z 1913/2001 32008KT P6SM BKN050 TEMPO 1913/1917 P6SM -RASN BKN020 BECMG 1913/1915 32015G25KT FM191700 32020G30KT P6SM BKN030 TEMPO 1917/2001 5SM -SN RMK NXT FCST BY 191900Z CYJT 191138Z 1912/2012 28012G22KT 5SM -RA BR FEW004 SCT012 OVC020 TEMPO 1912/1924 P6SM -RA SCT020 BKN025 FM200000 26012KT P6SM BKN025 BECMG 2004/2006 23010G20KT FM201000 17015G25KT P6SM -RA OVC020 RMK NXT FCST BY 191800Z CYKA 191238Z 1913/2001 09005KT P6SM FEW002 BKN240 TEMPO 1913/1918 BKN002 FM191800 09008KT P6SM SCT240 RMK NXT FCST BY 191900Z CYKF 190738Z 1908/1920 24012G22KT P6SM SKC BECMG 1913/1915 24017G27KT BKN200 RMK FCST BASED ON AUTO OBS. NXT FCST BY 191400Z CYKJ 191238Z 1913/1924 33012G22KT P6SM SCT015 OVC025 TEMPO 1913/1918 3SM -SHSN BKN015 FM191900 33015G25KT P6SM BKN030 BECMG 1922/1924 33010G20KT RMK FCST BASED ON AUTO OBS. NXT FCST BY 191900Z CYKL 190738Z 1908/1920 31008KT P6SM SCT015 BKN040 TEMPO 1908/1914 P6SM -SN BKN015 BKN040 PROB30 1908/1912 BKN006 FM191400 29005KT P6SM BKN040 RMK FCST BASED ON AUTO OBS. NXT FCST BY 191400Z CYKZ 191138Z 1912/1924 25005KT P6SM FEW220 BECMG 1912/1914 25010G20KT FM191500 25012G22KT P6SM BKN200 BECMG 1916/1918 25015G25KT FM192300 24012G22KT P6SM BKN080 OVC150 RMK NXT FCST BY 191800Z CYLD 191144Z 1912/1924 21010G20KT P6SM FEW020 BKN140 TEMPO 1912/1915 P6SM -SHRA BKN020 OVC060 FM191500 24015G25KT 6SM -RA BR BKN015 OVC030 TEMPO 1915/1924 4SM -SHRA BR BKN009 OVC015 RMK NXT FCST BY 191400Z CYLL 191147Z 1912/1924 29008KT P6SM SKC BECMG 1917/1919 30015KT FM192100 32018KT P6SM FEW250 BECMG 1922/1924 34012KT RMK FCST BASED ON AUTO OBS. NXT FCST BY 191800Z CYLW 191238Z 1913/2001 VRB03KT P6SM SCT240 RMK FCST BASED ON AUTO OBS. NXT FCST BY 191900Z CYMA 191142Z 1912/1924 02010KT P6SM SCT100 BKN150 OVC200 TEMPO 1912/1914 BKN100 OVC150 FM191400 02010KT P6SM SCT060 BKN100 OVC200 TEMPO 1914/1916 3SM -RASN BKN060 OVC100 FM191600 04010G20KT 6SM -RASN SCT020 OVC040 TEMPO 1916/1920 1SM -SN OVC020 FM192000 04010G20KT P6SM BKN030 OVC060 TEMPO 1920/1924 6SM -RASN OVC030 RMK NXT FCST BY 191800Z CYMH 190838Z 1909/1921 34012G22KT P6SM BKN030 TEMPO 1909/1914 5SM -SN OVC020 FM191400 34012KT P6SM BKN030 TEMPO 1914/1921 BKN020 RMK FCST BASED ON AUTO OBS. NXT FCST BY 191400Z CYMJ 191130Z 1912/1924 30012KT P6SM FEW220 BECMG 1914/1916 30012G22KT FM191900 31018G28KT P6SM SCT050 BECMG 1922/1924 32017KT RMK NXT FCST BY 191800Z CYMM 191238Z 1913/2001 33007KT 5SM BR OVC006 TEMPO 1913/1916 P6SM NSW SCT006 OVC012 FM191600 35010KT P6SM OVC012 TEMPO 1916/1918 SCT012 BKN025 FM191800 35012KT P6SM SCT025 FM192000 34008KT P6SM SKC BECMG 1923/2001 03005KT RMK FCST BASED ON AUTO OBS. NXT FCST BY 191900Z CYMO 191143Z 1912/1924 13005KT P6SM SCT040 BKN100 FM191500 15005KT P6SM BKN180 BECMG 1916/1918 19008KT RMK FCST BASED ON AUTO OBS. NXT FCST BY 191800Z CYMT 191215Z 1912/1924 14010KT 3SM -SN BKN006 OVC025 TEMPO 1912/1915 6SM -SN FEW006 OVC025 FM191500 16012KT P6SM FEW012 OVC025 TEMPO 1915/1918 P6SM -RA OVC012 BECMG 1916/1918 20010G20KT FM191800 20010G20KT 6SM -RA BR OVC012 TEMPO 1918/1924 4SM -RA BR RMK FCST BASED ON AUTO OBS. NXT FCST BY 191800Z CYMX 191216Z 1912/2012 23008KT P6SM BKN220 FM191500 23012G22KT P6SM FEW025 FM191700 23015G25KT P6SM SCT030 FM192300 22010G20KT P6SM SCT030 OVC150 FM200300 22008G18KT P6SM BKN030 OVC100 FM200600 20010KT P6SM -RA OVC025 FM200900 20010G20KT 3SM -RA BR OVC015 FM201100 20010G20KT 2SM -RA BR OVC008 RMK NXT FCST BY 191800Z CYNA 190738Z 1908/1920 33012G22KT 2SM -SN BKN020 OVC040 TEMPO 1908/1910 6SM -SN FEW020 BKN040 FM191000 30012G22KT 6SM -SN FEW020 BKN040 TEMPO 1910/1914 2SM -SN BKN020 OVC040 FM191400 33010G20KT P6SM BKN040 FM191900 30008KT P6SM SCT040 RMK FCST BASED ON AUTO OBS. NXT FCST BY 191400Z CYND 191238Z 1913/2001 22008KT P6SM FEW220 BECMG 1914/1916 22012G25KT FEW030 FM192300 22012G22KT P6SM FEW030 OVC140 RMK NXT FCST BY 191800Z CYNE 191238Z 1913/2001 32010KT P6SM BKN025 TEMPO 1913/1914 6SM -RASN BKN020 FM191500 32015G25KT P6SM BKN025 TEMPO 1915/2001 5SM -SN RMK FCST BASED ON AUTO OBS. NXT FCST BY 191900Z CYOA 191238Z 1913/1923 32015KT P6SM OVC020 TEMPO 1913/1921 3SM BR OVC008 FM192100 30008KT P6SM SCT030 RMK NXT FCST BY 191900Z CYOD 191130Z 1912/2012 27008KT P6SM FEW030 SCT220 BECMG 1916/1918 32010KT FM192000 34010KT P6SM BKN030 FM200000 36005KT P6SM FEW030 SCT220 BECMG 2002/2004 12005KT FM200600 13005KT P6SM SCT150 BKN220 BECMG 2008/2010 BKN100 OVC180 RMK NXT FCST BY 191500Z CYOJ 191238Z 1913/2001 35005KT P6SM OVC009 TEMPO 1913/1916 3SM BR OVC005 PROB30 1913/1915 3/4SM BR VV004 FM191600 VRB03KT P6SM OVC007 BECMG 1916/1918 BKN010 FM191800 11008KT P6SM BKN012 FM192100 11012KT P6SM BKN020 BECMG 1921/1923 FEW025 BKN200 FM200000 11015KT P6SM BKN120 RMK FCST BASED ON AUTO OBS. NXT FCST BY 191900Z CYOW 191138Z 1912/2012 23012G22KT P6SM FEW220 FM191500 23015G25KT P6SM FEW030 FM192300 21015G25KT P6SM FEW025 OVC150 FM200100 20012G22KT P6SM -RA BKN030 OVC080 FM200400 20012G22KT P6SM -RA OVC025 FM200800 20012KT 3SM -RA BR OVC015 FM201100 25012G22KT P6SM -SHRA BKN040 RMK NXT FCST BY 191500Z CYOY 191215Z 1912/1924 VRB03KT P6SM SCT008 BKN030 TEMPO 1912/1916 2SM -SN BKN008 OVC030 PROB30 1912/1915 1SM -FZDZ BR OVC004 FM191600 VRB03KT P6SM SCT015 BKN030 TEMPO 1916/1918 4SM -RASN BR OVC015 FM191800 VRB03KT P6SM OVC030 TEMPO 1918/1924 OVC020 BECMG 1920/1922 20008KT RMK NXT FCST BY 191800Z CYPA 191238Z 1913/2001 32010KT P6SM SKC FM191700 32015KT P6SM SCT025 TEMPO 1917/1920 BKN025 RMK NXT FCST BY 191900Z CYPE 191238Z 1913/2001 VRB03KT P6SM SCT250 BECMG 1914/1916 12003KT BKN250 FM191900 15008KT P6SM BKN200 FM192200 15015KT P6SM BKN120 RMK NXT FCST BY 191900Z CYPG 191215Z 1912/1924 31010G20KT P6SM FEW100 SCT240 BECMG 1913/1915 31018G28KT FM191800 32018G28KT P6SM BKN030 FM192100 33015G25KT 5SM -SHRA BR BKN015 OVC030 TEMPO 1921/1924 P6SM NSW SCT015 OVC030 RMK NXT FCST BY 191800Z CYPH 191143Z 1912/1924 05005KT P6SM BKN040 FM191500 12010KT P6SM FEW030 BECMG 1922/1924 09012G22KT RMK FCST BASED ON AUTO OBS. NXT FCST BY 191800Z CYPL 191238Z 1913/2001 27008KT P6SM BKN120 FM191800 30010G20KT P6SM -RA BKN025 OVC040 TEMPO 1918/1924 5SM -SHRA BR BKN012 OVC030 RMK NXT FCST BY 192000Z CYPQ 190938Z 1910/1922 19005KT P6SM SKC BECMG 1913/1915 24012G22KT FM191800 24015G25KT P6SM BKN200 BECMG 1920/1922 24012G22KT RMK FCST BASED ON AUTO OBS. NXT FCST BY 191400Z CYPR 191238Z 1913/2001 18005KT P6SM SCT020 OVC060 BECMG 1914/1916 12010KT FM191800 12012KT P6SM -RA OVC025 TEMPO 1918/2001 4SM -RA BR OVC015 RMK FCST BASED ON AUTO OBS. NXT FCST BY 191900Z CYPX 191138Z 1912/1924 15010KT P6SM SCT020 BKN050 TEMPO 1912/1924 5SM -SN BKN020 BKN050 RMK FCST BASED ON AUTO OBS. NXT FCST BY 191800Z CYPY 191138Z 1912/1924 30008KT P6SM SCT010 TEMPO 1912/1918 4SM BR BKN010 FM191800 32010KT P6SM FEW020 RMK FCST BASED ON AUTO OBS. NXT FCST BY 191800Z CYQA 191138Z 1912/1924 21010KT P6SM SKC BECMG 1913/1915 22012G22KT FM191600 24015G25KT P6SM BKN240 FM192200 24015G25KT P6SM -SHRA BKN025 OVC160 TEMPO 1922/1924 3SM -RA BR OVC015 RMK FCST BASED ON AUTO OBS. NXT FCST BY 191400Z CYQB 191138Z 1912/2012 04005KT P6SM FEW008 OVC030 TEMPO 1912/1917 4SM -SN BKN008 OVC020 PROB30 1912/1914 3SM -FZDZ BR OVC005 FM191700 17006KT P6SM OVC025 TEMPO 1917/1919 6SM -SN OVC020 FM191900 23010G20KT P6SM OVC025 FM200200 22012KT P6SM -SHRA BKN020 OVC140 FM201000 22012KT 6SM -RA BR OVC015 RMK NXT FCST BY 191800Z CYQD 191238Z 1913/2001 30015G25KT P6SM BKN030 BECMG 1917/1919 32020G30KT RMK FCST BASED ON AUTO OBS. NXT FCST BY 191900Z CYQF 191147Z 1912/1924 18005KT P6SM SKC FM191700 VRB03KT P6SM BKN220 BECMG 1917/1919 36004KT FM192100 09005KT P6SM BKN120 BECMG 1922/1924 14008KT RMK NXT FCST BY 191800Z CYQG 191138Z 1912/2012 23010G20KT P6SM BKN220 FM191500 23015G25KT P6SM SCT150 BKN200 FM192000 23018G28KT P6SM -SHRA OVC090 FM192200 23018G28KT P6SM -RA OVC040 FM200400 24017G27KT 5SM -RA BR OVC020 FM200800 29010G20KT P6SM FEW020 RMK FCST BASED ON AUTO OBS. NXT FCST BY 191800Z CYQH 191142Z 1912/1924 12006KT P6SM OVC110 FM191500 11010KT P6SM -RA SCT060 OVC080 TEMPO 1915/1918 5SM -RASN BR SCT040 OVC060 FM191800 11015G25KT P6SM -RA BKN040 OVC060 RMK NXT FCST BY 191800Z CYQI 191138Z 1912/1924 31010G20KT P6SM BKN040 BECMG 1916/1918 26012G22KT RMK NXT FCST BY 191800Z CYQK 190738Z 1908/1920 23008KT P6SM FEW090 BKN240 BECMG 1908/1910 29010KT FM191500 31015G25KT P6SM SCT030 FM191700 31015G25KT P6SM -SHRA BKN030 RMK NXT FCST BY 191400Z CYQL 191147Z 1912/1924 25008KT P6SM SKC BECMG 1914/1916 VRB03KT BECMG 1916/1918 14005KT FM192100 08005KT P6SM FEW250 RMK FCST BASED ON AUTO OBS. NXT FCST BY 191800Z CYQM 191138Z 1912/2012 25010G20KT P6SM FEW020 FM191500 25012G22KT P6SM FEW060 BKN250 BECMG 1916/1918 BKN060 FM200000 20010KT P6SM SCT020 BKN060 FM200400 17010KT P6SM BKN020 RMK NXT FCST BY 191800Z CYQQ 191139Z 1912/2012 VRB03KT P6SM SCT003 TEMPO 1912/1917 3/4SM BR BKN002 FM191700 VRB03KT P6SM FEW005 TEMPO 1917/1919 3SM BR SCT005 FM191900 VRB03KT P6SM FEW020 FEW230 FM200900 VRB03KT P6SM FEW005 TEMPO 2009/2012 2SM BR SCT005 PROB30 2009/2012 1/2SM FG OVC002 RMK NXT FCST BY 191800Z CYQR 191138Z 1912/2012 30012KT P6SM FEW220 BECMG 1916/1918 30020G30KT SCT050 FM200200 36012KT P6SM FEW050 BECMG 2006/2008 36006KT RMK NXT FCST BY 191800Z CYQT 190738Z 1908/1920 26008KT P6SM SKC BECMG 1912/1914 27012G22KT FM191400 27012G22KT P6SM BKN180 FM191800 30015G25KT P6SM BKN080 RMK NXT FCST BY 191400Z CYQU 191238Z 1913/2001 VRB03KT P6SM BKN250 BECMG 1915/1917 11005KT BECMG 1918/1920 12010KT FM192300 12012KT P6SM BKN120 RMK NXT FCST BY 191900Z CYQV 191138Z 1912/1924 30012KT P6SM FEW030 BECMG 1913/1915 32015G25KT RMK FCST BASED ON AUTO OBS. NXT FCST BY 191800Z CYQW 191138Z 1912/1924 30008KT P6SM SKC BECMG 1916/1918 31015G25KT RMK FCST BASED ON AUTO OBS. NXT FCST BY 191800Z CYQX 191138Z 1912/2012 33012G22KT 5SM -RA BR BKN005 OVC015 TEMPO 1912/1914 6SM -RASN BR SCT005 OVC015 FM191400 34012G22KT 5SM -RASN BR OVC015 TEMPO 1914/1918 P6SM NSW OVC025 FM191800 35010KT P6SM BKN025 BECMG 1922/1924 VRB03KT FM200500 23010KT P6SM SCT025 FM201100 19012KT P6SM FEW025 BKN100 RMK NXT FCST BY 191800Z CYQY 191138Z 1912/1924 28012G22KT P6SM -SN BKN050 TEMPO 1912/1914 5SM -SHSNRA BKN020 BKN050 FM191400 28015G25KT P6SM BKN040 TEMPO 1914/1918 5SM -SHRA BR BKN020 BKN040 FM191800 28015G25KT P6SM SCT050 BECMG 1920/1922 23008KT RMK NXT FCST BY 191800Z CYQZ 191209Z 1912/1924 VRB03KT P6SM SCT090 OVC140 TEMPO 1912/1916 1SM BR FEW005 BKN090 OVC140 PROB30 1912/1916 1/2SM FG BKN005 FM191600 VRB03KT P6SM SCT140 BKN200 BECMG 1918/1920 18006KT RMK FCST BASED ON AUTO OBS. NXT FCST BY 191900Z CYRB 191138Z 1912/2012 33010G20KT P6SM SCT015 BKN040 TEMPO 1912/1914 5SM -SN SCT008 OVC015 FM191400 34018G28KT 2SM -SN BLSN VV008 TEMPO 1914/1924 5SM -SN OVC015 FM200000 34015KT 5SM BLSN BKN010 RMK NXT FCST BY 191800Z CYRJ 191138Z 1912/1924 VRB03KT 3/4SM -SN BR OVC015 BECMG 1912/1914 6SM -SN OVC030 FM191400 20010G20KT P6SM OVC030 TEMPO 1914/1917 5SM -RASN OVC010 FM191700 20012G22KT P6SM BKN030 BKN140 TEMPO 1917/1922 BKN020 FM192200 20012G22KT P6SM -RA OVC025 TEMPO 1922/1924 5SM -RA BR OVC020 RMK NXT FCST BY 191400Z CYRL 191216Z 1912/1923 27007KT P6SM BKN020 BKN040 TEMPO 1912/1914 SCT020 BKN040 FM191600 30015G25KT P6SM SCT020 BKN040 TEMPO 1916/1921 P6SM -SHRA BKN020 OVC040 FM192100 30015G25KT P6SM SCT020 BKN040 TEMPO 1921/1923 5SM -SHRASN BKN020 OVC040 RMK NXT FCST BY 191400Z CYRQ 190742Z 1908/1920 20006KT P6SM BKN040 TEMPO 1908/1912 6SM -SN BECMG 1910/1912 22010G20KT FM191500 22015G25KT P6SM BKN030 RMK FCST BASED ON AUTO OBS. NXT FCST BY 191400Z CYRT 191138Z 1912/1924 16015G25KT 4SM -SN SCT005 OVC020 TEMPO 1912/1917 1SM -SN OVC005 BECMG 1913/1915 06010KT FM191700 06015KT 5SM -SN SCT007 OVC030 TEMPO 1917/1921 11/2SM -SN BKN007 OVC015 BECMG 1919/1921 02025G35KT FM192100 02025G35KT 3/4SM -SN BLSN VV008 RMK NXT FCST BY 191800Z CYSB 190742Z 1908/1920 24012G22KT P6SM FEW160 FM191200 24012G22KT P6SM FEW012 TEMPO 1912/1917 BKN012 FM191700 23015G25KT P6SM -SHRA BKN025 OVC160 TEMPO 1917/1920 4SM -RA BR OVC015 BECMG 1917/1919 22018G28KT RMK NXT FCST BY 191400Z CYSF 191138Z 1912/1924 31015G25KT P6SM BKN025 TEMPO 1912/1924 5SM -SN BR OVC015 RMK FCST BASED ON AUTO OBS. NXT FCST BY 191800Z CYSJ 191138Z 1912/1924 28006KT P6SM FEW020 SCT180 FM191800 23012G22KT P6SM BKN030 RMK NXT FCST BY 191800Z CYSM 191138Z 1912/1924 33008KT P6SM SCT015 TEMPO 1912/1920 4SM BR SCT008 BKN015 FM192000 30008KT P6SM FEW020 RMK NXT FCST BY 191800Z CYSN 191238Z 1913/2001 23015G25KT P6SM SCT250 BECMG 1917/1919 23020G30KT FM192300 23015G25KT P6SM SCT090 BKN220 RMK NXT FCST BY 192000Z CYTE 191238Z 1913/2001 08005KT P6SM BKN040 BKN100 TEMPO 1913/1919 4SM -SN BKN020 BKN070 FM191900 09005KT P6SM -SN SCT012 OVC040 TEMPO 1919/2001 21/2SM -SN SCT008 OVC012 RMK NXT FCST BY 191900Z CYTH 191238Z 1913/2001 35012KT P6SM OVC025 TEMPO 1913/1915 P6SM -SHRASN OVC020 BECMG 1913/1915 33018G28KT FM191500 32018G28KT P6SM OVC025 TEMPO 1915/2001 5SM -SN OVC020 RMK NXT FCST BY 191900Z CYTL 191021Z 1910/1920 18005KT P6SM -RA SCT050 BKN140 TEMPO 1910/1912 1SM BR OVC020 BECMG 1910/1912 31010KT FM191200 31010KT P6SM -RA SCT006 OVC040 TEMPO 1912/1915 4SM -RA BR OVC006 FM191500 31012G22KT 4SM -RA BR OVC006 FM191900 31020G30KT 1SM -SN BKN008 OVC015 PROB30 1919/1920 1/2SM SHSN VV005 RMK FCST BASED ON AUTO OBS. NXT FCST BY 191400Z CYTR 191130Z 1912/2012 24010G20KT P6SM FEW150 SCT250 BECMG 1912/1914 24018G28KT SCT150 BKN250 FM191900 24018G28KT P6SM SCT030 BKN150 FM200300 22018G28KT P6SM -SHRA OVC025 FM200600 24020G30KT 4SM -SHRA BR OVC015 FM201000 26015G25KT P6SM SCT015 BKN030 RMK NXT FCST BY 191800Z CYTS 190742Z 1908/1920 22008KT P6SM BKN220 FM191400 22012G22KT P6SM -SHRA SCT010 OVC060 TEMPO 1914/1917 3SM -RA BR OVC010 FM191700 22012G22KT 6SM -RA BR OVC010 TEMPO 1917/1920 21/2SM -RA BR OVC006 RMK NXT FCST BY 191400Z CYTZ 190738Z 1908/2008 23012KT P6SM SKC BECMG 1912/1914 25015G25KT FM191600 25015G25KT P6SM BKN200 BECMG 1916/1918 25020G30KT FM192300 24020G35KT P6SM BKN080 OVC150 FM200100 24022G37KT P6SM -RA OVC040 FM200500 24025G35KT P6SM -RA OVC020 RMK FCST BASED ON AUTO OBS. NXT FCST BY 191400Z CYUB 190038Z 1901/1905 13012KT P6SM SCT006 OVC090 TEMPO 1901/1905 2SM BR BKN006 OVC090 RMK NXT FCST WILL BE ISSUED AT 191445Z CYUL 191216Z 1912/2012 23012G22KT P6SM BKN220 FM191400 23015G25KT P6SM FEW030 FM191700 23020G30KT P6SM SCT030 FM192300 23015G25KT P6SM FEW025 OVC150 FM200400 23015G25KT P6SM OVC100 FM200700 23015G25KT P6SM -RA OVC030 FM201000 23018G28KT 5SM -RA BR OVC020 RMK NXT FCST BY 191500Z CYUX 191238Z 1913/2001 33008KT P6SM -SN SCT020 OVC040 TEMPO 1913/2001 2SM -SN OVC020 BECMG 1919/1921 33015KT RMK NXT FCST BY 191900Z CYUY 191138Z 1912/1924 22010KT P6SM FEW050 SCT240 BECMG 1913/1915 22012G22KT FM191600 22012G22KT P6SM SCT015 BKN070 TEMPO 1916/1920 4SM -RA BR BKN015 OVC070 FM192000 22015G25KT 6SM -RA BR OVC012 TEMPO 1920/1924 3SM -RA BR OVC008 RMK NXT FCST BY 191800Z CYVC 191238Z 1913/2001 32012G22KT P6SM BKN025 TEMPO 1913/1914 6SM -SHRA BR BKN020 FM191800 32015G25KT P6SM SCT025 RMK NXT FCST BY 191900Z CYVM 191238Z 1913/2001 19005KT P6SM BKN030 TEMPO 1913/2001 P6SM -SN RMK NXT FCST BY 191900Z CYVO 191138Z 1912/1924 18010KT P6SM FEW050 SCT220 BECMG 1913/1915 22012G22KT FM191700 22012G22KT P6SM BKN025 OVC090 TEMPO 1917/1920 4SM -SHRA BR BKN015 OVC070 FM192000 22015G25KT 6SM -RA BR OVC015 TEMPO 1920/1924 3SM -RA BR OVC008 RMK NXT FCST BY 191800Z CYVP 191143Z 1912/1924 26005KT P6SM BKN050 TEMPO 1912/1915 5SM -SN BKN015 BKN050 FM191500 28010KT P6SM SCT020 TEMPO 1915/1924 BKN020 RMK NXT FCST BY 191800Z CYVQ 191138Z 1912/1924 11008KT P6SM FEW060 TEMPO 1912/1919 2SM BR PROB30 1912/1919 1/2SM FZFG VV002 FM191900 11012KT P6SM BKN200 FM192300 11012KT P6SM SCT040 OVC080 TEMPO 1923/1924 P6SM -RA RMK NXT FCST BY 191800Z CYVR 191138Z 1912/2018 VRB03KT P6SM BKN250 PROB30 1912/1918 1/2SM FG BKN002 FM191900 25007KT P6SM SCT250 FM200900 VRB03KT P6SM FEW250 PROB30 2009/2018 1/2SM FG BKN002 RMK NXT FCST BY 191500Z CYVT 190038Z 1901/1904 29015G25KT P6SM SCT050 BKN090 TEMPO 1901/1904 P6SM -SHRA BKN090 RMK NXT FCST WILL BE ISSUED AT 191345Z CYWA 191130Z 1912/1924 VRB03KT P6SM SKC BECMG 1913/1915 22008KT FM191900 23012G22KT P6SM BKN030 BKN250 RMK FCST BASED ON AUTO OBS. NXT FCST BY 191800Z CYWE 191238Z 1913/2001 VRB03KT P6SM OVC012 TEMPO 1913/1917 3SM BR OVC008 FM191700 VRB03KT P6SM SCT010 TEMPO 1917/2001 BKN010 RMK FCST BASED ON AUTO OBS. NXT FCST BY 191900Z CYWG 191138Z 1912/2012 32012KT P6SM SCT090 BECMG 1913/1915 32020G35KT FM192000 32020G35KT P6SM BKN040 TEMPO 1920/2002 P6SM -SHRA FM200200 34015G25KT P6SM SCT040 RMK NXT FCST BY 191800Z CYWK 190738Z 1908/1920 33006KT P6SM SCT015 TEMPO 1908/1914 BKN015 BKN040 PROB30 1908/1912 BKN006 FM191400 29005KT P6SM BKN040 RMK FCST BASED ON AUTO OBS. NXT FCST BY 191400Z CYWL 191238Z 1913/2001 11005KT P6SM FEW120 BKN150 FM191700 11010KT P6SM SCT150 RMK NXT FCST BY 191900Z CYXC 191238Z 1913/2001 VRB03KT P6SM SCT240 RMK NXT FCST BY 191900Z CYXE 191138Z 1912/2012 29010KT P6SM SKC FM191500 30012KT P6SM SCT025 BECMG 1916/1918 30018G28KT BECMG 2000/2002 02008KT FM200600 09008KT P6SM FEW240 RMK NXT FCST BY 191800Z CYXH 191147Z 1912/1924 27005KT P6SM SKC BECMG 1919/1921 34005KT BECMG 1922/1924 02008KT RMK FCST BASED ON AUTO OBS. NXT FCST BY 191800Z CYXJ 191238Z 1913/2001 26005KT P6SM SCT150 BKN180 BECMG 1919/1921 16012KT RMK NXT FCST BY 191900Z CYXL 190738Z 1908/1920 26008KT P6SM BKN240 BECMG 1910/1912 30010KT FM191200 30010KT P6SM BKN120 BECMG 1913/1915 31015G25KT FM191800 31015G25KT P6SM -SHRA BKN030 RMK NXT FCST BY 191400Z CYXP 191238Z 1913/1922 FCST NOT AVBL DUE NO OBS RMK NXT FCST BY 191900Z CYXR 191138Z 1912/1924 20012KT P6SM FEW240 BECMG 1913/1915 20015G25KT FM191600 20015G25KT P6SM -SHRA SCT015 OVC080 TEMPO 1916/1922 4SM -RA BR OVC015 FM192200 20015G25KT 4SM -RA BR OVC015 RMK FCST BASED ON AUTO OBS. NXT FCST BY 191800Z CYXS 191238Z 1913/2001 VRB03KT P6SM SCT080 BKN140 BKN240 TEMPO 1913/1917 BKN080 OVC140 FM191700 05008KT P6SM SCT240 RMK FCST BASED ON AUTO OBS. NXT FCST BY 191900Z CYXT 191238Z 1913/2001 35007KT P6SM SCT008 SCT020 OVC060 TEMPO 1913/1917 5SM -RA BR BKN008 BKN020 OVC040 FM191700 VRB03KT P6SM SCT020 BKN060 TEMPO 1917/1920 5SM -SHRA BR SCT008 BKN020 OVC060 BECMG 1918/1920 17012G22KT FM192000 17012G22KT P6SM -RA SCT020 BKN040 TEMPO 1920/2001 5SM -SHRA BR SCT008 BKN020 OVC040 RMK NXT FCST BY 191900Z CYXU 191138Z 1912/2012 22007KT P6SM SKC BECMG 1912/1914 23010G20KT FM191500 23010G20KT P6SM SCT150 BKN200 BECMG 1917/1919 23015G25KT FM192100 23015G25KT P6SM OVC080 FM192300 23015G30KT P6SM -RA OVC040 FM200500 24015G25KT 3SM -RA BR OVC015 FM200900 28010G20KT 5SM -SHRA BR BKN020 RMK NXT FCST BY 191800Z CYXX 191138Z 1912/2012 VRB03KT P6SM BKN250 PROB30 1912/1918 1/2SM FG VV002 FM191800 22005KT P6SM SCT250 PROB30 2010/2012 1/2SM FG VV002 RMK NXT FCST BY 191800Z CYXY 191142Z 1912/1924 15012G22KT P6SM -RA SCT020 OVC040 TEMPO 1912/1914 5SM -RA BR OVC020 BECMG 1912/1914 16022G32KT FM191400 16022G32KT P6SM -RA SCT020 OVC040 TEMPO 1914/1924 5SM -RA BR SCT007 OVC020 RMK NXT FCST BY 191800Z CYXZ 191238Z 1913/1924 21012G22KT P6SM -RA BKN050 TEMPO 1913/1916 5SM -RA BR BKN020 OVC050 FM191600 22015G25KT 6SM -RA BR SCT006 OVC015 TEMPO 1916/1924 2SM -SHRA BR OVC006 BECMG 1922/1924 27010KT RMK NXT FCST BY 192000Z CYYB 190742Z 1908/1920 27015KT P6SM FEW030 SCT180 FM191200 24012G22KT P6SM FEW012 TEMPO 1912/1919 BKN012 BECMG 1912/1914 23015G25KT FM191900 22018G28KT P6SM BKN025 OVC160 TEMPO 1919/1920 4SM -SHRA BR OVC015 RMK FCST BASED ON AUTO OBS. NXT FCST BY 191400Z CYYC 191147Z 1912/2012 VRB03KT P6SM SKC BECMG 1912/1914 27005KT BECMG 1916/1918 09005KT FM192100 14005KT P6SM SCT250 BECMG 2003/2005 15007KT WS008/17030KT FM200900 16008KT P6SM BKN250 BECMG 2010/2012 21005KT RMK NXT FCST BY 191500Z CYYD 190038Z 1901/1906 30005KT P6SM SCT060 BKN140 TEMPO 1903/1905 BKN060 FM190500 VRB03KT P6SM SCT030 BKN060 TEMPO 1905/1906 P6SM -SHRA BKN030 RMK NXT FCST WILL BE ISSUED AT 191345Z CYYE 191238Z 1913/2001 VRB03KT P6SM BKN150 FM191800 10008KT P6SM SCT080 BKN100 OVC240 RMK NXT FCST BY 191900Z CYYF 191238Z 1913/2001 35005KT P6SM SCT240 BECMG 1916/1918 18010KT RMK NXT FCST BY 191900Z CYYG 191138Z 1912/1924 28008G18KT P6SM FEW015 BKN040 TEMPO 1912/1915 P6SM -SHSN BKN015 BKN040 FM191500 27012G22KT P6SM SCT040 RMK NXT FCST BY 191800Z CYYH 191138Z 1912/1924 34010KT P6SM SCT015 BKN040 TEMPO 1912/1924 4SM -SN BR FEW005 BKN015 OVC040 RMK NXT FCST BY 191800Z CYYJ 191138Z 1912/2012 28005KT P6SM FEW250 PROB30 1912/1915 1SM BR FM191800 12008KT P6SM SKC RMK NXT FCST BY 191800Z CYYL 191238Z 1913/2001 35010G20KT P6SM OVC025 TEMPO 1913/2001 5SM -SN OVC020 BECMG 1914/1916 32020G35KT RMK FCST BASED ON AUTO OBS. NXT FCST BY 191900Z CYYN 191138Z 1912/1924 29008KT P6SM SKC BECMG 1913/1915 29015KT BECMG 1918/1920 32018G28KT RMK FCST BASED ON AUTO OBS. NXT FCST BY 191800Z CYYQ 191208Z 1912/2012 32025G35KT 3/4SM -SN BLSN BKN012 TEMPO 1912/1914 5SM -SN BKN025 FM191400 31022G32KT P6SM BKN025 TEMPO 1914/1924 5SM -SN BKN015 FM200000 35022G32KT 5SM -SN SCT008 OVC012 RMK NXT FCST BY 191800Z CYYR 191130Z 1912/2012 35005KT P6SM SCT020 BKN040 TEMPO 1912/1915 P6SM -SHSN BKN020 OVC040 FM191500 28008KT P6SM SCT020 OVC025 TEMPO 1915/1920 3SM -SHSN SCT010 OVC020 FM192000 29008KT P6SM -SHSN BKN025 FM192200 27008KT P6SM FEW030 BECMG 2000/2002 VRB03KT FM201000 06005KT P6SM BKN060 RMK NXT FCST BY 191800Z CYYT 191138Z 1912/2012 30020G30KT 5SM -SHRA BR BKN008 OVC015 TEMPO 1912/1915 P6SM -SHRA OVC025 FM191500 30015G25KT P6SM BKN025 TEMPO 1915/1918 P6SM -SHRA BKN020 FM191800 31012KT P6SM BKN025 FM200000 29005KT P6SM BKN030 BECMG 2002/2004 22012KT RMK NXT FCST BY 191800Z CYYU 190742Z 1908/1920 24010KT P6SM BKN200 BECMG 1909/1911 24012KT FM191400 24012G22KT P6SM -SHRA SCT012 OVC080 TEMPO 1914/1917 3SM -RA BR OVC012 FM191700 24012G22KT 6SM -RA BR OVC010 TEMPO 1917/1920 21/2SM -RA BR OVC006 RMK NXT FCST BY 191400Z CYYY 190738Z 1908/1920 30012G22KT P6SM FEW040 BECMG 1909/1911 23008KT BKN100 FM191600 17010KT 5SM -SHSN BKN030 OVC100 RMK NXT FCST BY 191400Z CYYZ 191138Z 1912/2018 23012G22KT P6SM FEW230 FM191600 23015G25KT P6SM BKN200 BECMG 1916/1918 23018G30KT FM192300 23015G25KT P6SM BKN080 OVC150 FM200100 23018G30KT P6SM -RA OVC040 FM200500 23015G25KT P6SM -RA OVC020 FM200800 28013G23KT P6SM SCT030 FM201400 29015G25KT 5SM -SHRA BR OVC020 RMK NXT FCST BY 191500Z CYZE 190938Z 1910/1922 24010G20KT P6SM SKC BECMG 1913/1915 22020G30KT FM191500 22020G30KT P6SM BKN220 FM191800 22020G30KT 6SM -SHRA BR SCT007 BKN025 OVC120 TEMPO 1918/1922 21/2SM -RA BR OVC007 RMK FCST BASED ON AUTO OBS. NXT FCST BY 191400Z CYZF 191138Z 1912/2012 35008KT P6SM FEW020 PROB30 1912/1916 1SM BR SCT004 FM192000 15008KT P6SM SCT008 TEMPO 1920/2010 3SM BR BKN008 FM201000 16015G25KT 2SM -SN OVC020 RMK NXT FCST BY 191800Z CYZH 191238Z 1913/2001 29008KT P6SM SKC FM192100 25004KT P6SM BKN250 BECMG 1922/1924 12010KT RMK FCST BASED ON AUTO OBS. NXT FCST BY 191900Z CYZP 191238Z 1913/2001 14015G25KT 5SM BR OVC005 TEMPO 1913/1916 P6SM NSW OVC010 FM191600 14020KT 6SM -RA OVC010 TEMPO 1916/1921 2SM -RA BR OVC004 BECMG 1919/1921 22012G22KT FM192100 22012G22KT P6SM OVC025 TEMPO 1921/2001 OVC012 RMK FCST BASED ON AUTO OBS. NXT FCST BY 191900Z CYZR 190742Z 1908/1920 22010KT P6SM SKC FM191500 22015G25KT P6SM BKN200 RMK FCST BASED ON AUTO OBS. NXT FCST BY 191400Z CYZS 191238Z 1913/2001 01008KT P6SM -SN SCT020 OVC070 TEMPO 1913/2001 3SM -SN BKN020 OVC050 RMK NXT FCST BY 191900Z CYZT 191238Z 1913/2001 16005KT P6SM FEW200 RMK NXT FCST BY 191900Z CYZV 191138Z 1912/2012 30007KT P6SM FEW040 FM192100 20010KT P6SM -SN BKN050 BKN100 FM200000 10008G18KT 21/2SM -SN OVC030 FM200400 10015G25KT 2SM -SN OVC020 PROB30 2004/2008 1SM -SN FM200800 09012G22KT 3SM -RA BR BKN008 OVC012 RMK NXT FCST BY 191800Z CYZX 191130Z 1912/2012 29012G22KT P6SM FEW040 SCT090 TEMPO 1915/1919 BKN040 FM191900 23010G20KT P6SM BKN030 FM200300 18010KT P6SM BKN025 OVC200 FM201100 21012KT P6SM SCT015 OVC025 RMK NXT FCST BY 191800Z CYZY 190639Z 1907/1909 VRB03KT P6SM BKN140 OVC240 RMK FCST BASED ON AUTO OBS. NXT FCST WILL BE ISSUED AT 191445Z CZBF 190838Z 1909/1921 29005KT P6SM OVC040 TEMPO 1909/1913 SCT040 FM191300 28008KT P6SM FEW100 FM192000 20010G20KT P6SM BKN040 BKN080 RMK FCST BASED ON AUTO OBS. NXT FCST BY 191400Z CZMD 191017Z 1910/1922 28006KT P6SM BKN010 TEMPO 1910/1914 SCT010 PROB30 1910/1914 1SM BR OVC005 FM191400 30010KT 6SM -RA BR SCT006 OVC015 TEMPO 1914/1918 2SM -SNRA BR BKN006 OVC015 FM191800 30015G25KT 11/2SM -SN OVC015 FM192100 32015G25KT 6SM -SHSN BKN025 RMK FCST BASED ON AUTO OBS. NXT FCST BY 191600Z CZSJ 190943Z 1910/1922 26006KT P6SM FEW090 BKN240 PROB30 1910/1914 1SM BR OVC005 FM191400 30010KT 6SM -RA BR SCT006 OVC015 TEMPO 1914/1918 2SM -SNRA BR BKN006 OVC015 FM191800 30015G25KT 11/2SM -SN OVC015 FM192100 32015G25KT 6SM -SHSN BKN025 RMK FCST BASED ON AUTO OBS. NXT FCST BY 191600Z CZUM 190738Z 1908/1920 32012G22KT P6SM SCT015 BKN040 TEMPO 1908/1914 5SM -SN BKN015 BKN040 PROB30 1908/1911 21/2SM -SHSN FM191400 32012KT P6SM BKN040 TEMPO 1914/1920 P6SM -SN BKN020 BKN040 RMK FCST BASED ON AUTO OBS. NXT FCST BY 191400Z CZVL 191147Z 1912/1924 28005KT P6SM SKC FM191700 30006KT P6SM SCT150 BKN250 BECMG 1918/1920 36005KT BECMG 1920/1922 07005KT FM192300 10005KT P6SM BKN150 RMK FCST BASED ON AUTO OBS. NXT FCST BY 191800Z DAAE 191100Z 1912/2012 34015KT 9999 SCT020 SCT090 TEMPO 1912/1920 FEW020CB PROB30 TEMPO 1914/1918 3000 -TSRA BECMG 1920/1922 12008KT PROB30 TEMPO 2000/2008 2000 BR BKN010 BECMG 2010/2012 07014KT DAAG 191100Z 1912/2012 03010KT 9999 SCT023 TEMPO 1912/1917 FEW020TCU BECMG 1918/1921 VRB02KT PROB30 TEMPO 1918/1922 5000 -DZ BKN015 BECMG 2008/2011 31010KT DAAJ 191100Z 1912/2012 26008KT 6000 NSC PROB30 TEMPO 1912/1915 26018KT 4000 DRSA PROB30 1918/1924 FEW046TCU BECMG 1920/1923 07010KT DAAS 191100Z 1912/2012 08014KT 9999 SCT026 SCT100 TEMPO 1912/1920 FEW026CB PROB30 TEMPO 1914/1918 5000 -TSRA BECMG 1920/1922 24008KT PROB30 TEMPO 2000/2008 2000 BR BKN010 BECMG 2010/2012 32014KT DAAT 191100Z 1912/2012 26012KT CAVOK PROB30 TEMPO 1912/1918 26015G25KT FEW046TCU BECMG 1920/1923 02010KT DAAV 191100Z 1912/2012 24015KT 9999 SCT020 SCT090 TEMPO 1912/1920 FEW020CB PROB30 TEMPO 1914/1918 3000 -TSRA BECMG 1920/1922 12008KT PROB30 TEMPO 2000/2008 2000 BR BKN010 BECMG 2010/2012 08014KT DABB 191100Z 1912/2012 04014KT 9999 SCT030 SCT100 TEMPO 1912/1920 FEW020CB PROB30 TEMPO 1914/1918 4000 -TSRA BECMG 1920/1922 15008KT PROB30 TEMPO 2000/2008 2000 BR BKN010 BECMG 2010/2012 05014KT DABC 191100Z 1912/2012 06012KT 9000 SCT016 SCT090 TEMPO 1912/1920 FEW020CB PROB30 TEMPO 1914/1918 4000 -TSRA BECMG 1920/1922 VRB02KT PROB30 TEMPO 2000/2008 2000 BR BKN010 BECMG 2010/2012 08012KT DABS 191100Z 1912/2012 35014KT 9000 SCT016 SCT090 TEMPO 1912/1920 FEW026CB PROB30 TEMPO 1914/1918 4000 -TSRA BECMG 1920/1922 VRB02KT PROB30 TEMPO 2000/2008 2000 BR BKN010 BECMG 2010/2012 33014KT DABT 191100Z 1912/2012 23014KT 9999 SCT026 SCT100 TEMPO 1912/1920 FEW030CB PROB30 TEMPO 1914/1918 4000 -TSRA BECMG 1920/1922 24008KT PROB30 TEMPO 2000/2008 2000 BR BKN010 BECMG 2010/2012 32014KT DAOB 191100Z 1912/2012 14012KT 9999 SCT026 PROB30 TEMPO 1912/1918 FEW026CB DAOI 191100Z 1912/2012 07012KT 9999 SCT026 FEW030CB PROB30 TEMPO 1914/1918 9999 TSRA BECMG 1919/1921 9999 VRB02KT 9999 FEW026 SCT200 DAON 191100Z 1912/2012 VRB02KT 9999 FEW026 SCT030 TEMPO 1914/1924 36008KT FEW023CB SCT026 BKN100 BECMG 2001/2003 VRB02KT 9000 BKN020 TEMPO 2004/2008 4000 BR BECMG 2009/2012 CAVOK DAOO 191100Z 1912/2012 08008KT 9999 SCT026 SCT100 TEMPO 1913/1922 TSRA BKN023 FEW026CB BKN120 BECMG 1922/2001 VRB02KT 9999 BKN020 FEW026 BKN200 BECMG 2009/2012 24014KT CAVOK DAUA 191100Z 1912/2012 17012KT CAVOK PROB30 TEMPO 1912/1916 17022KT 5000 DRSA BECMG 2000/2003 VRB02KT DAUB 191100Z 1912/2012 26015KT 9999 SCT040 PROB30 TEMPO 1912/1920 28015G25KT 2000 DRSA FEW033TCU BECMG 1921/1923 32012KT DAUG 191100Z 1912/2012 13010KT CAVOK BECMG 2000/2003 07010KT DAUH 191100Z 1912/2012 VRB02KT CAVOK BECMG 1914/1917 08010KT DAUI 191100Z 1912/2012 11010KT 8000 NSC BECMG 1913/1916 22012KT BECMG 1918/1921 VRB02KT BECMG 2000/2003 06010KT DAUZ 191100Z 1912/2012 09010KT 8000 NSC DBBB 191100Z 1912/2018 22010KT 9999 SCT012 TEMPO 1914/1920 TS BKN012 FEW023CB PROB30 1916/1919 4000 TSRA TEMPO 2004/2009 VRB03KT DFFD 191100Z 1912/2018 24008KT 9999 FEW020 TEMPO 1914/1922 4000 TSRA SCT020 SCT036CB DFOO 191100Z 1912/2012 20008KT 9999 FEW016 TEMPO 1914/1924 4000 TSRA SCT016 SCT033CB DGAA 191100Z 1912/2018 19010KT 9999 BKN025 PROB30 TEMPO 1915/1919 TS BKN013 FEW020CB BECMG 2000/2002 27008KT SCT011 FM201200 18015KT 9999 FEW025 DIAP 191100Z 1912/2018 20010KT 9999 SCT012 TEMPO 1912/1918 4000 RA BKN012 TEMPO 1918/1924 4000 RA BKN012 TEMPO 2000/2006 BKN012 DIBK 191100Z 1912/2012 24008KT 9999 SCT013 PROB30 TEMPO 1918/1924 BKN013 FEW025CB TEMPO 2005/2008 4000 BR DIYO 191100Z 1912/2012 24008KT 9999 SCT013 PROB30 TEMPO 1918/1924 BKN013 FEW025CB TEMPO 2005/2008 4000 BR DNAA 190950Z 1912/2018 21005KT 9999 SCT012 BECMG 1912/1914 BKN014 PROB30 TEMPO 1915/1920 08014G28KT -TSRA FEW020CB BECMG 1920/1922 VRB02KT CAVOK DNCA 190945Z 1912/2018 26009KT 9999 BKN012 FEW020CB TEMPO 1914/1919 TS PROB30 1915/1917 5000 -TSRA BKN008 FEW018CB BECMG 1920/1922 00000KT SCT008 DNEN 190945Z 1912/2018 26010KT 9999 BKN012 TEMPO 1916/1921 TS BKN010 FEW020CB BECMG 1922/1924 VRB02KT SCT009 DNIL 190950Z 1912/2018 23006KT 9999 BKN012 TEMPO 1917/1920 TS SCT011 FEW020CB BECMG 1920/1922 13006KT CAVOK DNIM 190945Z 1912/2018 23010KT 9999 BKN013 FEW021CB TEMPO 1915/1920 TS BKN010 FEW020CB BECMG 0820/0822 VRB02KT SCT009 DNJO 190950Z 1912/2018 02010KT 9999 SCT010 TEMPO 1914/1919 TS FEW019CB BECMG 1919/1921 VRB02KT CAVOK DNKA 190950Z 1912/2018 21005KT 9999 SCT013 TEMPO 1915/1920 TS BKN014 FEW021CB BECMG 1920/1922 09006KT CAVOK DNKN 190950Z 1912/2018 25007KT CAVOK= DRZA 191100Z 1912/2012 14015KT 8000 NSC DNKT 190950Z 1912/2018 24008KT CAVOK DNMA 190950Z 1912/2018 27008KT CAVOK DNMM 190950Z 1912/2018 20010KT 9999 BKN014 TEMPO 1912/1916 BKN014 FEW020CB PROB30 1915/1919 5000-TSRA BKN010 FEW019CB BECMG 1919/1921 VRB02KT FEW010 DNMN 190950Z 1912/2018 22007KT 9999 SCT011 BECMG 1912/1914 BKN013 TEMPO 1916/1921 08018KT -TSRA FEW019CB BECMG 1921/1923 VRB02KT FEW008 DNPO 190945Z 1912/2018 24010KT 9999 BKN012 FEW020CB TEMPO 1914/1918 TS BECMG 1918/1920 VRB02KT SCT008 DNSO 190950Z 1912/2018 29009KT CAVOK DNSU 190950Z 1912/2018 23010KT 9999 BKN013 PROB30 TEMPO 1912/1916 5000 -TSRA BKN009 FEW018CB BECMG 1918/1920 VRB02KT SCT009 DNYO 190950Z 1912/2018 24005KT CAVOK DRRN 191100Z 1912/2018 24008KT 8000 NSC PROB40 TEMPO 1916/1921 VRB20KT 2000 BLDU TS FEW040CB DRZA 191100Z 1912/2012 14015KT 8000 NSC DRZR 191100Z 1912/2012 26008KT CAVOK DTMB 191135Z 1912/2012 34013KT 9999 SCT020 FEW030TCU PROB30 TEMPO 1919/1922 -TS FEW026CB BECMG 2003/2004 03015KT 9999 SCT020 SCT026 AEMPO 2007/2010 4000 -SHRA FEW023CB DTNH 191135Z 1912/2012 36008KT 9999 FEW026 BECMG 2000/2002 35015KT DTTA 191135Z 1912/2012 35008KT 9999 SCT020TCU BECMG 1919/1921 24004KT 9999 SCT026 PROB30 TEMPO 2003/2007 3000 BR DTTJ 191135Z 1912/2012 34012KT 9999 FEW020 PROB30 TEMPO 1919/1922 -TS FEW026CB DTTX 191135Z 1912/2012 34010KT 9999 SCT020 DTTZ 191135Z 1912/2012 30004KT 9999 FEW033 BECMG 1919/1921 09010KT DXNG 191100Z 1912/2012 VRB05KT 9999 FEW006 TEMPO 1114/1120 TS BKN010 FEW018CB DXXX 191100Z 1912/2018 20010KT 9999 FEW010 PROB30 TEMPO 1914/1919 TS BKN014 FEW020CB BECMG 1923/2001 VRB05KT EBBR 191110Z 1912/2018 05005KT 9999 FEW015 SCT040 PROB30 TEMPO 2003/2007 1400 BR BCFG EBCI 191110Z 1912/2018 02006KT 9999 SCT010 SCT040 PROB30 TEMPO 2003/2007 1400 BR BCFG EBLG 191110Z 1912/2018 02006KT 9999 SCT040 PROB30 TEMPO 2003/2007 1400 BR BCFG EBOS 191110Z 1912/2018 04008KT 9999 SCT040 PROB40 TEMPO 2003/2007 BR PROB30 TEMPO 2003/2007 0500 FG BKN002 EDDB 191100Z 1912/2012 33004KT 9999 SCT030 BECMG 2005/2007 27007KT EDDC 191100Z 1912/2012 VRB03KT 6000 BKN004 BECMG 1912/1915 BKN012 BECMG 1915/1917 BKN025 BECMG 1920/1922 4000 BR BECMG 2006/2008 9999 EDDE 191100Z 1912/2012 05004KT 9999 BKN045 TEMPO 2003/2008 0300 FG BECMG 2008/2010 32005KT EDDF 191100Z 1912/2018 05007KT CAVOK PROB30 TEMPO 1918/2003 BKN030 EDDG 191100Z 1912/2012 05005KT CAVOK BECMG 1917/1919 VRB03KT TEMPO 1923/2008 4000 BR PROB30 TEMPO 2002/2008 1200 BCFG BKN005 EDDH 191100Z 1912/2018 36003KT 9999 SCT025 TEMPO 1922/2008 2000 BR BECMG 2007/2009 27008KT EDDK 191100Z 1912/2018 VRB03KT 8000 SCT030 PROB30 TEMPO 2003/2008 4000 BR BECMG 2012/2014 34005KT EDDL 191100Z 1912/2018 03005KT 9999 SCT045 BECMG 1919/1922 VRB03KT PROB30 TEMPO 2002/2008 4000 BR EDDM 191100Z 1912/2018 08005KT 7000 FEW030 BECMG 1915/1917 VRB03KT BECMG 1921/1924 2500 BCFG TEMPO 2002/2008 0600 FG BKN001 BECMG 2008/2011 6000 TEMPO 2010/2016 36005KT EDDN 191100Z 1912/2012 06005KT 9999 BKN030 BECMG 1916/1918 VRB03KT TEMPO 2001/2009 3000 BR PROB30 TEMPO 2003/2006 1200 BCFG BECMG 2009/2011 36005KT EDDP 191100Z 1912/2012 36004KT CAVOK BECMG 2006/2008 30005KT EDDR 191100Z 1912/2012 05009KT CAVOK EDDS 191100Z 1912/2012 VRB03KT 9000 NSC TEMPO 1912/1917 03006KT TEMPO 2003/2009 3000 BR BKN004 PROB30 TEMPO 2003/2006 0500 FG VV001 EDDT 191100Z 1912/2012 32006KT 9999 SCT025 BECMG 1915/1917 VRB01KT BECMG 2005/2007 27006KT EDDV 191100Z 1912/2012 06003KT 9999 SCT025 TEMPO 1922/2008 2000 BR PROB30 TEMPO 1922/2007 0500 FG BECMG 2008/2010 27008KT EDDW 191100Z 1912/2012 04003KT 9999 SCT025 TEMPO 1922/2008 2000 BR PROB30 TEMPO 1922/2007 0500 FG BECMG 2007/2009 27008KT EDFH 191100Z 1912/2012 08006KT 8000 SCT020 PROB30 TEMPO 2002/2009 3000 BR BKN005 EDLP 191100Z 1912/2012 08005KT 9999 SCT045 BECMG 1916/1919 VRB03KT EDLV 191100Z 1912/2012 VRB03KT CAVOK PROB30 TEMPO 2002/2006 4000 BR EDLW 191100Z 1912/2012 05005KT 9000 OVC009 BECMG 1912/1914 BKN015 BECMG 1917/1919 VRB03KT EDNY 191100Z 1912/2012 36006KT 7000 SCT015 BECMG 1915/1917 VRB03KT BECMG 1923/2002 3000 BR BKN009 PROB30 TEMPO 2003/2008 1200 BCFG BKN003 BECMG 2010/2012 6000 SCT015 EDSB 191100Z 1912/2012 03008KT 8000 NSC TEMPO 1918/2003 03003KT PROB40 TEMPO 2003/2010 2000 BR BKN004 EEEI 191130Z 1912/2012 26012KT 9999 SCT025 PROB40 TEMPO 1922/2006 VRB02KT 0600 BCFG BKN002 BECMG 2006/2008 VRB02KT EETN 191125Z 1912/2012 28012KT 9999 SCT020 BECMG 1917/1919 22007KT PROB30 TEMPO 1923/2006 3000 BR BKN003 TEMPO 2008/2012 SCT015 SCT020CB BKN025 EFHK 191130Z 1912/2012 28010KT 9999 FEW025 PROB30 1922/2006 4000 BR EFJY 191126Z 1912/2012 28009KT CAVOK TEMPO 1922/2010 2000 BR OVC002 EFKU 191130Z 1912/2012 26007KT 9999 BKN025 TEMPO 2000/2007 2000 BR OVC003 EFOU 191124Z 1912/2012 31012KT CAVOK PROB30 1912/1913 30015G25KT BECMG 1918/1920 20007KT BECMG 2000/2002 3000 BR BKN002 TEMPO 2000/2009 0400 FG VV001 BECMG 2009/2011 9999 NSW BKN005 EFRO 191124Z 1912/2012 31008KT 9999 FEW015 PROB30 1921/2000 3000 BR BKN003 TEMPO 2000/2003 0500 BCFG BECMG 2003/2005 0200 FG VV001 TEMPO 2003/2009 1000 BR BKN002 BECMG 2007/2009 9999 NSW BKN004 BECMG 2009/2011 BKN007 EFTP 191126Z 1912/2012 28007KT 9999 SCT025 TEMPO 1922/2008 2000 BR BKN003 EFTU 191130Z 1912/2012 27013KT CAVOK BECMG 1917/1919 23003KT PROB30 TEMPO 1919/2008 4000 BR EFVA 191126Z 1912/2012 27009KT CAVOK PROB40 1922/2007 4000 BR EGAA 191059Z 1912/2012 22010KT 9999 BKN012 BECMG 1912/1914 BKN008 PROB30 TEMPO 1912/2012 4000 -RADZ TEMPO 1914/2002 BKN004 PROB30 TEMPO 1919/1921 BKN015 PROB40 TEMPO 2001/2005 SCT008 BKN025 EGBB 191103Z 1912/2012 26003KT 9999 FEW045 BECMG 1923/2002 7000 PROB30 2002/2010 0300 FG VV/// PROB30 TEMPO 2010/2012 4000 BR BKN010 EGCC 191057Z 1912/2018 20007KT 9999 FEW035 BECMG 2000/2003 3000 BR PROB30 2001/2009 0300 FG VV/// BECMG 2008/2011 9999 NSW EGCN 191057Z 1912/2012 20005KT 9999 FEW035 BECMG 1922/2001 3000 BR PROB40 2000/2009 0300 FG VV/// BECMG 2009/2012 9999 NSW EGFF 191103Z 1912/2012 08005KT 9999 FEW030 BECMG 1921/1924 6000 PROB30 2001/2008 0300 FG VV/// PROB30 TEMPO 2008/2011 4000 BR BKN009 EGGD 191052Z 1912/2012 VRB03KT 9999 SCT030 BECMG 1921/1924 7000 TEMPO 2000/2007 3500 BR BECMG 2007/2010 9999 BECMG 2009/2012 24010KT EGGP 191057Z 1912/2012 18005KT 9999 FEW035 TEMPO 2000/2010 3000 BR MIFG EGGW 191052Z 1912/2012 34004KT 9999 FEW045 BECMG 1922/2001 7000 PROB40 2001/2003 4000 BR BECMG 2003/2006 2000 BR PROB30 2005/2009 0300 FG VV/// BECMG 2009/2012 9999 NSW EGKK 191101Z 1912/2018 36005KT CAVOK BECMG 1922/2001 6000 PROB30 2001/2009 0500 FG VV/// BECMG 2009/2011 CAVOK EGLL 191058Z 1912/2018 VRB03KT CAVOK BECMG 1921/1924 7000 TEMPO 2000/2009 3000 BR MIFG PROB30 2002/2008 0400 FG VV/// BECMG 2009/2012 CAVOK EGNM 191052Z 1912/2012 22008KT 9999 SCT025 BECMG 1917/1920 BKN012 TEMPO 1920/2012 7000 -DZ BKN008 EGNT 191057Z 1912/2012 22009KT 9999 FEW035 PROB30 TEMPO 1913/1916 26015G25KT PROB40 TEMPO 1914/1918 BKN012 EGNX 191103Z 1912/2012 25005KT 9999 FEW045 BECMG 1923/2002 7000 PROB30 2002/2010 0300 FG VV/// PROB30 TEMPO 2010/2012 4000 BR BKN010 EGPD 191057Z 1912/2012 20012KT 9999 SCT030 TEMPO 2009/2012 19015G25KT 4000 RA BKN006 EGPF 191057Z 1912/2012 21009KT 9999 SCT025 TEMPO 1912/1913 20015G25KT 6000 -RADZ BKN009 PROB30 2000/2006 3000 BR BKN004 TEMPO 2006/2012 4000 RA BKN007 EGPH 191057Z 1912/2012 23012KT 9999 FEW020 SCT040 PROB30 TEMPO 1912/1914 8000 -RA BKN012 TEMPO 2006/2012 22015G25KT 4000 RA BKN006 EGPK 191057Z 1912/2012 21009KT 9999 SCT025 TEMPO 1912/1914 8000 -RA BKN009 TEMPO 2006/2012 20015G25KT 4000 RA BKN007 EGQS 191205Z 1912/2006 25014KT 9999 SCT040 BECMG 1912/1914 27015G25KT PROB40 TEMPO 1912/1913 3000 RADZ SCT010 BECMG 1915/1918 26010KT PROB30 TEMPO 2005/2006 SCT022 EGSS 191052Z 1912/2018 33003KT 9999 FEW045 BECMG 1920/1923 6000 TEMPO 1922/2010 3000 MIFG BR PROB40 2000/2009 0200 FG VV/// BECMG 2010/2012 9999 EGUL 191200Z 1912/2018 VRB06KT 9999 SKC QNH3030INS BECMG 2001/2002 VRB06KT 8000 BR SCT030 QNH3034INS BECMG 2004/2005 VRB06KT 1600 BR OVC003 QNH3036INS TEMPO 2005/2010 0400 FG VV001 BECMG 2009/2010 VRB06KT 8000 BR SCT003 QNH3040INS TX14/1914Z TN04/2005Z EGUN 191200Z 1912/2018 VRB06KT 9999 SKC QNH3030INS BECMG 2001/2002 VRB06KT 8000 BR SCT030 QNH3034INS BECMG 2004/2005 VRB06KT 1600 BR OVC003 QNH3036INS TEMPO 2005/2010 0400 FG VV001 BECMG 2009/2010 VRB06KT 8000 BR SCT003 QNH3040INS TX14/1914Z TN04/2005Z EGVN 191026Z 1912/2012 VRB04KT 9999 FEW025 BECMG 1922/2001 7000 HZ BECMG 2001/2004 3500 BR PROB40 2004/2008 0500 FG VV/// BECMG 2008/2010 9999 NSW EGVO 190749Z 1909/1921 32005KT 9999 FEW030 EGWU 191057Z 1912/2006 36005KT 9999 FEW030 BECMG 1922/2001 5000 BR BECMG 2001/2003 2500 BR MIFG PROB30 2003/2006 0500 BCFG EGXC 190753Z 1909/2003 30003KT 9999 FEW020 PROB30 TEMPO 1909/1910 4000 BR PROB30 1923/2003 5000 BR EGXW 190758Z 1909/2003 22007KT 9999 FEW020 EGYP 190752Z 1909/2003 23019KT 9999 BKN016 PROB30 TEMPO 1909/1912 SCT012 BECMG 1911/1914 24020G30KT FEW025 BECMG 1919/1922 24014KT BKN015 TEMPO 1922/2003 BKN012 EHAM 191051Z 1912/2018 07005KT 9999 FEW030 BECMG 2001/2004 7000 MIFG PROB30 TEMPO 2002/2007 0800 BCFG BECMG 2006/2009 9999 NSW EHBK 191115Z 1912/2018 04005KT 9999 FEW018 BECMG 2000/2003 4000 MIFG BR PROB40 2003/2008 0800 BCFG BECMG 2008/2010 CAVOK EHEH 191131Z 1912/2018 06003KT 9999 FEW040 SCT250 PROB40 TEMPO 2000/2007 VRB02KT 0800 BCFG EHGG 191115Z 1912/2018 08005KT CAVOK BECMG 1919/1922 4000 BR MIFG TEMPO 1921/2005 1500 BCFG PROB40 1922/2003 0400 FG BECMG 2006/2008 7000 NSW SCT004 BECMG 2008/2011 9999 BKN020 PROB30 2012/2015 BKN014 EHGR 190839Z 1909/1921 07005KT CAVOK BECMG 1915/1917 36003KT EHKD 190843Z 1909/1921 11006KT CAVOK BECMG 1915/1918 VRB02KT EHLW 190835Z 1909/1921 10005KT 9999 SCT035 EHRD 191051Z 1912/2018 07005KT 9999 FEW030 BECMG 1922/2001 4000 MIFG BR PROB40 TEMPO 2000/2006 0500 BCFG BECMG 2007/2009 9999 NSW EHVK 190841Z 1909/1921 06005KT CAVOK EHWO 190841Z 1909/1921 05007KT CAVOK EIDW 190500Z 1906/2006 19005KT 9999 SCT025 BECMG 1906/1909 23010KT BECMG 1916/1919 21005KT BECMG 2002/2005 22010KT EIKN 191100Z 1912/2012 19010KT 2000 -DZ BR BKN002 TEMPO 1912/2012 0200 FG BKN001 OVC002 BECMG 1913/1915 VRB03KT BECMG 1916/1918 19010KT EINN 190500Z 1906/2006 17008KT 9999 SCT020 BKN045 PROB30 TEMPO 1908/1912 BKN012 BECMG 1909/1912 21010KT PROB40 TEMPO 1912/1921 BKN012 BECMG 1915/1918 17008KT TEMPO 1921/2006 BKN012 PROB40 TEMPO 2000/2006 4000 BR -DZ EKAH 191055Z 1912/2012 28008KT 9999 BKN035 BECMG 2001/2004 -RADZ BKN008 BECMG 2004/2006 SCT030 EKBI 191055Z 1912/2012 26005KT 9999 BKN035 BECMG 2001/2004 -RADZ BKN008 BECMG 2004/2006 SCT030 EKCH 191100Z 1912/2012 27006KT 9999 SCT030 TEMPO 2006/2010 BKN012 TEMPO 2010/2012 30015KT EKKA 191104Z 1912/2012 27008KT 9999 BKN030 BECMG 1916/1919 21006KT TEMPO 2001/2006 5000 -RADZ BKN008 BECMG 2003/2006 29010KT PROB40 2009/2012 30012G22KT EKSP 191102Z 1912/2012 VRB06KT 9999 BKN030 TEMPO 2005/2010 BKN012 BECMG 2010/2012 29012KT EKYT 191104Z 1912/2012 28010KT 9999 BKN030 BECMG 1916/1919 21008KT TEMPO 2000/2004 5000 -RADZ BKN012 BECMG 2002/2005 29012KT TEMPO 2008/2012 30012G22KT ELLX 191100Z 1912/2018 04009KT CAVOK PROB40 TEMPO 2000/2008 2000 BR ENAN 191100Z 1912/2012 28010KT 9999 -SHRA FEW012TCU BKN020 TEMPO 1912/2009 BKN014 BECMG 1916/1918 21008KT ENBO 191100Z 1912/2012 20012KT 9999 -SHRA FEW012TCU BKN025 TEMPO 1915/1923 BKN012 TEMPO 1915/2007 RA BECMG 1921/1923 12010KT BECMG 2006/2008 22015KT ENBR 191100Z 1912/2012 15012KT 9999 FEW020 BKN040 TEMPO 1915/1921 19015G25KT 3000 RA BR BKN007 BECMG 1918/1921 30008KT ENDU 191100Z 1912/2012 22008KT 9999 -SHRA FEW020TCU BKN030 PROB30 TEMPO 2000/2006 1200 PRFG ENGC 191100Z 1912/2012 20035KT 9999 SCT015 BKN030 TEMPO 1914/1916 4000 RA BKN012 BECMG 1916/1918 27025KT BECMG 2006/2009 21025KT BECMG 2009/2012 19035KT ENGM 191100Z 1912/2012 VRB05KT CAVOK PROB30 TEMPO 1923/2008 2000 BCFG BKN002 ENNA 191100Z 1912/2012 18009KT 9999 FEW018 BKN030 PROB40 TEMPO 1912/1921 27015G25KT SHRA BKN012 PROB30 TEMPO 2003/2009 0800 FZFG VV003 ENOA 191100Z 1912/2012 19035KT 9999 FEW020 BKN030 TEMPO 1915/1917 4000 RA BKN012 BECMG 1916/1918 30028KT BECMG 2000/2003 27018KT BECMG 2005/2008 20028KT ENOL 191100Z 1912/2012 14008KT 9999 FEW012 BKN040 TEMPO 2000/2004 RA BKN012 BECMG 2001/2003 26015KT TEMPO 2004/2012 SHRA BKN020TCU BECMG 2009/2012 19010KT ENRY 191100Z 1912/2012 VRB05KT CAVOK BECMG 1920/1922 23010KT PROB30 TEMPO 2000/2003 SHRA FEW020CB BKN030 BECMG 2003/2005 32005KT PROB40 2004/2008 0800 FG BKN002 ENSB 191100Z 1912/2012 12005KT 9999 FEW002 PROB30 TEMPO 1912/1918 0800 FZFG VV002 ENTC 191100Z 1912/2012 22008KT 9999 -SHRA FEW015TCU BKN025 TEMPO 1912/1915 BKN014 ENTO 191100Z 1912/2012 VRB05KT CAVOK BECMG 1919/1921 24010KT PROB30 TEMPO 1923/2002 SHRA FEW020CB BKN030 BECMG 2002/2004 30008KT PROB30 2003/2006 1500 BCFG BKN002 ENVA 191100Z 1912/2012 12008KT 9999 SCT030 BKN040 TEMPO 2000/2006 RA BKN014 BECMG 2004/2006 25010KT TEMPO 2006/2012 SHRA BKN012 ENZV 191100Z 1912/2012 18008KT 9999 FEW018 BKN040 BECMG 1920/1922 29012KT TEMPO 1918/1922 4000 RA BKN012 BECMG 2000/2003 35008KT BECMG 2009/2012 18010KT EPBY 191130Z 1912/2012 36005KT 9999 SCT035 TEMPO 1922/2006 3000 BR PROB40 2000/2006 BKN010 EPGD 191130Z 1912/2012 36005KT 9999 SCT030 PROB40 2001/2007 2000 BR PROB40 TEMPO 2010/2012 -SHRA BKN020TCU EPKK 191130Z 1912/2012 25010KT 3000 BR OVC008 BECMG 1912/1915 6000 BKN013 TEMPO 1915/1918 BKN017 BECMG 1918/1921 VRB02KT 2000 BR TEMPO 1921/2006 0500 FG BKN003 TEMPO 2006/2012 4000 SHRA BKN006 BKN012CB EPKT 191130Z 1912/2012 30008KT 3000 BR BKN004 BECMG 1912/1915 6000 BKN013 BECMG 1918/1921 2000 BR BKN006 BKN013 BECMG 2006/2008 6000 BKN015 TEMPO 2008/2012 SHRA BKN004 BKN010CB EPLL 191130Z 1912/2012 31004KT 2000 BR OVC002 BECMG 1912/1914 6000 BKN015 BECMG 1920/1923 2000 BR BKN010 PROB40 1922/2008 0600 DZ FG BKN002 BECMG 2010/2012 28010KT 8000 SCT020 EPMO 191130Z 1912/2012 36008KT 8000 BKN020 BECMG 1921/1924 2500 BR BKN010 PROB40 1923/2007 0300 FG OVC001 BECMG 2008/2010 7000 SCT020 EPPO 191130Z 1912/2012 35003KT 6000 BKN006 BKN015 PROB40 1912/1914 2000 -DZ BR BKN002 BECMG 1917/1920 3000 BR TEMPO 1920/2005 0600 FG BKN002 BECMG 2005/2008 35013KT 9999 SCT018 EPRZ 191130Z 1912/2012 28008KT CAVOK PROB30 TEMPO 1912/1916 BKN014CB BECMG 1918/1920 BKN012 BECMG 1922/2001 BKN006 BKN012 TEMPO 2002/2008 1200 BR EPSC 191130Z 1912/2012 30005KT 9999 SCT025 PROB40 1920/2007 2500 BR EPWA 191130Z 1912/2012 34010KT 4000 BR OVC007 BECMG 1912/1914 7000 BKN014 BECMG 1921/1924 3000 BR OVC009 PROB40 2000/2007 0800 FG BKN002 BECMG 2007/2009 VRB02KT 8000 SCT020 EPWR 191130Z 1912/2012 35004KT 4000 BR BKN007 PROB40 1912/1916 5000 BR BKN013 BECMG 1916/1919 2000 BR PROB40 1921/2005 0500 FG BKN003 BECMG 2006/2009 35014KT 8000 BKN017 TEMPO 2009/2012 35015G25KT ESGG 191130Z 1912/2012 16005KT CAVOK TEMPO 2004/2009 RA BKN005 BECMG 2010/2012 27010KT ESKN 191130Z 1912/2012 VRB02KT CAVOK ESMS 191100Z 1912/2012 29005KT 9999 SCT030 TEMPO 2007/2012 30015KT BKN010 ESSA 191130Z 1912/2012 24004KT CAVOK PROB40 2006/2009 BKN006 ETAD 190909Z 1908/2010 05006KT 6000 BR BKN010 QNH3021INS TEMPO 1909/1912 BKN008 BECMG 1911/1912 05009KT 9999 NSW FEW015 QNH3020INS BECMG 2003/2004 05006KT 6000 BR FEW015 QNH3018INS TX15/1914Z TN07/2004Z ETAR 191002Z 1910/2016 06009KT 9999 BKN015 QNH3019INS BECMG 1910/1911 06009KT 9999 SCT020 QNH3017INS BECMG 1918/1919 VRB06KT 8000 BR BKN015 QNH3020INS BECMG 2005/2006 VRB06KT 5000 BR BKN015 QNH3030INS BECMG 2009/2010 04006KT 9999 NSW BKN020 QNH3036INS TX18/1913Z TN09/2006Z ETEB 190753Z 1907/2011 VRB06KT 1600 BR SCT010 QNH3018INS TEMPO 1907/1909 3200 BR BECMG 1908/1909 06009KT 9999 NSW SKC QNH3019INS BECMG 1922/1923 VRB06KT 6000 BR SKC QNH3023INS TX17/1913Z TN07/2003Z ETIC 190800Z 1907/2012 VRB06KT 0800 FG BKN000 QNH3017INS TEMPO 1907/1909 3200 BR BECMG 1908/1909 VRB06KT 9999 NSW FEW012 SCT015 QNH3020INS BECMG 1922/1923 VRB06KT 2400 BR SKC QNH3025INS BECMG 2002/2003 VRB06KT 0400 FG VV001 QNH3028INS TX17/1914Z TN03/2006Z ETIK 190853Z 1908/2011 VRB06KT 6000 BR SCT005 QNH3019INS BECMG 1909/1910 VRB06KT 9999 NSW SKC QNH3017INS BECMG 1922/1923 VRB06KT 6000 BR SKC QNH3023INS TX17/1913Z TN02/2003Z ETNG 190800Z 1909/1924 06005KT 9999 BKN012 BECMG 1909/1911 SCT030 BECMG 1915/1917 01005KT ETNW 190550Z 1905/2005 05003KT 5000 BR FEW002 TEMPO 1905/1907 VRB02KT 0300 FG VV001 BECMG 1907/1909 06005KT 9999 NSW FEW050 BECMG 1919/1921 VRB03KT 6000 NSW FEW040 TEMPO 1921/2005 VRB0KT 3000 MIFG SCT001 PROB30 2002/2005 VRB02KT 0500 FG VV001 BY ETGL ETOU 190308Z 1903/2009 03006KT 9999 FEW030 QNH3019INS BECMG 1905/1906 04009KT 9999 BKN015 QNH3021INS BECMG 1916/1917 02006KT 9999 BKN040 QNH3023INS TX21/1912Z TN07/1905Z EVLA 190929Z 1909/2009 32005KT 7000 OVC001 BECMG 1910/1912 SCT003 BECMG 1918/1919 5000 BR BECMG 1919/1920 0400 FG VV001 BECMG 2003/2005 7000 BKN015 EVRA 190800Z 1909/2009 34005KT CAVOK BECMG 1916/1918 3000 BR SCT002 TEMPO 1918/1921 1200 BR SCT002 TEMPO 1921/2007 0500 FG VV001 FCBB 191100Z 1912/2018 24004KT 9000 SCT014 SCT023 BECMG 1913/1915 SCT015 SCT023 FEW026CB TEMPO 1919/2001 TS BECMG 2001/2003 SCT012 SCT022 PROB40 2014/2018 SCT014 SCT023 FEW030CB FCPP 191100Z 1912/2012 18007KT 9000 SCT012 BKN023 PROB30 2004/2008 3000 DZ BKN008 BKN022 FEFF 191100Z 1912/2018 26004KT 9999 SCT026 FEW040CB PROB30 TEMPO 1913/1917 4000 TSRA BECMG 1917/1918 BKN010 BECMG 1920/1921 NSC FGBT 191100Z 1912/2012 26006KT 9999 SCT010 TEMPO 1912/1920 4000 TSRA BKN008 FEW018CB BECMG 1920/1922 BKN010 TEMPO 2006/2012 TS SCT010 FEW020CB FGSL 191100Z 1912/2018 24006KT 9999 SCT010 FEW020CB TEMPO 1915/1921 TS BKN010 FEW020CB TEMPO 2003/2008 4000 TSRA BKN008 FEW016CB TEMPO 2015/2018 TS BKN010 FEW020CB FIMP 191130Z 1912/2018 05012KT 9999 SCT019 BECMG 2004/2006 36015KT PROB30 TEMPO 2010/2015 5000 -SHRA/TSRA FEW008 FEW012CB BKN016 BKN050 BECMG 2012/2014 33012KT FIMR 191130Z 1912/2006 06015G25KT 9999 SCT018 FJDG 190900Z 1909/2015 09009KT 9999 FEW020 SCT050 OVC080 QNH2979INS TEMPO 1909/1915 9000 -SHRA BKN030 TX31/1911Z TN25/1923Z FKKD 191100Z 1912/2018 VRB05KT 8000 BKN016 FEW020CB TEMPO 1918/2007 TS BKN013 FEW016CB PROB30 2003/2007 3000 TS BR FKKL 191100Z 1912/2012 VRB06KT 8000 NSC FKKR 190500Z 1906/1918 28006KT 9999 BKN016 FKYS 191100Z 1912/2012 VRB05KT 8000 BKN016 TEMPO 1915/1921 TS BKN013 FEW020CB BECMG 1921/1923 BKN006 PROB30 TEMPO 1923/2004 3000 TSRA BKN004 FEW016CB TEMPO 2004/2008 2500 BR BECMG 2008/2010 BKN016 FMCH 191100Z 1912/2018 25010KT 9999 FEW020TCU SCT028 BECMG 1915/1917 10002KT BECMG 2005/2007 26010KT FMCZ 191100Z 1912/2012 04006KT 9999 SCT027 FMEE 191100Z 1912/2018 34010KT 9999 SCT020 BKN050 TEMPO 1912/2012 4000 SHRA BKN014 SCT020TCU PROB40 TEMPO 1918/2006 VRB15G25KT 2000 TSRA SCT015CB FMMI 191100Z 1912/2018 30010KT 9999 FEW020 SCT023 PROB40 TEMPO 1917/1922 4000 TSRA BECMG 1917/1920 VRB04KT PROB30 2001/2005 2000 BR BECMG 2005/2008 16010KT FMMT 190500Z 1906/2006 02008KT 9999 SCT017 SCT033 PROB40 TEMPO 1906/1912 4000 TSRA FMNM 191100Z 1912/2012 32012KT 9999 FEW020 SCT040= FMMT 191100Z 1912/2012 06010KT 9999 SCT017 SCT033 PROB40 TEMPO 1917/2006 4000 SHRA FNLU 191100Z 1912/2018 28012KT 9999 SCT020 BKN023 FEW025TCU TEMPO 1916/1920 FEW023 FEW025CB BECMG 1921/1923 21006KT 9000 SCT020 TEMPO 2004/2008 15005KT 6000 SCT010 BKN020 FNSO 191100Z 1912/1924 23008KT 8000 SCT012 BKN020 TEMPO 1914/1918 9999 SCT018 FEW023TCU FOOG 191100Z 1912/2012 18009KT 9999 SCT012 BKN033 PROB40 TEMPO 2002/2009 3500 TSRA BKN006 FEW016CB OVC023 FOOL 191100Z 1912/2018 18007KT 9999 SCT012 FEW020CB BKN040 PROB30 TEMPO 1916/1922 4500 RA BKN008 FEW018CB OVC026 PROB40 TEMPO 2002/2009 3000 TSRA BKN006 FEW016CB OVC023 FSIA 191100Z 1912/2012 17010KT 9999 FEW020 TEMPO 1918/1922 8000 SHRA BKN018 BECMG 1919/1921 11005KT FTTJ 191100Z 1912/2018 03009KT 8000 NSC FVRG 190400Z 1906/2012 15010KT 9999 BKN008 BECMG 1910/1912 SCT025 PROB30 TEMPO 1913/1919 8000 -TSRA FEW025CB BKN080 FM192100 CAVOK FZAA 191100Z 1912/2018 28010KT 8000 FEW024 BECMG 1912/1914 SCT024 FEW030CB PROB30 1915/1918 TS BECMG 1918/1920 20004KT FEW018 BECMG 2010/2012 32010KT SCT024 FEW030CB TEMPO 2014/2018 TS GABS 191149Z 1912/2018 21010KT 9999 FEW030 PROB40 TEMPO 1916/1922 VRB15KT 4500 BLDU TSRA SCT030 FEW033CB PROB40 TEMPO 2015/2018 TS SCT030 FEW033CB GAGO 191153Z 1912/2012 24010KT 9999 FEW035 PROB40 TEMPO 1920/2002 06015G25KT 2000 BLDU TSRA SCT035 FEW040CB GBYD 191130Z 1912/2018 VRB03KT CAVOK GCFV 191106Z 1911/2009 34012KT 9999 SCT040 TX26/1915Z TN20/2005Z PROB40 TEMPO 1912/1921 DZ GCGM 190800Z 1909/2009 23008KT 9999 SCT040 TX25/1915Z TN20/2005Z PROB40 TEMPO 1909/1924 04013KT GCHI 190800Z 1909/2009 03015KT 9999 SCT030 TX24/1915Z TN20/2005Z PROB30 TEMPO 1912/2006 DZ GCLA 190800Z 1909/2009 03013KT 9999 SCT030 TX24/1915Z TN19/2005Z PROB30 TEMPO 1912/2006 4900 DZRA GCLP 190800Z 1909/2009 36018KT 9999 SCT040 TX25/1915Z TN20/2005Z PROB30 TEMPO 1912/1921 DZRA GCRR 190800Z 1909/2009 36016KT 9999 SCT040 TX26/1915Z TN19/2005Z BECMG 1918/1920 35006KT PROB40 TEMPO 1912/1921 DZ GCTS 191134Z 1911/2009 11012KT 9999 FEW035 TX26/1915Z TN19/2005Z TEMPO 1911/1920 21008KT BECMG 1919/1921 35005KT GCXO 191016Z 1910/2009 32013KT 9999 BKN020 TX19/1915Z TN15/2005Z TEMPO 1910/2009 4000 RA BKN005 PROB40 TEMPO 1916/2008 3000 BCFG BKN002 GEML 190829Z 1909/2009 08006KT 9999 FEW030 TX23/1914Z TN17/2007Z PROB40 TEMPO 1909/1911 14010KT BECMG 2000/2003 25010KT PROB40 TEMPO 1923/2006 4000 SHRA BKN030CB GFLL 191100Z 1912/2018 15005KT 9999 BKN011 FEW027CB PROB30 TEMPO 1914/1918 5000 -TSRA BKN010 FEW026CB TEMPO 1919/1923 TS FEW027CB TEMPO VRB03KT BKN012 TEMPO 2006/2012 12006KT GGOV 191100Z 1912/2012 24004KT SCT014 PROB30 TEMPO 1914/1920 18011KT 4000 TSRA BKN014 FEW020CB GLRB 191000Z 1912/2018 20010KT 9999 BKN018 TEMPO 1913/1917 22012KT 7000 TSRA SCT004 BKN020 FEW028CB BECMG 1918/1920 23010KT 9000 BKN015 FEW026CB GMAD 191100Z 1912/2018 27012KT 8000 SCT020 BECMG 1918/1920 20008KT GMFF 191100Z 1912/2018 07010KT 9999 SCT016 BKN026 TEMPO 1913/1923 08014KT 2000 RA SCT010 BKN020 BECMG 1924/2002 14008KT SCT023 SCT080 TEMPO 2002/2012 3000 RA BKN020 BKN080 GMFM 191100Z 1912/2018 20010KT 9999 FEW010 BKN020 TEMPO 1912/1923 28015G25KT 5000 RA SCT013 BKN016 FEW026CB BECMG 1923/2005 20008KT 4000 BR SCT010 SCT016 GMFO 191100Z 1912/2018 20004KT 9999 FEW030 BKN040 BECMG 1912/1916 36014KT PROB30 TEMPO 1917/1923 8000 -RA SCT016 SCT026 FM200800 20006KT 9999 FEW020 SCT100 GMME 191100Z 1912/2018 18008KT 6000 SCT013 BKN016 TEMPO 1912/1924 4000 SHRA BKN013TCU BKN015 PROB40 TEMPO 1912/1924 BKN013 SCT023CB TSSHRA GMMH 191100Z 1912/2018 07016KT CAVOK BECMG 1919/1921 02024KT GMMI 191100Z 1912/2018 36004KT 8000 SCT013 BECMG 1923/2001 BKN016 BECMG 2005/2007 FEW015 GMML 191100Z 1912/2018 35012KT 9999 FEW033 BKN037 BECMG 2002/2004 VRB02KT 2000 BR BECMG 2008/2010 9999 NSW FEW023 GMMN 191100Z 1912/2018 22008KT 8000 BKN016 SCT20TCU TEMPO 1912/1922 5000 RA BKN013 BECMG 1922/2000 30007KT 8000 SCT016 TEMPO 2000/2008 VRB02KT 2000 BR BKN010 GMMW 191100Z 1912/2018 17007KT 9999 FEW020 SCT100 BKN200 TEMPO 1912/1915 14008G21KT PROB40 TEMPO 2000/2006 6000 RA BKN023 SCT100 BKN180 BECMG 2010/2012 CAVOK GMMX 191100Z 1912/2018 24005KT 8000 SCT023 SCT080 TEMPO 1915/1922 32016KT 5000 SHRA BKN020 FEW033CB GMMZ 191100Z 1912/2018 04005KT 9999 FEW040 TEMPO 32015KT GMTA 191100Z 1912/2018 04008KT 9999 SCT030 BKN080 PROB40 TEMPO 2000/2106 6000 -RA GMTT 191100Z 1912/2018 09013KT 9999 BKN016 SCT100 PROB40 TEMPO 1915/1924 3000 TSRA SCT008 BKN016 FEW023TCU BECMG 1923/2001 VRB02KT TEMPO 2000/2006 3000 RA SCT008 OVC016 BECMG 2006/2010 10010KT GOBD 191130Z 1912/2018 01008KT CAVOK GOGS 191130Z 1912/2012 18007KT 9999 SCT014= GOSS 191130Z 1912/2012 01008KT CAVOK GOOY 191130Z 1912/2018 01010KT CAVOK= GOBD 191130Z 1912/2018 01008KT CAVOK GOSS 191130Z 1912/2012 01008KT CAVOK GQNO 191100Z 1912/2018 06014KT 6000 NSC BECMG 1916/1918 35012KT PROB30 TEMPO 1918/1921 RA GQPP 191100Z 1912/2012 36018KT 6000 NSC PROB30 TEMPO 1915/1920 3000 DRSA GUCY 191100Z 1912/2018 26006KT 9999 FEW015 SCT110 TEMPO 1912/1918 TS SCT013 FEW023CB BKN100 BECMG 1922/2002 14012KT 6000 -TSRA BKN013 FEW023CB BKN100 GVAC 191100Z 1912/2018 05015KT 9999 BKN013 PROB30 TEMPO 1912/1918 05015G25KT FEW013 BKN015 GVBA 191100Z 1912/2018 04015KT 9999 BKN013 PROB30 TEMPO 1912/1918 05015G25KT GVNP 191100Z 1912/2018 03016KT 9999 BKN016 PROB30 TEMPO 1912/1918 02016G26KT -RA FEW016 BKN020 GVSV 191100Z 1912/2018 06018KT 9999 SCT020 TEMPO 1912/1918 06022G32KT FEW018 BKN022 HBBA 191100Z 1912/2018 08010KT 9999 SCT025 BKN100 TEMPO 1912/1920 08015G20KT 5000 TSRA OR SHRA SCT025CB BKN100 BECMG1920/1922 00000KT CAVOK BECMG2002/2004 36002KT 9999 FEW025 BKN100 BECMG2007/2009 18010G20KT 9999 FEW025 FEW028CB BKN100 PROB30 TEMPO2012/2018 08015G25KT 5000 TSRA OR SHRA SCT025CB BKN100 HDAM 190500Z 1906/2006 08015G20KT 8000 SHRA SCT023 FEW030CB BKN133 BECMG 1915/1918 VRB05KT SCT020 SCT133 BECMG 2000/2006 00000KT 6000 TSRA BKN020 FEW030CB SCT133 HEAX 191100Z 1912/2018 35008KT 9999 FEW020 BECMG 1916/1918 07007KT HECA 191100Z 1912/2018 02007KT 9999 FEW025 TEMPO 2003/2006 VRB03KT 3000 HZ NSC HELX 191100Z 1912/2018 32008KT CAVOK HKEL 191100Z 1912/2012 10010KT 9999 FEW021CB BKN022 TEMPO 1912/1918 VRB10KT -TSRA FEW019CB BKN080 BECMG 1920/1923 12005KT FEW018CB BKN080 BECMG 2008/2011 13010KT FEW020CB BKN021 HKJK 191100Z 1912/2018 08010KT 9999 BKN028 TEMPO 1912/1918 -SHRA FEW025CB BKN026 BKN080 BECMG 1920/1923 03005KT BKN020 TEMPO 2000/2006 SCT008 BKN016 BECMG 2008/2011 08010KT BKN027 TEMPO 2012/2018 -SHRA FEW025CB BKN026 HKKI 191100Z 1912/2012 24010KT 9999 FEW025CB SCT026 BKN090 TEMPO 1912/1918 VRB10KT -TSRA FEW020CB BKN080 BECMG 1920/1923 VRB10KT FEW018CB BKN080 BECMG 2008/2011 23010KT FEW025CB SCT026 BKN080 HLGD 191100Z 1912/2012 33015KT 9999 FEW030 BECMG 2000/2002 33005KT BECMG 2010/2012 33015KT HLGT 191100Z 1912/2012 VRB02KT 8000 NSC BECMG 1914/1916 24012KT BECMG 1918/1920 VRB02KT HLKF 191100Z 1912/2012 22010KT CAVOK BECMG 1916/1918 VRB02KT BECMG 2008/2010 22012KT HLLB 191100Z 1912/2012 14030G40KT 1500 BLSA NSC BECMG 1914/1916 30015KT 5000 HZ BECMG 2000/2002 VRB02KT 8000 NSW PROB40 2000/2006 5000 BR BKN015 BECMG 2010/2012 30015KT HLLM 191100Z 1912/2012 32010KT 9999 FEW025 BECMG 1920/1922 VRB02KT BECMG 2010/2012 30010KT= HLMS 191100Z 1912/2012 33015KT 9999 FEW025 BECMG 2000/25002 33005KT BECMG 2010/2012 33015KT HLLQ 191100Z 1912/2012 15015KT 8000 NSC PROB40 TEMPO 1912/1924 VRB15G25KT 5000 TSRA FEW040CB BKN080 BECMG 2010/2012 09015KT HLON 191100Z 1912/2012 33015KT CAVOK BECMG 1920/1922 03010KT BECMG 2000/2002 VRB02KT BECMG 2008/2010 33015KT HLTD 191100Z 1912/2012 VRB02KT CAVOK BECMG 1918/1920 03010KT BECMG 2000/2002 VRB02KT BECMG 2008/2010 09010KT HLTQ 191100Z 1912/2012 15015KT 7000 NSC PROB40 TEMPO 1912/1924 VRB15G25KT 5000 TSRA FEW040CB BKN080 BECMG 1918/1920 09015KT HLUB 191100Z 1912/2012 33010KT 8000 NSC BECMG 1920/1922 03010KT BECMG 2000/2002 VRB02KT HRYR 191100Z 1912/2018 21010KT 9999 FEW023CB BKN100 TEMPO 1910/1916 18010G20KT TSRA FEW020CB BKN025 FM 192000 32004KT SCT026 SCT100 BECMG 2003/2006 00000KT SCT025 BKN100 FM 200900 16006KT SCT025 TEMPO 2011/2017 18010G20KT -TSRA FEW023CB BKN025 HSKA 191100Z 1912/2018 VRB03KT CAVOK TEMPO 1912/1916 9999 SCT040 PROB30 TEMPO 1918/1922 14010G20KT 6000 TSRA FEW040CB SCT140 PROB30 TEMPO 2010/2014 VRB03KT 9999 SCT040 PROB30 TEMPO 2014/2018 14010G20KT 6000 TSRA FEW040CB SCT140 HSOB 191100Z 1912/2018 05006G16KT CAVOK TEMPO 1912/1916 VRB03KT 9999 SCT040 PROB30 TEMPO 1918/1922 12010G20KT 6000 TSRA FEW040CB SCT140 PROB30 TEMPO 2010/2014 VRB03KT 9999 SCT040 PROB30 TEMPO 2014/2018 12010G20KT 6000 TSRA FEW040CB SCT140 HSPN 191100Z 1912/2018 06007G17KT CAVOK PROB30 TEMPO 1914/1918 6000 FM192000 32006G16KT FM201200 06007G17KT HSSJ 191000Z 1912/2018 22003KT 9999 SCT040 BKN120 PROB30 TEMPO 1912/1918 21005G20KT 6000 TSRA FEW045CB BKN090 HSSS 191100Z 1912/2018 03006G16KT CAVOK TEMPO 1912/1916 9999 SCT040 PROB30 TEMPO 1918/1922 12010G20KT 6000 TSRA FEW040CB SCT140 PROB30 TEMPO 2010/2014 VRB03KT 9999 SCT040 PROB30 TEMPO 2014/2018 12010G20KT 6000 TSRA FEW040CB SCT140 HTAR 191100Z 1912/2012 10010KT 9999 FEW028CB BKN030 BECMG 1920/1923 SCT026 HTDA 191100Z 1912/2018 09010KT 9999 SCT026 BECMG 1921/1923 00000KT BECMG 2005/2008 08010KT BKN023 HTGW 190500Z 1906/2006 11010KT 9999 FEW026 BECMG 1909/1911 33010KT SCT029 FEW030CB HTKJ 190500Z 1906/2006 09010KT 9999 BKN024 BECMG 1911/1914 FEW032CB SCT034 BECMG 1918/1921 SCT028 HTMT 190500Z 1906/2006 03010KT 9999 BKN021 BECMG 1916/1918 00000KT SCT019 BECMG 2001/2003 BKN020 HTDO 190500Z 1906/2006 09015KT 9999 NSC HTMW 191100Z 1912/2012 30010KT 9999 FEW024 FEW025 BKN110 BECMG 1920/1922 00000KT TS TEMPO 2002/2008 06010KT TSRA SCT018 FEW019CB BKN080 BECMG 2010/2012 30010KT HTTB 191100Z 1912/2012 00000KT 9999 SCT023 FEW024CB BECMG 2000/2003 30010KT BKN024 FEW02CB -TSRA HTZA 191100Z 1912/2012 09010KT 9999 BKN022 BECMG 1914/1916 SCT020 BECMG 1919/1921 00000KT BECMG 2005/2007 06010KT BKN018 HUEN 191100Z 1912/2018 17010KT 7000 -RA SCT020 FEW022CB BKN120 FM191700 23005KT 9999 FEW021 FEW022CB SCT120 BECMG 1920/1924 36005KT FEW018 FEW020CB SCT110 TEMPO 2002/2006 VRB10KT 9000 -TSRA SCT017 FEW019CB BKN100 BECMG 2007/2012 18012KT 9999 FEW022 FEW024CB SCT160 FM201700 FEW021 FEW023CB SCT130 KABE 191133Z 1912/2012 24004KT P6SM SKC FM191400 23006KT P6SM SCT250 FM192100 22010KT P6SM SCT250 FM200500 23007KT P6SM -SHRA BKN090 FM201100 VRB04KT P6SM BKN045 KABI 191134Z 1912/2012 03005KT 4SM -RA BR OVC015 FM191400 05005KT 4SM BR VCSH OVC015 FM200300 22005KT P6SM BKN015 FM200600 33006KT P6SM BKN040 KABQ 191138Z 1912/2012 01004KT P6SM OVC030 FM191400 02006KT P6SM FEW035 FM191700 05006KT P6SM SKC FM200000 09013G21KT P6SM SKC KABR 191120Z 1912/2012 21005KT P6SM SKC FM191500 32011KT P6SM FEW250 FM191700 33020G29KT P6SM FEW250 FM200000 30011KT P6SM FEW250 KABY 191126Z 1912/2012 06007KT P6SM BKN050 FM200100 00000KT P6SM BKN250 KACK 191120Z 1912/2012 29012KT P6SM SKC FM191400 26016KT P6SM SKC FM191700 24020G27KT P6SM SKC FM200400 23019G35KT P6SM BKN100 FM200800 22019G40KT P6SM -RA OVC060 KACT 191136Z 1912/2012 03005KT P6SM VCSH OVC022 TEMPO 1913/1917 5SM -SHRA BR OVC012 FM191700 36006KT 3SM SHRA OVC012 TEMPO 1920/1924 3SM SHRA BKN007 FM200100 35003KT 5SM -RA BR OVC012 FM200700 35003KT 3SM BR BKN007 KACV 191137Z 1912/2012 VRB03KT 3SM BR OVC003 TEMPO 1912/1915 2SM BR OVC002 FM191600 28003KT 6SM BR BKN006 TEMPO 1917/1920 SCT006 FM192000 29005KT P6SM SCT010 FM200200 26002KT 6SM BR BKN012 FM200400 00000KT 4SM BR OVC003 KACY 191133Z 1912/2012 25005KT P6SM SKC FM191500 25008KT P6SM SKC FM192100 22012KT P6SM SCT250 FM201100 24008KT P6SM OVC050 KADF 191137Z 1912/2012 VRB02KT P6SM FEW080 BKN120 FM192000 27004KT 4SM -SHRA BR SCT015 OVC030 TEMPO 1923/2003 3SM RA BR SCT005 BKN015 FM201100 VRB02KT 4SM BR FEW010 OVC030 KADW 190900Z 1909/2015 VRB06KT 9999 SKC QNH3034INS BECMG 1914/1915 22010G20KT 9999 FEW180 QNH3006INS BECMG 1923/1924 21012KT 9999 FEW150 QNH2999INS BECMG 2003/2004 22009KT 8000 -RA OVC020 QNH2987INS BECMG 2009/2010 25009KT 6000 BR OVC005 QNH2983INS TX16/1921Z TN02/1909Z KAEG 191138Z 1912/2012 35005KT P6SM OVC025 FM191400 01005KT P6SM FEW030 FM191700 03005KT P6SM SKC FM200100 11010KT P6SM SKC KAEX 191129Z 1912/2012 VRB05KT P6SM FEW050 BKN250 FM191700 13005KT P6SM SCT040 BKN250 FM200000 VRB05KT P6SM VCSH BKN040 KAFW 191200Z 1912/2012 07005KT P6SM VCSH SCT015 OVC025 TEMPO 1912/1914 2SM SHRA FM191400 06003KT 5SM -SHRA SCT007 OVC015 TEMPO 1918/1922 33005KT 3SM SHRA BR BKN007 FM200100 35003KT 5SM -SHRA SCT007 OVC012 FM200300 35003KT 3SM BR BKN007 KAGC 191121Z 1912/2012 17007KT P6SM SCT250 FM191400 20008KT P6SM BKN200 FM200200 23010G20KT 5SM -RA OVC035 FM200500 24010G20KT P6SM VCSH OVC015 KAGS 191122Z 1912/2012 06005KT P6SM BKN040 FM200000 00000KT P6SM OVC035 KAHN 191139Z 1912/2012 06003KT P6SM SCT250 FM191500 08005KT P6SM BKN035 FM191900 13005KT P6SM BKN040 FM200300 25003KT P6SM BKN025 KAIA 191120Z 1912/2012 29010KT P6SM SKC FM191400 32014G22KT P6SM SKC FM200100 VRB03KT P6SM SKC KALB 191122Z 1912/2012 17008KT P6SM FEW035 FM191400 18011KT P6SM SKC FM200000 18009KT P6SM BKN200 FM200600 19012KT P6SM VCSH BKN060 OVC100 KALI 191140Z 1912/2012 32010KT 4SM BR VCSH OVC005 FM191600 34008KT 5SM -SHRA BR OVC007 FM192100 35009KT 5SM BR OVC015 PROB30 1921/2001 3SM -RA BR OVC008 KALO 191132Z 1912/2012 20012KT 5SM -RA BKN035 BKN060 FM191500 21014G23KT 6SM -RA OVC045 FM191700 25015G23KT P6SM BKN025 FM192000 29018G28KT P6SM BKN035 FM200000 31013KT P6SM FEW250 FM200200 31010KT P6SM FEW250 KALS 191143Z 1912/2012 VRB06KT P6SM SKC TEMPO 1912/1916 1SM BR BKN001 FM191800 08008KT P6SM SCT060 FM200300 13005KT P6SM SKC KALW 191120Z 1912/2012 12005KT P6SM FEW250 FM191800 26005KT P6SM FEW250 FM200300 11005KT P6SM FEW250 KAMA 191120Z 1912/2012 23007KT P6SM BKN040 FM191500 26010KT P6SM SCT110 FM191700 30010KT P6SM FEW150 FM200000 36006KT P6SM SKC KANB 191157Z 1912/2012 05007KT P6SM BKN250 TEMPO 1912/1915 BKN010 BKN250 FM191500 07008KT P6SM BKN200 FM191800 19006KT P6SM SCT070 BKN150 FM200000 00000KT P6SM BKN100 KAND 191131Z 1912/2012 04004KT P6SM FEW040 FEW200 FM200000 VRB03KT P6SM BKN040 BKN150 FM200300 22004KT P6SM BKN050 FM200800 24006KT P6SM OVC025 FM201100 24006KT P6SM OVC035 KAOO 191151Z 1912/2012 22004KT P6SM SKC FM191800 21009KT P6SM SCT250 FM200300 23011G17KT P6SM BKN070 WS020/24040KT FM200500 24013G20KT P6SM -SHRA OVC025 WS020/25040KT KAPA 191134Z 1912/2012 25007KT P6SM FEW120 FM191600 28010KT P6SM SKC FM191800 01011KT P6SM FEW090 FEW250 FM192200 04008KT P6SM SKC FM200300 16008KT P6SM SKC KAPF 191125Z 1912/2012 VRB05KT P6SM SKC FM191400 08010KT P6SM FEW025 FM191900 23010KT P6SM SCT025 SCT250 FM200100 VRB04KT P6SM SKC KAPN 191132Z 1912/2012 22010KT P6SM SCT250 WS020/26040KT FM191500 23012G21KT P6SM BKN120 FM191800 23014G22KT P6SM VCSH OVC045 FM192100 23014G26KT 6SM -SHRA BR OVC030 FM200300 28011G22KT P6SM VCSH OVC030 FM200600 30011G21KT P6SM BKN040 KARA 191129Z 1912/2012 VRB05KT P6SM SCT050 SCT250 FM191700 12008KT P6SM VCSH SCT040 BKN250 FM192000 15010KT P6SM VCSH SCT040 BKN250 FM200000 VRB03KT P6SM VCSH BKN040 KART 191130Z 1912/2012 21013G21KT P6SM BKN040 FM191400 22015G24KT P6SM FEW250 FM200200 21014G21KT P6SM OVC090 FM200300 20015G23KT P6SM OVC070 FM200600 21017G27KT P6SM OVC040 FM200800 21018G27KT P6SM VCSH OVC025 KASD 191128Z 1912/2012 02003KT P6SM SKC FM192200 VRB03KT P6SM BKN030 BKN250 FM200700 00000KT P6SM BKN015 FM200800 00000KT 3SM BR BKN003 KASE 191120Z 1912/2012 VRB03KT P6SM OVC027 FM191400 VRB03KT P6SM SCT040 BKN070 FM191600 VRB03KT P6SM FEW070 SCT110 FM200000 32005KT P6SM FEW100 FM201100 16005KT P6SM SKC KASN 191157Z 1912/2012 00000KT P6SM BKN250 TEMPO 1912/1915 BKN010 BKN250 FM191500 07007KT P6SM BKN200 FM191800 19006KT P6SM SCT070 BKN150 FM200000 00000KT P6SM BKN100 KAST 191129Z 1912/2012 12002KT 1SM BR VV002 FM191600 VRB02KT 4SM BR OVC003 FM191900 34006KT P6SM SCT005 FM200200 29004KT 3SM BR OVC004 FM200600 VRB02KT 2SM BR OVC003 KATL 191139Z 1912/2018 09007KT P6SM BKN025 FM191700 13007KT P6SM BKN035 FM200300 23004KT P6SM BKN025 FM201500 29006KT P6SM VCSH BKN050 KATW 191133Z 1912/2012 22012G20KT P6SM BKN140 WS015/25045KT FM191400 22015G24KT P6SM -SHRA SCT025 OVC050 TEMPO 1915/1919 5SM -SHRA BKN020 FM192300 28013G19KT P6SM SCT050 WS015/32045KT KATY 191120Z 1912/2012 21011KT P6SM SKC FM191600 32019G29KT P6SM FEW250 FM200300 30012G20KT P6SM FEW250 FM200800 32015G22KT P6SM FEW250 KAUG 191120Z 1912/2012 20005KT P6SM SCT050 OVC080 FM191500 21006KT P6SM SCT100 FM200000 19005KT P6SM SCT120 BKN250 KAUS 191134Z 1912/2018 35006KT P6SM -RA BKN015 FM191600 01007KT 4SM -SHRA BR OVC007 KAUW 191133Z 1912/2012 23011G18KT P6SM -SHRA OVC080 WS015/24045KT FM191300 23012G19KT P6SM -SHRA SCT025 OVC050 WS015/24045KT TEMPO 1913/1914 5SM -SHRA OVC020 FM191400 24014G24KT 4SM -SHRA OVC012 FM191800 24014G24KT P6SM BKN020 OVC040 FM192200 29012G19KT P6SM SCT050 WS015/32040KT TEMPO 2010/2012 4SM -SHSN BKN040 OVC080 KAVL 191200Z 1912/2012 VRB02KT 1/4SM FG VV002 TEMPO 1913/1915 4SM BR BKN003 FM191500 18007KT P6SM FEW040 FEW200 FM200300 20003KT P6SM VCSH SCT025 BKN110 FM200800 30004KT 6SM BR VCSH OVC025 PROB30 2009/2012 4SM -SHRA BR OVC015 KAVP 191120Z 1912/2012 20004KT P6SM SKC FM191600 22008KT P6SM SKC FM200000 21006KT P6SM BKN150 WS020/23040KT FM200600 22008KT P6SM -SHRA OVC030 FM200900 22008KT P6SM OVC015 KAXN 191120Z 1912/2012 24011KT P6SM SKC FM191400 29016G28KT P6SM FEW250 FM191700 32025G34KT P6SM FEW040 FM200200 30012KT P6SM FEW080 FM200700 33016G24KT P6SM VCSH SCT030 BKN050 KAZO 191140Z 1912/2012 21012KT P6SM SKC FM192000 22014G21KT P6SM VCSH BKN060 FM192300 22015G24KT 6SM SHRA BR OVC020 FM200000 22016G25KT P6SM VCSH OVC015 FM200400 26014G23KT P6SM VCSH BKN035 FM200600 28011KT P6SM SCT035 KBAB 190301Z 1903/2009 VRB06KT 9999 SKC QNH2997INS TX30/1922Z TN10/1914Z KBAD 191000Z 1910/2016 06006KT 9999 SCT030 BKN120 BKN200 QNH3016INS BECMG 1917/1918 09006KT 8000 -SHRA SCT012 BKN030 BKN100 OVC200 QNH3012INS BECMG 1923/1924 36006KT 9999 NSW SCT012 BKN020 BKN060 OVC120 QNH3009INS BECMG 2005/2006 33006KT 4800 BR BKN012 BKN030 OVC100 QNH3013INS BECMG 2015/2016 03012KT 9999 NSW BKN030 QNH3017INS TX21/1918Z TN13/1910Z KBAF 191120Z 1912/2012 19010KT P6SM FEW060 FM200300 20010KT P6SM BKN150 FM200900 20010KT P6SM OVC070 KBAM 191120Z 1912/2012 VRB06KT P6SM SKC KBBD 191134Z 1912/2012 05005KT 6SM BR VCSH SCT004 BKN012 FM200200 02004KT 5SM BR VCSH OVC012 KBBG 191120Z 1912/2012 VRB03KT P6SM OVC150 FM191300 VRB03KT 6SM -SHRA BR SCT030 OVC070 FM191500 VRB03KT 5SM BR SCT030 OVC050 TEMPO 1915/1919 2SM -SHRA BR OVC015 FM191900 VRB03KT 3SM BR OVC012 TEMPO 1919/1921 2SM SHRA BR OVC009 FM192100 VRB04KT 3SM SHRA BR OVC010 FM192300 VRB04KT P6SM OVC018 FM200300 VRB04KT P6SM BKN012 KBCB 191130Z 1912/2012 00000KT 4SM BR BKN001 TEMPO 1912/1913 1/2SM FZFG FM191700 22005KT P6SM FEW250 FM200000 VRB03KT P6SM BKN100 FM200600 26005KT 6SM -SHRA OVC035 KBCE 191120Z 1912/2012 01007KT P6SM SKC FM191700 07012G18KT P6SM SKC FM200100 04007KT P6SM SKC KBDL 191120Z 1912/2018 19010KT P6SM FEW060 FM200200 20010KT P6SM BKN140 FM201000 21010KT P6SM OVC050 FM201200 21010KT P6SM BKN015 FM201400 23010G18KT P6SM BKN020 KBDN 191120Z 1912/2012 19005KT P6SM FEW250 FM192100 36005KT P6SM FEW250 FM200300 18004KT P6SM SKC KBDR 191120Z 1912/2012 25007KT P6SM SKC FM191600 24012G19KT P6SM SKC FM192300 22011KT P6SM SCT250 FM200300 22013G19KT P6SM BKN200 FM200700 21012G20KT P6SM VCSH SCT040 BKN080 OVC120 FM201000 21013G22KT 6SM -SHRA BR SCT030 BKN040 KBED 191120Z 1912/2012 22010KT P6SM FEW060 FM200800 21010KT P6SM OVC060 FM201100 21010G19KT P6SM OVC040 KBFD 191151Z 1912/2012 23005KT P6SM SKC FM191600 22009G15KT P6SM SCT250 FM200000 22010G17KT P6SM BKN070 FM200300 23011G19KT P6SM OVC025 WS020/24040KT FM200600 23011G19KT P6SM -RA OVC009 WS020/26040KT KBFF 191120Z 1912/2012 30008KT P6SM SKC FM191700 32012G22KT P6SM SKC FM200100 VRB03KT P6SM SKC KBFI 191129Z 1912/2012 VRB02KT P6SM FEW004 TEMPO 1913/1917 1/2SM FG OVC003 FM191800 30004KT P6SM SCT250 FM200300 VRB03KT P6SM SKC FM201100 VRB03KT 5SM BR BCFG SCT003 KBFL 191120Z 1912/2012 VRB04KT P6SM SKC KBFM 191120Z 1912/2012 01006KT P6SM SCT250 FM191500 09006KT P6SM SCT030 BKN250 FM191800 13005KT P6SM VCSH BKN040 FM200000 16003KT P6SM BKN250 FM201000 VRB02KT 6SM BR BKN004 KBGM 191120Z 1912/2012 22007KT P6SM SKC FM191700 20008G15KT P6SM FEW250 FM200200 20010KT P6SM OVC050 FM200900 22011KT P6SM OVC030 KBGR 191120Z 1912/2012 24003KT P6SM OVC070 FM191300 22005KT P6SM OVC050 FM191600 21008KT P6SM BKN100 FM200000 19007KT P6SM SCT110 BKN220 FM200600 22006KT P6SM BKN090 KBHB 191120Z 1912/2012 28007KT P6SM OVC060 FM191600 23010KT P6SM BKN100 FM192200 21010G17KT P6SM SCT110 BKN220 FM201000 21010G17KT P6SM BKN080 KBHM 191154Z 1912/2012 00000KT P6SM BKN250 TEMPO 1912/1915 BKN010 OVC250 FM191500 13006KT P6SM SCT025 BKN200 FM191800 20007KT P6SM SCT070 BKN150 FM200000 00000KT P6SM BKN100 FM200900 29003KT P6SM VCSH OVC050 KBIF 190602Z 1906/2012 36009KT 9999 BKN020 QNH3019INS BECMG 1917/1918 08012KT 9999 OVC060 QNH3015INS BECMG 2001/2002 09009KT 9999 SCT060 QNH3013INS BECMG 2008/2009 09009KT 9999 BKN060 QNH3009INS TX18/1922Z TN06/1912Z KBIH 191133Z 1912/2012 34006KT P6SM SKC FM191700 VRB05KT P6SM SKC FM192100 17008KT P6SM SKC FM200300 33006KT P6SM SKC KBIL 191127Z 1912/2012 29010KT P6SM FEW100 SCT200 KBIS 191137Z 1912/2012 31010G16KT P6SM BKN150 FM191700 31020G30KT P6SM SKC FM200000 31013G23KT P6SM SKC FM200300 30009KT P6SM SKC KBIX 191000Z 1910/2016 06006KT 9999 FEW030 QNH3016INS BECMG 1917/1918 15006KT 9999 SCT030 SCT100 QNH3013INS BECMG 1923/1924 15006KT 8000 -SHRA SCT012 BKN030 BKN060 OVC100 QNH3008INS BECMG 2005/2006 18006KT 9999 NSW BKN040 QNH3005INS BECMG 2008/2009 VRB03KT 8000 BR BKN012 BKN040 QNH3009INS BECMG 2014/2015 33006KT 9999 NSW SCT012 SCT030 BKN200 QNH3013INS TX29/1921Z TN17/1910Z KBJC 191134Z 1912/2012 28014KT P6SM SKC FM191800 04009KT P6SM SKC FM200400 29005KT P6SM SKC KBJI 191145Z 1912/2012 23007KT P6SM SKC WS020/23040KT FM191400 29012KT P6SM SCT200 FM191600 30014G22KT P6SM SCT200 FM191800 30018G28KT P6SM FEW090 FM200000 31014KT P6SM VCSH BKN070 KBKE 191126Z 1912/2012 VRB03KT 5SM BR SKC FM191700 VRB06KT P6SM SKC FM200600 VRB03KT 5SM BR SKC KBKF 190905Z 1909/2015 20009KT 9999 FEW100 QNH3012INS BECMG 1916/1917 35010G15KT 9999 SKC QNH3021INS BECMG 1920/1921 35009KT 9999 SKC QNH3023INS BECMG 2001/2002 20009KT 9999 SKC QNH3028INS TX17/1923Z TN04/1912Z KBKW 191130Z 1912/2012 15004KT P6SM SKC FM200000 22009G17KT P6SM BKN130 FM200400 25010G19KT 6SM SHRA BKN040 FM200600 26010G19KT 4SM SHRA BKN018 FM200900 26010G19KT 3SM SHRA OVC006 KBLF 191124Z 1912/2012 00000KT P6SM SKC FM191600 23007KT P6SM FEW250 FM200200 25006KT P6SM VCSH OVC050 FM200400 25008G18KT 4SM -SHRA OVC025 KBLH 191135Z 1912/2012 35011KT P6SM SKC FM200700 34007KT P6SM FEW070 KBLI 191129Z 1912/2012 00000KT 3SM BR FEW002 TEMPO 1913/1917 1/2SM FG VV002 FM191800 VRB03KT P6SM SKC FM200900 00000KT 5SM BR FEW002 KBLV 190800Z 1908/2014 VRB06KT 9999 SCT060 QNH3017INS BECMG 1915/1916 21006KT 9000 -RA SCT015 BKN030 OVC060 QNH3014INS BECMG 1920/1921 21006KT 8000 -RA BR SCT015 OVC030 QNH3009INS BECMG 1923/1924 20006KT 9999 NSW SCT010 OVC030 QNH3003INS BECMG 2002/2003 24006KT 4800 BR SCT007 BKN010 OVC020 QNH3003INS TX12/1923Z TN02/1908Z KBMG 191120Z 1912/2012 VRB03KT P6SM FEW250 FM192100 23008KT P6SM VCSH OVC060 FM200300 24009KT P6SM OVC008 FM201000 27007KT P6SM BKN025 FM201100 28007KT P6SM SCT070 LTD TO CLD VIS AND WIND TIL 191300 KBMI 191120Z 1912/2012 20008KT P6SM BKN150 FM191600 22014G22KT P6SM VCSH OVC050 FM192200 22014G22KT P6SM OVC025 FM200400 26010KT P6SM BKN080 FM200900 30008KT P6SM SKC KBNA 191135Z 1912/2012 16004KT P6SM SCT250 FM191600 19008G13KT P6SM BKN250 FM192300 27005KT P6SM BKN100 OVC250 FM200200 27004KT 5SM -RA BR SCT025 OVC050 FM200800 28006KT 6SM -SHRA BR OVC020 FM201000 30004KT 6SM -DZ BR OVC007 KBNO 191126Z 1912/2012 VRB03KT P6SM SKC KBOI 191126Z 1912/2012 VRB03KT 5SM FU SKC FM192100 30007KT P6SM SKC FM200600 14005KT 6SM FU SKC KBOS 191120Z 1912/2018 24010KT P6SM FEW060 FM192100 22013G24KT P6SM FEW060 FM200300 22014G24KT P6SM BKN200 FM200800 21012G21KT P6SM OVC100 FM201100 22013G29KT P6SM OVC050 FM201300 22014G30KT P6SM BKN030 KBPI 191123Z 1912/2012 VRB05KT P6SM SKC FM192300 35007KT P6SM SKC FM200600 VRB05KT P6SM SKC KBPK 191137Z 1912/2012 17002KT P6SM SCT060 OVC120 FM191500 20004KT 4SM -SHRA BR SCT010 OVC025 TEMPO 1919/1923 3SM RA BR SCT005 OVC010 FM200600 25004KT 4SM BR FEW015 OVC030 KBPT 191129Z 1912/2012 07008KT P6SM SCT050 BKN250 FM191700 10010KT P6SM VCSH SCT040 BKN250 FM192000 13008KT P6SM VCSH SCT040 BKN250 FM200000 VRB05KT P6SM VCSH BKN040 KBRD 191126Z 1912/2012 24011KT P6SM SKC WS020/25035KT FM191330 28011G17KT P6SM BKN200 FM191500 30015G29KT P6SM SCT200 FM200000 31014KT P6SM FEW110 FM200200 29010KT P6SM VCSH SCT045 BKN080 FM200600 34011G20KT P6SM SCT030 BKN050 KBRL 191135Z 1912/2012 20008KT P6SM OVC110 FM191700 22010KT P6SM VCSH OVC035 FM191800 22011KT P6SM OVC030 FM192100 25013KT P6SM OVC020 FM192300 25010KT P6SM BKN090 FM200100 26009KT P6SM SCT200 KBRO 191120Z 1912/2012 31010G16KT P6SM OVC003 FM191400 31011KT P6SM OVC003 FM191600 30008KT P6SM OVC007 FM192000 31006KT P6SM OVC015 FM200600 31006KT P6SM OVC007 KBTL 191140Z 1912/2012 21010KT P6SM SKC FM192000 22014G21KT P6SM VCSH BKN060 FM192300 22015G24KT 6SM SHRA BR OVC020 FM200000 22016G25KT P6SM VCSH OVC015 FM200400 26014G23KT P6SM VCSH BKN035 FM200600 28011KT P6SM SCT035 KBTM 191120Z 1912/2012 00000KT P6SM FEW110 FM192000 31010KT P6SM SKC KBTR 191128Z 1912/2012 04005KT P6SM SKC FM200300 00000KT P6SM SCT030 BKN100 FM200900 00000KT 4SM BR BKN100 KBTV 191120Z 1912/2012 18009KT P6SM SCT070 FM191400 18012G22KT P6SM OVC140 FM200500 18014G27KT P6SM VCSH OVC050 KBUF 191218Z 1912/2012 21015G24KT P6SM FEW021 SCT250 FM192300 22013G21KT P6SM OVC110 FM200200 22017G25KT P6SM OVC070 FM200400 22020G30KT P6SM OVC035 FM200800 24018G31KT P6SM VCSH OVC015 KBUR 191123Z 1912/2012 30007KT P6SM SKC FM191700 04010KT P6SM SKC FM192300 12010KT P6SM SKC FM200300 VRB03KT P6SM SKC KBVI 191121Z 1912/2012 00000KT P6SM SCT250 FM191400 21008KT P6SM BKN200 FM200300 24010G20KT 5SM -RA OVC050 FM200500 24010G20KT P6SM VCSH OVC015 KBVO 191124Z 1912/2012 20006KT 6SM -SHRA OVC025 TEMPO 1912/1914 3SM SHRA BKN015 FM191500 19004KT P6SM VCSH OVC012 FM191800 21006KT P6SM SCT008 BKN015 FM200100 20003KT P6SM SCT015 FM200600 33005KT 4SM BR SCT005 KBWG 191120Z 1912/2012 VRB03KT P6SM FEW250 FM191600 22009KT P6SM BKN100 FM192300 24007KT 6SM -RA BR OVC040 FM200300 26008KT 4SM -RA BR OVC015 FM200700 27007KT P6SM OVC008 KBWI 191120Z 1912/2018 VRB03KT P6SM SKC FM191600 22007KT P6SM SKC FM200000 22009KT P6SM OVC150 FM200600 22009KT P6SM -SHRA OVC080 FM200900 23009KT P6SM -SHRA OVC040 KBYI 191120Z 1912/2012 07005KT P6SM SKC FM191900 VRB04KT P6SM SKC KBZN 191120Z 1912/2018 VRB06KT P6SM SCT200 KCAE 191122Z 1912/2012 08005KT P6SM SCT040 SCT250 FM191900 13006KT P6SM BKN040 FM200000 VRB03KT P6SM BKN035 KCAK 191127Z 1912/2012 21004KT P6SM SCT250 FM191700 21012KT P6SM SCT250 FM200200 23010G20KT P6SM OVC050 FM200400 23010G20KT P6SM OVC030 FM200600 24010G20KT P6SM -SHRA OVC015 KCAR 191120Z 1912/2012 24004KT P6SM OVC080 FM191300 23006KT P6SM VCSH OVC050 FM191500 21008G15KT P6SM VCSH OVC040 FM192200 19008G16KT P6SM VCSH OVC050 FM200900 18008G16KT P6SM OVC060 KCBM 190900Z 1909/2015 03006KT 9999 SCT100 SCT200 BKN280 QNH3022INS BECMG 1923/1924 30009KT 9999 SCT060 SCT100 BKN200 OVC280 QNH3017INS BECMG 2008/2009 33006KT 8000 -SHRA SCT030 BKN100 BKN200 QNH3012INS BECMG 2014/2015 33012G18KT 9999 NSW SCT012 BKN020 BKN100 QNH3016INS TX25/1918Z TN09/1910Z KCDC 191120Z 1912/2012 VRB04KT P6SM SKC FM191900 02010KT P6SM SKC FM200600 14005KT P6SM SKC KCDR 191120Z 1912/2012 25008KT P6SM SCT250 FM191500 33011KT P6SM SKC FM200100 VRB03KT P6SM SKC KCDS 191120Z 1912/2012 25005KT 6SM -RA BR OVC003 FM191700 27006KT P6SM OVC015 FM192100 26004KT P6SM BKN100 KCEC 191137Z 1912/2012 VRB03KT 6SM BR OVC005 TEMPO 1912/1914 4SM BR OVC003 FM191600 34004KT P6SM SCT007 TEMPO 1916/1918 BKN007 FM191900 32007KT P6SM SCT010 FM200300 17004KT P6SM SCT012 FM200600 14003KT 6SM BR BKN005 KCEF 191000Z 1910/2016 VRB06KT 9999 SKC 510203 QNH3020INS BECMG 1914/1915 22010G20KT 9999 FEW200 QNH2999INS BECMG 1920/1921 20006KT 9999 SCT200 WS020/23035KT QNH2993INS BECMG 2001/2002 VRB06KT 9999 SCT030 BKN150 WS020/23040KT QNH2978INS BECMG 2006/2007 VRB06KT 9999 VCSH BKN030 OVC130 WS020/24045KT 520809 QNH2973INS BECMG 2008/2009 21010G18KT 8000 -SHRA BKN015 OVC030 WS020/24040KT 520608 QNH2970INS TX16/1919Z TNM02/1911Z KCGI 191120Z 1912/2012 00000KT P6SM FEW200 FM191500 21004KT P6SM SCT060 BKN150 FM192100 22008KT 4SM -SHRA BR SCT015 OVC030 FM200000 22008KT 4SM -RA BR OVC010 FM200300 25007KT P6SM OVC015 FM200700 25006KT 5SM BR BKN015 FM201000 27005KT 3SM BR BKN050 KCHA 191136Z 1912/2012 VRB02KT P6SM SCT250 FM191500 19006KT P6SM BKN250 FM200000 20004KT P6SM SCT060 BKN120 FM200400 19003KT P6SM OVC060 FM201000 30005KT P6SM -SHRA BKN025 OVC050 KCHO 191120Z 1912/2012 00000KT P6SM SKC FM191600 20006KT P6SM SKC FM200000 21007KT P6SM OVC150 FM200600 21007KT P6SM -SHRA OVC080 KCHS 191136Z 1912/2012 03009KT P6SM BKN040 FM191800 10009KT P6SM SCT020 OVC030 FM200000 VRB03KT P6SM BKN035 KCID 191135Z 1912/2012 20009KT 6SM -SHRA BR OVC090 FM191500 21010KT 6SM BR OVC050 FM191700 22013KT P6SM VCSH OVC030 FM192100 26015KT P6SM BKN030 FM192200 27013KT P6SM SCT100 KCKB 191130Z 1912/2012 00000KT P6SM SKC FM191500 20004KT P6SM FEW250 FM200200 23008G14KT P6SM OVC070 FM200400 23009G17KT 5SM SHRA OVC030 FM200600 24010G19KT 3SM SHRA OVC010 KCKV 191135Z 1912/2012 16004KT P6SM SCT250 FM191600 19008G13KT P6SM BKN250 FM192000 27005KT P6SM BKN100 OVC250 FM192300 27004KT 5SM -RA BR SCT025 OVC050 FM200400 28006KT 6SM -SHRA BR OVC020 FM200600 30004KT 6SM -DZ BR OVC007 KCLE 191243Z 1913/2018 21012KT P6SM BKN250 FM191600 21015G25KT P6SM BKN250 FM200200 22015G25KT P6SM OVC050 FM200500 23015G25KT P6SM VCSH OVC025 FM201100 25010G20KT P6SM BKN035 FM201700 27015G25KT 6SM -SHRA OVC060 KCLL 191123Z 1912/2012 05005KT P6SM VCSH SCT025 FM191600 03007KT P6SM VCSH BKN025 FM192000 36008KT P6SM -RA SCT008 OVC020 FM200800 36005KT P6SM -RA SCT005 BKN015 KCLM 191129Z 1912/2012 24004KT P6SM SKC TEMPO 1912/1916 2SM BR SCT001 FM191800 08004KT P6SM SKC FM200200 27006KT P6SM SKC FM200900 25004KT 6SM BR BCFG FEW002 KCLT 191131Z 1912/2018 VRB03KT P6SM FEW250 FM191700 16004KT P6SM FEW050 FEW220 FM200200 20004KT P6SM SCT035 BKN110 FM200500 22005KT P6SM VCSH SCT025 BKN070 FM201300 22006KT P6SM OVC040 PROB30 2013/2018 4SM -SHRA OVC025 KCMA 191123Z 1912/2012 06006KT P6SM SKC FM191500 07017G25KT P6SM SKC FM192200 07015KT P6SM SKC FM200200 07008KT P6SM SKC KCMH 191134Z 1912/2012 18005KT P6SM BKN250 FM191800 20011KT P6SM BKN250 FM192300 22011G19KT P6SM VCSH BKN070 FM200100 23011G19KT P6SM -SHRA OVC025 FM200500 25011G19KT P6SM VCSH OVC015 FM201100 27010G18KT P6SM BKN008 KCMI 191120Z 1912/2012 19006KT P6SM SCT200 FM191600 22014G22KT P6SM VCSH OVC050 FM192300 23013KT P6SM OVC020 FM200500 26010KT P6SM BKN050 FM200800 29008KT P6SM SCT250 KCMX 191130Z 1912/2012 22013G21KT P6SM VCSH SCT110 WS010/24035KT FM191400 24016G23KT P6SM VCSH BKN090 FM191700 25019G26KT P6SM VCSH BKN045 FM191900 27018G25KT P6SM VCSH OVC035 FM200200 31018G25KT P6SM VCSH BKN045 KCNM 191135Z 1912/2012 VRB05KT P6SM SCT025 BKN050 TEMPO 1912/1916 5SM BR BKN025 FM192200 34006KT P6SM BKN100 KCNU 191126Z 1912/2012 VRB05KT P6SM -SHRA OVC040 FM191400 21015KT P6SM VCSH SCT010 BKN025 FM192100 23010KT P6SM FEW025 KCNY 191120Z 1912/2012 VRB03KT P6SM SKC FM191900 36005KT P6SM SKC FM192300 33006KT P6SM SKC FM200300 VRB03KT P6SM SKC KCOD 191123Z 1912/2012 36006KT P6SM SKC FM191900 04006KT P6SM SKC FM200200 21006KT P6SM SKC LTD TO CLD VIS AND WIND KCOE 191129Z 1912/2012 06005KT P6SM SCT250 KCOF 191000Z 1910/2016 12003KT 9999 SCT025 QNH3012INS BECMG 1914/1915 10010KT 9999 VCSH SCT030 QNH3010INS BECMG 1922/1923 12010KT 9999 NSW FEW030 QNH3008INS BECMG 2002/2003 15005KT 9999 BKN020 QNH3002INS TX31/1920Z TN25/2009Z KCON 191120Z 1912/2012 00000KT P6SM SCT100 FM191500 23008KT P6SM SCT120 FM200000 19005KT P6SM SCT120 BKN250 KCOS 191143Z 1912/2012 32008KT P6SM FEW110 FM191600 35015G25KT P6SM SCT070 FM192100 03010G20KT P6SM SCT070 FM200300 VRB06KT P6SM SKC KCOU 191120Z 1912/2012 17005KT P6SM OVC060 FM191500 20008KT 6SM -RA BR OVC040 FM191700 21008KT 6SM -RA BR OVC025 FM191900 21008KT P6SM OVC015 FM200000 25007KT P6SM BKN045 KCPR 191123Z 1912/2012 25008KT P6SM SKC FM191800 29010KT P6SM SKC FM200200 25008KT P6SM SKC KCPS 191120Z 1912/2012 VRB03KT P6SM BKN250 FM191400 20005KT P6SM OVC070 FM191700 22006KT P6SM -RA OVC050 FM191900 23006KT 6SM -RA BR OVC025 FM192200 22007KT P6SM OVC018 FM200400 26007KT P6SM BKN050 KCRE 191120Z 1912/2012 03009KT P6SM SKC FM191800 11005KT P6SM SCT030 FM200000 15004KT P6SM BKN035 FM200500 19004KT P6SM SCT015 BKN025 FM200900 25003KT P6SM SCT005 BKN015 KCRG 191120Z 1912/2012 07005KT P6SM SCT015 SCT030 FM191400 06007KT P6SM VCSH SCT015 BKN025 BKN040 FM191800 07009KT P6SM VCSH SCT020 BKN040 KCRP 191140Z 1912/2012 33010KT 5SM -SHRA BR OVC007 FM191600 01010KT 5SM -SHRA OVC015 FM192100 02010KT 6SM -RA BR OVC010 FM200500 36008KT 5SM -RA BR OVC015 KCRQ 191120Z 1912/2012 VRB03KT P6SM SKC FM192100 28009KT P6SM SKC FM200000 VRB04KT P6SM SKC KCRW 191130Z 1912/2012 00000KT 1/4SM FG BKN001 TEMPO 1913/1914 2SM BR SCT001 FM191400 21004KT P6SM FEW250 FM200200 23006KT P6SM OVC045 FM200400 24006G15KT 4SM SHRA OVC030 FM200700 25007G15KT 3SM SHRA SCT005 OVC010 KCSG 191139Z 1912/2012 08007KT P6SM BKN025 FM191600 08006KT P6SM BKN035 FM200300 21003KT P6SM BKN025 KCSM 191120Z 1912/2012 19010KT 6SM -DZ BR OVC005 TEMPO 1912/1914 3SM BR OVC002 FM191700 23010KT P6SM BKN040 FM192200 22010KT P6SM SKC FM200600 34010KT P6SM SKC KCSV 191135Z 1912/2012 18005KT P6SM SCT250 FM191600 20008G13KT P6SM SCT025 FM192300 23003KT P6SM SCT100 BKN250 FM200400 23005KT 5SM -RA BR OVC050 FM201000 27006KT 5SM -RA BR BKN008 OVC011 KCTB 191120Z 1912/2012 VRB06KT P6SM FEW070 SCT200 KCUB 191122Z 1912/2012 VRB04KT P6SM SCT040 SCT250 FM191900 13005KT P6SM BKN040 FM200000 00000KT P6SM BKN035 KCVG 191134Z 1912/2018 19005KT P6SM BKN250 FM191800 21008KT P6SM BKN150 FM192100 22010KT P6SM BKN070 FM192200 23010KT P6SM VCSH BKN060 FM200000 24011G19KT P6SM -SHRA OVC050 FM200300 24011G19KT P6SM VCSH SCT008 OVC015 FM201100 27010KT P6SM OVC008 FM201400 29012G20KT P6SM BKN015 FM201600 29014G22KT P6SM SCT040 KCVS 191000Z 1910/2016 25008KT 9999 BKN004 OVC008 QNH3026INS BECMG 1915/1916 26009KT 9999 SCT015 SCT120 QNH3027INS BECMG 1920/1921 03012KT 9999 SKC QNH3021INS TEMPO 2004/2008 05007KT 8000 BR TX18/1921Z TN08/1910Z KCWA 191133Z 1912/2012 23010G17KT P6SM -SHRA OVC080 WS015/24045KT FM191300 23012G19KT P6SM -SHRA SCT025 OVC050 WS015/24045KT TEMPO 1913/1914 5SM -SHRA OVC020 FM191400 24014G24KT 4SM -SHRA OVC012 FM191800 24014G24KT P6SM BKN020 OVC040 FM192200 29012G19KT P6SM SCT050 WS015/32040KT TEMPO 2010/2012 4SM -SHSN BKN040 OVC080 KCXO 191123Z 1912/2012 VRB03KT P6SM VCSH SCT050 BKN090 FM191800 09005KT P6SM VCSH BKN025 FM192300 36004KT P6SM VCSH SCT008 OVC020 FM200900 35003KT P6SM -RA SCT005 BKN015 KCXP 191120Z 1912/2012 VRB03KT P6SM SKC FM192000 06010G16KT P6SM SKC FM200100 VRB03KT P6SM SKC KCYS 191120Z 1912/2012 28010KT P6SM SKC FM191500 32012G20KT P6SM SCT100 FM192300 36006KT P6SM SKC KDAA 190900Z 1909/2015 VRB06KT 9999 SKC QNH3034INS BECMG 1914/1915 22010G15KT 9999 FEW180 QNH3006INS BECMG 1923/1924 21012KT 9999 FEW150 QNH2999INS BECMG 2003/2004 22009KT 8000 -RA OVC020 QNH2987INS BECMG 2009/2010 25009KT 6000 BR OVC005 QNH2983INS TX16/1921Z TN01/1912Z KDAB 191132Z 1912/2012 07007KT P6SM VCSH SCT025 SCT060 SCT130 TEMPO 1912/1916 5SM SHRA BKN025 OVC050 FM191600 07008KT P6SM SCT040 FM200400 VRB02KT P6SM SCT250 KDAG 191133Z 1912/2012 VRB05KT P6SM SKC FM191600 08007KT P6SM SKC FM192000 07011G20KT P6SM SKC FM200300 VRB05KT P6SM SKC KDAL 191136Z 1912/2012 07005KT P6SM VCSH SCT015 OVC025 TEMPO 1912/1915 2SM SHRA FM191500 06003KT 5SM -SHRA SCT007 OVC015 TEMPO 1918/1922 33005KT 3SM SHRA BR BKN007 FM200100 35003KT 5SM -SHRA SCT007 OVC012 FM200300 35003KT 3SM BR BKN007 KDAN 191124Z 1912/2012 00000KT P6SM SKC FM191600 20005KT P6SM SKC FM200400 VRB04KT P6SM BKN100 FM200600 23006KT 6SM -SHRA OVC050 KDAY 191134Z 1912/2012 20005KT P6SM BKN250 FM191700 20010G18KT P6SM BKN250 FM192000 22012G20KT P6SM BKN060 FM192200 22012G20KT P6SM VCSH OVC070 FM200000 23012G22KT P6SM -SHRA OVC025 FM200300 24013G20KT P6SM VCSH SCT008 OVC015 FM200700 25012G20KT P6SM OVC008 KDBQ 191135Z 1912/2012 19010KT 6SM -SHRA BR OVC090 FM191500 21012KT 6SM BR OVC070 TEMPO 1915/1918 4SM -SHRA BR OVC025 FM191900 23015G23KT P6SM OVC020 FM192200 26013KT P6SM BKN060 FM200000 28011KT P6SM SCT250 KDCA 191120Z 1912/2018 VRB03KT P6SM SKC FM191500 20007KT P6SM SKC FM191900 20010G18KT P6SM FEW200 FM200000 21009KT P6SM OVC150 FM200600 22009KT P6SM -SHRA OVC080 FM201200 23008KT P6SM BKN040 FM201700 27009KT P6SM BKN045 KDDC 191120Z 1912/2012 21011KT P6SM BKN015 FM191330 23010KT P6SM SCT250 FM191500 26011KT P6SM SKC FM191900 35012G20KT P6SM SKC FM200800 34006KT P6SM SKC KDEC 191120Z 1912/2012 19006KT P6SM SCT150 FM191600 22014G21KT P6SM VCSH OVC050 FM192200 23012G20KT P6SM OVC025 FM200400 25010KT P6SM BKN035 FM200700 28009KT P6SM SCT250 KDEN 191134Z 1912/2018 25008KT P6SM FEW120 FM191500 27007KT P6SM SKC FM191700 34012KT P6SM FEW090 FEW250 FM192300 04008KT P6SM FEW250 FM200300 14010KT P6SM SKC FM200700 20010KT P6SM SKC KDET 191120Z 1912/2012 22009KT P6SM SCT150 FM191400 22012KT P6SM OVC100 FM191600 23014G22KT P6SM OVC100 FM192200 22012G18KT P6SM OVC050 PROB30 1922/2003 P6SM -RA OVC030 FM200300 23012KT P6SM OVC025 FM200800 27011KT P6SM BKN035 KDFW 191136Z 1912/2018 07005KT P6SM VCSH SCT015 OVC025 TEMPO 1912/1915 2SM SHRA FM191500 06003KT 5SM -SHRA SCT007 OVC015 TEMPO 1918/1922 33005KT 3SM SHRA BR BKN007 FM200100 35003KT 5SM -SHRA SCT007 OVC012 FM200300 35003KT 3SM BR BKN007 FM201500 36008KT 5SM BR SCT007 BKN015 KDHN 191126Z 1912/2012 10004KT P6SM BKN014 OVC024 TEMPO 1912/1915 SCT014 BKN024 FM191500 12007KT P6SM BKN050 FM200100 00000KT P6SM BKN250 KDHT 191120Z 1912/2012 24007KT P6SM SCT150 FM191400 27006KT P6SM FEW250 FM191600 33008KT P6SM SKC FM192200 02011KT P6SM SKC KDIJ 191120Z 1912/2012 VRB03KT P6SM FEW090 FM191900 34008KT P6SM SKC FM200400 09006KT P6SM SKC LTD TO CLD VIS AND WIND KDIK 191137Z 1912/2012 31012G19KT P6SM BKN150 FM191700 31018G28KT P6SM SKC FM200000 31012G20KT P6SM SKC FM200200 30009KT P6SM SKC KDLF 191027Z 1910/2016 31008KT 8000 -SHRA OVC008 QNH3018INS BECMG 1911/1912 30006KT 4800 -DZ BR OVC005 QNH3021INS TEMPO 1913/1915 2000 DZ BR OVC003 BECMG 1914/1915 33008KT 8000 -SHRA OVC010 QNH3016INS BECMG 1920/1921 35008KT 9999 NSW OVC020 QNH3009INS BECMG 2005/2006 36006KT 9999 VCSH OVC010 QNH3012INS BECMG 2011/2012 01006KT 8000 -SHRA BR OVC006 QNH3015INS BECMG 2014/2015 34006KT 4800 -SHRA SCT005 BKN010 QNH3015INS TX18/1923Z TN12/1910Z KDLH 191126Z 1912/2012 24015G22KT P6SM SKC WS020/24040KT FM191430 27015G26KT P6SM BKN200 FM191700 30016G27KT P6SM SCT200 FM200400 30013G20KT P6SM VCSH FEW050 SCT100 FM200700 30013G22KT P6SM VCSH SCT035 BKN070 KDLS 191120Z 1912/2012 VRB04KT P6SM FEW250 KDMA 190600Z 1906/2012 10009KT 9999 SKC QNH3006INS BECMG 1916/1917 09010G15KT 9999 SCT050 QNH2998INS BECMG 1923/1924 09009KT 9999 SCT050 QNH2999INS TX28/1923Z TN10/1913Z KDMN 191132Z 1912/2012 06006KT P6SM BKN023 BKN050 OVC120 FM191600 07006KT P6SM SCT030 BKN050 FM192100 08005KT P6SM FEW040 SCT070 BKN110 FM200600 06007KT P6SM SCT040 BKN080 KDNL 191122Z 1912/2012 06006KT P6SM BKN040 FM200000 VRB03KT P6SM OVC035 KDOV 190800Z 1908/2014 25006KT 9999 SKC QNH3035INS BECMG 1913/1914 24010G15KT 9999 FEW240 QNH3010INS BECMG 1921/1922 21012KT 9999 SCT190 QNH2999INS BECMG 2005/2006 20012KT 8000 -SHRA FEW025 SCT140 BKN170 OVC200 WS020/22040KT QNH2985INS BECMG 2008/2009 22012KT 8000 -SHRA BKN010 OVC025 WS020/22040KT QNH2979INS BECMG 2012/2013 25015G20KT 9999 NSW SCT025 BKN040 OVC055 QNH2979INS TX17/1917Z TN04/1908Z KDPA 191120Z 1912/2012 21011KT P6SM BKN150 FM191400 22013G20KT P6SM BKN100 FM191700 22015G23KT 6SM -SHRA SCT040 OVC060 FM192100 23015G24KT P6SM BKN025 FM200200 29011KT P6SM SKC KDRO 191120Z 1912/2012 VRB05KT P6SM SKC KDRT 191134Z 1912/2012 31005KT P6SM -RA OVC008 FM191900 31005KT 6SM -SHRA OVC012 FM200300 31004KT 5SM -SHRA OVC007 KDSM 191132Z 1912/2012 19010KT P6SM VCSH OVC070 FM191400 22015KT P6SM BKN045 FM191600 23017G24KT P6SM BKN040 FM191800 25018G29KT P6SM SCT035 SCT120 FM192000 28018G28KT P6SM SCT120 FM192300 32011KT P6SM FEW250 KDTW 191120Z 1912/2018 22009KT P6SM SCT150 FM191400 22012KT P6SM OVC100 FM191600 23014G22KT P6SM OVC100 FM192200 22012G18KT P6SM OVC050 PROB30 1922/2003 P6SM -RA OVC030 FM200300 23012KT P6SM OVC025 FM200800 27011KT P6SM BKN035 FM201400 29012G20KT P6SM OVC040 KDUG 191120Z 1912/2012 36006KT P6SM FEW120 SCT250 FM191600 09014G22KT P6SM FEW050 SCT120 SCT250 FM192100 11012KT P6SM BKN050 BKN250 FM200400 09008KT P6SM FEW050 SCT250 FM201000 10013KT P6SM SCT250 KDUJ 191121Z 1912/2012 23006KT P6SM SKC FM191500 23010G18KT P6SM BKN200 FM200300 24012G22KT 5SM -RA OVC035 FM200500 24012G22KT P6SM VCSH OVC015 KDVL 191145Z 1912/2012 32016G25KT P6SM FEW250 FM191600 32023G34KT P6SM SCT200 FM200000 30017KT P6SM SCT100 KDYS 191200Z 1912/2014 36006KT 8000 -SHRA OVC003 QNH3021INS TEMPO 1912/1918 OVC015 BECMG 1917/1918 01006KT 9999 NSW OVC015 QNH3018INS BECMG 1920/1921 VRB06KT 9999 SCT005 BKN025 QNH3017INS BECMG 2008/2009 35006KT 9999 OVC005 QNH3020INS TX16/1921Z TN12/1912Z KEAR 191120Z 1912/2012 22011G16KT P6SM SKC FM191500 27013G19KT P6SM SKC FM191700 33017G25KT P6SM SKC FM200000 32007KT P6SM SKC KEAT 191129Z 1912/2012 VRB03KT P6SM FEW200 KEAU 191120Z 1912/2012 21009KT P6SM -RA SCT060 BKN090 WS020/24045KT FM191400 22012G24KT P6SM BKN060 FM191900 28019G28KT P6SM SKC FM200100 29009KT P6SM SKC FM200900 30009KT P6SM VCSH FEW030 BKN060 KECG 191120Z 1912/2012 VRB02KT P6SM SKC FM191500 15005KT P6SM SKC FM191800 18008KT P6SM SCT250 FM200300 21007KT P6SM SCT150 FM200700 22007KT P6SM BKN080 FM201100 22006KT P6SM OVC060 KECP 191126Z 1912/2012 06005KT P6SM BKN014 TEMPO 1912/1916 07004KT P6SM SCT014 BKN025 FM191600 15006KT P6SM BKN250 KEDW 191000Z 1910/2016 VRB06KT 9999 SKC QNH3013INS BECMG 1915/1916 04012KT 9999 SKC QNH3016INS TEMPO 1918/2000 04012G22KT 510009 BECMG 2001/2002 VRB06KT 9999 SKC QNH3006INS TX27/1921Z TN06/1912Z KEED 191133Z 1912/2012 36012KT P6SM SKC FM191700 35017G25KT P6SM SKC FM200400 34010KT P6SM SKC KEET 191139Z 1912/2012 VRB03KT P6SM BKN250 TEMPO 1912/1916 OVC015 FM191600 14006KT P6SM SCT025 BKN200 FM191800 18006KT P6SM SCT070 BKN150 FM192300 00000KT P6SM BKN150 KEFD 191200Z 1912/2018 10009KT 9999 OVC020 QNH3004INS BECMG 1923/1924 10009KT 8000 -SHRA OVC007 QNH3002INS BECMG 2011/2012 01009KT 8000 -SHRA OVC007 QNH3004INS TX26/1920Z TN18/1912Z KEGE 191120Z 1912/2012 VRB03KT P6SM SKC FM191400 VRB03KT P6SM FEW060 SCT140 FM191700 VRB03KT P6SM SKC KEGI 191130Z 1911/2015 07006KT 9999 BKN012 BKN250 QNH3016INS BECMG 1913/1914 17009KT 9999 SCT012 SCT250 QNH3014INS BECMG 1917/1918 17009KT 9999 VCSH SCT025 SCT250 QNH3014INS BECMG 1922/1923 23008KT 9999 NSW FEW030 SCT250 QNH3005INS BECMG 2003/2004 02004KT 3200 BR FEW010 SCT250 QNH3006INS BECMG 2005/2006 03003KT 0800 FG FEW010 FEW250 QNH3003INS TX30/1920Z TN17/2009Z KEKN 191130Z 1912/2012 00000KT 1/4SM FZFG BKN001 TEMPO 1913/1914 3SM BR SCT001 FM191400 21004KT P6SM FEW250 FM200300 25008G14KT 6SM -SHRA BKN030 FM200600 26008G14KT 3SM SHRA OVC007 KEKO 191120Z 1912/2012 VRB04KT P6SM SKC KEKS 191120Z 1912/2012 VRB06KT P6SM SCT200 KELD 191149Z 1912/2012 00000KT P6SM BKN200 FM191500 09004KT P6SM SCT040 BKN180 OVC250 FM192000 32004KT P6SM BKN050 FM200000 33003KT P6SM -RA OVC050 FM200300 36002KT 5SM -RA OVC050 FM200600 34003KT 4SM -RA BR OVC007 FM200900 35005KT 2SM -RA BR OVC004 KELM 191120Z 1912/2012 VRB03KT P6SM SKC WS015/28035KT FM191400 23007KT P6SM SKC FM191700 21010G17KT P6SM FEW200 FM192300 22008KT P6SM BKN150 FM200700 22009KT P6SM OVC030 KELP 191132Z 1912/2012 01007KT P6SM BKN016 OVC050 FM191600 07006KT P6SM SCT020 BKN050 FM192100 05005KT P6SM FEW030 SCT070 BKN110 FM200600 06007KT P6SM SCT040 BKN100 KELY 191120Z 1912/2012 17010KT P6SM SKC FM192000 02010KT P6SM SKC FM200300 17008KT P6SM SKC KEND 191157Z 1912/2016 18009KT 8000 -SHRA OVC008 QNH3019INS BECMG 1914/1915 22009KT 9999 NSW SCT020 OVC030 QNH3017INS BECMG 1918/1919 24009KT 9999 SCT007 BKN010 QNH3012INS BECMG 1923/1924 VRB06KT 9999 SKC QNH3014INS TX19/1921Z TN09/1912Z KENV 191120Z 1912/2012 VRB04KT P6SM SKC FM191700 10006KT P6SM SKC FM200200 VRB04KT P6SM SKC KENW 191120Z 1912/2012 22010G15KT P6SM BKN200 FM191600 22015G27KT P6SM VCSH OVC090 FM191700 22015G28KT 6SM -SHRA BR OVC070 FM191900 22016G29KT P6SM VCSH OVC050 FM192300 24015G24KT P6SM OVC020 FM200200 27013G19KT P6SM FEW150 KERI 191127Z 1912/2012 21010KT P6SM SCT250 FM200300 22020G30KT P6SM OVC050 FM200600 23020G30KT P6SM OVC030 FM200800 24020G30KT P6SM VCSH OVC020 FM201100 27018G28KT P6SM VCSH BKN030 KEUG 191129Z 1912/2012 VRB03KT P6SM SKC FM192100 35006KT P6SM SKC FM200400 VRB03KT P6SM SKC KEUL 191126Z 1912/2012 VRB03KT 6SM FU SKC KEVV 191120Z 1912/2012 00000KT P6SM FEW250 FM191600 21005KT P6SM BKN250 FM192000 23008KT P6SM VCSH SCT030 OVC070 FM200000 23009KT 5SM -RA BR OVC015 FM200300 24009KT 5SM BR OVC015 FM200600 25008KT P6SM OVC015 FM201000 27008KT P6SM BKN025 KEVW 191120Z 1912/2012 21007KT P6SM SKC FM191800 28009KT P6SM SKC FM200400 12005KT P6SM SKC KEWN 191120Z 1912/2012 02004KT P6SM SKC FM200200 00000KT P6SM BKN035 FM200500 00000KT P6SM VCSH BKN025 KEWR 191120Z 1912/2018 24007KT P6SM SKC FM191600 23010G18KT P6SM SKC FM192000 23012G20KT P6SM SCT250 FM192300 22010G17KT P6SM BKN200 FM200500 22010G19KT P6SM VCSH SCT040 BKN080 OVC120 FM200900 22012G20KT 6SM -SHRA BR SCT030 BKN040 FM201300 25012G22KT P6SM BKN040 KEYW 191143Z 1912/2012 09013G18KT P6SM FEW028 FM191500 10012G22KT P6SM FEW028 KFAF 191000Z 1910/2016 VRB06KT 9999 SKC QNH3013INS BECMG 2003/2004 21015KT 9999 BKN025 QNH2991INS BECMG 2012/2013 25012KT 6000 -RA OVC005 QNH2988INS TX18/1921Z TN03/1912Z KFAR 191145Z 1912/2012 23008KT P6SM SKC FM191300 32012G18KT P6SM FEW250 FM191500 32016G25KT P6SM FEW200 FM191700 32022G33KT P6SM SCT200 FM200000 31015KT P6SM SCT130 KFAT 191120Z 1912/2012 VRB03KT P6SM SKC KFAY 191123Z 1912/2012 VRB02KT P6SM FEW250 FM191600 17006KT P6SM FEW250 FM200000 18004KT P6SM SCT040 FM200300 20004KT P6SM BKN050 FM201100 24005KT P6SM -RA OVC150 KFBG 190900Z 1909/2015 03003KT 9999 SKC QNH3014INS BECMG 1923/1924 18006KT 9999 SCT050 QNH3003INS BECMG 2005/2006 21006KT 9999 FEW025 SCT250 QNH2993INS BECMG 2014/2015 25009KT 9999 VCSH SCT025 BKN060 OVC200 QNH2992INS TX20/1918Z TN06/1909Z KFDY 191127Z 1912/2012 21006KT P6SM BKN250 FM191700 22015G25KT P6SM BKN250 FM200300 24015G25KT P6SM VCSH BKN025 FM200500 25015G25KT P6SM VCSH BKN015 FM200800 26010G20KT P6SM VCSH BKN025 KFFO 190300Z 1903/2009 19006KT 9999 SKC QNH3022INS BECMG 1914/1915 20012G18KT 9999 FEW180 QNH3011INS BECMG 1917/1918 22010G15KT 9999 BKN150 QNH3002INS BECMG 1920/1921 23012KT 9999 OVC100 QNH3000INS BECMG 1922/1923 23012KT 8000 -SHRA OVC015 QNH2991INS TX17/1920Z TN02/1910Z KFHU 191002Z 1910/2016 VRB06KT 9999 FEW020 QNH3014INS BECMG 1917/1918 10012KT 9999 SCT060 QNH3010INS TEMPO 2000/2002 BKN050 BECMG 2001/2002 08009KT 9999 FEW020 QNH3016INS TX21/1922Z TN06/1912Z KFKL 191121Z 1912/2012 22007KT P6SM SCT250 FM191500 21010G20KT P6SM BKN200 FM200300 22012G22KT P6SM -RA OVC050 FM200600 23012G22KT P6SM VCSH OVC015 FM200800 23012G22KT P6SM VCSH BKN008 KFLG 191120Z 1912/2012 06011G19KT P6SM SKC FM191700 06015G25KT P6SM FEW040 FM200200 07009KT P6SM FEW035 KFLL 191125Z 1912/2018 08008KT P6SM SCT025 FM191600 10012KT P6SM SCT030 SCT250 FM200200 VRB05KT P6SM SCT040 SCT250 FM201500 10012KT P6SM SCT030 KFLO 191120Z 1912/2012 06005KT P6SM SKC FM191800 12004KT P6SM SCT030 FM200900 24004KT P6SM BKN120 KFMH 191120Z 1912/2012 26010KT P6SM SKC FM191500 24016KT P6SM SKC FM200300 22014G36KT P6SM BKN100 FM200800 22015G41KT P6SM -RA OVC050 KFMN 191138Z 1912/2012 VRB04KT P6SM SKC FM192100 25006KT P6SM SKC FM200400 09007KT P6SM SKC KFMY 191141Z 1912/2012 06006KT P6SM FEW250 FM191400 09008KT P6SM FEW025 FEW250 FM191900 10007KT P6SM SCT040 BKN250 FM200100 VRB03KT P6SM FEW250 KFNT 191120Z 1912/2012 22009KT P6SM SCT150 FM191400 22012KT P6SM OVC100 FM191600 23014G22KT P6SM OVC100 FM192100 22012G18KT P6SM OVC050 PROB30 1921/2003 P6SM -RA OVC030 FM200300 23012KT P6SM OVC025 FM200800 27011KT P6SM BKN035 KFOD 191205Z 1912/2012 22011KT 6SM -RA BKN008 OVC040 FM191400 22014G21KT P6SM VCSH BKN070 FM191800 26015G24KT P6SM FEW150 FM192100 31014G20KT P6SM FEW250 FM192300 31011KT P6SM SKC KFOE 191120Z 1912/2012 20008KT P6SM VCSH SCT022 OVC040 FM191300 22013G20KT P6SM SCT018 OVC021 TEMPO 1914/1917 OVC018 FM191800 26013KT P6SM SCT040 FM200100 33006KT P6SM SKC KFPR 191132Z 1912/2012 07004KT P6SM FEW025 SCT050 FM191500 11008KT P6SM SCT040 FM200400 VRB02KT P6SM SCT250 KFRI 190800Z 1908/2014 20009KT 9999 BKN020 OVC040 QNH3018INS BECMG 1911/1912 25012KT 9000 -SHRA SCT010 OVC015 QNH3012INS TEMPO 1912/1917 BKN010 OVC015 BECMG 1917/1918 26010G15KT 9999 NSW SCT020 QNH3011INS BECMG 1923/1924 30006KT 9999 SKC QNH3011INS TX20/1921Z TN08/2008Z KFSD 191120Z 1912/2012 21011KT P6SM FEW250 FM191400 24009KT P6SM FEW250 FM191600 31011G16KT P6SM SKC FM192100 33020G30KT P6SM SKC FM200100 31009KT P6SM SKC FM200700 30009KT P6SM SKC WS018/33040KT FM200900 31010KT P6SM SKC KFSM 191124Z 1912/2012 06005KT P6SM OVC040 TEMPO 1913/1915 4SM -SHRA OVC030 FM191500 05005KT P6SM -RA SCT015 OVC025 TEMPO 1916/1920 3SM RA BR SCT010 OVC015 FM192000 VRB06KT P6SM -RA SCT007 OVC015 TEMPO 1920/1924 3SM RA BR BKN007 OVC012 FM200100 28003KT P6SM VCSH BKN006 OVC020 FM200900 30004KT 5SM BR BKN020 KFST 191135Z 1912/2012 35005KT 6SM BR BKN006 OVC020 TEMPO 1912/1916 3SM BR BKN004 FM192200 33006KT P6SM BKN010 OVC030 FM200300 26005KT 6SM -RA BR BKN007 OVC010 KFTK 190900Z 1909/2015 VRB06KT 9999 FEW200 QNH3013INS BECMG 1917/1918 23009KT 9999 FEW100 BKN120 QNH3006INS BECMG 1920/1921 25009KT 9999 FEW065 OVC075 QNH3006INS BECMG 1923/1924 26009KT 8000 -SHRA OVC015 QNH3000INS BECMG 2008/2009 25009KT 8000 BR OVC015 QNH3000INS BECMG 2014/2015 28012G18KT 9999 NSW OVC020 QNH3007INS TX17/1918Z TN01/1909Z KFTW 191200Z 1912/2012 07005KT P6SM VCSH SCT015 OVC025 TEMPO 1912/1914 2SM SHRA FM191400 06003KT 5SM -SHRA SCT007 OVC015 TEMPO 1918/1922 33005KT 3SM SHRA BR BKN007 FM200100 35003KT 5SM -SHRA SCT007 OVC012 FM200300 35003KT 3SM BR BKN007 KFTY 191139Z 1912/2012 09005KT P6SM SCT250 FM191300 09008KT P6SM BKN025 FM191700 14007KT P6SM BKN035 FM200300 23004KT P6SM BKN025 KFVE 191120Z 1912/2012 24005KT P6SM OVC070 FM191300 21008KT 5SM -SN OVC035 FM191600 18008G16KT 6SM -SHSN OVC028 FM192200 18008G16KT P6SM VCSH OVC035 FM200900 18010G17KT P6SM VCSH OVC045 KFWA 191120Z 1912/2012 22008KT P6SM BKN250 FM191500 22014G22KT P6SM BKN150 FM192100 21014KT P6SM -SHRA BKN060 OVC120 FM200100 23013KT P6SM OVC025 FM200600 28011KT P6SM BKN035 KFXE 191125Z 1912/2012 08008KT P6SM SCT025 FM191600 10012KT P6SM SCT030 SCT250 FM200200 VRB05KT P6SM SCT040 SCT250 KFYV 191124Z 1912/2012 18003KT P6SM -RA SCT030 BKN040 FM191400 18005KT 5SM -RA OVC025 TEMPO 1914/1918 3SM RA OVC012 FM191800 21007KT P6SM -RA SCT007 OVC015 TEMPO 1918/1921 3SM -RA BR BKN006 OVC012 FM192300 22004KT P6SM VCSH BKN006 FM200300 25003KT P6SM BKN006 FM200900 33005KT 5SM BR BKN015 KGBD 191126Z 1912/2012 21010KT P6SM BKN015 FM191300 24010KT P6SM FEW015 FM191900 30010KT P6SM SKC LTD TO CLD VIS AND WIND KGCC 191120Z 1912/2012 32010KT P6SM SKC FM200300 24005KT P6SM SKC KGCK 191120Z 1912/2012 23009KT P6SM FEW250 FM191500 30011KT P6SM FEW250 FM191800 33013G20KT P6SM FEW250 FM200000 36011KT P6SM FEW250 FM200900 33005KT P6SM SKC KGCN 191120Z 1912/2012 VRB05KT P6SM SKC TEMPO 1913/1917 06011G19KT FM191700 06015G25KT P6SM FEW040 FM200200 07009KT P6SM FEW035 KGDV 191126Z 1912/2012 32011KT P6SM SCT200 FM191700 30017KT P6SM FEW200 FM200100 32007KT P6SM SKC KGEG 191129Z 1912/2012 06004KT P6SM FEW250 KGFA 190305Z 1903/2009 28006KT 9999 FEW150 SCT180 SCT220 QNH3008INS BECMG 1914/1915 20006KT 9999 FEW110 QNH3025INS BECMG 2004/2005 18009KT 9999 SKC QNH3024INS TX18/1922Z TN03/1912Z KGFK 191145Z 1912/2012 32012G18KT P6SM SCT200 FM191500 32016G25KT P6SM SCT200 FM191700 33021G31KT P6SM SCT200 FM200000 31015KT P6SM BKN080 KGFL 191122Z 1912/2012 20005KT P6SM FEW035 FM191400 19008KT P6SM SKC FM200000 20004KT P6SM BKN200 FM200600 20005KT P6SM VCSH BKN050 OVC100 KGGG 191149Z 1912/2012 00000KT P6SM VCSH BKN200 FM191500 10005KT 5SM -SHRA OVC025 FM192100 35005KT 4SM -RA OVC015 FM200000 35003KT 4SM -RA BR OVC007 FM200600 34003KT 4SM BR OVC004 FM200900 34006KT 2SM BR OVC004 KGGW 191126Z 1912/2012 32008KT P6SM FEW150 FM191800 30013KT P6SM FEW120 FM200100 VRB05KT P6SM SKC KGJT 191120Z 1912/2012 VRB03KT P6SM FEW030 FM191600 VRB03KT P6SM SKC FM192300 34005KT P6SM SKC FM200200 01005KT P6SM SKC FM200400 05005KT P6SM SKC FM200700 09005KT P6SM SKC KGKY 191136Z 1912/2012 07005KT P6SM VCSH SCT015 OVC025 TEMPO 1912/1915 2SM SHRA FM191500 06003KT 5SM -SHRA SCT007 OVC015 TEMPO 1918/1922 33005KT 3SM SHRA BR BKN007 FM200100 35003KT 5SM -SHRA SCT007 OVC012 FM200300 35003KT 3SM BR BKN007 KGLD 191135Z 1912/2012 28008KT P6SM FEW250 FM191400 31010KT P6SM SKC FM191700 34013G22KT P6SM SKC FM200200 35006KT P6SM SKC FM200700 28005KT P6SM SKC KGLH 191127Z 1912/2012 04005KT P6SM SCT100 FM200500 35005KT P6SM -RA OVC050 FM201000 35005KT P6SM -RA OVC025 KGLS 191123Z 1912/2012 05008KT P6SM BKN070 FM191600 08012KT P6SM VCSH SCT020 FM192300 09010KT P6SM VCSH SCT025 FM200800 03007KT P6SM VCSH OVC020 KGMU 191131Z 1912/2012 VRB04KT P6SM FEW250 FM191600 12004KT P6SM FEW050 FEW200 FM192100 16004KT P6SM SCT040 SCT200 FM200900 23008KT P6SM OVC030 PROB30 2010/2012 4SM -SHRA OVC025 KGNV 191120Z 1912/2012 04005KT P6SM SCT012 SCT030 FM191400 06006KT P6SM VCSH SCT015 BKN030 BKN050 FM191700 07006KT P6SM VCSH SCT025 BKN050 KGON 191120Z 1912/2012 VRB04KT P6SM SKC FM191300 25007KT P6SM SKC FM191600 23012G20KT P6SM FEW250 FM200200 22013G23KT P6SM BKN200 FM200800 22013G23KT P6SM VCSH SCT040 BKN080 OVC120 FM201100 21013G22KT 6SM -SHRA BR SCT030 BKN040 KGPI 191120Z 1912/2012 VRB03KT 6SM BR SCT110 BKN150 TEMPO 1912/1915 2SM BR FM191600 VRB03KT P6SM SCT150 KGPT 191128Z 1912/2012 04006KT P6SM FEW100 FEW250 FM191500 08006KT P6SM FEW070 FEW250 FM192000 13006KT P6SM FEW025 SCT200 FM200000 13004KT P6SM SCT015 BKN100 FM200400 VRB03KT P6SM BKN110 FM201100 VRB03KT 3SM BR BKN030 KGRB 191133Z 1912/2012 22011G19KT P6SM BKN150 WS015/25045KT FM191500 23015G25KT P6SM -SHRA SCT025 OVC050 TEMPO 1916/1920 5SM -SHRA BKN020 FM192300 28012G19KT P6SM SCT050 WS015/31040KT KGRF 191126Z 1911/2011 VRB06KT 1600 BR BKN001 QNH3022INS BECMG 1916/1917 VRB06KT 9999 NSW SKC QNH3024INS BECMG 2006/2007 VRB06KT 0800 FG VV002 QNH3021INS TX20/1923Z TN03/1912Z KGRI 191120Z 1912/2012 22012G17KT P6SM SKC FM191500 27013G20KT P6SM SKC FM191700 33017G25KT P6SM SKC FM200000 32007KT P6SM SKC KGRK 190800Z 1908/2014 05006KT 8000 -SHRA OVC015 QNH3016INS TEMPO 1908/1915 OVC012 BECMG 1915/1916 02009KT 8000 -SHRA OVC008 QNH3012INS BECMG 1922/1923 36006KT 8000 -SHRA OVC015 QNH3012INS TX17/1920Z TN12/1912Z KGRR 191140Z 1912/2012 22008KT P6SM SKC FM191800 24014G23KT P6SM VCSH BKN150 FM192300 22016G24KT 6SM -SHRA BR OVC020 FM200100 24016KT 6SM -SHRA BR OVC015 FM200400 29012G20KT P6SM VCSH BKN060 KGSB 191200Z 1912/2018 07006KT 9999 SKC QNH3035INS BECMG 1917/1918 16009KT 9999 FEW030 QNH3026INS BECMG 2002/2003 23009KT 8000 -SHRA BKN020 BKN060 QNH2991INS TX19/1920Z TN06/1912Z KGSO 191142Z 1912/2012 00000KT P6SM FEW200 TEMPO 1912/1913 4SM BR FM191500 17005KT P6SM SKC FM192000 20010G16KT P6SM FEW250 FM192300 19008KT P6SM FEW250 FM200500 21007KT P6SM -RA OVC090 KGSP 191131Z 1912/2012 VRB03KT P6SM FEW250 FM191600 12004KT P6SM FEW050 FEW200 FM192100 16004KT P6SM SCT040 SCT200 FM200900 23008KT P6SM OVC030 PROB30 2010/2012 4SM -SHRA OVC025 KGTB 190900Z 1909/2015 21010G15KT 9999 FEW050 QNH3009INS BECMG 1914/1915 23015G25KT 9999 FEW015 SCT050 QNH2993INS BECMG 1920/1921 22012KT 9999 SCT015 BKN050 QNH2959INS BECMG 2011/2012 21012KT 8000 -SHRA BKN015 OVC020 QNH2948INS BECMG 2014/2015 25015G25KT 9000 -SHRA OVC015 QNH2953INS TX13/1920Z TN04/1911Z KGTF 191120Z 1912/2012 VRB06KT P6SM FEW070 SCT200= KWMC 191120Z 1912/2012 VRB04KT P6SM SKC KGTR 191127Z 1912/2012 01004KT P6SM FEW250 FM201000 33004KT P6SM VCSH OVC050 KGUC 191120Z 1912/2012 VRB03KT P6SM BKN014 FM191400 VRB03KT P6SM FEW030 FM192100 16006KT P6SM SKC FM200100 13005KT P6SM SKC KGUP 191138Z 1912/2012 VRB03KT P6SM SKC FM191900 04006KT P6SM SKC KGUS 190300Z 1903/2009 VRB06KT 9999 SKC QNH3025INS BECMG 1914/1915 21010G15KT 9999 FEW015 BKN030 QNH3001INS BECMG 1920/1921 21015KT 8000 -RA BR BKN025 OVC030 QNH2992INS BECMG 2000/2001 22012KT 6000 BR OVC020 QNH2995INS TX08/1917Z TN01/1908Z KGUY 191120Z 1912/2012 23009KT P6SM FEW100 FM191400 27007KT P6SM FEW250 FM191500 30009KT P6SM SKC FM191900 35011KT P6SM SKC KGWO 191127Z 1912/2012 04005KT P6SM SCT100 FM200500 35003KT P6SM -RA OVC050 FM201000 35005KT P6SM -RA OVC025 KGYY 191120Z 1912/2012 21010KT P6SM BKN150 FM191400 22013G20KT P6SM BKN100 FM191800 22015G23KT 6SM -SHRA SCT040 OVC060 FM192100 23015G24KT P6SM BKN025 FM200300 28011KT P6SM SKC KHBG 191127Z 1912/2012 02004KT P6SM SCT250 FM201000 32003KT P6SM OVC050 KHCR 191120Z 1912/2012 VRB04KT P6SM BCFG FEW001 FM191500 VRB04KT P6SM SKC FM192000 25006KT P6SM SKC FM200200 VRB03KT P6SM SKC KHDC 191128Z 1912/2012 00000KT P6SM SKC FM200700 00000KT P6SM BKN090 FM200900 00000KT 5SM BR BKN010 FM201000 00000KT 3SM BR BKN010 KHDN 191120Z 1912/2012 10006KT P6SM SKC FM192100 29005KT P6SM SKC FM201100 10005KT P6SM SKC KHIB 191126Z 1912/2012 25008KT P6SM SKC WS020/25035KT FM191330 28011G19KT P6SM BKN200 FM191700 31016G28KT P6SM SCT140 FM200100 31013G22KT P6SM VCSH BKN050 FM200600 31011G19KT P6SM VCSH SCT035 BKN060 KHIE 191120Z 1912/2012 00000KT P6SM SCT040 OVC060 FM191400 25006KT P6SM SCT080 FM200000 00000KT P6SM SCT120 BKN200 KHIO 191129Z 1912/2012 00000KT 1SM BR VV002 FM191600 00000KT P6SM SCT250 FM192200 35004KT P6SM SCT250 FM200200 00000KT P6SM SKC KHKS 191127Z 1912/2012 05004KT P6SM SCT250 FM201000 32005KT P6SM VCSH OVC050 KHKY 191131Z 1912/2012 00000KT 1/4SM FG VV001 TEMPO 1912/1913 4SM BR SCT001 FM191300 00000KT 2SM BR SCT003 FM191400 19004KT P6SM SKC FM192000 20007KT P6SM FEW200 FM201000 23004KT 5SM BR OVC050 PROB30 2010/2012 4SM -SHRA BR OVC015 KHLG 191121Z 1912/2012 20010KT P6SM BKN200 FM200200 24010G20KT 4SM -RA OVC040 FM200500 24010G20KT P6SM VCSH SCT008 OVC015 KHLN 191120Z 1912/2012 VRB06KT P6SM FEW070 SCT200 KHMN 191047Z 1910/2015 VRB06KT 9999 OVC030 QNH3023INS BECMG 1913/1914 VRB06KT 9999 OVC040 QNH3025INS BECMG 1916/1917 30009KT 9999 BKN030 QNH3020INS BECMG 1921/1922 29009KT 9999 SCT060 QNH3019INS BECMG 2001/2002 VRB06KT 9999 SCT050 QNH3021INS BECMG 2010/2011 VRB06KT 9999 FEW050 SCT080 QNH3018INS TX17/1922Z TN08/1912Z KHNB 191120Z 1912/2012 00000KT P6SM SCT250 FM191500 21008KT P6SM BKN100 FM192100 23009KT 6SM -RA OVC050 FM200000 24010KT 5SM -RA BR OVC015 FM200400 25009KT P6SM OVC012 KHND 191133Z 1912/2012 15005KT P6SM SKC FM191600 01010KT P6SM SKC FM191900 02013G22KT P6SM SKC FM200200 05011KT P6SM SKC KHOB 191135Z 1912/2012 VRB05KT P6SM BKN008 OVC010 TEMPO 1912/1916 3SM BR BKN004 FM191600 28006KT P6SM SCT008 BKN015 FM191900 30006KT P6SM SCT015 BKN030 FM192200 VRB04KT P6SM BKN050 KHON 191120Z 1912/2012 22005KT P6SM SKC FM191400 32012G18KT P6SM SKC FM191700 34016G28KT P6SM SKC FM200100 31010KT P6SM SKC KHOP 190800Z 1908/2014 VRB06KT 9999 FEW200 QNH3014INS BECMG 1917/1918 24009KT 9999 FEW090 SCT120 QNH3008INS BECMG 1920/1921 25009KT 9999 FEW060 BKN070 QNH3008INS BECMG 1923/1924 28006KT 8000 -SHRA BKN015 OVC040 QNH3005INS BECMG 2008/2009 28006KT 8000 BR BKN015 QNH3005INS BECMG 2013/2014 30010G15KT 9999 NSW SCT015 QNH3010INS TX20/1920Z TN05/1910Z KHOT 191137Z 1912/2012 00000KT P6SM FEW080 BKN120 FM191700 19005KT P6SM VCSH SCT020 OVC060 FM192100 29003KT 4SM -SHRA BR SCT015 OVC030 TEMPO 1923/2003 3SM RA BR SCT005 BKN015 FM201000 VRB02KT 4SM BR FEW015 OVC030 KHOU 191123Z 1912/2012 05006KT P6SM SCT025 BKN050 FM191500 07008KT P6SM VCSH SCT025 OVC150 FM191800 10010KT P6SM VCSH BKN025 FM200300 02005KT P6SM VCSH BKN025 FM200500 01004KT 6SM BR SCT010 OVC020 KHPN 191120Z 1912/2012 VRB03KT P6SM SKC FM191300 26007KT P6SM SKC FM191700 24011G17KT P6SM SCT250 FM192300 22007KT P6SM BKN200 FM200500 21007KT P6SM VCSH SCT040 BKN070 OVC120 FM200900 22009KT 6SM -SHRA BR SCT030 BKN040 NOT SKED KHQM 191129Z 1912/2012 04004KT 3SM BR OVC002 TEMPO 1912/1916 1/4SM FG VV002 FM191800 11006KT 4SM BR OVC005 FM192100 22007KT P6SM FEW005 SCT250 FM200800 VRB05KT 3SM BR OVC005 KHRL 191139Z 1912/2012 31010KT 3SM BR OVC002 FM191500 31012KT 4SM BR OVC003 FM191700 31009KT P6SM OVC007 FM191900 31010KT P6SM OVC015 FM200000 31007KT P6SM OVC050 FM200300 32007KT P6SM OVC015 FM200500 30007KT 6SM BR OVC007 KHRO 191137Z 1912/2012 16005KT P6SM SCT060 OVC120 FM191400 20007KT 4SM -SHRA BR SCT010 OVC025 TEMPO 1918/1922 3SM RA BR SCT005 OVC010 FM200500 26005KT 4SM BR FEW015 OVC030 KHRT 190900Z 1909/2015 06006KT 9999 FEW250 QNH3015INS BECMG 1915/1916 VRB06KT 9999 FEW020 BKN035 QNH3010INS BECMG 1920/1921 18006KT 9999 FEW020 QNH3006INS BECMG 2008/2009 23005KT 8000 BR SKC QNH3006INS TX27/1919Z TN18/1912Z KHST 190800Z 1908/2014 07009KT 9999 SCT035 QNH3006INS BECMG 1914/1915 09010G15KT 9999 FEW040 QNH3004INS BECMG 1919/1920 08009KT 9999 SCT040 QNH3002INS TX30/1918Z TN25/1912Z KHSV 191131Z 1912/2012 VRB03KT P6SM SCT150 SCT250 FM191400 20007KT P6SM SCT120 SCT250 FM200100 VRB03KT P6SM OVC050 FM200900 31006KT P6SM -RA SCT025 OVC050 KHTS 191220Z 1912/2012 19005KT P6SM FEW250 FM200200 24006KT 6SM SHRA OVC030 FM200600 25006G16KT 3SM SHRA OVC011 KHUF 191120Z 1912/2012 17005KT P6SM FEW250 FM191500 20008KT P6SM BKN200 FM192100 22011KT 6SM -SHRA OVC050 FM192300 22011KT P6SM VCSH OVC030 FM200100 23011KT P6SM OVC015 FM200700 26009KT P6SM BKN040 FM201100 29007KT P6SM SCT250 KHUL 191120Z 1912/2012 25004KT P6SM OVC080 FM191500 21008G16KT P6SM OVC050 FM192200 19008KT P6SM BKN070 FM200500 18006KT P6SM BKN090 KHUM 191128Z 1912/2012 04004KT P6SM SKC FM191700 12007KT P6SM FEW035 SCT250 FM200200 00000KT P6SM BKN030 BKN100 FM200700 00000KT 4SM BR BKN100 FM201000 00000KT 2SM BR BKN008 KHUT 191126Z 1912/2012 19015KT P6SM -SHRA OVC006 FM191400 20015KT P6SM SCT006 BKN015 FM191700 24015KT P6SM FEW015 FM192000 28010KT P6SM FEW250 KHVR 191120Z 1912/2012 VRB06KT P6SM FEW070 SCT200 KHYA 191120Z 1912/2012 26010KT P6SM SKC FM191500 24015G22KT P6SM SKC FM200400 22017G36KT P6SM BKN100 FM200800 22017G40KT P6SM -RA OVC040 KHYR 191126Z 1912/2012 21013G21KT P6SM SKC WS020/23040KT FM191400 23014G25KT P6SM BKN030 FM191700 27012G23KT P6SM BKN150 FM200300 30010KT P6SM SCT100 FM200500 30010G18KT P6SM VCSH SCT040 BKN100 KHYS 191120Z 1912/2012 22010KT P6SM BKN020 FM191300 23010KT P6SM SCT250 FM191600 27011KT P6SM FEW250 FM192000 34014G22KT P6SM FEW250 FM200500 35006KT P6SM FEW250 KIAB 191033Z 1910/2016 23009KT 9000 -SHRA BKN008 OVC015 QNH3019INS BECMG 1912/1913 22009KT 9999 NSW SCT006 OVC010 QNH3016INS BECMG 1917/1918 23012G20KT 9999 FEW020 SCT120 QNH3012INS BECMG 1921/1922 27009KT 9999 SKC QNH3008INS BECMG 2005/2006 35012KT 9999 SKC QNH3020INS BECMG 2008/2009 33009KT 9999 SKC QNH3026INS TX17/1922Z TN06/2010Z KIAD 191120Z 1912/2018 VRB03KT P6SM SKC FM191600 20011KT P6SM SKC FM200000 21008KT P6SM OVC150 FM200600 21008KT P6SM -SHRA OVC040 FM201100 22007KT P6SM -SHRA BKN040 FM201200 23006KT P6SM BKN040 FM201700 27009KT P6SM BKN045 KIAG 191130Z 1912/2012 23014G26KT P6SM FEW250 FM192300 22014G25KT P6SM OVC110 FM200200 22017G30KT P6SM OVC070 FM200300 22019G32KT P6SM OVC025 FM200600 23021G32KT P6SM VCSH OVC015 KIAH 191123Z 1912/2018 07005KT P6SM SCT050 FM191800 07008KT P6SM BKN025 OVC150 FM192000 10008KT P6SM VCSH BKN025 FM192200 02006KT P6SM VCSH BKN025 FM200500 01007KT 6SM BR SCT010 OVC020 FM201500 01004KT P6SM SCT025 BKN035 KICT 191126Z 1912/2012 20015KT P6SM -SHRA BKN012 FM191400 22010KT P6SM BKN010 FM191900 24010KT P6SM FEW010 FM192200 27009KT P6SM FEW250 KIDA 191120Z 1912/2012 VRB04KT P6SM FEW100 FEW160 FM191800 25006KT P6SM SKC FM200000 VRB03KT P6SM SKC FM200400 35005KT P6SM SKC KIFP 191133Z 1912/2012 36012KT P6SM SKC FM191600 36020G29KT P6SM SKC FM200300 03012KT P6SM SKC KILG 191133Z 1912/2012 VRB03KT P6SM SKC FM191400 22005KT P6SM SCT250 FM192100 21012KT P6SM SCT250 FM200100 20006KT P6SM BKN200 FM200500 VRB04KT P6SM -SHRA BKN080 KILM 191120Z 1912/2012 04007KT P6SM SKC FM191800 12006KT P6SM SCT035 FM200000 16003KT P6SM SCT035 SCT150 FM200900 23002KT P6SM BKN025 KILN 191134Z 1912/2012 20005KT P6SM BKN250 FM191500 20012KT P6SM BKN200 FM192200 23013G21KT P6SM VCSH BKN070 FM200000 24013G21KT P6SM -SHRA OVC025 FM200300 24013G21KT P6SM -SHRA OVC015 FM200400 24013G21KT P6SM VCSH OVC015 FM200800 26011G19KT P6SM VCSH OVC008 KIND 191120Z 1912/2018 VRB04KT P6SM SCT200 FM192100 22011KT P6SM VCSH OVC060 FM200200 24012KT P6SM OVC015 FM200900 27009KT P6SM BKN030 FM201000 27009KT P6SM SCT200 KINK 191135Z 1912/2012 34005KT P6SM SCT015 BKN030 TEMPO 1912/1916 5SM BR BKN015 FM192200 30005KT P6SM SCT030 BKN050 KINL 191126Z 1912/2012 29010KT P6SM BKN200 FM191430 31014G24KT P6SM BKN100 FM192000 30017G27KT P6SM OVC050 FM200000 30014G26KT P6SM VCSH OVC040 FM200800 32012G22KT P6SM SCT030 BKN035 KINS 190701Z 1907/2013 VRB05KT 9999 SKC QNH3011INS BECMG 1917/1918 03010G15KT 9999 SKC QNH3013INS TEMPO 1919/1921 03012G20KT 510009 BECMG 2001/2002 VRB05KT 9999 SKC QNH3016INS TX24/1923Z TN05/1913Z KINT 191123Z 1912/2012 00000KT P6SM FEW250 FM191600 18006KT P6SM SKC FM191900 20010G16KT P6SM SKC FM192300 20007KT P6SM FEW250 FM200500 21006KT P6SM -RA OVC090 KINW 191120Z 1912/2012 VRB06KT P6SM BKN050 FM191500 VRB06KT P6SM SKC KIPL 191135Z 1912/2012 28006KT P6SM SKC FM191700 35010KT P6SM FEW080 FM200200 28005KT P6SM FEW080 KIPT 191215Z 1912/2012 00000KT P6SM VCFG SCT002 FM191300 VRB03KT P6SM SKC FM191800 14008KT P6SM SCT250 FM200500 23010KT P6SM BKN070 WS020/24035KT FM200700 24013G20KT P6SM -SHRA OVC025 WS020/25035KT KISM 191132Z 1912/2012 03003KT P6SM FEW020 FM191500 08007KT P6SM SCT040 FM200400 VRB02KT P6SM SCT250 KISN 191137Z 1912/2012 33013G19KT P6SM FEW250 FM191700 31018G28KT P6SM FEW250 FM200000 33013G21KT P6SM SKC FM201000 32008KT P6SM SKC KISO 191120Z 1912/2012 VRB03KT P6SM SKC FM200200 VRB03KT P6SM BKN035 FM200500 00000KT P6SM VCSH BKN025 LTD TO CLD VIS AND WIND KISP 191120Z 1912/2012 VRB04KT P6SM SKC FM191300 25008KT P6SM SKC FM191600 24013G22KT P6SM SKC FM192300 22011G20KT P6SM SCT250 FM200700 21012G22KT P6SM VCSH SCT040 BKN080 OVC120 FM201000 21013G24KT 6SM -SHRA BR SCT030 BKN040 KITH 191120Z 1912/2012 19007KT P6SM SKC WS015/28030KT FM191400 20009G15KT P6SM SKC FM192300 20011KT P6SM BKN150 FM200900 22012KT P6SM OVC030 KIWA 191135Z 1912/2012 08005KT P6SM SKC WS015/09025KT FM191600 08010KT P6SM FEW080 FM192300 35007KT P6SM SCT080 FM200500 07007KT P6SM BKN080 FM200900 05007KT P6SM BKN080 WS015/11025KT LTD TO CLD VIS AND WIND TIL 191300 KIWD 191130Z 1912/2012 21017G24KT P6SM VCSH SCT100 WS010/23035KT FM191400 23014G22KT P6SM VCSH BKN070 FM191600 24014G22KT P6SM BKN045 FM191900 27013G21KT P6SM VCSH BKN040 FM200000 30014G22KT P6SM BKN040 KIXD 191120Z 1912/2012 20010KT P6SM VCSH OVC035 FM191500 22014KT P6SM BKN018 OVC030 FM192000 23012KT P6SM SCT035 FM200000 28010KT P6SM SKC KJAC 191123Z 1912/2012 01007KT P6SM SCT200 FM191400 VRB04KT P6SM SKC FM200300 36006KT P6SM SKC LTD TO CLD VIS AND WIND KJAN 191127Z 1912/2012 05004KT P6SM SCT250 FM201000 32005KT P6SM VCSH OVC050 KJAX 191120Z 1912/2012 02006KT P6SM SCT015 BKN050 FM191400 05008KT P6SM VCSH SCT015 BKN030 BKN050 FM191700 06008KT P6SM VCSH SCT025 BKN050 KJBR 191130Z 1912/2012 VRB03KT P6SM SCT150 FM191800 25006KT P6SM BKN060 FM192100 27005KT P6SM VCSH BKN050 OVC120 FM200100 29004KT 4SM -RA BR OVC020 KJCT 191134Z 1912/2012 04006KT 2SM BR VCSH OVC004 FM200000 03004KT 3SM BR VCSH OVC006 NOT SKED KJER 191126Z 1912/2012 10007KT P6SM SKC FM191700 VRB05KT P6SM SKC FM200400 10006KT P6SM SKC KJFK 191120Z 1912/2018 26009KT P6SM SKC FM191500 24013G19KT P6SM SKC FM191800 22014G23KT P6SM SCT250 FM200000 22015G24KT P6SM BKN200 FM200500 22015G24KT P6SM VCSH SCT040 BKN080 OVC120 FM200900 22016G27KT 6SM -SHRA BR SCT030 BKN040 FM201300 24016G23KT P6SM BKN040 KJHW 191130Z 1912/2012 21010G17KT P6SM FEW250 FM192200 21011KT P6SM BKN150 FM200300 22015G21KT P6SM OVC060 FM200500 22016KT P6SM OVC045 FM200700 23017KT P6SM SCT007 OVC015 FM201000 24014G20KT P6SM VCSH SCT007 OVC015 KJKL 191120Z 1912/2012 00000KT P6SM SKC FM191700 23005KT P6SM FEW250 FM200200 VRB04KT 6SM BR VCSH BKN025 OVC035 FM200300 26005KT 5SM -SHRA OVC010 FM200600 26005KT P6SM VCSH OVC008 KJLN 191239Z 1913/2012 20006KT 3SM -RA BR OVC010 FM191430 20009KT P6SM OVC010 TEMPO 1918/1920 4SM -SHRA BR OVC009 FM192000 21008KT P6SM VCSH OVC008 FM192300 22007KT P6SM BKN012 FM200400 23006KT P6SM BKN008 BKN030 FM200800 29005KT P6SM SCT040 SCT110 KJMS 191137Z 1912/2012 32013G21KT P6SM SCT150 FM191700 32022G35KT P6SM SCT250 FM200000 31016G26KT P6SM FEW250 FM200300 31013G19KT P6SM FEW200 KJST 191151Z 1912/2012 22007KT P6SM SKC FM191700 22011KT P6SM SCT250 FM200200 23013G21KT P6SM BKN070 WS020/24040KT FM200400 24015G23KT P6SM -SHRA OVC025 WS020/25040KT FM200600 25015G23KT P6SM -RA OVC015 WS020/26040KT KJXN 191140Z 1912/2012 23010KT P6SM SKC FM192000 23015G21KT P6SM VCSH BKN080 FM200100 22016G23KT 6SM -SHRA BR BKN025 FM200300 23016KT P6SM VCSH OVC015 FM200500 26015KT P6SM VCSH BKN030 FM200600 27014KT P6SM SCT030 KLAF 191120Z 1912/2012 20005KT P6SM SCT250 FM191700 22012G20KT P6SM BKN110 FM200000 23012G22KT P6SM OVC030 FM200600 26010KT P6SM BKN060 FM200900 29009KT P6SM FEW250 LTD TO CLD VIS AND WIND TIL 191300 KLAL 191141Z 1912/2012 VRB03KT P6SM FEW250 TEMPO 1912/1914 6SM BR FM191400 07006KT P6SM FEW020 SCT250 FM192000 09006KT P6SM SCT050 BKN250 FM200200 VRB03KT P6SM FEW250 KLAN 191140Z 1912/2012 21010KT P6SM SKC FM191900 23014KT P6SM BKN100 FM192000 23013G21KT P6SM VCSH BKN070 FM192300 22015G25KT 6SM BR VCSH OVC030 FM200200 23016G23KT P6SM VCSH OVC015 FM200400 24015KT P6SM VCSH BKN020 FM200600 27012KT P6SM SCT025 KLAR 191120Z 1912/2012 12006KT P6SM SKC FM191600 34009KT P6SM FEW080 KLAS 191133Z 1912/2018 30005KT P6SM SKC FM191700 01010KT P6SM SKC FM191900 03013G21KT P6SM SKC FM200200 02010KT P6SM SKC FM200900 34007KT P6SM SKC FM201200 VRB05KT P6SM SKC FM201700 03006KT P6SM SKC KLAW 191120Z 1912/2012 15005KT 6SM -RA SCT005 OVC022 TEMPO 1912/1915 BKN005 OVC022 FM191700 19007KT 6SM -DZ BR OVC015 FM192100 21005KT P6SM BKN050 FM200300 01003KT P6SM BKN250 KLAX 191123Z 1912/2018 04005KT P6SM SKC FM191800 26006KT P6SM SKC FM192000 25012KT P6SM SKC FM200300 26006KT P6SM SKC FM200900 VRB03KT P6SM SKC KLBB 191120Z 1912/2012 26004KT P6SM -DZ BKN005 OVC010 FM191500 29005KT P6SM BKN012 OVC030 FM191800 33006KT P6SM BKN090 KLBE 191121Z 1912/2012 00000KT P6SM FEW250 FM191400 22008KT P6SM BKN200 FM200300 24010G20KT 3SM -RA OVC035 FM200600 24012G22KT 5SM -RA OVC015 KLBF 191120Z 1912/2012 27006KT P6SM SKC FM191400 30010KT P6SM SKC FM191600 33016G24KT P6SM SKC FM192300 34009KT P6SM SKC FM200300 VRB04KT P6SM SKC KLBL 191120Z 1912/2012 23011KT P6SM SCT250 FM191400 27011KT P6SM SCT250 FM191600 31012KT P6SM SKC FM191800 34013G20KT P6SM SKC FM201100 33006KT P6SM SKC KLBT 191120Z 1912/2012 06003KT P6SM SKC FM191800 18003KT P6SM SCT030 FM200900 23002KT 6SM BR BKN120 KLBX 191123Z 1912/2012 03008KT P6SM VCSH SCT025 TEMPO 1912/1914 07012KT 4SM RA OVC025 FM191400 06008KT P6SM -RA OVC025 FM191800 10010KT P6SM VCTS BKN030CB FM200100 06006KT P6SM VCSH OVC020 FM200500 VRB04KT 5SM BR VCSH SCT010 OVC020 KLCH 191129Z 1912/2012 07008KT P6SM SCT050 BKN250 FM191700 10010KT P6SM VCSH SCT040 BKN250 FM192000 14008KT P6SM VCSH SCT040 BKN250 FM200000 VRB05KT P6SM VCSH BKN040 KLCK 191134Z 1912/2012 18005KT P6SM BKN250 FM191800 20011KT P6SM BKN250 FM192300 22011G19KT P6SM VCSH BKN070 FM200100 23011G19KT P6SM -SHRA OVC025 FM200500 25011G19KT P6SM VCSH OVC015 FM201100 27010G18KT P6SM BKN008 KLEB 191120Z 1912/2012 VRB03KT P6SM SCT250 FM191400 21007KT P6SM SCT120 FM200000 19005KT P6SM SCT120 BKN250 KLEE 191132Z 1912/2012 05005KT P6SM SKC FM191400 07006KT P6SM SCT040 FM200400 VRB02KT P6SM SCT250 KLEX 191120Z 1912/2012 15005KT P6SM FEW250 FM191600 22010KT P6SM BKN100 FM200000 24011KT 6SM -RA BR OVC050 FM200400 25012KT 5SM -RA BR OVC015 FM200600 26011KT P6SM OVC008 KLFI 190900Z 1909/2015 VRB06KT 9999 SKC QNH3013INS BECMG 1922/1923 21015KT 9999 BKN025 QNH3008INS BECMG 2003/2004 23012KT 8000 -RA OVC020 QNH2991INS BECMG 2012/2013 25012KT 6000 -RA BR OVC005 QNH2988INS TX18/1921Z TN03/1912Z KLFK 191149Z 1912/2012 06004KT P6SM VCSH FEW045 BKN060 TEMPO 1920/1924 5SM -SHRA BR OVC030 FM200000 35004KT P6SM OVC015 FM200300 36003KT P6SM OVC050 FM200600 01002KT 6SM BR OVC025 FM200900 34003KT 4SM BR OVC007 KLFT 191129Z 1912/2012 VRB05KT P6SM SCT050 SCT250 FM191700 13007KT P6SM VCSH SCT040 BKN250 FM192000 16008KT P6SM VCSH SCT040 BKN250 FM200000 VRB03KT P6SM VCSH BKN040 KLGA 191120Z 1912/2018 26008KT P6SM SKC FM191600 23011G18KT P6SM SKC FM191900 22012G20KT P6SM SCT250 FM200000 22011G18KT P6SM BKN200 FM200500 22014G22KT P6SM VCSH SCT040 BKN080 OVC120 FM200900 22016G25KT 6SM -SHRA BR SCT030 BKN040 FM201300 24016G23KT P6SM BKN040 KLGB 191123Z 1912/2012 VRB03KT P6SM SKC FM191600 03007KT P6SM SKC FM192000 16007KT P6SM SKC FM192300 30010KT P6SM SKC FM200300 VRB03KT P6SM SKC KLGU 191120Z 1912/2012 VRB04KT P6SM SKC KLIT 191137Z 1912/2012 VRB04KT P6SM SCT100 BKN120 FM192200 25005KT 5SM -SHRA BR SCT015 OVC030 TEMPO 1923/2003 3SM RA BR SCT005 BKN015 FM201100 32003KT 5SM BR FEW010 OVC030 KLLQ 191137Z 1912/2012 03004KT P6SM FEW100 BKN150 FM192100 24005KT P6SM VCSH SCT030 OVC060 FM200000 32003KT 5SM -SHRA BR SCT040 OVC060 TEMPO 2008/2012 4SM RA BR SCT005 BKN015 KLMT 191120Z 1912/2012 VRB03KT P6SM SKC KLND 191123Z 1912/2012 VRB05KT P6SM SKC FM200100 25006KT P6SM SKC FM200700 VRB05KT P6SM SKC KLNK 191120Z 1912/2012 20010KT P6SM OVC035 FM191500 24014KT P6SM SCT120 FM191800 27013G20KT P6SM FEW250 FM192000 31015G24KT P6SM SKC FM192300 34012KT P6SM SKC FM200200 32006KT P6SM SKC KLNS 191151Z 1912/2012 VRB02KT P6SM SKC FM191600 20006KT P6SM SKC FM192100 18008KT P6SM SCT250 FM200400 21010KT P6SM BKN070 WS020/24035KT FM200700 24013G20KT P6SM -SHRA OVC040 WS020/25035KT KLOZ 191120Z 1912/2012 00000KT P6SM SKC FM191600 21005KT P6SM FEW250 FM200200 23005KT P6SM VCSH BKN025 OVC060 FM200300 26006KT 5SM -SHRA BKN008 OVC015 FM200600 26005KT P6SM VCSH OVC008 KLRD 191140Z 1912/2012 31009KT 4SM -RA BR OVC005 FM191600 33008KT 6SM -RA BR OVC010 FM200000 34006KT P6SM OVC007 KLRF 190700Z 1907/2013 36006KT 9999 SCT060 SCT100 BKN200 QNH3024INS BECMG 1914/1915 06009KT 9999 BKN040 BKN100 OVC200 QNH3019INS BECMG 1922/1923 27006KT 8000 -SHRA BKN030 OVC100 QNH3014INS BECMG 2002/2003 27006KT 9999 NSW BKN010 OVC030 QNH3018INS BECMG 2008/2009 30009KT 4800 BR BKN020 QNH3021INS TX17/1921Z TN08/1910Z KLRU 191132Z 1912/2012 01003KT P6SM FEW030 BKN050 OVC080 FM191600 04005KT P6SM FEW020 SCT050 BKN070 FM192100 07005KT P6SM FEW040 SCT070 BKN110 FM200600 10007KT P6SM SCT040 BKN100 KLSE 191240Z 1913/2012 20010G18KT P6SM -RA SCT035 BKN070 FM191700 24013G24KT P6SM SCT025 BKN035 FM192100 28014G24KT P6SM SCT050 FM200200 30011KT P6SM SKC WS020/32044KT FM201000 30011KT P6SM BKN080 WS020/32041KT KLSF 190908Z 1909/2015 VRB06KT 9999 BKN025 WS015/16025KT QNH3025INS TEMPO 1909/1912 BKN015 BECMG 1911/1912 04006KT 9999 BKN025 QNH3025INS BECMG 2008/2009 18009KT 9999 BKN020 QNH3004INS TEMPO 2009/2012 8000 -SHRA BKN015 BECMG 2014/2015 27012KT 9999 SCT030 QNH3005INS TX24/1920Z TN15/1909Z KLSV 190703Z 1907/2013 03009KT 9999 SKC QNH3008INS BECMG 1912/1913 03010G15KT 9999 SKC QNH3006INS TEMPO 1915/1922 04015G20KT 510005 BECMG 2001/2002 01009KT 9999 SKC QNH3008INS TX26/1923Z TN12/1913Z KLTS 190414Z 1904/2007 VRB05KT 9000 -DZ SCT007 OVC030 QNH3031INS TEMPO 1902/1906 VRB05KT 8000 BKN005 BECMG 1904/1905 14003KT 8000 RA BKN010 OVC020 QNH3025INS BECMG 1921/1922 21006KT 9000 -DZ SCT070 BKN100 QNH3013INS BECMG 2001/2002 25003KT 9999 NSW SCT150 SCT220 QNH3012INS BECMG 2006/2007 35005KT 9999 SCT250 QNH3018INS 190414 LAST NO AMDS AFT 1904 NEXT 2209 TX16/1921Z TN11/2001Z KLUF 191202Z 1912/2018 35009KT 9999 SKC QNH2999INS BECMG 1917/1918 09012KT 9999 SKC QNH2990INS BECMG 2002/2003 VRB06KT 9999 SKC QNH2993INS TX29/1922Z TN12/1914Z KLUK 191134Z 1912/2012 00000KT 1/4SM FG VV002 TEMPO 1912/1913 3SM BR SCT002 BKN250 FM191300 21005KT P6SM BKN200 FM191800 21008KT P6SM BKN150 FM192100 22010KT P6SM BKN070 FM192200 23010KT P6SM VCSH BKN060 FM200000 24011G19KT P6SM -SHRA OVC050 FM200300 24011G19KT P6SM VCSH SCT008 OVC015 FM201100 27010KT P6SM OVC008 KLVK 191132Z 1912/2012 VRB03KT P6SM SKC FM192100 29008KT P6SM SKC FM200400 VRB03KT P6SM SKC KLVM 191127Z 1912/2012 30010KT P6SM FEW100 SCT200 FM191800 27010G20KT P6SM FEW100 SCT200 FM200300 30008KT P6SM SKC KLVS 191138Z 1912/2012 03008KT P6SM SCT200 FM192000 06011KT P6SM SKC FM200300 01006KT P6SM SKC KLWB 191124Z 1912/2012 00000KT P6SM SKC FM191400 23005KT P6SM SKC FM192300 23007KT P6SM BKN090 FM200200 VRB03KT P6SM VCSH OVC050 FM200500 26005KT 4SM -SHRA OVC035 KLWS 191129Z 1912/2012 VRB03KT P6SM FEW250 KLWT 191120Z 1912/2012 VRB06KT P6SM FEW070 SCT200 KLYH 191124Z 1912/2012 00000KT P6SM SKC FM191600 20005KT P6SM SKC FM200400 VRB04KT P6SM BKN100 FM200700 22007KT 6SM -SHRA OVC040 KMAF 191135Z 1912/2012 VRB05KT P6SM BKN008 OVC025 TEMPO 1912/1916 2SM BR BKN004 FM191900 33006KT P6SM BKN010 OVC030 FM200300 30005KT P6SM SCT030 BKN050 KMBG 191120Z 1912/2012 33011KT P6SM SCT200 FM191500 33017G25KT P6SM SKC FM200000 32007KT P6SM SKC KMBL 191132Z 1912/2012 21010KT P6SM FEW120 BKN250 WS020/25040KT FM191400 22013G24KT P6SM BKN120 FM191700 22016G28KT 6SM -SHRA BR BKN025 OVC080 FM200100 25013G25KT P6SM VCSH OVC040 FM200300 30011G23KT P6SM BKN045 KMBS 191120Z 1912/2012 22009KT P6SM SCT150 FM191400 22012KT P6SM OVC100 FM191600 23014G22KT P6SM OVC100 FM192100 22012G18KT P6SM OVC050 PROB30 1921/2003 P6SM -RA OVC030 FM200300 23012KT P6SM OVC025 FM200800 27011KT P6SM BKN035 KMCB 191128Z 1912/2012 06003KT P6SM SKC FM200000 00000KT P6SM BKN040 BKN250 FM201000 00000KT 4SM BR BKN100 KMCC 191120Z 1912/2012 VRB04KT P6SM SKC FM191900 32005KT P6SM FEW250 KMCE 191120Z 1912/2012 VRB03KT P6SM SKC KMCF 190800Z 1908/2014 07009KT 9999 FEW015 QNH3014INS BECMG 1914/1915 08009KT 9999 FEW025 QNH3005INS BECMG 2002/2003 07006KT 9999 BKN025 QNH3006INS BECMG 2011/2012 10009KT 9999 FEW040 QNH3003INS TX33/1920Z TN23/1912Z KMCI 191120Z 1912/2012 20010KT P6SM OVC035 FM191600 22014KT P6SM BKN018 OVC030 FM192000 24012KT P6SM SCT035 FM200000 28010KT P6SM SKC KMCK 191135Z 1912/2012 26007KT P6SM FEW250 FM191500 30011G21KT P6SM SKC FM191700 33014G23KT P6SM SKC FM200100 34006KT P6SM SKC FM200600 28005KT P6SM SKC KMCN 191139Z 1912/2012 06004KT P6SM BKN025 FM191600 08006KT P6SM BKN035 FM200300 21003KT P6SM BKN025 KMCO 191132Z 1912/2018 36005KT P6SM FEW017 FEW090 FM191500 07008KT P6SM SCT030 BKN060 FM200300 VRB02KT P6SM SCT250 FM201400 24005KT P6SM SCT040 KMCW 191206Z 1912/2012 21011KT 6SM RA OVC035 FM191500 24018G25KT P6SM VCSH SCT035 BKN110 FM191700 26017G25KT P6SM SCT025 FM191900 28020G32KT P6SM SCT150 FM192300 31016KT P6SM SCT200 FM200400 29009KT P6SM SKC KMDT 191151Z 1912/2012 VRB02KT P6SM SKC FM191600 20006KT P6SM SKC FM192100 18008KT P6SM SCT250 FM200400 21010KT P6SM BKN070 WS020/24035KT FM200700 24013G20KT P6SM -SHRA OVC040 WS020/25035KT KMDW 191120Z 1912/2018 22011KT P6SM BKN150 FM191400 22013G20KT P6SM BKN100 FM191800 22015G23KT 6SM -SHRA SCT040 OVC060 FM192100 23015G24KT P6SM BKN025 FM200200 29011KT P6SM SKC FM201400 29015G25KT P6SM BKN060 FM201600 32020G32KT P6SM VCSH SCT030 OVC060 KMEI 191127Z 1912/2012 02004KT P6SM SKC FM201000 32003KT P6SM VCSH OVC050 KMEM 191130Z 1912/2018 VRB03KT P6SM BKN100 FM191900 27006KT P6SM BKN060 FM200000 30005KT P6SM VCSH BKN050 FM200300 31003KT 5SM -RA OVC030 FM201500 33005KT P6SM SCT035 KMER 191120Z 1912/2012 VRB03KT P6SM SKC KMFD 191244Z 1913/2012 21005KT P6SM SCT250 FM191800 21015G25KT P6SM BKN150 FM200300 23015G25KT P6SM VCSH BKN030 FM200500 24015G25KT P6SM VCSH BKN015 FM200900 26010G20KT P6SM VCSH BKN020 KMFE 191120Z 1912/2012 30006KT 4SM BR OVC006 FM191500 32007KT P6SM OVC007 FM191900 32006KT P6SM OVC015 FM200500 30006KT 6SM BR OVC007 KMFR 191120Z 1912/2012 VRB03KT P6SM SKC KMGM 191139Z 1912/2012 08006KT P6SM OVC015 TEMPO 1913/1916 BKN025 FM191600 11007KT P6SM SCT025 BKN050 FM191800 18006KT P6SM SCT035 BKN070 FM200000 00000KT P6SM BKN100 KMGW 191121Z 1912/2012 00000KT P6SM FEW250 FM191400 20005KT P6SM BKN200 FM200200 23008KT 3SM -RA OVC035 FM200400 23010KT 2SM -RA OVC025 FM200900 23010KT 6SM -RA OVC015 KMHK 191120Z 1912/2012 22011KT P6SM SCT015 OVC021 TEMPO 1912/1915 OVC018 FM191700 25013KT P6SM SCT040 FM200000 34003KT P6SM SKC KMHR 191120Z 1912/2012 VRB03KT P6SM SKC FM191900 30005KT P6SM FEW250 NOT SKED KMHT 191120Z 1912/2012 20005KT P6SM SCT100 FM191500 22010KT P6SM SCT120 FM200000 19006KT P6SM SCT120 BKN250 KMIA 191125Z 1912/2018 08008KT P6SM SCT030 SCT250 FM191600 10010KT P6SM SCT030 SCT250 FM200200 VRB05KT P6SM SCT040 SCT250 FM201500 10010KT P6SM SCT030 KMIB 190900Z 1909/2015 32012G18KT 9999 SCT140 510202 QNH2986INS BECMG 1915/1916 32020G30KT 9999 SKC 510003 QNH3005INS TEMPO 1916/1922 32025G35KT BECMG 1922/1924 31012KT 9999 SCT050 510202 QNH3009INS BECMG 2008/2009 34009KT 9999 SKC QNH3030INS TX12/1921Z TN01/2009Z KMIV 191133Z 1912/2012 VRB03KT P6SM SKC FM191400 24005KT P6SM SCT250 FM192200 21011KT P6SM SCT250 FM200600 22007KT P6SM -SHRA OVC120 FM201100 23007KT P6SM OVC060 KMKC 191120Z 1912/2012 21010KT P6SM OVC035 FM191500 23014KT P6SM BKN018 OVC030 FM192000 24012KT P6SM SCT035 FM200000 28010KT P6SM SKC KMKE 191120Z 1912/2018 23011G18KT P6SM BKN200 FM191500 22015G25KT P6SM BKN110 FM191700 22015G28KT 6SM -SHRA BR OVC070 FM192100 23016G30KT P6SM VCSH OVC020 FM200200 27012G19KT P6SM SCT150 FM201400 30015G24KT P6SM BKN050 KMKG 191140Z 1912/2012 22012KT P6SM SKC FM191900 22022G31KT P6SM VCSH OVC070 FM192200 22022G32KT 6SM SHRA BR OVC030 FM192300 23024G34KT 6SM SHRA BR OVC015 FM200300 28019G28KT P6SM VCSH BKN035 FM200600 30017G25KT P6SM SCT035 KMKL 191130Z 1912/2012 VRB04KT P6SM BKN120 FM192000 28006KT P6SM BKN060 FM192300 28005KT P6SM VCSH BKN050 FM200300 27004KT 5SM -RA OVC025 KMKT 191120Z 1912/2012 22014G23KT P6SM FEW070 SCT200 FM191600 26016G24KT P6SM FEW200 FM191800 30022G34KT P6SM SKC FM200100 30010KT P6SM SKC FM200900 31015G20KT P6SM SKC KMLB 191132Z 1912/2012 VRB05KT P6SM VCSH FEW012 SCT020 BKN060 TEMPO 1912/1916 5SM SHRA BKN025 OVC050 FM191600 09010KT P6SM SCT040 FM200400 VRB02KT P6SM SCT250 KMLC 191124Z 1912/2012 00000KT 6SM -SHRA OVC035 FM191400 16003KT 5SM -RA OVC025 TEMPO 1915/1919 3SM RA BR OVC012 FM191900 20006KT 6SM -SHRA BKN008 BKN012 TEMPO 1919/1922 3SM -SHRA BR BKN006 FM200200 19003KT P6SM VCSH BKN006 BKN012 FM200900 30005KT P6SM BKN015 KMLI 191135Z 1912/2012 20009KT P6SM BKN150 FM191800 22012KT P6SM VCSH OVC025 FM192100 25013KT P6SM OVC020 FM192300 25012KT P6SM BKN035 FM200200 28010KT P6SM SCT250 KMLS 191127Z 1912/2012 29010KT P6SM FEW100 SCT200 FM191800 30010G20KT P6SM FEW100 SCT200 FM200200 30008KT P6SM FEW200 KMLU 191149Z 1912/2012 04005KT P6SM SCT250 FM191500 VRB03KT P6SM BKN180 OVC250 FM192000 34004KT P6SM BKN200 FM200600 32003KT 6SM BR OVC050 FM200900 35006KT 4SM BR OVC015 KMMH 191120Z 1912/2012 VRB04KT P6SM SKC FM192100 10007KT P6SM SKC FM200200 VRB04KT P6SM SKC KMMT 190700Z 1907/2013 05006KT 9999 FEW040 SCT200 QNH3021INS BECMG 1919/1920 09006KT 9999 SCT040 BKN200 QNH3000INS BECMG 2011/2012 18006KT 9000 BR SCT008 QNH2999INS TX21/1917Z TN09/1911Z KMOB 191120Z 1912/2012 04005KT P6SM SCT250 FM191500 09006KT P6SM SCT030 BKN250 FM191800 13005KT P6SM VCSH BKN040 FM200000 16003KT P6SM BKN250 FM200800 VRB02KT 4SM BR BKN003 KMOD 191120Z 1912/2012 VRB04KT P6SM SKC FM191900 32006KT P6SM SKC KMOT 191137Z 1912/2012 30016G24KT P6SM SCT200 FM191600 30021G31KT P6SM FEW250 FM200000 29017G26KT P6SM FEW250 FM200400 33012G19KT P6SM FEW250 KMPV 191120Z 1912/2012 20008KT P6SM FEW140 FM191500 19010G21KT P6SM SCT080 BKN100 FM200700 20011G22KT P6SM VCSH OVC050 KMQY 191135Z 1912/2012 16004KT P6SM SCT250 FM191600 19008G13KT P6SM BKN250 FM192300 27005KT P6SM BKN100 OVC250 FM200200 27004KT 5SM -RA BR SCT025 OVC050 FM200800 28006KT 6SM -SHRA BR OVC020 FM201000 30004KT 6SM -DZ BR OVC007 KMRB 191120Z 1912/2012 VRB03KT P6SM SKC FM191800 18007KT P6SM FEW200 FM200000 20006KT P6SM OVC150 FM200600 22005KT P6SM -SHRA OVC040 KMRY 191132Z 1912/2012 VRB03KT P6SM FEW004 TEMPO 1912/1916 2SM BR BKN003 FM192000 28006KT P6SM SKC FM200400 11003KT P6SM SKC FM201000 00000KT P6SM FEW004 KMSL 191131Z 1912/2012 VRB03KT P6SM SCT250 FM191400 22007KT P6SM SCT100 SCT250 FM200000 VRB03KT P6SM OVC050 FM200700 31006KT P6SM -RA SCT025 OVC050 FM201100 31006KT P6SM SCT007 OVC025 KMSN 191120Z 1912/2012 22010KT P6SM BKN150 WS020/24040KT FM191400 21013G21KT P6SM VCSH OVC100 FM191500 21014G23KT 6SM -SHRA BR OVC080 FM191800 22014G26KT P6SM VCSH OVC040 FM192100 24015G26KT P6SM OVC020 FM200100 28012G18KT P6SM SCT110 KMSO 191120Z 1912/2012 32005KT P6SM VCFG SCT200 FM191500 VRB03KT P6SM SKC KMSP 191120Z 1912/2018 21013G24KT P6SM FEW070 SCT250 FM191700 28022G31KT P6SM FEW250 FM200500 29010KT P6SM FEW250 FM200900 30016G24KT P6SM VCSH SCT035 BKN060 FM201300 33018G28KT P6SM BKN050 KMSS 191120Z 1912/2012 21012KT P6SM SCT200 FM191400 22010G20KT P6SM SCT150 FM200300 21015G29KT P6SM VCSH OVC090 FM200700 21015G28KT 4SM -SHRA BR OVC045 KMSY 191128Z 1912/2018 07005KT P6SM BKN250 FM200000 VRB03KT P6SM SCT030 BKN100 FM200900 00000KT 6SM BR BKN200 FM201200 00000KT 4SM BR BKN008 PROB30 2012/2018 3SM -SHRA BR OVC003 KMTC 190900Z 1909/2015 22009KT 9999 FEW200 QNH3013INS BECMG 1914/1915 22012G18KT 9999 SCT200 510103 QNH2989INS BECMG 1920/1921 23012KT 9999 BKN100 520103 QNH2980INS BECMG 2000/2001 24012G18KT 9000 -SHRA OVC010 520102 QNH2971INS BECMG 2006/2007 27012KT 9999 NSW BKN020 QNH2971INS TX12/1920Z TN05/1909Z LAST NO AMDS AFT 1909 NEXT 1911 KMTH 191143Z 1912/2012 08010G19KT P6SM FEW028 FM191400 09012G20KT P6SM FEW030 KMTJ 191120Z 1912/2012 VRB03KT P6SM BKN020 OVC045 FM191300 VRB03KT P6SM FEW050 SCT070 FM191600 VRB03KT P6SM FEW080 FM192000 33006KT P6SM SKC FM200400 14005KT P6SM SKC KMTN 191120Z 1912/2012 VRB03KT P6SM SKC FM191700 21009KT P6SM FEW250 FM200000 21010G23KT P6SM OVC150 FM200600 22009KT P6SM -SHRA OVC080 FM201000 22009KT P6SM -SHRA OVC030 KMTW 191133Z 1912/2012 23011G19KT P6SM BKN150 WS015/25045KT FM191500 23016G26KT P6SM -SHRA SCT025 OVC050 TEMPO 1916/1920 5SM -SHRA BKN020 FM200000 29014G22KT P6SM SCT050 WS015/31040KT KMUO 191002Z 1910/2016 VRB06KT 9999 SKC QNH3027INS TEMPO 1912/1916 6000 BR BECMG 2011/2012 11009KT 8000 BR SKC QNH3029INS BECMG 2015/2016 12009KT 9999 NSW SKC QNH3029INS TX19/1921Z TN01/2010Z KMWH 191129Z 1912/2012 01005KT P6SM FEW200 KMXF 191100Z 1911/2017 02006KT 9999 BKN015 WS015/16025KT QNH3023INS BECMG 1913/1914 10009KT 9999 BKN030 QNH3015INS BECMG 1923/1924 12009KT 9999 BKN020 QNH3009INS BECMG 2014/2015 06006KT 9000 -SHRA BKN015 QNH3003INS TX26/1920Z TN17/1911Z KMYL 191126Z 1912/2012 VRB03KT P6SM SKC KMYR 191120Z 1912/2012 03008KT P6SM SKC FM191800 11009KT P6SM SCT030 FM200000 15005KT P6SM BKN035 FM200500 23004KT P6SM SCT015 BKN025 FM200900 27004KT P6SM SCT005 BKN015 KNBC 1909/2009 04010KT 9999 OVC045 QNH3020INS BECMG 1918/1920 VRB05KT 9999 OVC045 QNH3006INS T22/1918Z T18/2003Z KNBG 1907/2007 06007KT 9999 SCT035 SCT250 QNH3012INS BECMG 1914/1916 09010G15KT 9999 SCT030 BKN250 QNH3004INS BECMG 1923/2001 VRB05KT 9999 FEW030 SCT250 QNH3000INS AUTOMATED SENSOR METWATCH 1907 TIL 1910 T19/1912Z T29/1919Z FN00182 KNCA 1909/2009 05006KT 9999 SCT045 QNH3012INS TEMPO 1909/1915 VRB05KT TEMPO 2002/2008 6000 -SHRA BR BKN020 BKN080 T20/1918Z T08/2003Z KNEW 191128Z 1912/2012 06007KT P6SM FEW080 FEW250 FM191700 09006KT P6SM FEW040 SCT250 FM192100 11006KT P6SM BKN025 BKN250 FM201000 00000KT 5SM BR BKN010 FM201100 00000KT 3SM BR BKN008 KNFG 1909/2009 VRB05KT 9999 SKC QNH2997INS BECMG 1917/1919 25010KT 9999 SKC QNH2989INS TEMPO 1919/2001 27010G18KT FM200130 VRB05KT 9999 SKC QNH2992INS T09/1912Z T31/1920Z 0915 KNFL 1907/2007 VRB06KT 9999 FEW250 QNH3019INS TEMPO 1923/2003 02007KT AUTOMATED SENSOR METWATCH 1907 TIL 1915 T01/1912Z T23/1923Z FS30119 KNFW 1907/2007 04006KT 9999 OVC020 QNH3021INS FM190800 06006KT 8000 RA BR OVC018 QNH3018INS FM191800 VRB06KT 8000 RA BKN012 OVC050 QNH3013INS TEMPO 1919/1923 3200 +RA OVC009 FM200100 VRB05KT 9999 BKN015 OVC040 QNH3002INS AUTOMATED SENSOR METWATCH 1907 TIL 1911 T13/1912Z T16/1921Z FN00182 KNGP 1907/2007 36008KT 3200 SHRA BR VCTS OVC004CB 641509 642404 QNH3003INS TEMPO 1907/1911 0800 +SHRA FG OVC003 FM191300 01008KT 6000 -SHRA BR FEW003 BKN005 OVC009 600000 QNH3000INS TEMPO 1913/1918 0800 +SHRA FG SCT003 OVC005 FM191800 03008KT 9000 -SHRA BR FEW006 OVC009 QNH2997INS TEMPO 1918/1923 6000 -SHRA BR SCT005 OVC008 FM200200 03008KT 9999 VCSH SCT008 BKN035 QNH3002INS AUTOMATED SENSOR METWATCH 1907 TIL 1911 T18/1900Z T24/1919Z FN00182 KNGU 1907/2007 VRB06KT 9999 SKC QNH3022INS BECMG 1918/1920 18010G17KT 9999 SCT300 QNH3010INS T08/1911Z T20/1918Z FN00192 KNHK 1907/2007 VRB05KT 9999 SKC QNH3020INS FM191800 19010KT 9999 FEW200 QNH3010INS BECMG 1922/2000 19013G20KT 9999 FEW200 QNH2995INS AUTOMATED SENSOR METWATCH 1907 TIL 1908 T04/1911Z T19/1920Z FN00192 KNIP 1907/2007 06006KT 9999 VCSH BKN020 BKN300 QNH3010INS TEMPO 1916/1922 8000 -SHRA BECMG 1923/2001 VRB04KT 9999 NSW SCT020 BKN300 QNH3004INS T23/1909Z T30/1918Z FN00182 KNJK 1907/2007 VRB06KT 9999 SKC QNH2992INS TEMPO 1917/1923 36010KT AUTOMATED SENSOR METWATCH 1907 TIL 1913 T18/1915Z T32/2002Z FS30125 KNKT 1909/2009 05006KT 9999 SCT045 QNH3012INS TEMPO 1909/1915 VRB05KT TEMPO 2002/2008 6000 -SHRA BR BKN020 BKN080 T20/1918Z T08/2003Z KNKX 1909/2009 VRB05KT 9999 SKC QNH2997INS BECMG 1917/1919 31012KT 9999 SKC QNH2990INS TEMPO 1921/2003 33013G21KT FM200430 07006KT 9999 SKC QNH2993INS T16/1912Z T32/1921Z KNLC 1907/2007 VRB06KT 9999 SKC QNH2995INS AUTOMATED SENOR METWATCH 1907 TIL 1915 T08/1913Z T28/1923Z FS30119 KNMM 1907/2007 VRB04KT 9999 FEW140 FEW200 BKN280 QNH3021INS FM200300 VRB03KT 9999 SCT030 BKN180 QNH3005INS AUTOMATED SENSOR METWATCH 1907 TIL 1911 T13/1912Z T27/1921Z FN00182 KNPA 1907/2007 06010KT 9999 SCT030 SCT300 QNH3012INS BECMG 1911/1913 11009KT 9999 VCSH BKN025 QNH3007INS BECMG 1918/1920 12009KT 9999 VCSH SCT025 SCT300 QNH3004INS AUTOMATED SENSOR METWATCH 1907 TIL 1911 T20/1912Z T28/1918Z FN00182 KNQI 1907/2007 33008KT 9999 OVC010 OVC035 641509 642404 QNH3005INS TEMPO 1907/1913 4800 SHRA BR OVC005 FM191300 32010KT 9999 VCSH BKN006 OVC012 600000 QNH3000INS TEMPO 1913/1918 3200 SHRA BR OVC005 FM191800 34010KT 9999 VCSH BKN025 BKN040 OVC180 QNH2997INS TEMPO 1918/1923 4800 SHRA BR BKN015 OVC030 FM200200 03008KT 9999 VCSH SCT008 BKN035 QNH3002INS AUTOMATED SENSOR METWATCH 1907 TIL 1912 T16/1911Z T25/1920Z 0737 FN00182 KNQX 1907/2007 09015KT 9999 SCT025 QNH2998INS AUTOMATED SENSOR METWATCH 1907 TIL 1910 T28/1912Z T30/1918Z FN00182 KNRB 1907/2007 07013KT 9999 VCSH BKN020 BKN300 QNH3003INS TEMPO 1916/1922 8000 -SHRA BECMG 1923/2001 VRB06KT 9999 NSW SCT020 BKN300 QNH3004INS AUTOMATED SENSOR METWATCH 1907 TIL 1909 T25/1909Z T28/1918Z FN00182 KNSE 1907/2007 06007KT 9999 SCT030 SCT300 QNH3014INS BECMG 1911/1913 VRB05KT 9999 VCSH BKN025 QNH3008INS BECMG 1918/1920 VRB04KT 9999 VCSH SCT025 SCT300 QNH3005INS AUTOMATED SENSOR METWATCH 1907 TIL 1911 T18/1912Z T30/1919Z FN00182 KNTD 1907/2007 VRB06KT 9999 SKC QNH2995INS FM191200 05018G25KT 9999 SKC 520009 520903 QNH2989INS TEMPO 1912/1918 03014KT BECMG 2001/2002 VRB06KT 9999 SKC 520009 520903 QNH2987INS TEMPO 2002/2007 31011KT AUTOMATED SENSOR METWATCH 1907 TIL 1913 T14/1912Z T27/1922Z FS30125 KNTU 1907/2007 VRB06KT 9999 SCT025 SCT300 QNH3025INS BECMG 1920/1922 19013G20KT 9999 FEW030 SCT300 QNH3018INS T11/1910Z T19/1919Z FN00192 KNUW 1907/2007 VRB06KT 8000 BR FEW005 SCT015 BKN250 QNH3020INS TEMPO 1907/1913 2400 BR BKN005 OVC015 FM191300 VRB06KT 2400 BR BKN006 OVC015 QNH3022INS TEMPO 1920/2002 6000 BR SCT006 BKN015 BKN250 FM200200 VRB06KT 9000 BR FEW007 SCT015 BKN250 QNH3023INS TEMPO 2002/2007 6000 BR BKN007 OVC015 T07/1913Z T14/1922Z FS30118 KNXP 1909/2009 30007KT 9999 SKC QNH3016INS FM191130 33010KT 9999 SKC QNH3007INS TEMPO 1917/1923 36012G22KT BECMG 1001/1003 31010KT 9999 SKC QNH3007INS AUTOMATED SENSOR METWATCH 1909 TIL 1915 T13/1913Z T27/1923Z KNYG 1909/2009 VRB06KT 9999 SKC QNH3026INS FM191700 23010KT 9999 SCT110 QNH3000INS FM200500 23008KT 9999 SCT015 SCT045 BKN110 QNH2996INS TEMPO 2005/2011 6000 -SHRA BR BKN015 BKN045 OVC110 T17/1919Z T14/2002Z KNYL 1909/2009 36008KT 9999 SKC QNH2996INS FM191530 01012KT 9999 SKC QNH2988INS TEMPO 1917/1923 03012G22KT BECMG 1901/1003 33007KT 9999 SKC QNH2988INS AUTOMATED SENSOR METWATCH 1909 TIL 1915 T17/1913Z T32/1923Z KNZY 1907/2007 VRB06KT 9999 SKC QNH2992INS TEMPO 1920/2002 32015G22KT T16/1914Z T28/1923Z FS30125 KOAJ 191120Z 1912/2012 03003KT P6SM SKC FM200200 00000KT P6SM BKN035 FM200400 00000KT P6SM VCSH BKN025 LTD TO CLD VIS AND WIND KOAK 191132Z 1912/2018 VRB03KT P6SM FEW008 TEMPO 1912/1915 SCT007 FM191700 29005KT P6SM FEW009 FM191900 30009KT P6SM SKC FM200400 VRB03KT P6SM SKC FM201300 VRB03KT P6SM FEW008 KOFF 191000Z 1910/2016 19012KT 9999 OVC040 510052 QNH3000INS BECMG 1913/1914 23010G18KT 9999 BKN015 OVC020 QNH2997INS BECMG 1919/1920 33012KT 9999 SKC QNH2997INS BECMG 2013/2014 33012G20KT 9999 SKC QNH3029INS TX21/1921Z TN07/2009Z KOFK 191120Z 1912/2012 22013KT P6SM FEW200 FM191400 26012KT P6SM SKC FM191600 30014G22KT P6SM SKC FM191800 32018G24KT P6SM SKC FM200000 32011KT P6SM SKC FM200200 30008KT P6SM SKC KOGB 191122Z 1912/2012 06006KT P6SM BKN040 FM200000 VRB03KT P6SM OVC035 KOGD 191120Z 1912/2012 17006KT P6SM SKC FM191900 28006KT P6SM SKC FM200200 17005KT P6SM SKC KOKC 191120Z 1912/2012 18007KT 6SM -RA SCT007 OVC012 TEMPO 1912/1914 2SM -RA BR OVC007 FM191700 21008KT P6SM OVC015 FM200000 20004KT P6SM SCT250 FM200900 01010KT P6SM SKC KOLF 191126Z 1912/2012 30007KT P6SM FEW160 FM191900 30015KT P6SM SCT200 FM200100 VRB05KT P6SM SKC KOLM 191129Z 1912/2012 00000KT 1/4SM FG VV001 TEMPO 1917/1919 3SM BR BKN002 FM191900 VRB02KT 4SM BR SKC FM192000 34004KT P6SM SKC FM200700 00000KT 1/4SM FG VV001 KOLS 191120Z 1912/2012 05007KT P6SM FEW045 SCT250 FM191700 13010KT P6SM SCT050 BKN250 FM192100 15010KT P6SM BKN060 FM200200 10008KT P6SM SCT050 SCT250 FM200800 06006KT P6SM SCT090 SCT250 KOMA 191120Z 1912/2012 18011KT P6SM OVC035 FM191500 23014KT P6SM SCT200 FM191800 28013G20KT P6SM FEW250 FM192000 31015G24KT P6SM SKC FM200000 33010KT P6SM SKC FM200300 31006KT P6SM SKC KONP 191129Z 1912/2012 09003KT 1/4SM FG OVC003 FM191500 VRB02KT 2SM BR OVC004 FM191800 36006KT P6SM SCT008 FM192100 35010KT 5SM HZ SCT007 FM200200 34005KT 3SM BR BKN005 FM200700 07005KT P6SM SKC KONT 191120Z 1912/2018 03012G20KT P6SM SKC FM191500 04015G28KT P6SM SKC FM192200 04010G18KT P6SM SKC FM200300 04010KT P6SM SKC KOPF 191125Z 1912/2012 08006KT P6SM FEW030 FM191600 10010KT P6SM SCT030 SCT250 FM200200 VRB05KT P6SM SCT040 SCT250 KORD 191120Z 1912/2018 22011KT P6SM BKN150 FM191400 22013G20KT P6SM BKN100 FM191800 22015G23KT 6SM -SHRA SCT040 OVC060 FM192100 23015G24KT P6SM BKN025 FM200200 29011KT P6SM SKC FM201400 29015G25KT P6SM BKN060 FM201600 32020G32KT P6SM VCSH SCT030 OVC060 KORF 191120Z 1912/2012 21003KT P6SM SKC FM191400 20005KT P6SM SKC FM191800 20010KT P6SM SCT250 FM200300 21011KT P6SM SCT150 FM200700 22011KT P6SM BKN100 FM200900 22010KT P6SM OVC060 KORH 191120Z 1912/2012 24012KT P6SM FEW060 FM200700 22014KT P6SM BKN060 KOTH 191120Z 1912/2012 VRB03KT 2SM BR OVC003 FM191400 VRB03KT 1/2SM FG OVC001 FM191600 VRB03KT 3SM BR OVC004 FM191800 34008KT P6SM SCT008 FM192100 35014G25KT P6SM SKC FM200300 36009KT P6SM OVC006 FM200500 VRB03KT 2SM BR OVC003 KOTM 191132Z 1912/2012 20009KT P6SM VCSH BKN090 FM191500 24014G22KT P6SM BKN035 FM191800 25015G22KT P6SM BKN025 FM192100 26017G27KT P6SM SCT090 FM192300 28013KT P6SM SCT080 FM200100 30009KT P6SM FEW250 KOUN 191120Z 1912/2012 18005KT 6SM -RA SCT008 OVC012 TEMPO 1912/1914 2SM -RA BR OVC008 FM191700 21007KT P6SM OVC015 FM200000 20004KT P6SM SCT250 KOWB 191120Z 1912/2012 VRB03KT P6SM FEW250 FM191500 20005KT P6SM SCT250 FM192200 24008KT 6SM -SHRA BR OVC060 FM200000 24007KT 6SM -RA BR OVC030 FM200200 24008KT 5SM -RA BR OVC015 FM200900 26007KT P6SM OVC010 FM201000 26007KT P6SM BKN008 KOXR 191123Z 1912/2012 05008KT P6SM SKC FM191500 07015G20KT P6SM SKC FM192200 32012KT P6SM SKC FM200200 VRB03KT P6SM SKC FM200900 05007KT P6SM SKC KOZR 191142Z 1911/2014 10006KT 9999 BKN014 QNH3010INS BECMG 1914/1915 15009KT 9999 FEW020 SCT035 QNH3005INS BECMG 2011/2012 25005KT 8000 BR BKN015 BKN030 QNH3005INS TX27/1921Z TN15/2008Z KPAE 191129Z 1912/2012 VRB03KT 1/4SM FG VV001 TEMPO 1916/1918 5SM BR SCT001 FM191800 VRB03KT P6SM FEW001 SCT250 FM192000 30004KT P6SM SKC FM200000 VRB03KT P6SM SKC FM201000 00000KT 1/2SM FG VV001 KPAH 191120Z 1912/2012 00000KT P6SM FEW250 FM191500 22004KT P6SM SCT250 FM192000 25008KT P6SM VCSH SCT035 OVC060 FM192300 24007KT 5SM -SHRA BR OVC035 FM200000 24006KT 5SM -RA BR OVC015 FM200700 26007KT P6SM OVC015 FM201000 27007KT P6SM BKN025 KPAM 191206Z 1912/2016 07009KT 9999 BKN014 QNH3018INS BECMG 1914/1915 12009KT 9999 SCT025 QNH3009INS BECMG 2002/2003 VRB05KT 9999 BKN025 QNH3005INS BECMG 2009/2010 30005KT 8000 BR SCT015 BKN050 QNH3005INS TX28/1919Z TN21/1912Z KPBF 191137Z 1912/2012 03004KT P6SM FEW100 BKN150 FM192100 25005KT 5SM -SHRA BR SCT030 OVC060 TEMPO 2005/2009 4SM RA BR SCT005 BKN015 FM201100 33004KT 5SM BR FEW010 OVC030 KPBG 191120Z 1912/2012 22009KT P6SM FEW200 FM191400 15010KT P6SM FEW150 FM200500 18011G22KT P6SM VCSH OVC100 KPBI 191125Z 1912/2012 08007KT P6SM SCT030 FM191600 09010KT P6SM SCT030 SCT250 FM200200 VRB05KT P6SM SCT040 SCT250 KPDK 191139Z 1912/2012 09005KT P6SM SCT250 FM191300 09008KT P6SM BKN025 FM191700 14007KT P6SM BKN035 FM200300 23004KT P6SM BKN025 KPDT 191120Z 1912/2012 11006KT P6SM FEW250 FM191700 31004KT P6SM FEW250 FM200300 12005KT P6SM FEW250 KPDX 191219Z 1912/2012 27003KT 1/4SM FG VV002 FM191600 28004KT P6SM BKN004 FM191700 31004KT P6SM SCT250 KPEQ 191135Z 1912/2012 31005KT P6SM SCT010 BKN030 TEMPO 1912/1916 5SM BR BKN008 OVC012 FM200000 VRB04KT P6SM SCT015 BKN035 KPGA 191120Z 1912/2012 VRB06KT P6SM SKC TEMPO 1919/1923 05010KT KPGD 191141Z 1912/2012 06004KT P6SM FEW250 TEMPO 1912/1914 6SM BR FM191400 09008KT P6SM FEW025 FEW250 FM191800 08007KT P6SM SCT040 BKN250 FM200200 VRB03KT P6SM FEW250 KPGV 191120Z 1912/2012 03004KT P6SM SKC FM200300 19004KT P6SM BKN035 FM200600 00000KT P6SM VCSH BKN025 LTD TO CLD VIS AND WIND KPHF 191120Z 1912/2012 VRB02KT P6SM SKC FM191400 20005KT P6SM SKC FM191700 20009KT P6SM SCT250 FM200400 21010KT P6SM SCT150 FM200900 23009KT P6SM -RA OVC060 KPHL 191133Z 1912/2018 23005KT P6SM SKC FM191500 22007KT P6SM SCT250 FM192300 20010KT P6SM BKN250 FM200500 23006KT P6SM -SHRA OVC080 FM201200 24007KT P6SM OVC050 KPHX 191135Z 1912/2018 06006KT P6SM SKC WS015/09025KT FM191600 08012KT P6SM FEW080 FM200200 01008KT P6SM SCT080 FM200900 08008KT P6SM BKN080 WS015/11025KT FM201600 10012KT P6SM BKN070 KPIA 191120Z 1912/2012 19007KT P6SM BKN150 FM191500 22013G20KT P6SM VCSH OVC050 FM192100 22014G21KT P6SM OVC030 FM200200 25008KT P6SM BKN070 FM200500 29008KT P6SM SCT250 KPIB 191127Z 1912/2012 02004KT P6SM SCT250 FM201000 32003KT P6SM OVC050 KPIE 191141Z 1912/2012 08007KT P6SM FEW007 FEW250 FM191400 09007KT P6SM FEW035 FEW250 FM191800 05006KT P6SM FEW040 SCT250 FM192000 34007KT P6SM FEW045 SCT250 FM200200 03004KT P6SM FEW250 KPIH 191120Z 1912/2012 VRB04KT P6SM FEW180 FM191800 27006KT P6SM SKC FM200300 VRB04KT P6SM SKC KPIR 191120Z 1912/2012 28013KT P6SM SKC FM191500 33018G27KT P6SM FEW250 FM192300 31013KT P6SM SKC FM200600 29008KT P6SM SKC KPIT 191121Z 1912/2018 00000KT P6SM SCT250 FM191400 21008KT P6SM BKN200 FM200200 24010G20KT 5SM -RA OVC035 FM200500 24010G20KT P6SM VCSH OVC015 FM201300 25012G22KT P6SM BKN025 KPKB 191130Z 1912/2012 00000KT 1/4SM FZFG VV001 TEMPO 1913/1914 2SM BR BKN002 FM191400 21006KT P6SM SCT250 FM191800 21008KT P6SM SCT250 FM200200 22008G14KT 6SM SHRA OVC050 FM200500 24010G19KT 4SM SHRA OVC017 FM200900 24009G17KT P6SM OVC009 KPLN 191132Z 1912/2012 23012G20KT P6SM FEW120 BKN200 WS020/25040KT FM191400 23016G25KT P6SM BKN110 WS020/24045KT FM191500 23018G28KT P6SM VCSH SCT060 BKN100 FM191700 23019G29KT 6SM -SHRA BR OVC030 FM200200 29013G25KT P6SM VCSH BKN030 FM200600 30011G22KT P6SM BKN045 KPMD 191123Z 1912/2012 VRB03KT P6SM SKC FM191700 06012KT P6SM SKC FM192000 06018G24KT P6SM SKC FM200100 12007KT P6SM SKC KPNA 191123Z 1912/2012 30011KT P6SM SKC FM191700 VRB05KT P6SM SKC FM192000 29009KT P6SM SKC LTD TO CLD VIS AND WIND KPNC 191120Z 1912/2012 20008KT P6SM OVC012 FM191900 21008KT P6SM SCT030 FM192100 30004KT P6SM OVC250 KPNE 191133Z 1912/2012 VRB03KT P6SM SKC FM191400 24005KT P6SM SCT250 FM192100 22011KT P6SM SCT250 FM200600 23007KT P6SM -SHRA OVC080 FM201100 24006KT P6SM OVC060 KPNS 191120Z 1912/2012 05005KT P6SM FEW250 FM191500 09006KT P6SM SCT025 BKN250 FM191800 13005KT P6SM VCSH BKN040 FM200000 16004KT P6SM BKN250 FM200900 VRB03KT 4SM BR SCT004 BKN250 KPOB 190900Z 1909/2015 03003KT 9999 SKC QNH3014INS BECMG 1923/1924 18006KT 9999 SCT050 QNH3003INS BECMG 2005/2006 21006KT 9999 FEW025 SCT250 QNH2993INS BECMG 2014/2015 25009KT 9999 VCSH SCT025 BKN060 OVC200 QNH2992INS TX20/1918Z TN06/1909Z KPOE 190800Z 1908/2014 06006KT 9999 BKN030 BKN100 BKN200 QNH3015INS BECMG 1914/1915 09009KT 9999 BKN030 BKN100 OVC200 QNH3010INS BECMG 1923/1924 36006KT 9999 BKN030 BKN060 QNH3012INS BECMG 2008/2009 03006KT 9999 BKN030 QNH3008INS TX27/1921Z TN14/1910Z KPOU 191122Z 1912/2012 19004KT P6SM SKC FM191400 22007KT P6SM SKC FM200000 21006KT P6SM BKN200 FM200600 21006KT P6SM VCSH BKN050 OVC100 KPQI 191120Z 1912/2012 24004KT P6SM OVC080 FM191300 23006KT P6SM VCSH OVC050 FM191500 21008G15KT P6SM VCSH OVC040 FM192200 19008KT P6SM VCSH OVC050 FM200900 18008KT P6SM OVC070 KPRB 191123Z 1912/2012 VRB03KT P6SM SKC FM192100 07006KT P6SM SKC FM200300 VRB03KT P6SM SKC KPRC 191120Z 1912/2012 21005KT P6SM SKC FM191700 07011G17KT P6SM SKC FM200200 VRB06KT P6SM FEW060 KPSC 191120Z 1912/2012 VRB04KT P6SM FEW250 TEMPO 1912/1916 5SM BR FM191800 36004KT P6SM FEW250 KPSF 191131Z 1912/2012 20004KT P6SM FEW025 FM191400 23008KT P6SM SKC FM200000 21010KT P6SM BKN200 FM200600 22012KT P6SM VCSH BKN050 OVC100 KPSM 191120Z 1912/2012 20005KT P6SM SCT100 FM191400 23010KT P6SM SCT120 FM200000 21008KT P6SM SCT120 BKN250 KPSP 191120Z 1912/2012 VRB05KT P6SM SKC FM191800 01011KT P6SM SKC FM200000 VRB05KT P6SM SKC KPTK 191120Z 1912/2012 22009KT P6SM SCT150 FM191400 22012KT P6SM OVC100 FM191600 23014G22KT P6SM OVC100 FM192100 22012G18KT P6SM OVC050 PROB30 1921/2003 P6SM -RA OVC030 FM200300 23012KT P6SM OVC025 FM200800 27011KT P6SM BKN035 KPUB 191143Z 1912/2012 29007KT P6SM SKC FM191700 01012G22KT P6SM SCT080 FM200300 VRB06KT P6SM SKC KPUW 191129Z 1912/2012 09005KT P6SM FEW200 FM192200 24005KT P6SM FEW200 FM200100 VRB02KT P6SM FEW200 KPVD 191120Z 1912/2012 24010KT P6SM FEW060 FM192100 22014G23KT P6SM FEW060 FM200600 22010G20KT P6SM BKN090 FM201000 22011G22KT P6SM OVC045 KPVU 191120Z 1912/2012 VRB04KT P6SM SKC FM191900 29006KT P6SM SKC FM200200 VRB04KT P6SM SKC KPVW 191228Z 1912/2012 26005KT P6SM -DZ SCT005 OVC020 FM191500 29006KT P6SM SCT012 OVC030 FM191800 34007KT P6SM BKN090 KPWM 191120Z 1912/2012 23005KT P6SM SCT050 BKN080 FM191500 22010KT P6SM SCT120 BKN250 FM200000 21007KT P6SM SCT120 BKN250 KPWT 191129Z 1912/2012 VRB03KT 1/4SM FG VV001 TEMPO 1917/1920 6SM BR SKC FM192000 04004KT P6SM SKC FM200900 VRB03KT 1/2SM FG VV001 KQD3 190536Z 1905/2009 13009KT 6000 -SHRA SCT030 BKN050 QNH2984INS TEMPO 1905/1908 VRB15G25KT 4000 TSRA BKN010CB BECMG 1910/1911 08010G15KT 9999 NSW SCT030 QNH2982INS BECMG 1917/1918 09006KT 9999 SCT030 SCT200 QNH2986INS BECMG 1923/1924 12009KT 9999 SCT030 BKN050 QNH2984INS TEMPO 2002/2006 VRB15G25KT 4000 TSRA BKN020CB TX30/1912Z TN24/2003Z KQN3 190511Z 1905/2011 VRB06KT 9999 SKC QNH2970INS BECMG 1914/1915 33012KT 9999 VCSH SCT060 QNH2970INS BECMG 1917/1918 VRB06KT 9999 NSW SKC QNH2974INS TX40/1914Z TN28/1905Z KQNA 190900Z 1909/2009 36009KT 9999 VCSH FEW020 SCT040 BKN080 QNH3001INS TEMPO 1909/1915 8000 -SHRA BKN020 TX21/2003Z TN14/1921Z KQRH 190309Z 1903/2009 13009KT 6000 -SHRA SCT030 BKN050 QNH2984INS TEMPO 1903/1909 VRB15G25KT 4000 TSRA BKN020CB BECMG 1910/1911 08010G15KT 9999 NSW SCT030 QNH2982INS BECMG 1917/1918 09006KT 9999 SCT030 SCT200 QNH2986INS BECMG 1923/1924 12009KT 9999 SCT030 BKN050 QNH2984INS TEMPO 2000/2008 VRB15G25KT 4000 TSRA BKN020CB TX30/1912Z TN24/2003Z KRAP 191120Z 1912/2012 33015G25KT P6SM SKC FM192300 33006KT P6SM SKC KRBG 191120Z 1912/2012 VRB03KT P6SM SKC FM192200 36007KT P6SM SKC FM200200 VRB03KT P6SM SKC KRBL 191120Z 1912/2012 33006KT P6SM SKC FM191800 36008KT P6SM FEW250 KRCA 190300Z 1903/2009 29009KT 9999 SKC QNH2995INS BECMG 1910/1911 31012G18KT 9999 SKC 510202 QNH3005INS BECMG 1912/1913 31015G25KT 9999 SKC 510202 QNH3010INS BECMG 1922/1924 33009KT 9999 SKC QNH3024INS TX17/1921Z TN08/1909Z KRDD 191120Z 1912/2012 VRB04KT P6SM SKC FM191800 01008KT P6SM FEW250 KRDG 191133Z 1912/2012 VRB03KT P6SM SKC FM191400 24005KT P6SM SCT250 FM192000 22010KT P6SM SCT250 FM200400 22005KT P6SM -SHRA BKN100 FM201100 VRB04KT P6SM OVC045 KRDM 191120Z 1912/2012 VRB03KT P6SM FEW250 FM192000 36005KT P6SM FEW250 FM200300 VRB03KT P6SM SKC KRDR 191000Z 1910/2016 31010G15KT 9999 FEW150 510202 QNH2970INS BECMG 1915/1916 32020G30KT 9999 FEW050 510003 QNH2988INS TEMPO 1916/1922 32025G35KT BECMG 1922/1924 32012KT 9999 SCT050 510202 QNH2999INS BECMG 2003/2004 34012G20KT 9000 -RASN BKN020 OVC040 620205 510202 QNH3007INS BECMG 2007/2008 34012KT 9999 NSW FEW040 QNH3025INS TX13/1919Z TN00/2010Z KRDU 191123Z 1912/2012 00000KT P6SM FEW003 TEMPO 1912/1913 5SM BR FM191300 VRB03KT P6SM SKC FM192000 19008KT P6SM FEW250 FM200900 VRB04KT P6SM -RA OVC110 KRFD 191120Z 1912/2012 21011KT P6SM BKN100 FM191500 22014G21KT 6SM -SHRA SCT030 BKN050 FM192000 23015G23KT P6SM OVC020 FM200100 29011KT P6SM SKC KRHI 191133Z 1912/2012 23013G20KT P6SM -SHRA OVC080 WS015/24045KT FM191300 23013G20KT P6SM -SHRA SCT025 OVC050 WS015/24045KT FM191400 23014G21KT P6SM VCSH BKN020 OVC040 FM191500 24014G23KT P6SM VCSH BKN012 OVC025 FM192100 30012G19KT P6SM BKN040 FM200800 30011G17KT P6SM -SHSN BKN040 TEMPO 2009/2012 3SM -SHSN BKN025 KRIC 191120Z 1912/2012 VRB02KT P6SM SKC FM191400 20005KT P6SM SKC FM191700 20009KT P6SM SCT250 FM200400 20008KT P6SM BKN150 FM200600 21006KT P6SM -RA OVC080 FM200900 21006KT 6SM -RA OVC050 KRIL 191120Z 1912/2012 00000KT P6SM BKN022 FM191500 VRB03KT P6SM FEW030 FM200000 29005KT P6SM FEW110 FM200700 00000KT P6SM SKC KRIV 191200Z 1912/2018 VRB04KT 9999 SKC QNH3004INS BECMG 1916/1917 04012KT 9999 SKC QNH3000INS TEMPO 1919/2001 04015G25KT 520009 BECMG 2002/2003 03009KT 9999 SKC QNH3003INS BECMG 2005/2006 VRB05KT 9999 SKC QNH3004INS BECMG 2017/2018 04012KT 9999 SKC QNH3001INS TX31/1922Z TN12/1914Z KRIW 191123Z 1912/2012 32011KT P6SM SKC FM191500 VRB05KT P6SM SKC FM191900 05006KT P6SM SKC FM200300 30008KT P6SM SKC KRKD 191120Z 1912/2012 VRB03KT P6SM OVC080 FM191500 23012KT P6SM SCT120 FM200000 23008KT P6SM SCT120 BKN250 KRKS 191123Z 1912/2012 24008KT P6SM SKC FM200300 21006KT P6SM SKC KRME 191120Z 1912/2012 12004KT P6SM FEW250 WS020/27040KT FM191500 23009KT P6SM FEW250 FM200000 17005KT P6SM SCT150 WS020/24030KT FM200600 21009KT P6SM OVC060 FM201000 22009KT P6SM OVC030 KRND 191040Z 1910/2015 05006KT 8000 -SHRA OVC008 QNH3014INS BECMG 1915/1916 02009KT 8000 -SHRA OVC008 QNH3008INS TX21/1920Z TN14/1912Z KRNH 191120Z 1912/2012 21011KT P6SM VCSH SCT090 BKN140 FM191300 22012G21KT P6SM FEW060 SCT200 FM191600 25017G25KT P6SM SCT120 FM191900 29020G30KT P6SM SKC FM200100 30009KT P6SM FEW050 FM200900 30010G17KT P6SM VCSH OVC050 KRNO 191120Z 1912/2012 VRB03KT P6SM SKC FM192000 08008KT P6SM SKC FM200200 VRB04KT P6SM SKC KROA 191124Z 1912/2012 00000KT P6SM SKC FM191600 20006KT P6SM SCT250 FM192100 19008KT P6SM SCT130 FM200000 21005KT P6SM BKN100 FM200600 26007KT 5SM -SHRA OVC035 KROC 191219Z 1912/2012 23011KT P6SM FEW250 WS020/26045KT FM191300 23013G23KT P6SM FEW250 FM200000 21010G17KT P6SM OVC130 FM200200 21012G18KT P6SM OVC070 FM200600 22016G24KT P6SM OVC040 FM200900 23017G24KT P6SM OVC015 KROG 191124Z 1912/2012 18003KT P6SM -RA SCT030 BKN040 FM191400 18005KT 5SM -RA OVC025 TEMPO 1914/1918 3SM RA OVC012 FM191800 21007KT P6SM -RA SCT007 OVC015 TEMPO 1918/1921 3SM -RA BR BKN006 OVC012 FM192300 22004KT P6SM VCSH BKN006 FM200300 25003KT P6SM BKN006 FM200900 33005KT 5SM BR BKN015 KROW 191138Z 1912/2012 VRB03KT 6SM BR SCT006 OVC030 TEMPO 1912/1914 BKN006 FM191600 34005KT P6SM SCT035 SCT060 FM191900 01006KT P6SM SCT070 FM200200 34005KT P6SM SCT060 KRSL 191126Z 1912/2012 21010KT P6SM BKN015 FM191230 23010KT P6SM FEW015 FM191700 28010KT P6SM FEW250 FM200000 35010KT P6SM SKC KRST 191124Z 1912/2012 22015G25KT P6SM -RA SCT025 BKN050 FM191400 23017G29KT P6SM BKN035 FM191900 27018G29KT P6SM SCT050 FM200200 29011G18KT P6SM SKC FM200800 29011G18KT P6SM SCT080 KRSW 191141Z 1912/2012 05004KT P6SM FEW250 FM191400 08009KT P6SM FEW025 FEW250 FM191900 09008KT P6SM SCT040 SCT250 FM200100 VRB03KT P6SM FEW250 KRUT 191120Z 1912/2012 21009KT P6SM FEW150 FM200400 20010G20KT P6SM OVC150 FM200800 20010G19KT P6SM VCSH OVC045 KRVS 191124Z 1912/2012 16005KT 5SM -SHRA SCT015 OVC025 TEMPO 1912/1916 3SM SHRA OVC012 FM191600 18006KT P6SM VCSH BKN008 OVC012 FM192000 20007KT P6SM SCT008 BKN012 FM200300 19004KT P6SM SCT015 FM200700 33005KT 4SM BR SCT005 KRWF 191120Z 1912/2012 20014G23KT P6SM BKN110 WS020/23050KT FM191300 24013G22KT P6SM SKC FM191500 28015G23KT P6SM SKC FM191700 31022G33KT P6SM SKC FM200200 29010KT P6SM SKC KRWI 191234Z 1913/2012 00000KT 3SM BR SKC FM191330 VRB03KT P6SM SKC FM191700 16005KT P6SM FEW250 FM200400 20005KT P6SM BKN150 FM200900 VRB04KT 6SM -RA OVC100 KRWL 191120Z 1912/2012 25011KT P6SM SCT080 KRYY 191139Z 1912/2012 09005KT P6SM SCT250 FM191400 09008KT P6SM BKN025 FM191700 14007KT P6SM BKN035 FM200300 23004KT P6SM BKN025 KSAC 191120Z 1912/2012 VRB04KT P6SM SKC FM191900 33005KT P6SM FEW250 KSAF 191138Z 1912/2012 01006KT P6SM SCT015 FM191400 01008KT P6SM SKC FM192100 12008KT P6SM SKC FM200400 04006KT P6SM SKC KSAN 191120Z 1912/2018 VRB04KT P6SM SKC FM192000 30011KT P6SM SKC FM200200 VRB05KT P6SM SKC KSAT 191134Z 1912/2018 01006KT 4SM -RA BR OVC008 KSAV 191136Z 1912/2012 03007KT P6SM SCT025 BKN035 FM191700 06008KT P6SM SCT025 BKN035 FM200000 VRB03KT P6SM BKN035 FM200900 VRB03KT 6SM BR SCT004 KSAW 191130Z 1912/2012 19010KT P6SM VCSH BKN110 WS010/25040KT FM191500 22013KT P6SM VCSH BKN045 WS010/23035KT FM191700 23013KT P6SM -SHRA OVC025 FM191800 23012G20KT P6SM -SHRA OVC015 FM192100 26009KT P6SM VCSH BKN015 FM192200 27010KT P6SM VCSH BKN030 FM192300 29011KT P6SM VCSH BKN040 KSBA 191123Z 1912/2012 VRB03KT P6SM SKC FM191800 16006KT P6SM SKC FM192100 25010KT P6SM SKC FM200200 VRB03KT P6SM SKC KSBD 191120Z 1912/2012 VRB03KT P6SM SKC FM191600 03010G18KT P6SM SKC FM200600 04008KT P6SM SKC KSBN 191120Z 1912/2012 21009KT P6SM BKN250 FM191500 21014G22KT P6SM BKN150 FM191900 22015G23KT 6SM -SHRA BKN060 OVC120 FM192300 22014KT P6SM OVC030 FM200500 28010KT P6SM SCT035 KSBP 191123Z 1912/2012 VRB03KT 1/4SM FG VV001 FM191500 VRB03KT 2SM BR BKN003 FM191600 VRB03KT P6SM SKC FM192000 31011KT P6SM SKC FM200300 VRB03KT P6SM SKC KSBY 191120Z 1912/2012 VRB02KT P6SM SKC FM191400 22005KT P6SM SKC FM191700 21010KT P6SM SCT250 FM200400 20008KT P6SM SCT150 FM200600 22011KT P6SM -RA OVC080 FM201100 23010KT 6SM -RA OVC040 KSCK 191120Z 1912/2012 VRB04KT P6SM SKC FM191900 33007KT P6SM SKC KSDF 191120Z 1912/2018 VRB04KT P6SM FEW250 FM191600 22008KT P6SM BKN120 FM192200 24010KT 6SM -RA OVC040 FM200200 25012KT 5SM -RA BR BKN015 FM200500 26011KT P6SM OVC012 FM201300 28011G19KT P6SM BKN040 KSDL 191135Z 1912/2012 05004KT P6SM SKC WS015/09025KT FM191600 07009KT P6SM FEW070 FM200000 VRB04KT P6SM SCT070 FM200900 06005KT P6SM BKN070 WS015/11025KT KSDY 191126Z 1912/2012 32008KT P6SM SCT200 FM191800 30017KT P6SM FEW200 FM200100 VRB05KT P6SM SKC KSEA 191129Z 1912/2018 VRB02KT 6SM BR BCFG FEW002 TEMPO 1913/1917 1/4SM FG VV001 FM191800 28003KT P6SM SCT250 FM200100 34004KT P6SM SKC FM201100 VRB03KT 3SM BR BCFG SCT001 KSEZ 191120Z 1912/2012 05013G20KT P6SM SKC FM191700 07015G23KT P6SM SKC KSFB 191132Z 1912/2012 03007KT P6SM FEW019 FM191500 08008KT P6SM SCT040 FM200400 VRB02KT P6SM SCT250 KSFF 191129Z 1912/2012 VRB03KT P6SM SCT250 KSFO 191132Z 1912/2018 26005KT P6SM FEW006 TEMPO 1913/1916 SCT006 FM191600 VRB04KT P6SM FEW008 FM192230 29012KT P6SM SKC FM200400 29007KT P6SM SKC FM201100 VRB04KT P6SM FEW008 KSGF 191146Z 1912/2012 18007KT P6SM -RA OVC035 FM191500 20007KT 4SM BR OVC015 TEMPO 1915/1919 2SM SHRA BR OVC008 FM191900 21007KT 4SM BR OVC010 TEMPO 1919/1922 2SM -SHRA BR OVC009 FM192300 25006KT P6SM BKN012 FM200700 28007KT P6SM SCT035 KSGJ 191120Z 1912/2012 07012G18KT P6SM -RA SCT015 BKN025 OVC035 FM191400 07012G18KT P6SM -RA SCT015 BKN025 BKN040 FM191800 07010G15KT P6SM VCSH SCT020 BKN040 KSGR 191123Z 1912/2012 06007KT P6SM SCT025 BKN070 FM191500 07008KT P6SM VCSH SCT025 OVC150 FM191900 08007KT P6SM VCSH BKN025 FM200300 02005KT P6SM VCSH BKN025 FM200500 01004KT 6SM BR SCT010 OVC020 KSGU 191120Z 1912/2012 VRB05KT P6SM SKC FM191900 06011KT P6SM SKC FM200200 12006KT P6SM SKC KSHR 191127Z 1912/2012 VRB05KT P6SM FEW100 SCT200 KSHV 191149Z 1912/2012 07005KT P6SM FEW150 BKN250 FM191500 07005KT P6SM VCSH OVC140 FM192100 01004KT P6SM -SHRA BKN050 FM200000 35004KT 6SM -RA BR OVC015 FM200600 35005KT 4SM BR OVC007 FM200900 34006KT 2SM BR OVC004 KSJC 191132Z 1912/2012 VRB03KT P6SM SKC FM192200 33008KT P6SM SKC FM200400 VRB03KT P6SM SKC KSJS 191145Z 1912/2012 00000KT P6SM SKC TEMPO 1912/1913 3/4SM BR OVC001 FM191700 23005KT P6SM FEW250 FM200300 VRB04KT 6SM BR VCSH BKN025 OVC035 FM200500 26005KT 5SM -SHRA OVC010 FM200900 26005KT P6SM VCSH OVC008 KSJT 191134Z 1912/2012 03006KT 4SM BR VCSH BKN004 FM200300 32004KT 5SM BR OVC008 KSKA 191109Z 1911/2017 08006KT 9999 SKC QNH3022INS TX18/1923Z TN00/1913Z KSKF 191005Z 1910/2016 03009KT 9000 -SHRA BR BKN008 OVC012 QNH3008INS TEMPO 1910/1916 SCT008 OVC012 BECMG 1916/1917 05009KT 9000 -SHRA BR BKN010 OVC015 QNH3008INS BECMG 2001/2002 02009KT 8000 -SHRA BR BKN007 OVC010 QNH3010INS TX20/1921Z TN15/1911Z KSLC 191120Z 1912/2018 15005KT P6SM SKC FM191900 33007KT P6SM SKC FM200300 15005KT P6SM SKC KSLE 191129Z 1912/2012 00000KT P6SM SKC FM192100 35005KT P6SM SCT250 FM200400 VRB02KT P6SM SKC KSLK 191120Z 1912/2012 23011KT P6SM SCT025 TEMPO 1912/1914 BKN028 FM191400 23010G20KT P6SM SCT060 FM200500 21014G26KT P6SM VCSH OVC060 FM200900 21014G28KT 4SM -SHRA BR OVC035 KSLN 191126Z 1912/2012 21015KT P6SM BKN020 FM191500 24015KT P6SM FEW015 FM192000 31015KT P6SM FEW250 KSME 191144Z 1912/2012 00000KT P6SM SKC TEMPO 1912/1913 1/4SM FG OVC001 FM191600 21005KT P6SM FEW250 FM200100 23005KT P6SM VCSH BKN025 OVC060 FM200200 26006KT 3SM -SHRA BKN008 OVC015 FM200600 26005KT P6SM VCSH OVC008 KSMF 191120Z 1912/2012 VRB04KT P6SM SKC FM191900 33005KT P6SM FEW250 KSMN 191120Z 1912/2012 00000KT 6SM BR FEW200 FM191500 VRB03KT P6SM SKC KSMO 191123Z 1912/2012 03006KT P6SM SKC FM192100 24009KT P6SM SKC FM200300 VRB03KT P6SM SKC KSMX 191123Z 1912/2012 VRB03KT P6SM SKC FM192000 30011KT P6SM SKC FM200300 VRB03KT P6SM SKC KSNA 191120Z 1912/2012 VRB04KT P6SM SKC FM191500 06010G18KT P6SM SKC FM200100 VRB05KT P6SM SKC KSNS 191132Z 1912/2012 12006KT P6SM FEW003 TEMPO 1912/1916 2SM BR OVC002 FM192000 29009KT P6SM SKC FM200300 VRB03KT P6SM SCT006 FM200600 11006KT 6SM BR OVC005 KSNY 191120Z 1912/2012 30012KT P6SM SKC FM191500 34018G28KT P6SM SKC FM200100 28005KT P6SM SKC KSOA 191134Z 1912/2012 03007KT 6SM BR VCSH OVC005 FM200300 02004KT 6SM BR OVC012 KSPI 191120Z 1912/2012 20007KT P6SM BKN150 FM191500 22012G20KT P6SM VCSH OVC050 FM192100 22013G21KT P6SM OVC030 FM200300 25009KT P6SM OVC035 FM200600 28009KT P6SM SCT250 KSPS 191120Z 1912/2012 14005KT 4SM -RA SCT007 OVC022 TEMPO 1912/1915 BKN007 OVC022 FM191800 20005KT P6SM OVC015 TEMPO 1918/1921 5SM -RA OVC007 FM200100 21004KT P6SM BKN040 FM201000 01010KT P6SM SCT120 KSRQ 191141Z 1912/2012 08005KT P6SM FEW250 FM191400 10009KT P6SM FEW035 SCT250 FM192000 29007KT P6SM SCT040 BKN250 FM200100 VRB04KT P6SM FEW250 KSSC 190700Z 1907/2013 05006KT 9999 FEW040 SCT200 QNH3021INS BECMG 1919/1920 09006KT 9999 SCT040 BKN200 QNH3000INS BECMG 2011/2012 18006KT 9000 BR SCT008 QNH2999INS TX21/1917Z TN09/1911Z KSSF 191134Z 1912/2012 02007KT 6SM -RA OVC009 KSSI 191120Z 1912/2012 03008KT P6SM SCT020 BKN050 FM191400 05009KT P6SM VCSH SCT020 BKN030 BKN040 FM191800 05011KT P6SM VCSH SCT020 BKN040 KSTC 191120Z 1912/2012 24012KT P6SM SCT150 FM191400 27018G25KT P6SM FEW250 FM191700 30022G31KT P6SM SKC FM200100 29010KT P6SM FEW045 FM200800 30011KT P6SM VCSH SCT030 BKN040 KSTJ 191120Z 1912/2012 20008KT P6SM OVC035 FM191700 23014KT P6SM SCT045 FM200000 28010KT P6SM SKC KSTL 191120Z 1912/2018 16004KT P6SM BKN250 FM191400 20005KT P6SM OVC070 FM191700 22006KT P6SM -RA OVC050 FM191900 23006KT 6SM -RA BR OVC025 FM192200 22007KT P6SM OVC018 FM200300 26007KT P6SM BKN050 KSTS 191132Z 1912/2012 00000KT P6SM SCT004 TEMPO 1912/1916 1/2SM FG VV002 FM191700 VRB03KT P6SM SKC FM192200 18006KT P6SM SKC FM200400 VRB03KT P6SM SKC FM201100 00000KT P6SM FEW004 KSUA 191132Z 1912/2012 09006KT P6SM SCT020 SCT050 FM191500 11008KT P6SM SCT040 FM200200 12003KT P6SM SCT250 KSUN 191120Z 1912/2018 32008KT P6SM FEW110 FEW200 FM191800 15008KT P6SM SKC FM192100 22008KT P6SM SKC FM200400 32010KT P6SM SKC LTD TO CLD VIS AND WIND TIL 191300 KSUS 191120Z 1912/2012 VRB03KT P6SM BKN250 FM191400 20005KT P6SM OVC070 FM191700 22006KT P6SM -RA OVC050 FM191900 23006KT 6SM -RA BR OVC025 FM192200 22007KT P6SM OVC018 FM200300 26007KT P6SM BKN050 KSUU 190300Z 1903/2009 24009KT 9999 SKC QNH3000INS BECMG 1916/1917 36009KT 9999 SKC QNH3007INS BECMG 1920/1921 24009KT 9999 SKC QNH3004INS TX29/1923Z TN09/1914Z KSUX 191120Z 1912/2012 19009KT P6SM SCT100 FM191400 23010KT P6SM FEW250 FM191700 29013G18KT P6SM SKC FM192300 33016G28KT P6SM SKC FM200400 31006KT P6SM SKC KSVN 191200Z 1912/2018 04009KT 9999 OVC040 QNH3016INS BECMG 1920/1921 02006KT 9999 BKN035 QNH3012INS BECMG 2002/2003 VRB06KT 8000 BR SCT012 QNH3003INS BECMG 2011/2012 26006KT 9999 NSW FEW011 QNH3003INS BECMG 2015/2016 27015G20KT 9999 VCSH SCT026 QNH2994INS TX23/1921Z TN17/1912Z KSWF 191120Z 1912/2018 VRB05KT P6SM SKC FM191400 26007KT P6SM SKC FM191700 26010G17KT P6SM SKC FM192200 24008KT P6SM BKN200 FM200400 24010KT P6SM VCSH SCT040 BKN070 OVC120 FM200800 24010KT 6SM -SHRA BR SCT030 BKN040 FM201200 26011G20KT P6SM BKN040 NOT SKED KSYM 191120Z 1912/2012 VRB03KT P6SM SKC FM192100 23008KT P6SM SCT060 BKN250 FM192300 25006KT 6SM BR VCSH BKN020 OVC060 FM200100 25007KT 5SM -SHRA BKN008 OVC010 FM200500 24007KT P6SM VCSH BKN008 OVC010 KSYR 191120Z 1912/2012 21007KT P6SM FEW250 WS020/27035KT FM191400 23011G17KT P6SM FEW250 FM192300 21010KT P6SM BKN150 FM201000 23013KT P6SM OVC030 KSZL 190300Z 1903/2009 18009KT 9999 BKN060 QNH3027INS BECMG 1906/1907 19009KT 9000 -SHRA OVC030 QNH3025INS BECMG 1911/1912 22009KT 9999 NSW BKN030 QNH3017INS BECMG 1918/1919 23010G20KT 9999 SCT030 QNH3008INS BECMG 1923/1924 25009KT 9999 FEW030 QNH3009INS TX15/1922Z TN09/1912Z KTCC 191138Z 1912/2012 30005KT P6SM SCT200 FM191800 03010KT P6SM SCT200 FM200300 35006KT P6SM SKC KTCL 191139Z 1912/2012 00000KT P6SM BKN250 FM191500 14006KT P6SM BKN200 FM191800 21006KT P6SM SCT070 BKN150 FM200000 00000KT P6SM BKN150 FM201000 27003KT P6SM VCSH OVC050 KTCM 191106Z 1911/2011 VRB06KT 0400 FG VV000 QNH3022INS BECMG 1917/1918 VRB06KT 9999 NSW SKC QNH3024INS BECMG 2006/2007 VRB06KT 0800 FG VV002 QNH3021INS TX20/1923Z TN03/1912Z KTCS 191132Z 1912/2012 35004KT P6SM BKN022 OVC040 FM191800 03008KT P6SM SCT030 BKN050 FM192100 03006KT P6SM FEW040 SCT070 BKN100 FM200600 01011KT P6SM SCT030 BKN070 KTEB 191120Z 1912/2018 VRB05KT P6SM SKC FM191400 23007KT P6SM SKC FM191800 24011G18KT P6SM SCT250 FM192300 21009KT P6SM BKN200 FM200500 22008KT P6SM VCSH SCT040 BKN080 OVC120 FM200900 22010G17KT 6SM -SHRA BR SCT030 BKN040 FM201300 25011G19KT P6SM BKN040 KTEX 191157Z 1912/2012 00000KT 3/4SM BR OVC001 FM191400 VRB04KT P6SM VCFG FEW010 SCT080 FM191600 VRB04KT P6SM FEW080 FM200000 07008KT P6SM FEW060 FM200200 12008KT P6SM SKC KTIK 190900Z 1909/2015 19006KT 4800 -SHRA OVC020 QNH3025INS TEMPO 1909/1912 BKN015 BECMG 1917/1918 21009KT 9999 NSW SCT020 QNH3019INS BECMG 2002/2003 29006KT 9999 SKC QNH3016INS BECMG 2011/2012 36010G15KT 9999 SKC QNH3021INS TX17/1920Z TN09/1911Z KTIX 191132Z 1912/2012 09004KT P6SM VCSH SCT016 BKN030 BKN060 TEMPO 1912/1916 5SM SHRA BKN025 OVC050 FM191600 07008KT P6SM SCT040 FM200400 VRB02KT P6SM SCT250 KTLH 191126Z 1912/2012 06006KT P6SM SCT016 SCT250 TEMPO 1912/1915 BKN016 FM191500 09005KT P6SM SCT050 BKN250 KTMB 191125Z 1912/2012 08008KT P6SM FEW030 FM191600 10010KT P6SM SCT030 SCT250 FM200200 VRB05KT P6SM SCT040 SCT250 KTOI 191139Z 1912/2012 07003KT P6SM SCT022 BKN035 TEMPO 1912/1916 BKN022 BKN035 FM191600 14006KT P6SM BKN035 FM192000 20006KT P6SM BKN045 FM200000 00000KT P6SM BKN100 KTOL 191127Z 1912/2012 22006KT P6SM BKN250 FM191600 22012KT P6SM BKN250 FM200000 22010G20KT P6SM BKN050 FM200300 24015G25KT P6SM VCSH BKN025 FM200900 26010G20KT P6SM SCT110 KTOP 191120Z 1912/2012 20009KT P6SM VCSH SCT025 OVC040 FM191300 22011G17KT P6SM BKN022 FM191800 26011KT P6SM SCT040 FM200100 33004KT P6SM SKC KTPA 191141Z 1912/2018 06004KT P6SM FEW006 FEW250 FM191500 10006KT P6SM FEW035 FEW250 FM191800 23006KT P6SM FEW040 SCT250 FM192200 34006KT P6SM FEW050 SCT250 FM200200 VRB03KT P6SM FEW250 FM201500 26005KT P6SM FEW020 SCT250 KTPH 191120Z 1912/2012 01009KT P6SM SKC FM191800 07008KT P6SM SKC FM200000 36010KT P6SM SKC KTRI 191136Z 1912/2012 VRB02KT P6SM SCT250 FM191700 23008KT P6SM BKN250 FM200100 21003KT P6SM SCT060 BKN120 FM200400 23004KT P6SM VCSH BKN045 OVC080 FM200700 25007KT 5SM -SHRA BR BKN015 OVC035 KTRK 191120Z 1912/2012 VRB03KT P6SM SKC FM192000 11008KT P6SM SKC FM200200 VRB03KT P6SM SKC KTRM 191120Z 1912/2012 36005KT P6SM SKC FM191800 34011KT P6SM SKC FM200200 32005KT P6SM SKC KTTD 191129Z 1912/2012 VRB03KT P6SM SKC FM191700 09006KT P6SM SCT250 FM192000 09011KT P6SM SCT250 FM200800 09006KT P6SM SKC KTTN 191133Z 1912/2012 VRB03KT P6SM SKC FM191400 23005KT P6SM SCT250 FM192100 22010KT P6SM SCT250 FM200600 23009KT P6SM -SHRA OVC080 FM201000 23006KT P6SM OVC045 KTUL 191124Z 1912/2012 16005KT 5SM -SHRA SCT015 OVC025 TEMPO 1912/1916 3SM SHRA OVC012 FM191600 18006KT P6SM VCSH BKN008 OVC012 FM192000 20007KT P6SM SCT008 BKN012 FM200300 19004KT P6SM SCT015 FM200700 33005KT 4SM BR SCT005 KTUP 191130Z 1912/2012 25006KT P6SM SCT250 FM192200 27005KT P6SM BKN060 FM200000 36003KT P6SM OVC050 FM200600 36003KT P6SM VCSH BKN030 OVC120 FM201000 01006KT 5SM -RA BR OVC020 KTUS 191120Z 1912/2012 12013KT P6SM SCT250 FM191500 13016G26KT P6SM FEW060 SCT250 FM192100 10009KT P6SM SCT070 SCT250 FM200300 12013KT P6SM SCT250 KTVC 191132Z 1912/2012 22010KT P6SM FEW120 BKN200 WS020/25040KT FM191400 22014G24KT P6SM BKN100 FM191700 23018G27KT 6SM -SHRA BR BKN035 OVC080 FM191900 23019G28KT 6SM -SHRA BR OVC030 FM200200 28012G23KT P6SM VCSH BKN040 FM200600 31010G19KT P6SM BKN040 KTVF 191145Z 1912/2012 30012KT P6SM BKN200 FM191500 31016G25KT P6SM SCT250 FM191700 32020G30KT P6SM BKN100 FM200000 31017KT P6SM VCSH BKN050 KTVL 191120Z 1912/2012 VRB03KT P6SM SKC FM191900 04008KT P6SM SKC FM200100 VRB03KT P6SM SKC KTWF 191126Z 1912/2012 18010KT P6SM SKC FM191700 VRB06KT P6SM SKC FM200500 18007KT P6SM SKC KTXK 191149Z 1912/2012 05005KT P6SM OVC090 FM191500 VRB05KT P6SM OVC050 FM191800 32005KT P6SM VCSH BKN060 TEMPO 1920/1924 4SM -RA BR BKN015 FM200000 33003KT 4SM -RA BR OVC010 FM200300 34003KT 2SM -RA BR OVC004 FM200600 31003KT 1SM -RA BR OVC007 FM200900 34004KT 3SM BR OVC007 KTYR 191149Z 1912/2012 09007KT P6SM VCSH BKN024 OVC030 FM191500 04005KT 4SM -SHRA OVC015 FM200000 36004KT 4SM -RA BR OVC010 FM200600 35004KT 4SM BR OVC004 FM200900 35006KT 2SM BR OVC004 KTYS 191136Z 1912/2012 03003KT P6SM SCT250 FM191600 23009KT P6SM BKN250 FM200000 22006KT P6SM SCT060 BKN120 FM200400 23007KT P6SM VCSH BKN045 OVC080 FM200700 24008KT 5SM -SHRA BR BKN015 OVC035 KUAO 191129Z 1912/2012 00000KT P6SM SCT250 FM192200 01004KT P6SM SCT250 FM200300 VRB02KT P6SM SKC KUES 191120Z 1912/2012 22009KT P6SM BKN200 FM191500 22015G24KT P6SM VCSH OVC100 FM191600 22015G26KT 6SM -SHRA BR OVC080 FM191900 22016G29KT P6SM VCSH OVC040 FM192100 23016G29KT P6SM OVC020 FM200200 28012G18KT P6SM FEW200 KUIN 191120Z 1912/2012 19007KT P6SM BKN100 FM191500 21010KT P6SM VCSH OVC050 FM191800 23012G20KT P6SM OVC025 FM192300 25008KT P6SM BKN040 KUKI 191137Z 1912/2012 00000KT P6SM SKC FM192100 VRB05KT P6SM SKC FM200300 00000KT P6SM SKC KUNV 191151Z 1912/2012 22004KT P6SM SKC FM191800 22009KT P6SM SCT250 FM200400 23011G17KT P6SM BKN070 WS020/24035KT FM200600 24013G20KT P6SM -SHRA OVC025 WS020/25035KT KUTS 191123Z 1912/2012 VRB03KT P6SM VCSH SCT040 OVC080 TEMPO 1912/1915 -RA SCT025 FM191800 06003KT P6SM VCSH BKN025 FM192200 35004KT P6SM -RA SCT008 OVC020 FM200800 35003KT P6SM -RA SCT005 BKN015 KVAD 191130Z 1911/2017 08009KT 9999 BKN040 BKN110 QNH3018INS BECMG 2002/2003 08006KT 9999 SCT020 BKN030 QNH3012INS TX29/1920Z TN18/1912Z KVBG 190600Z 1906/2012 VRB06KT 0800 FG SCT000 SCT002 QNH3006INS FG SCT000 BECMG 1912/1913 VRB06KT 6000 BR SCT003 SCT007 QNH3004INS BECMG 1915/1916 32006KT 9999 NSW FEW007 FEW010 QNH3003INS BECMG 1920/1921 31009KT 9999 FEW010 QNH3006INS BECMG 2002/2003 06006KT 8000 BR FEW010 QNH3001INS BECMG 2007/2008 06006KT 0800 FG VV001 QNH3002INS TX24/1922Z TN12/1912Z LAST NO AMDS AFT 1906 NEXT 1913 KVCT 191140Z 1912/2012 04009KT 5SM -SHRA BR OVC010 FM191400 03008KT 5SM -SHRA BR OVC008 FM200000 05009KT 6SM -SHRA BR OVC015 FM200400 02008KT 4SM -RA BR OVC007 KVEL 191120Z 1912/2012 VRB03KT P6SM SKC KVGT 191133Z 1912/2012 35006KT P6SM SKC FM191900 04015G22KT P6SM SKC FM200300 03011KT P6SM SKC FM200900 34006KT P6SM SKC KVIS 191120Z 1912/2012 VRB03KT P6SM SKC KVLD 191126Z 1912/2012 05005KT P6SM SCT045 FM191500 09005KT P6SM BKN050 FM200100 00000KT P6SM BKN250 KVNY 191123Z 1912/2012 35012KT P6SM SKC FM191500 01015G20KT P6SM SKC FM192100 02018G25KT P6SM SKC FM200100 02008KT P6SM SKC KVPS 191029Z 1910/2015 07006KT 9999 BKN012 BKN250 QNH3016INS BECMG 1913/1914 17009KT 9999 SCT012 SCT250 QNH3015INS BECMG 1917/1918 17009KT 9999 VCSH FEW025 SCT250 QNH3014INS BECMG 1922/1923 23008KT 9999 NSW FEW030 SCT250 QNH3005INS BECMG 2003/2004 02004KT 3200 BR FEW010 SCT250 QNH3006INS BECMG 2005/2006 03003KT 0800 FG FEW010 FEW250 QNH3003INS TX30/1920Z TN18/2009Z KVQQ 191120Z 1912/2012 02004KT 6SM BR SCT015 BKN035 FM191400 06005KT P6SM VCSH SCT015 BKN030 BKN050 FM191700 06008KT P6SM VCSH SCT025 BKN050 KVRB 191132Z 1912/2012 08005KT P6SM FEW025 SCT050 FM191500 10008KT P6SM SCT040 FM200400 VRB02KT P6SM SCT250 KVTN 191120Z 1912/2012 28009KT P6SM SKC FM191400 32013KT P6SM SKC FM191600 34017G25KT P6SM SKC FM192300 32008KT P6SM SKC FM200500 29005KT P6SM SKC KWJF 191123Z 1912/2012 VRB03KT P6SM SKC FM191700 07008KT P6SM SKC FM192000 06018G25KT P6SM SKC FM200100 28008KT P6SM SKC KWMC 191120Z 1912/2012 VRB04KT P6SM SKC KWRI 191000Z 1910/2016 25006KT 8000 BR SKC QNH3028INS BECMG 1914/1915 23012G18KT 9999 NSW FEW240 QNH3004INS BECMG 1921/1922 22012KT 9999 SCT200 QNH2981INS BECMG 2002/2003 21012KT 9999 FEW030 OVC130 WS020/22040KT QNH2981INS BECMG 2007/2008 20012KT 8000 -SHRA BKN006 OVC010 WS020/22040KT QNH2972INS BECMG 2012/2013 25015G20KT 9999 NSW SCT020 BKN045 QNH2968INS TX14/1917Z TN03/1910Z KWRL 191123Z 1912/2012 VRB05KT P6SM SKC KWWR 191230Z 1913/2012 21008KT P6SM SCT008 BKN040 FM191500 23012KT P6SM BKN050 FM191800 26010KT P6SM SCT250 FM192100 33006KT P6SM SKC KXNA 191124Z 1912/2012 18003KT P6SM -RA SCT030 BKN040 FM191400 18005KT 5SM -RA OVC025 TEMPO 1914/1918 3SM RA OVC012 FM191800 21007KT P6SM -RA SCT007 OVC015 TEMPO 1918/1921 3SM -RA BR BKN006 OVC012 FM192300 22004KT P6SM VCSH BKN006 FM200300 25003KT P6SM BKN006 FM200900 33005KT 5SM BR BKN015 KYIP 191120Z 1912/2012 22009KT P6SM SCT150 FM191400 22012KT P6SM OVC100 FM191600 23014G22KT P6SM OVC100 FM192200 22012G18KT P6SM OVC050 PROB30 1922/2003 P6SM -RA OVC030 FM200300 23012KT P6SM OVC025 FM200800 27011KT P6SM BKN035 KYKM 191120Z 1912/2012 27006KT P6SM FEW250 TEMPO 1912/1916 5SM BR FM191600 VRB05KT P6SM FEW250 FM200300 27005KT P6SM FEW250 KYNG 191127Z 1912/2012 20004KT P6SM SCT250 FM192300 22008KT P6SM OVC110 FM200200 22010G20KT P6SM OVC060 FM200500 23010G20KT P6SM OVC020 FM200600 23010G20KT P6SM -SHRA OVC015 KZZV 191121Z 1912/2012 00000KT P6SM SCT250 FM191400 20008KT P6SM BKN200 FM200200 24008KT 5SM -RA OVC035 FM200400 24010KT 3SM -RA OVC010 FM200600 24010KT P6SM VCSH OVC010 L 190440Z 1906/2006 02008KT 9999 SCT035 LATI 191100Z 1912/2012 VRB05KT CAVOK TX27/1912Z TN10/2005Z TEMPO 1919/2006 5000 BR NSC LBBG 191100Z 1912/2012 12010KT 9999 BKN020 BECMG 1918/1920 VRB04KT 3000 BR BKN010 TEMPO 1923/2003 0600 FG BKN002 BECMG 2004/2006 34008KT 9999 SCT040 TEMPO 2012/2018 5000 SHRA FEW030TCU BKN040 LBGO 191100Z 1912/2012 32010KT 9999 SCT050 BECMG 1918/1920 VRB04KT BECMG 1923/2001 5000 BR BKN015 TEMPO 2002/2005 2000 BR BECMG 2006/2008 32010KT 9999 TEMPO 2008/2012 5000 RA BKN015 OVC033 LBPD 191100Z 1912/2012 VRB04KT 9999 SCT060 PROB40 TEMPO 1915/1922 5000 SHRA SCT033CB BKN050 TEMPO 2001/2006 4000 BR BECMG 2007/2009 28012KT TEMPO 2009/2012 5000 RA BKN030 OVC050 LBSF 191100Z 1912/2012 34010KT 9999 SCT050 PROB30 TEMPO 1912/1916 SHRA FEW030CB BKN050 BECMG 1920/1922 VRB04KT 5000 BR SCT015 TEMPO 2002/2006 1500 BR SCT005 LBWN 191100Z 1912/2012 28008KT 9999 SCT020 BECMG 1913/1915 11012KT BECMG 1918/1920 VRB04KT 4000 BR SCT010 BKN020 TEMPO 1922/2002 0800 BCFG BKN002 BECMG 2002/2004 33010KT 9999 LCEN 190440Z 1906/2006 28008KT 8000 FEW025 TEMPO 1909/1912 BKN025 TEMPO 1912/1915 5000 TSRA FEW020CB BKN025 LCLK 191130Z 1912/2012 20010KT 9000 FEW025 PROB30 1912/2012 5000 DU PROB40 TEMPO 1912/1915 FEW035CB BECMG 1916/1919 33007KT BECMG 2009/2012 20010KT LCPH 191130Z 1912/2012 28011KT 8000 FEW025 PROB30 1912/2012 5000 DU BECMG 1917/1920 02007KT BECMG 2008/2011 28013KT LCRA 190723Z 1909/2003 VRB05KT CAVOK PROB30 1909/1916 7000 HZ LDDU 191125Z 1912/2012 28008KT CAVOK TX23/2010Z TN15/2003Z BECMG 1919/1921 02012KT BECMG 2009/2011 26008KT LDLO 191125Z 1912/2012 36008KT CAVOK TX23/1912Z TN16/2004Z TEMPO 2006/2012 02012KT LDOS 191125Z 1912/2012 03005KT CAVOK TX21/1912Z TN07/2004Z PROB30 TEMPO 1912/1917 SHRA FEW035TCU PROB40 1919/2009 3000 BR BKN005 PROB30 2001/2007 0400 FG BECMG 2008/2010 30008KT LDPL 191125Z 1912/2012 06006KT CAVOK TX23/1912Z TN13/2004Z TEMPO 2006/2012 06012KT LDRI 191125Z 1912/2012 24007KT CAVOK TX23/1912Z TN14/2004Z BECMG 1916/1918 06007KT PROB40 TEMPO 2006/2012 06007G17KT LDSP 191125Z 1912/2012 23007KT CAVOK TX25/1912Z TN14/2004Z BECMG 1915/1917 30006KT BECMG 1920/1922 05008KT LDZA 191125Z 1912/2012 VRB02KT CAVOK TX20/1913Z TN06/2005Z TEMPO 1912/1916 05007KT BECMG 1920/1922 3000 BR BECMG 1923/2001 0100 FG PROB40 2002/2007 VV001 BECMG 2007/2009 CAVOK LDZD 191125Z 1912/2012 27008KT CAVOK TX25/1913Z TN12/2004Z BECMG 1916/1918 06006KT TEMPO 2006/2012 06012KT LEAL 191100Z 1912/2012 28006KT 9999 SCT030 TX22/1912Z TN16/2006Z PROB40 TEMPO 1912/1915 4000 SHRA FEW022TCU BKN025 BECMG 1912/1914 08006KT BECMG 1918/1921 35006KT PROB40 TEMPO 1922/2006 4000 TSRA FEW022CB BKN025 BECMG 2007/2009 05020KT LEAM 190831Z 1909/2009 34008KT 9999 SCT025 TX22/1915Z TN17/2001Z BECMG 1909/1912 09010KT PROB30 TEMPO 1909/1911 2000 TSRA SCT030CB BECMG 1917/1920 36008KT TEMPO 1921/2009 4000 SHRA SCT030CB PROB40 TEMPO 2000/2009 2000 TSRA BKN025CB BECMG 2003/2006 06020KT PROB40 TEMPO 2005/2009 06024G38KT LEAS 191127Z 1911/2009 07008KT 9000 SCT035 TX18/1914Z TN13/2006Z TEMPO 1911/1913 3000 BR PROB40 TEMPO 1922/2007 3000 BR BKN010 LEBB 191100Z 1912/2012 33007KT 9999 SCT015 BKN020 TX21/1914Z TN15/2006Z PROB40 TEMPO 1921/2008 3000 BR BKN010 LEBL 191100Z 1912/2012 05016KT 9999 SCT030 TX24/1912Z TN17/2006Z TEMPO 1913/1922 4000 SHRA FEW024TCU BKN035 PROB40 TEMPO 1915/1920 3000 TSRA FEW024CB BKN030 BECMG 1917/1920 04008KT LEBZ 191100Z 1912/2012 08006KT 9999 SCT020 TX22/1915Z TN13/2007Z PROB30 TEMPO 1915/1920 4000 SHRA SCT020TCU TEMPO 2001/2010 4000 BR PROB30 TEMPO 2002/2009 0400 FG VV002 LECH 191219Z 1912/2012 05010KT 9999 BKN030 FEW035TCU TX20/1912Z TN13/2006Z TEMPO 1912/2006 4000 SHRA BKN014 FEW020TCU PROB40 TEMPO 1912/2006 05020G35KT 4000 TSRA BKN004 SCT020CB LECO 190800Z 1909/2009 01007KT 9999 SCT015 TX21/1914Z TN14/2007Z PROB40 TEMPO 1909/1910 3000 BR BKN005 PROB30 TEMPO 1911/1917 02015G25KT PROB30 TEMPO 2002/2008 1500 BCFG LEDA 190800Z 1909/2009 07010KT 9999 SCT020 TX25/1912Z TN17/2006Z PROB30 TEMPO 1909/1920 4000 SHRA BKN020 FEW025CB LEGE 191100Z 1912/2012 03010KT 9999 SCT040 TX23/1913Z TN15/2006Z PROB40 TEMPO 1912/1920 4000 SHRA BKN018 FEW025TCU BECMG 1918/1921 34005KT LEGR 190800Z 1909/2009 VRB02KT 9999 SCT030 TX20/1915Z TN10/2003Z PROB40 TEMPO 1909/1910 2000 BR TEMPO 1914/1919 16010KT TEMPO 2003/2009 4000 SHRA SCT020 SCT030CB LEHC 190800Z 1909/2009 04005KT 9999 FEW030 TX23/1913Z TN14/2006Z BECMG 1910/1913 11012KT TEMPO 1910/1924 4000 SHRA FEW030TCU BKN034 BECMG 1917/1920 09007KT LEIB 190800Z 1909/2009 07010KT 9999 SCT020 TX25/1912Z TN17/2006Z PROB30 TEMPO 1909/1920 4000 SHRA BKN020 FEW025CB LEJR 191100Z 1912/2012 07006KT 9999 FEW030 TX23/1914Z TN13/2006Z PROB30 TEMPO 1915/1919 4000 SHRA SCT025CB TEMPO 2001/2012 3000 SHRA BKN025CB LELC 191100Z 1912/2012 10006KT 9999 SCT025 TX23/1913Z TN17/2006Z BECMG 2000/2003 04012KT TEMPO 1923/2010 4000 SHRA BKN020TCU PROB40 TEMPO 2000/2009 2000 TSRA SCT010 BKN020CB TEMPO 2001/2012 05018G28KT LELL 190800Z 1909/2009 07012KT 9999 FEW030 TX24/1913Z TN13/2006Z TEMPO 1910/1920 4000 SHRA FEW030TCU BKN034 BECMG 1917/1920 05005KT LEMD 191100Z 1912/2018 03010KT 9999 SCT060 TX21/1915Z TN12/2006Z TEMPO 1912/1924 4000 RA PROB30 TEMPO 1912/1924 BKN012 PROB30 TEMPO 2012/2018 03012G24KT 4000 RA BKN012 LEMG 191100Z 1912/2012 11010KT 9999 SCT025 TX21/1912Z TN16/2002Z PROB40 TEMPO 1912/1916 4000 SHRA SCT025CB BECMG 1919/1922 28006KT TEMPO 2000/2012 4000 SHRA SCT025CB BKN035 PROB40 TEMPO 2002/2012 2000 TSRA BKN025CB LEMH 191030Z 1910/2009 09012KT 9999 SCT025 TX24/1912Z TN15/2006Z PROB30 TEMPO 1910/1920 3000 TSRA FEW022CB BKN030 BECMG 2001/2004 01005KT LEPA 191100Z 1912/2012 22006KT 9999 SCT030 TX24/1912Z TN15/2006Z PROB30 TEMPO 1912/1915 4000 SHRA FEW022CB BKN025 BECMG 1917/1920 04006KT LEPP 190800Z 1909/2009 33008KT 9999 SCT020 BKN040 TX21/1914Z TN11/2006Z PROB30 TEMPO 1915/1921 RA TEMPO 1921/2009 RA BKN010 LERS 190902Z 1909/2009 05010KT 9999 SCT030 TX24/1913Z TN15/2006Z TEMPO 1909/1922 3000 SHRA BKN020 FEW025CB PROB30 TEMPO 1912/1920 3000 TSRA FEW022CB BKN030 LESA 191100Z 1912/2012 06012KT 9999 SCT015 BKN040 TX20/1915Z TN11/2006Z PROB40 TEMPO 1912/1918 4000 RA BKN012 PROB40 TEMPO 1912/1917 06015G25KT LESO 191100Z 1912/2012 28005KT 9999 SCT010 BKN025 TX22/1914Z TN16/2003Z PROB30 TEMPO 1920/2007 BKN010 LEST 191100Z 1912/2012 03009KT 9999 FEW015 TX20/1914Z TN12/2007Z TEMPO 1912/1920 04015G25KT PROB30 TEMPO 2000/2006 3000 BR LESU 190800Z 1909/2009 VRB04KT 9999 FEW030 TX24/1913Z TN10/2006Z PROB40 TEMPO 1910/1918 4000 SHRA FEW030TCU BKN038 TEMPO 1910/1915 11010KT LETO 191100Z 1912/2012 03012KT 9999 SCT060 TX21/1915Z TN12/2006Z TEMPO 1912/1924 4000 RA PROB30 TEMPO 1912/1924 BKN012 LEVC 191100Z 1912/2012 30006KT 9999 SCT040 TX21/1912Z TN17/2006Z PROB40 TEMPO 1914/1922 4000 TSRA FEW022CB BKN030 LEVD 191100Z 1912/2012 05016KT 9999 BKN020 TX19/1915Z TN11/2006Z PROB30 TEMPO 1912/2003 4000 RA BKN012 PROB40 TEMPO 1912/1918 05022G34KT LEVT 191100Z 1912/2012 02009KT 9999 FEW015 BKN030 TX18/1914Z TN12/2000Z PROB30 TEMPO 1915/2012 RA TEMPO 1920/2009 BKN010 LEVX 191100Z 1912/2012 04007KT CAVOK TX23/1914Z TN14/2007Z LEXJ 191127Z 1911/2009 27005KT 9000 SCT010 BKN020 TX20/1914Z TN15/2006Z TEMPO 1911/1914 BKN010 TEMPO 1911/1917 36010KT PROB30 TEMPO 1922/2007 3000 BR BKN010 LEZG 191100Z 1912/2012 30008KT 9999 FEW050 TX22/1913Z TN15/2006Z PROB40 TEMPO 1912/2002 4000 SHRA SCT022 FEW025TCU BECMG 1918/1921 09007KT LEZL 190800Z 1909/2009 07006KT 9999 SCT030 TX22/1915Z TN13/2006Z LFBC 190800Z 1909/2009 VRB02KT CAVOK TEMPO 2003/2008 0500 FG LFBD 191100Z 1912/2018 03005KT CAVOK TX23/1915Z TN11/2006Z PROB30 2002/2006 3000 MIFG LFBE 191100Z 1912/2012 VRB03KT CAVOK PROB30 2003/2007 BCFG LFBG 190800Z 1909/2009 03010KT 3000 BR BKN005 BECMG 1909/1910 8000 NSW NSC LFBH 191100Z 1912/2012 05013KT CAVOK PROB30 2004/2007 3000 BR LFBI 191100Z 1912/2012 03010KT CAVOK PROB40 2003/2008 3000 BR BKN003 LFBL 191100Z 1912/2012 06010KT CAVOK LFBM 190800Z 1909/2009 35003KT 0500 FG VV/// BECMG 1909/1912 5000 BKN008 BECMG 1912/1915 CAVOK PROB40 1921/1924 0500 FG VV/// BECMG 2006/2009 1500 BR OVC005 LFBO 191200Z 1912/2018 VRB03KT 9999 SCT015 BECMG 1915/1917 CAVOK BECMG 1921/1923 3000 BR BKN003 TEMPO 2000/2008 0300 FG VV/// BECMG 2008/2010 BKN003 BECMG 2010/2012 9999 NSW BKN012 BECMG 2012/2015 CAVOK LFBP 191100Z 1912/2012 35005KT 9999 SCT020 BECMG 1920/1922 BKN020 BECMG 2000/2002 VRB02KT BKN006 LFBT 191100Z 1912/2012 04007KT 9999 SCT030 PROB40 1921/1924 VRB02KT 3000 BR PROB30 TEMPO 1921/1924 0500 FG VV/// BECMG 1922/1924 BKN017 LFBU 191100Z 1912/2012 04010KT CAVOK PROB30 2005/2007 3000 BR= LFOH 191100Z 1912/2012 05013KT CAVOK BECMG 1920/1922 01003KT TEMPO 2002/2006 3000 MIFG LFBZ 191100Z 1912/2012 25005KT 9999 FEW010 SCT020 BECMG 1912/1914 CAVOK BECMG 1921/1923 BKN008 LFCR 191100Z 1912/2012 14006KT CAVOK LFJL 191100Z 1912/2012 04010KT 8000 NSC BECMG 1919/1922 4000 BR PROB40 TEMPO 2003/2007 0800 BCFG BKN002 LFKB 190800Z 1909/2009 12006KT CAVOK TX24/1912Z TN14/2004Z BECMG 1918/1920 24004KT LFKC 190800Z 1909/2009 34008KT CAVOK TX26/1912Z TN14/2004Z BECMG 1917/1918 18004KT LFKF 190800Z 1909/2009 06010KT CAVOK BECMG 1915/1918 07004KT LFKJ 190800Z 1909/2009 23010KT CAVOK BECMG 1918/1920 05004KT LFKS 191008Z 1910/2009 CNL LFLB 191100Z 1912/2012 35012KT CAVOK PROB40 TEMPO 2002/2008 3000 BR LFLC 190800Z 1909/2009 VRB02KT CAVOK TEMPO 1912/1917 01005KT LFLL 191100Z 1912/2018 36012KT CAVOK BECMG 1919/1921 VRB02KT BECMG 2004/2006 2000 BR OVC008 BECMG 2010/2012 35012KT CAVOK LFLP 190200Z 1903/2003 VRB05KT CAVOK TEMPO 1903/1906 5000 NSC LFLS 190800Z 1909/2009 VRB02KT CAVOK TEMPO 2000/2008 5000 NSC LFLX 191100Z 1912/2018 02007KT 8000 FEW005 TEMPO 2004/2010 2000 BR BKN004 PROB30 TEMPO 2005/2009 0300 FG VV/// LFLY 191100Z 1912/2012 VRB02KT CAVOK LFMD 190800Z 1909/2009 19008KT CAVOK BECMG 1916/1918 34008KT LFMH 190800Z 1909/2009 VRB02KT CAVOK TEMPO 1915/1917 35005KT PROB30 TEMPO 2006/2008 3000 BR LFMI 190800Z 1909/2009 03007KT CAVOK BECMG 1910/1912 32006KT BECMG 1919/1920 VRB02KT BECMG 2000/2001 02006KT LFMK 190800Z 1909/2009 VRB02KT 2500 BR BKN002 BECMG 1910/1912 9999 NSW FEW050 BECMG 1914/1916 28010KT CAVOK PROB40 TEMPO 2001/2009 2000 BR BKN010 LFML 190800Z 1909/2015 VRB03KT CAVOK TX26/1914Z TN14/2006Z BECMG 1910/1912 28008KT BECMG 1917/1918 VRB02KT BECMG 2010/2012 27006KT LFMN 190800Z 1909/2015 19010KT CAVOK BECMG 1916/1918 34010KT BECMG 2009/2011 16008KT LFMO 190800Z 1909/2009 34002KT CAVOK TEMPO 1920/2006 35012KT LFMP 190800Z 1909/2009 28005KT 9999 SCT050 BKN100 PROB30 TEMPO 2001/2009 2000 BR BKN010 LFMT 190800Z 1909/2009 01006KT CAVOK TEMPO 1912/1918 18005KT PROB30 TEMPO 2001/2007 3000 BR BKN010 LFMU 190800Z 1909/2009 29005KT CAVOK PROB30 TEMPO 2001/2007 2000 BR BKN010 LFMV 190216Z 1903/2003 VRB05KT CAVOK TEMPO 1903/1906 5000 LFMY 190800Z 1909/2009 VRB02KT CAVOK FM191000 33008KT CAVOK LFOA 190800Z 1909/2009 04010KT 2000 BR BKN004 BECMG 1909/1910 8000 NSW NSC PROB30 TEMPO 2003/2007 3000 BR LFOB 191100Z 1912/2012 07005KT 8000 NSC TEMPO 1912/1914 3000 BR TEMPO 1922/2006 1500 MIFG LFOC 190800Z 1909/2009 01008KT 3000 BR OVC005 BECMG 1909/1911 7000 NSW NSC LFOE 190800Z 1909/2009 01005KT 0400 FG VV/// BECMG 1909/1911 6000 NSW BKN010 BECMG 1911/1913 SCT020 BECMG 2002/2004 3000 BR PROB30 TEMPO 2004/2008 0800 BCFG BKN008 LFOH 191100Z 1912/2012 05013KT CAVOK BECMG 1920/1922 01003KT TEMPO 2002/2006 3000 MIFG LFOJ 190800Z 1909/2009 03009KT 3500 BR BKN005 BECMG 1909/1911 CAVOK LFOK 191100Z 1912/2012 02010KT 8000 NSC TEMPO 1912/1914 4000 BR LFOP 191100Z 1912/2012 01007KT CAVOK TEMPO 2000/2006 1500 MIFG LFOT 191100Z 1912/2012 04006KT 8000 FEW006 PROB30 TEMPO 2004/2008 2000 BR BKN004 LFPB 191100Z 1912/2012 02010KT 7000 NSW NSC PROB30 2004/2006 4500 BR LFPG 191100Z 1912/2018 02010KT 7000 NSW NSC TX19/1914Z TN09/2006Z PROB40 2004/2006 4000 BR LFPO 191100Z 1912/2018 01007KT CAVOK TEMPO 2005/2007 3000 BR SCT002 LFPV 190800Z 1909/2009 02005KT 3000 BR BKN007 BECMG 1910/1911 9999 NSW SCT020 LFQQ 191100Z 1912/2018 01012KT 9999 SCT035 BECMG 1919/1921 VRB02KT TEMPO 2002/2007 3000 MIFG LFRB 191100Z 1912/2018 06010KT 9999 BKN020 TEMPO 2004/2007 2000 BR LFRD 191100Z 1912/2012 03010KT 9999 SCT020 BECMG 2000/2002 07005KT TEMPO 2002/2007 0500 BCFG LFRH 191100Z 1912/2012 03010KT CAVOK TEMPO 1912/1922 03010G20KT PROB30 TEMPO 2003/2006 4000 BR LFRI 191100Z 1912/2012 03010KT CAVOK LFRL 191100Z 1912/2012 05012KT CAVOK PROB30 TEMPO 2003/2007 3000 BR LFRM 191100Z 1912/2012 02008KT CAVOK TEMPO 1912/1913 OVC008 LFRN 191100Z 1912/2012 02010KT CAVOK BECMG 1922/1924 01005KT PROB30 TEMPO 2002/2007 0800 BCFG LFRO 191100Z 1912/2012 06010KT 9999 BKN020 TEMPO 2004/2008 2000 BR LFRQ 191100Z 1912/2012 06010KT 9999 FEW020 TEMPO 2004/2007 2000 BR LFRS 191100Z 1912/2018 03008KT CAVOK PROB30 TEMPO 2003/2007 3000 BR LFRZ 191100Z 1912/2012 04008KT CAVOK LFSB 191100Z 1912/2012 35008KT 6000 FEW010 SCT013 BECMG 1912/1914 CAVOK BECMG 1919/1921 VRB03KT 3000 BR PROB40 1922/2007 0300 FG VV/// PROB40 2007/2009 1200 OVC003 BECMG 2009/2011 34005KT 8000 NSW BKN010 LFSI 190800Z 1909/2009 09003KT 6000 NSC TEMPO 1922/2008 3000 BR BKN005 PROB30 TEMPO 2000/2007 0600 FG VV/// LFSO 190800Z 1909/2009 02005KT 2000 BR BKN003 BECMG 1909/1911 CAVOK BECMG 1923/2001 3000 BR TEMPO 2002/2007 0200 FG VV/// BECMG 2008/2009 6000 NSW LFST 191100Z 1912/2012 03008KT 7000 NSC TEMPO 2000/2008 4000 BR PROB40 TEMPO 2003/2007 0800 BCFG BKN003 LFSX 190800Z 1909/2009 VRB03KT CAVOK TEMPO 2004/2008 3000 BR BKN003 PROB40 TEMPO 2005/2007 0600 FG LFTH 190800Z 1909/2009 01004KT CAVOK BECMG 1911/1913 11008KT LFTW 190800Z 1909/2009 02008KT CAVOK LFVP 190800Z 1909/1918 28030G50KT 9999 SCT020 BKN040 TEMPO 1909/1918 3000 SHRA BR BKN010 OVC015 BECMG 1915/1918 29025G35KT LGAV 191100Z 1912/2012 03013KT 9999 FEW025 TEMPO 1912/1916 FEW020 BKN070 BECMG 1918/1920 VRB03KT BECMG 2004/2006 03012KT LGEL 191100Z 1912/2012 VRB05KT 9999 FEW025 TEMPO 1912/1916 FEW018 BKN070 LGIR 191100Z 1912/2012 04010KT 9999 FEW025 SCT080 BECMG 1918/1920 17010KT FEW016 BECMG 2006/2008 34010KT LGKO 191100Z 1912/2012 34010KT 9999 FEW015 LGKR 191100Z 1912/2012 25010KT 9999 FEW020 BECMG 1913/1915 VRB05KT LGPZ 191100Z 1912/2012 27010KT 9999 FEW020 BECMG 1917/1919 VRB05KT LGRP 191100Z 1912/2012 26012KT 9000 FEW015 LGSA 191100Z 1912/2012 10012KT 9999 FEW018 PROB30 TEMPO 1912/1918 SCT018 BKN080 LGSR 191100Z 1912/2012 02012KT 9999 SCT018 TEMPO 1912/1918 BKN018 LGTS 191100Z 1912/2012 VRB03KT 9999 FEW025 PROB40 TEMPO 2003/2007 4000 BR SCT010 BECMG 2008/2010 34010KT PROB40 TEMPO 2009/2012 8000 RA FEW010 SCT025 LHBP 191115Z 1912/2012 VRB03KT CAVOK TEMPO 1912/1916 SHRA -TSRA FEW040CB BKN080 TEMPO 1921/2012 SCT045 BECMG 2006/2008 33005KT LHPA 191115Z 1912/2012 36005KT CAVOK BECMG 1915/1918 VRB03KT BECMG 1919/1922 5000 BR MIBCFG NSC BECMG 1922/2001 0800 FG TEMPO 2001/2008 0350 FG BKN002 BECMG 2008/2011 34011KT 9999 NSW SCT020 LIBC 191100Z 1912/2012 03007KT 9999 SCT040 BECMG 1917/1919 VRB05KT BECMG 2007/2009 02010KT LIBD 191100Z 1912/2012 02010KT 9999 FEW030 BECMG 1915/1917 VRB05KT LIBP 191100Z 1912/2012 VRB05KT 8000 FEW020 LIBR 191100Z 1912/2012 35012KT 9999 FEW020 LICA 191100Z 1912/2012 08013KT 9999 SCT020 BECMG 1921/1923 VRB05KT LICC 191100Z 1912/2012 08016KT 9999 SCT020 BECMG 1922/1924 08006KT LICD 191100Z 1912/2012 01013KT 9999 FEW030 BECMG 2004/2006 07015KT LICJ 191100Z 1912/2012 06010KT 9999 SCT030 BECMG 1915/1917 VRB05KT LICR 191100Z 1912/2012 18010KT 9999 SCT030 BECMG 1918/1920 VRB06KT LIEA 191100Z 1912/2012 05008KT 9999 SCT040 LIEE 191100Z 1912/2012 04008KT 9999 SCT025 LIEO 191100Z 1912/2012 09012KT 9999 SCT020 TEMPO 1912/1914 TSRA BECMG 1918/1920 VRB04KT LIMC 191100Z 1912/2018 VRB05KT CAVOK TEMPO 2003/2006 4000 BCFG LIME 191100Z 1912/2012 VRB05KT CAVOK LIMF 191100Z 1912/2012 VRB05KT CAVOK LIMJ 191100Z 1912/2012 04010KT CAVOK LIML 191100Z 1912/2012 VRB05KT CAVOK TEMPO 2002/2006 3000 BR LIMP 191100Z 1912/2012 VRB05KT 7000 NSC TEMPO 2002/2008 3000 BR LIMZ 191100Z 1912/2012 VRB05KT CAVOK LIPB 191100Z 1912/2012 VRB05KT CAVOK LIPE 191100Z 1912/2012 VRB05KT 6000 NSC BECMG 2000/2003 3000 BR BECMG 2006/2008 6000 LIPH 191100Z 1912/2012 VRB05KT CAVOK LIPO 191100Z 1912/2012 VRB05KT CAVOK TEMPO 2002/2006 3000 BR LIPQ 191100Z 1912/2012 08006KT 9999 FEW060 LIPY 191100Z 1912/2012 VRB04KT 7000 SCT020 TEMPO 1921/2007 3000 BR LIPZ 191100Z 1912/2018 06008KT CAVOK TEMPO 2000/2007 3000 BR LIRA 191100Z 1912/2012 VRB05KT CAVOK LIRF 191100Z 1912/2018 27010KT CAVOK BECMG 1916/1918 03006KT BECMG 2011/2013 28010KT LIRN 191100Z 1912/2012 24010KT 9999 FEW030 BECMG 1916/1918 03008KT LIRP 191100Z 1912/2012 12010KT CAVOK BECMG 1913/1915 VRB03KT BECMG 1920/1922 12010KT BECMG 2010/2012 34005KT LIRQ 191100Z 1912/2012 03010KT CAVOK BECMG 1917/1919 VRB05KT BECMG 2008/2010 03010KT LIRZ 191100Z 1912/2012 03008KT 9999 FEW040 LJLJ 190800Z 1909/2009 30003KT 9999 FEW030 BECMG 1909/1911 12004KT BECMG 1916/1918 30003KT BECMG 1921/1923 7000 TEMPO 2000/2009 2500 PRFG BR PROB40 TEMPO 2002/2007 0500 FG VV001 LJMB 190800Z 1909/2009 02004KT CAVOK TEMPO 1909/1916 FEW030 SCT100 BECMG 1922/1924 7000 TEMPO 2000/2008 3500 BR LKCV 191100Z 1912/2012 28005KT 5000 BR OVC017 BECMG 1912/1914 7000 SCT025 TEMPO 1922/2007 3000 BR OVC003 LKKB 191100Z 1912/2012 35004KT 7000 BKN035 BECMG 1912/1915 VRB02KT 9999 SCT035 BECMG 1923/2002 7000 BKN040 TEMPO 2002/2007 5000 BR BKN017 PROB30 TEMPO 2003/2006 3000 BR OVC007 BECMG 2007/2010 9999 BKN045 LKKV 191100Z 1912/2018 VRB02KT 9999 BKN023 BECMG 1918/1920 2500 BR BKN014 TEMPO 1921/2008 1200 BR BKN003 PROB30 TEMPO 2000/2006 0500 FG VV001 BECMG 2008/2011 9999 SCT030 LKMT 191100Z 1912/2018 04006KT 0800 FG OVC003 TEMPO 1912/1918 1800 BR BKN005 PROB30 TEMPO 1912/1918 4000 BR BKN015 TEMPO 1920/2006 0300 FG VV001 BECMG 2007/2009 03010KT 5000 BR BKN015 LKNA 191100Z 1912/2012 31008KT CAVOK BECMG 1920/1922 VRB02KT BECMG 2000/2002 3000 BR BECMG 2004/2006 0800 FG SCT003 BECMG 2010/2012 31008KT 5000 BR NSC LKPR 191100Z 1912/2018 34005KT 9999 BKN030 BECMG 1921/1923 3000 BR BKN014 TEMPO 2000/2007 1200 BR BKN003 PROB30 TEMPO 2000/2006 0400 FG OVC002 BECMG 2007/2010 CAVOK LKTB 191100Z 1912/2018 10005KT CAVOK PROB30 TEMPO 1912/1916 8000 -SHRA SCT040TCU BECMG 1920/1922 VRB02KT 3000 BR SCT005 TEMPO 2000/2007 1200 BR BKN003 BECMG 2008/2010 32008KT 9999 SCT035 LLBG 191121Z 1912/2012 31012KT 9999 SCT025 BECMG 1918/1920 VRB04KT BECMG 2006/2008 28010KT SCT030 PROB30 2008/2012 RA FEW025 BKN030 TX28/1912Z TN21/2003Z LLET 191120Z 1912/2012 04008KT 9999 SCT040 TEMPO 1912/1916 VRB04KT BECMG 1916/1918 34008KT BECMG 2004/2006 04008KT CAVOK BECMG 2009/2011 18005KT TX33/1913Z TN23/2003Z LLHA 191124Z 1912/2012 32008KT 9999 SCT025 TEMPO 1912/1916 VCTS FEW022CB BKN025 BECMG 1921/1923 VRB04KT BECMG 2006/2008 29008KT SCT030 PROB30 2008/2012 RA FEW025 BKN030 TX28/1912Z TN22/2004Z LLHZ 191123Z 1912/2012 32008KT 9999 SCT025 BECMG 1916/1918 VRB04KT BECMG 2006/2008 28008KT SCT030 PROB30 2008/2012 RA FEW025 BKN030 TX27/1912Z TN21/2003Z LLIB 191117Z 1912/2012 31010KT 8000 SCT035 TEMPO 1912/1916 28015G25KT 5000 RA FEW015 FEW025CB BKN030 BECMG 1916/1918 VRB04KT 6000 BKN025 BECMG 2006/2008 16006KT 9999 SCT030 PROB30 2008/2012 8000 RA FEW025 BKN030 TX29/1912Z TN19/2004Z LLSD 191123Z 1912/2012 31012KT 9999 SCT025 BECMG 1915/1917 35007KT TEMPO 2002/2006 VRB03KT BKN025 BECMG 2006/2008 28010KT SCT030 PROB30 2008/2012 RA FEW025 BKN030 TX27/1912Z TN23/2004Z LOWG 191115Z 1912/2012 VRB02KT 9999 FEW050 TX20/1913Z TN06/2005Z TEMPO 1912/1916 19006KT BECMG 1920/1922 3000 BCFG FEW003 TEMPO 1922/2008 0400 BCFG SCT002 PROB30 TEMPO 2002/2006 0200 FG VV002 BECMG 2007/2009 9999 FEW040 TEMPO 2009/2012 33006KT BKN050 LOWI 191115Z 1912/2012 VRB02KT CAVOK TX19/1914Z TN05/2005Z LOWK 191115Z 1912/2012 VRB02KT 9999 FEW020 SCT090 TX17/1914Z TN07/2005Z TEMPO 1921/2010 3000 BR BKN005 PROB30 TEMPO 1923/2007 0500 FG OVC002 LOWL 191115Z 1912/2012 10005KT 9000 FEW030 TX18/1914Z TN08/2003Z BECMG 1920/1922 30003KT 3500 BR SCT040 TEMPO 2003/2008 1200 BCFG BKN006 PROB40 2004/2007 VRB01KT 0200 FG VV002 BECMG 2009/2012 26006KT 9999 LOWS 191115Z 1912/2012 02005KT 9999 FEW050 TX16/1914Z TN05/2005Z BECMG 1916/1918 15003KT 8000 FEW006 TEMPO 1920/2008 VRB02KT 4000 BR SCT006 PROB40 TEMPO 2002/2007 0300 FG BKN003 BECMG 2008/2010 32006KT 9999 FEW010 SCT035 LOWW 191115Z 1912/2018 34008KT CAVOK TX20/1914Z TN08/2005Z TEMPO 1912/1915 35012KT 9999 SCT040 TEMPO 2002/2007 30004KT 6000 NSC LPAR 190803Z 1909/1918 36005KT CAVOK BECMG 1910/1912 04010KT FEW035 TEMPO 1912/1914 07012G22KT BKN035 LPAZ 191100Z 1912/2018 04010KT 9999 FEW020 BKN030 TEMPO 1912/1921 SCT018 BECMG 1918/1921 04015KT TEMPO 1921/2014 SCT008 BKN015 PROB30 TEMPO 2014/2018 04018G28KT LPBJ 191101Z 1912/2012 07008KT 9999 SCT015 BECMG 1918/1920 VRB02KT CAVOK PROB40 1903/1908 2000 BCFG NSC LPFR 191100Z 1912/2012 11012KT 9999 FEW025 BECMG 1918/1920 VRB03KT BECMG 2000/2003 06010KT PROB30 TEMPO 2006/2012 8000 SHRA FEW015 BKN035 LPLA 191100Z 1912/2012 VRB05KT 9999 FEW025 BECMG 2009/2011 03010KT LPMA 191100Z 1912/2012 02013KT 9999 SCT016 TEMPO 1912/1924 02018G30KT PROB30 TEMPO 1912/1924 6000 -RADZ FEW008 BKN013 BECMG 2003/2005 35010KT TEMPO 2003/2008 BKN015 LPMR 191106Z 1912/2012 36005KT CAVOK TEMPO 1915/1918 8000 -SHRA SCT035 BECMG 1916/1918 08005KT FEW040 TEMPO 2006/2012 4000 SHRA SCT025 BKN035 LPMT 191102Z 1912/2012 36005KT CAVOK PROB30 TEMPO 1915/1921 8000 -SHRA FEW020 BKN025 BECMG 1917/1919 VRB02KT FEW030 TEMPO 2006/2012 4000 SHRA SCT015 BKN030 LPOV 191109Z 1912/2012 36008KT CAVOK BECMG 1918/1921 06010KT TEMPO 2004/2012 07012G22KT LPPD 191100Z 1912/2012 VRB05KT 9999 FEW020 BKN035 TEMPO 1912/1921 SCT020 TEMPO 1921/2012 SCT008 BKN015 BECMG 2003/2006 03012KT LPPR 191100Z 1912/2012 32010KT CAVOK BECMG 1917/1920 05008KT BECMG 2000/2003 09008KT LPPS 191100Z 1912/2018 01015KT 9999 SCT015 TEMPO 1912/1918 02020G30KT SCT012 BKN030 PROB30 TEMPO 1912/1924 5000 -RADZ BR SCT006 BKN012 BECMG 2000/2002 04010KT LPPT 191100Z 1912/2018 04008KT 9999 SCT035 BECMG 1912/1915 11008KT BECMG 1920/1922 06008KT BECMG 2001/2003 04007KT TEMPO 2006/2018 8000 SHRA SCT015 BKN030 PROB30 TEMPO 2012/2018 VRB10G20KT 3000 TSRA BKN012 FEW020CB BECMG 2016/2018 15008KT LPST 190804Z 1909/1918 02007KT CAVOK BECMG 1910/1912 06010KT FEW030 TEMPO 1912/1915 07012G22KT BKN030 LQSA 191100Z 1912/2012 30004KT 7000 BKN040 TX21/1913Z TN07/2004Z TEMPO 2005/2009 3000 BR LRBS 191100Z 1912/2012 VRB04KT 9999 SCT040 PROB40 TEMPO 1918/1923 5000 -SHRA SCT045CB TEMPO 2003/2006 3000 BR BECMG 2007/2009 26012KT LRCK 191100Z 1912/2012 VRB04KT 9999 SCT030 BECMG 2008/2010 33010KT LROP 191100Z 1912/2012 VRB04KT 9999 SCT040 PROB40 TEMPO 1918/1923 5000 -SHRA SCT045CB TEMPO 2003/2006 3000 BR BECMG 2007/2009 26012KT LRSB 191100Z 1912/2012 VRB04KT CAVOK TEMPO 1913/1916 SCT040CB TEMPO 1919/1922 5000 -RA BR BKN015 BKN035 PROB30 TEMPO 1919/1922 3000 SHRA BKN010 BKN030CB OVC035 BECMG 1922/1924 3000 BR BKN010 BKN025 TEMPO 2000/2003 1500 -DZ BR BKN005 BKN020 BECMG 2006/2008 9999 NSW SCT025 LRTR 191100Z 1912/2012 05010KT CAVOK BECMG 1913/1915 11006KT BECMG 1920/1922 5000 BR TEMPO 1922/2006 3000 BR BKN010 BECMG 2006/2008 34010KT 9999 NSW LSGG 191125Z 1912/2018 05005KT 8000 NSC TX19/1914Z TN07/2006Z TX18/2015Z PROB40 TEMPO 2003/2009 4000 BR BKN010 LSMA 191117Z 1911/2016 VRB02KT 6000 BKN015 PROB40 1912/1920 4000 BR BKN014 BECMG 1923/2002 4000 BKN012 PROB40 1922/2007 1200 BCFG BKN003 BECMG 2010/2014 6000 SCT012 LSMD 191119Z 1911/2016 09004KT 4000 BR BKN011 BECMG 1911/1914 7000 SCT014 PROB40 1912/1918 CAVOK BECMG 1919/1923 4000 BKN008 PROB40 1922/2007 1200 BCFG BKN003 BECMG 2008/2011 6000 SCT012 PROB40 2012/2016 CAVOK LSME 191116Z 1911/2016 05004KT 4000 BR OVC014 PROB40 1912/1920 7000 SCT015 BECMG 1923/2002 BKN008 PROB40 1922/2007 1200 BCFG BKN003 BECMG 2010/2014 6000 SCT012 LSMM 190925Z 1910/2016 VRB02KT CAVOK BECMG 1921/2001 4000 MIFG PROB40 1922/2007 1200 BCFG BECMG 2007/2009 CAVOK LSMP 190925Z 1910/2016 VRB03KT 5000 BR NSC PROB40 TEMPO 2003/2010 2500 BKN010 LSZH 191125Z 1912/2018 05006KT 5000 BKN013 TX19/1914Z TN05/2004Z TX18/2014Z BECMG 1912/1913 7000 FEW014 BECMG 1918/1921 VRB03KT 7000 NSC BECMG 1923/2002 4000 MIFG BECMG 2002/2004 2000 BCFG BKN003 BECMG 2007/2009 4000 BR BKN010 BECMG 2009/2012 05007KT 7000 FEW015 LTAC 190440Z 1906/2006 VRB02KT 9999 SCT035 TEMPO 1913/1917 34015KT -TSRA FEW025CB BKN030 LTAG 190440Z 1906/2006 VRB02KT CAVOK TEMPO 1912/1916 FEW025 BKN200 BECMG 2000/2003 SCT025 BKN120= LTAP 190440Z 1906/2006 VRB02KT CAVOK BECMG 1906/1909 SCT040 BECMG 1912/1915 03012KT PROB30 TEMPO 1916/1919 -SHRA BKN035 BECMG 1917/1920 VRB02KT LTAI 190440Z 1906/2006 VRB02KT CAVOK BECMG 1906/1910 SCT030 BKN100 TEMPO 1912/1916 FEW025TCU BECMG 1916/1920 CAVOK LTAJ 190440Z 1906/2006 02007KT 9999 SCT040 BKN100 BECMG 1908/1910 10010KT PROB30 TEMPO 1911/1915 -SHRA PROB30 TEMPO 1918/1922 -SHRA PROB30 TEMPO 2001/2005 -SHRA LTAT 190440Z 1906/2006 VRB02KT 9999 SCT040 BKN100 TEMPO 1915/1919 -SHRA FEW027CB BKN033 LTAU 190440Z 1906/2006 VRB02KT 9999 SCT040 BKN180 PROB40 TEMPO 1912/1916 21015G25KT -TSRA FEW030CB BKN035 TEMPO 1916/1920 -SHRA BKN033 BKN080 LTAZ 190440Z 1906/2006 VRB02KT 9999 SCT040 BKN180 PROB30 TEMPO 1912/1916 23015G25KT -TSRA FEW030CB BKN035 TEMPO 1916/1920 -SHRA BKN033 BKN080 LTBA 190440Z 1906/2012 03007KT 9999 BKN030 BECMG 1911/1913 SCT040 BECMG 1920/1923 FEW015 BKN030 PROB30 2000/2004 3200 -RA BR BECMG 2010/2012 SCT040 LTBJ 190440Z 1906/2006 VRB02KT 0500 FG VV001 BECMG 1907/1908 5000 BR NSC BECMG 1909/1911 9999 NSW FEW030 BECMG 1911/1913 35012KT BECMG 1916/1918 CAVOK BECMG 1918/1920 VRB02KT TEMPO 2003/2006 3200 BR LTBR 190440Z 1906/2006 VRB02KT 4000 BR FEW010 BKN025 BECMG 1907/1911 35013KT 8000 SCT030 PROB40 TEMPO 1912/1915 -SHRA BKN027 PROB30 TEMPO 1915/1919 -TSRA FEW025CB BKN030 BECMG 1917/1920 VRB02KT PROB40 2002/2006 3500 -SHRA BR BKN025 LTBS 190440Z 1906/2006 VRB02KT CAVOK BECMG 1907/1909 22012KT FEW030 BECMG 1915/1917 VRB02KT CAVOK LTBU 190652Z 1906/2006 01008KT 4500 BR BKN030 BECMG 1908/1912 9999 NSW SCT030 BECMG 1913/1917 CAVOK BECMG 1921/1924 FEW017 BKN030 TEMPO 2003/2006 3500 BR LTCC 190440Z 1906/2006 VRB02KT 9999 FEW040 BKN100 PROB40 TEMPO 1911/1914 24015G25KT -TSRA FEW025CB BKN035 TEMPO 1918/1922 32015G25KT -TSRA FEW025CB BKN035= LTCE 190440Z 1906/2006 VRB02KT CAVOK BECMG 1906/1908 SCT040 BECMG 1908/1910 FEW030CB BKN035 PROB30 TEMPO 1910/1913 -TSRA BECMG 1913/1915 -SHRA BKN035 BKN070 BECMG 1917/1919 SCT035 BKN080 LTCG 190440Z 1906/2006 VRB02KT 9999 SCT012 BKN033 BECMG 1906/1909 SCT035 BECMG 1916/1919 SCT012 BKN033 TEMPO 1919/1923 BKN012 BKN028 PROB40 1923/2003 BKN006 BKN028 LTCJ 190440Z 1906/2006 VRB02KT 9999 FEW100 BECMG 1909/1912 FEW040 BKN100= LTCS 190440Z 1906/2006 01007KT 9999 SCT040 BKN100 BECMG 1908/1910 16010KT PROB30 TEMPO 1910/1913 -SHRA BECMG 1918/1920 35007KT CAVOK BECMG 2001/2003 SCT040 BKN100 PROB30 TEMPO 2003/2006 -SHRA LTFC 190644Z 1906/2006 VRB02KT 4000 BR SCT020 BECMG 1907/1911 9999 NSW FEW020CB PROB40 TEMPO 1911/1915 -TSRA FEW020CB BKN030 BECMG 1916/1920 SCT035 LTFE 190440Z 1906/2006 VRB02KT 3500 BR NSC BECMG 1906/1908 8000 BECMG 1908/1910 26012KT FEW035 BKN200 BECMG 1915/1917 VRB02KT BECMG 1918/1920 CAVOK BECMG 2000/2002 3200 BR PROB40 2003/2006 1200 BCFG LTFJ 190440Z 1906/2006 03011KT 9999 SCT012 BKN025 PROB30 TEMPO 1912/1916 03015G25KT PROB30 TEMPO 2000/2004 BKN009 OVC020 LUKK 191120Z 1912/2012 33006KT 9999 SCT040 TEMPO 1912/1916 SCT040CB BECMG 1918/1920 5000 BR FU TEMPO 1919/2006 3000 BECMG 2006/2008 9999 NSW LWOH 191130Z 1912/2012 17008KT 9999 FEW050 LWSK 191130Z 1912/2012 VRB02KT 9999 FEW090 TEMPO 1913/1917 34010KT LYBE 191100Z 1912/2012 32006KT CAVOK TX22/1912Z TN10/2005Z TEMPO 1919/2003 4000 -SHRA FEW030TCU SCT033 TEMPO 2003/2007 2000 BR LYBT 191100Z 1912/2012 27005KT CAVOK TX22/1912Z TN10/2005Z TEMPO 1919/2003 5000 SHRA SCT030TCU SCT033 TEMPO 2003/2006 3000 BR LYKV 191100Z 1912/2012 32005KT 9999 SCT033 TX20/1913Z TN07/2005Z TEMPO 2000/2003 5000 -SHRA SCT030TCU BKN033 LYNI 191100Z 1912/2012 33006KT 9999 SCT040 TX22/1913Z TN08/2005Z TEMPO 2005/2012 5000 SHRA SCT030TCU BKN033 LYPG 191100Z 1912/2012 17005KT 9999 FEW040 TX27/1913Z TN13/2005Z LYTV 191100Z 1912/2012 24006KT CAVOK TX26/1913Z TN10/2004Z LYUZ 191100Z 1912/2012 31005KT CAVOK TX16/1913Z TN06/2005Z TEMPO 2000/2003 3000 SHRA BKN020TCU LYVR 191100Z 1912/2012 36006KT 9999 SCT040 TX19/1913Z TN10/2005Z TEMPO 2000/2007 2000 BR MGGT 191100Z 1912/2012 36010KT 9999 SCT012 BKN080 TX23/1920Z TN16/1912Z BECMG 1915/1917 SCT018 TEMPO 1918/2006 18008KT 8000 RADZ SCT018 OVC080 BECMG 2001/2003 VRB03KT BKN014 OVC080 PROB40 2005/2012 5000 BR BKN012 MGMM 191100Z 1912/2012 00000KT 9999 BKN012 TX24/1920Z TN21/1912Z BECMG 1915/1917 09008KT SCT018 TEMPO 1919/1924 8000 TSRA SCT020TCU FEW025CB BECMG 2001/2003 00000KT CAVOK BECMG 2008/2010 BKN012 MGPB 191100Z 1912/2012 00000KT 9999 SCT016 TX29/1920Z TN20/1912Z BECMG 1915/1917 05008KT SCT018 TEMPO 1920/1924 8000 TSRA SCT020TCU FEW025CB BECMG 2000/2002 00000KT BKN018 BECMG 2006/2008 SCT014 MGSJ 191100Z 1912/2012 00000KT 9999 SCT016 BKN080 TX28/1920Z TN22/1912Z BECMG 1915/1917 18008KT SCT018 TEMPO 1919/1924 22010KT 8000 TSRA FEW025CB BECMG 2000/2002 00000KT SCT016 BKN080 BECMG 2004/2006 FEW016 MHSC 1901/2003 15009KT 9000 -SHRA BKN020 QNH2987INS BECMG 1905/1906 VRB06KT 9999 NSW BKN020 QNH2992INS BECMG 1908/1909 VRB06KT 9999 OVC010 QNH2992INS BECMG 1915/1916 36009KT 9999 SCT015 SCT120 QNH2989INS BECMG 1919/1920 36012KT 9000 -SHRA VCTS SCT020CB BKN120 QNH2987INS TEMPO 1920/1924 VRB15G25KT 6000 -TSRA BKN020CB TX28/1921Z TN18/1912Z LAST NO AMDS AFT 1901 NEXT 1913 MKJP 191115Z 1912/2012 11010KT 9999 FEW022CB BECMG 1914/1916 14020KT BECMG 2001/2003 35005KT MKJS 191115Z 1912/2012 VRB03KT 9999 FEW022 BECMG 1914/1916 07015KT TEMPO 1918/1921 8000 TSRA SCT018 BKN020CB BECMG 2001/2003 VRB03KT MMAA 190512Z 1906/2012 06005KT 6SM HZ SCT015CB BKN090 BKN250 TX30/1920Z TN24/1912Z TEMPO 1906/1910 4SM TSRA BKN015CB FM191800 18014KT P6SM SCT015CB BKN080 BKN250 TEMPO 2003/2007 4SM TSRA BKN015CB FM200800 34005KT P6SM SCT015 BKN090 BKN250 MMAN 190529Z 1906/2006 36006KT 5SM HZ BKN008 OVC010 TEMPO 1908/1912 2SM -DZ BR BKN005 FM191800 04016KT P6SM BKN010 OVC050 FM200500 04006KT 5SM HZ BKN015 MMCB 190053Z 1901/1918 16005KT P6SM BKN020CB BKN250 TEMPO 1901/1903 5SM RA FM190600 00000KT P6SM SCT020 BKN100 FM191200 34005KT 4SM HZ SCT020 BKN200 PROB40 1912/1915 3SM BR BKN015 MMCP 191207Z 1912/2006 12005KT 5SM HZ OVC005 TEMPO 1912/1915 2SM BR FM191600 08010KT 6SM HZ BKN010 FM191800 09012KT 6SM HZ SCT020 TEMPO 1922/2002 6SM TSRA BKN020CB MMCS 190529Z 1906/2006 03007KT P6SM SCT015 BKN030 04012KT P6SM SCT015 BKN030 BKN250 FM200500 04006KT P6SM SCT030 BKN080 MMCU 190529Z 1906/2006 00000KT P6SM SCT080 FM191800 12012KT P6SM BKN018 BKN090 TEMPO 2002/2006 4SM TSRA BKN020CB MMCV 190505Z 1906/2006 30005KT 5SM HZ BKN008 OVC020 FM191200 03005KT 5SM HZ BKN010 FM191800 03010KT 6SM HZ BKN020 FM200300 03005KT 5SM HZ BKN015 MMDO 191144Z 1912/2006 32005KT 6SM HZ SCT010 OVC015 FM191800 03010KT P6SM BKN030 TEMPO 1922/2002 6SM TSRA BKN020CB MMEP 190057Z 1901/1918 02010KT P6SM VC RA BKN250 TEMPO 1901/1904 3SM RA FM190600 29005KT P6SM -RA SCT020 BKN080 TEMPO 1906/1909 4SM TSRA BKN020CB FM191000 00000KT 3SM BR BKN010 TEMPO 1911/1915 1SM BR MMIO 190529Z 1906/2006 00000KT 1SM BR HZ OVC004 TEMPO 1911/1915 1/2SM FG VV003 FM191800 04008KT 4SM HZ SCT008 BKN015 OVC070 FM200500 00000KT 3SM BR HZ SCT006 BKN012 MMMA 190505Z 1906/2006 32010KT 6SM HZ OVC006 TEMPO 1911/1915 1SM BR DZ BKN005 OVC010 FM191800 33015KT 6SM -RA BKN010 OVC020 TEMPO 1919/1923 3SM TSRA OVC010CB FM200300 33010KT 5SM HZ BKN005 OVC010 MMMT 190249Z 1903/1918 36020G30KT 1/2SM RA OVC005CB FM190330 36015KT 4SM -RA BKN005 OVC010CB TEMPO 1904/1908 2SM TSRA FM190800 36008KT 6SM HZ BKN020 OVC080 PROB40 1908/1912 4SM -RA FM191400 33005KT P6SM SCT020 BKN080 MMMX 190512Z 1906/2012 02012KT P6SM SCT020 BKN080 TX21/1921Z TN13/1912Z FM191800 06014KT P6SM BKN020 BKN080 BKN250 PROB40 1923/2003 6SM -RA BKN020CB FM200600 34005KT P6SM SCT020 BKN080 MMMY 190529Z 1906/2012 36006KT 5SM HZ BKN008 OVC010 TX19/1922Z TN11/1912Z TEMPO 1908/1912 2SM -DZ BR BKN005 FM191800 04016KT P6SM BKN010 OVC050 FM200600 04006KT 5SM HZ BKN012 FM200900 04005KT 4SM HZ BKN010 MMNL 190505Z 1906/2006 33008KT 3SM DZ BR OVC010 FM191000 33005KT 1SM BR BKN005 OVC010 TEMPO 1911/1915 1/2SM FG DZ VV003 FM191800 33010KT 5SM HZ BKN020 FM200300 03005KT 5SM HZ BKN015 MMPS 190404Z 1904/1918 16005KT 1SM +RA OVC010CB FM190500 20005KT 6SM -RA BKN010CB BKN200 TEMPO 1905/1909 2SM TSRA OVC010CB FM191200 00000KT 5SM HZ BKN010 BKN200 TEMPO 1912/1916 4SM RA BKN008CB FM191800 24010KT 5SM HZ BKN020 BKN200 MMRX 190505Z 1906/2006 33008KT 2SM BR DZ OVC010 TEMPO 1911/1915 1/2SM FG DZ VV003 FM191600 33005KT 3SM HZ BKN010 FM191800 33010KT 5SM HZ OVC015 TEMPO 1919/1923 4SM -RA OVC010 FM200300 33005KT 4SM HZ BKN015 MMTC 190529Z 1906/2006 00000KT 4SM HZ BKN010 BKN020 OVC070 TEMPO 1911/1915 2SM BR BKN008 FM191800 08010KT P6SM BKN015 BKN080 FM200500 00000KT 5SM HZ BKN015 MMTG 191115Z 1911/2006 00000KT 1/2SM FG VV003 BECMG 1914/1915 3SM BR HZ BKN010 FM191800 36015KT P6SM BKN020CB BKN080 OVC250 TEMPO 2001/2005 4SM TSRA BKN020CB MMTM 190512Z 1906/2006 03010KT P6SM SCT010 OVC020 TEMPO 1911/1915 3SM BR HZ BKN010 FM191800 03012KT 6SM HZ BKN012 OVC030 TEMPO 2000/2004 3SM -DZ BR BKN008 MMTO 190512Z 1906/2012 04012KT P6SM SCT070 BKN250 TX19/1920Z TN10/1912Z TEMPO 1912/1916 4SM HZ FM191800 09014KT P6SM BKN015CB BKN080 BKN250 PROB40 1923/2003 5SM -RA BKN015CB FM200600 03010KT 6SM HZ SCT015 BKN080 MMTP 190731Z 1908/2012 05005KT 6SM -RA OVC030 TEMPO 1908/1910 6SM TSRA OVC025CB FM191000 00000KT 6SM HZ SCT020 BKN100 FM191800 23010KT P6SM BKN015 BKN080 OVC250 FM200200 14005KT 4SM -RA BKN015 OVC080 TEMPO 2002/2006 2SM TSRA BKN010CB FM200900 00000KT 6SM HZ SCT030 BKN100 MMVR 190512Z 1906/2006 36008KT P6SM BKN040 OVC080 TX28/1919Z TN23/1912Z TEMPO 1906/1910 4SM -RA BKN020 FM191000 36008KT 5SM -RA BKN015 OVC070 TEMPO 1912/1916 4SM -RA BKN012 FM191800 36016KT P6SM BKN012 OVC070 FM192100 36010KT 5SM -RA BKN012CB OVC070 TEMPO 2001/2005 3SM TSRA BKN012CB MMZH 190056Z 1901/1918 09005KT 5SM -RA BKN015CB OVC090 TEMPO 1901/1904 4SM RA FM190600 00000KT P6SM SCT020 BKN090 FM191200 32005KT P6SM VC RA BKN020CB BKN080 PROB40 1912/1915 3SM TSRA FM191600 00000KT 5SM HZ SCT020 BKN090 MNMG 191100Z 1912/2012 00000KT 9999 SCT021 SCT070 TEMPO 1914/1917 FEW018 SCT300 BECMG 1919/1923 08010KT 7000 VCRA FEW016CB MNPC 190300Z 1903/2003 16006KT 9999 FEW020 BKN070 TEMPO 1913/1917 SCT016 BECMG 1919/1923 08010KT 7000 VCRA FEW016CB MPDA 190300Z 1900/1912 CNL MPMG 190300Z 1900/1912 CNL MRLB 191100Z 1912/2012 10005KT 9999 FEW040 TX32/1920Z TN22/2010Z TEMPO 1912/1913 00000KT 5000 PRFG TEMPO 1915/1920 08011KT TEMPO 1921/2001 26008KT SHRA SCT015TCU MRLM 191100Z 1912/2012 30004KT 9999 SCT035 SCT080 TX32/1919Z TN22/2011Z TEMPO 1912/1914 DZ BKN020 BECMG 1916/1917 08009KT TEMPO 1923/2005 33006KT +RA BKN020 BECMG 2002/2004 27003KT MROC 191100Z 1912/2012 08007KT 9999 FEW030 TX29/1919Z TN18/2010Z BECMG 1917/1919 28010KT BKN030 TEMPO 1920/1922 5000 TSRA FEW020CB TEMPO 1923/2001 5000 BCFG BKN010 BECMG 2001/2002 06006KT MRPV 191100Z 1912/2012 08008KT 9999 FEW030 TX27/1919Z TN18/2010Z BECMG 1920/1922 29003KT BKN020 TEMPO 1920/1923 RA BKN015 TEMPO 2000/2002 5000 BR BKN008 BECMG 2001/2003 06005KT MTCH 191100Z 1912/2012 VRB02KT 9000 FEW024CB SCT060 BECMG 1914/1918 03010KT PROB30 TEMPO 2000/2004 4500 TSRA SCT022CB BKN030 BECMG 2008/2012 VRB02KT 8000 NSW FEW016 MTPP 191100Z 1912/2012 11005KT 9999 FEW018 BECMG 1914/1918 09010KT BECNG 1919/1923 27010KT FEW024CB SCT030 PROB30 TEMPO 2000/2004 4500 TSRA SCT022CB BKN030 BECMG 2008/2012 VRB02KT 8000 NSW FEW020 MUGM 1907/2007 01007KT 9999 FEW030 BKN280 QNH2992INS FM191600 11018G25KT 9999 VCTS FEW030CB SCT280 510006 QNH2996INS BECMG 1920/1922 01010KT 9999 NSW FEW030 SCT150 BKN280 500000 QNH2990INS T24/1911Z T31/1918Z FN00192 NCRG 191112Z 1912/2012 12012KT 9999 SCT018 BKN045 PROB40 TEMPO 1912/1918 5000 SHRA BKN015 NFFN 191111Z 1912/2012 10005KT 9999 SCT022 BKN045 PROB40 TEMPO 1914/1920 4000 TSRA FEW017CB BECMG 1922/1924 25010KT TEMPO 2000/2006 3000 BKN015 FEW018CB BECMG 2003/2005 09006KT NFNA 191113Z 1912/2012 12010KT 9999 -SHRA BKN017 OVC045 TEMPO 1912/2006 3000 TSRA BKN015 FEW017CB NFTF 191112Z 1912/2012 11012KT 9999 FEW009 SCT016 BKN040 PROB30 TEMPO 1920/2006 12015G25KT NFTV 191115Z 1912/2012 12009KT 9999 -SHRA SCT017 BKN040 BKN100 PROB30 TEMPO 1915/1920 5000 SHRA BKN015 NGFU 191116Z 1912/2012 11010KT 9999 SCT018 BKN100 PROB30 TEMPO 1918/1924 5000 SHRA BKN015 PROB40 TEMPO 2003/2012 5000 TSRA FEW018CB NGTA 191114Z 1912/2012 09008KT 9999 SCT018 SCT100 PROB30 TEMPO 1914/1918 5000 SHRA BKN015 NIUE 191114Z 1912/2012 12013KT 9999 SCT018 BKN100 PROB30 TEMPO 1914/1918 5000 SHRA BKN015 NLWF 191100Z 1912/2012 09014KT 9999 SCT018 SCT050 TEMPO 1912/2012 3000 SHRA BKN012 FEW020CB PROB40 TEMPO 1912/1924 1500 TSRA BKN010 SCT016CB= NLWW 191100Z 1912/2012 11010KT 9999 SCT020 SCT030 TEMPO 1912/2003 5000 SHRA FEW020TCU PROB40 TEMPO 2003/2012 2000 TSRA BKN010 SCT016CB NLWW 191100Z 1912/2012 11010KT 9999 SCT020 SCT030 TEMPO 1912/2003 5000 SHRA FEW020TCU PROB40 TEMPO 2003/2012 2000 TSRA BKN010 SCT016CB NSFA 191113Z 1912/2012 10008KT 9999 SCT018 BKN100 PROB30 TEMPO 1912/1920 5000 SHRA BKN015 PROB30 TEMPO 1923/2008 5000 TSRA FEW017CB NSTU 191120Z 1912/2012 14011KT P6SM VCSH SCT017 BKN040 OVC100 TEMPO 1912/1916 16015G22KT 5SM SHRA BR BKN012 OVC035 NTAA 191100Z 1912/2018 VRB03KT 9999 FEW025 SCT050 BECMG 1918/1920 05015KT BECMG 2002/2004 VRB03KT NWWD 190500Z 1906/2006 19005KT 9999 FEW040 TEMPO 1906/1908 SHRA FEW020CB PROB30 TEMPO 1914/1918 4000 BR BKN009 NWWE 190834Z 1908/2006 CNL NWWK 190500Z 1906/2006 17008KT 9999 FEW040 NWWL 191100Z 1912/2012 12005KT 9999 SCT010 SCT020 PROB30 TEMPO 1912/1920 BKN008 PROB40 TEMPO 1914/1920 1000 BCFG BECMG 1922/1924 09010KT TEMPO 2000/2006 SHRA FEW018TCU NWWM 191100Z 1912/2012 11008KT 9999 SCT060 BECMG 1922/1924 13012KT PROB40 TEMPO 2000/2006 SHRA FEW025TCU NWWR 191100Z 1912/2012 09005KT 9999 SCT012 SCT020 TEMPO 1912/1920 BKN008 PROB40 TEMPO 1914/1920 1000 BCFG BECMG 1922/1924 09012KT TEMPO 2000/2006 SHRA FEW018TCU NWWU 191111Z 1911/2006 VRB02KT 9999 SCT020 BKN030 OVC210 TEMPO 1911/1918 SHRA BKN012 FEW020TCU BECMG 1922/1924 12010KT NWWV 190834Z 1908/2006 CNL NWWW 191100Z 1912/2012 VRB02KT 9999 FEW055 PROB40 TEMPO 1914/1919 1000 BCFG NZAA 191107Z 1912/2012 VRB02KT 9999 FEW012 SCT020 TEMPO 1915/1920 BKN012 BECMG 2000/2002 25010KT BECMG 2005/2007 VRB02KT NZCH 191107Z 1912/2012 VRB02KT CAVOK PROB30 1914/1918 0500 FG BECMG 1922/2000 06012KT NZFX 1909/2009 35006KT 4800 -SN SCT012 BKN030 BKN060 620304 QNH2860INS GRID16006KT TEMPO 1909/1914 06007KT 1600 -SN BR BKN012 OVC030 620126 GRID23007KT BECMG 1915/1917 32008KT 9999 VCSN FEW010 SCT030 BKN075 QNH2860INS GRID13008KT BECMG 1920/1922 28008KT 9999 NSW FEW010 FEW030 SCT080 QNH2860INS GRID09008KT NZQN 190326Z 1903/1911 23015G25KT 9999 SKC BECMG 1908/1910 03005KT NZWN 191107Z 1912/2012 36020G30KT 9999 FEW015 PROB30 1916/1921 BKN012 OAIX 190700Z 1907/2013 32006KT 9999 SKC QNH3012INS BECMG 1907/1908 34009KT 9999 SCT120 QNH3011INS BECMG 1916/1917 32006KT 9999 SCT100 QNH3012INS BECMG 2006/2007 14009KT 9999 FEW080 QNH3009INS TX21/1911Z TN06/2001Z OAJL 190800Z 1908/2014 VRB06KT 9000 HZ SKC QNH2995INS BECMG 1912/1913 12006KT 6000 HZ FEW150 QNH2993INS BECMG 1916/1917 VRB06KT 9999 NSW SKC QNH2997INS BECMG 2009/2010 34006KT 8000 HZ SKC QNH2995INS TX28/1910Z TN13/2001Z OAKN 190700Z 1907/2013 28009KT 9999 SKC QNH3004INS BECMG 1914/1915 VRB03KT 9999 SKC QNH3010INS BECMG 2007/2008 21009KT 9999 SKC QNH3006INS TX23/1911Z TN09/2000Z OBBI 191100Z 1912/2018 10008KT 8000 NSC PROB30 TEMPO 1912/1914 34017G27KT 5000 -TSRA FEW030CB SCT100 OIAA 191100Z 1912/2018 04004MPS 8000 FEW035 TEMPO 1912/1918 04008MPS FEW030CB SCT040 BKN100 BECMG 1920/1922 14003MPS 3000 BR/HZ PROB40 2001/2003 2000 BR BECMG 2004/2006 7000 FEW035 SCT100 TEMPO 2012/2015 16008MPS FEW035CB SCT040 SCT100 OIAW 191100Z 1912/2018 29003MPS 7000 FEW040 SCT100 TEMPO 1912/1918 29008MPS FEW035CB SCT040 BKN100 PROB40 1914/1918 TS SCT030CB SCT035 BKN090 PROB40 2001/2005 4000 HZ TEMPO 2010/2015 FEW035CB SCT040 SCT100 OIBK 191100Z 1912/2018 21004MPS 7000 NSC TEMPO 1915/1921 21008MPS FEW035CB FEW040 BKN100 PROB40 1915/1918 4000 TS SCT030CB SCT040 BKN100 TEMPO 2010/2015 FEW035CB SCT040 SCT100 OICI 191100Z 1912/2018 21004MPS 7000 FEW035CB SCT040 BKN090 TEMPO 1912/1916 24008MPS 4000 TSRA SCT030CB SCT035 OVC090 BECMG 1918/1920 FEW035 SCT100 BECMG 2004/2006 FEW035CB SCT040 BKN100 TEMPO 2006/2015 24007G12MPS 4000 TSRA SA SCT030CB SCT035 OVC090 OIFM 191100Z 1912/2018 26004MPS 8000 FEW035CB SCT040 BKN100 TEMPO 1914/1918 03007G12MPS 5000 TS SCT030CB SCT035 BKN100 BECMG 1921/1923 FEW035 SCT100 PROB40 2001/2005 4000 HZ TEMPO 2012/2018 FEW035CB SCT40 BKN100 OIIE 191100Z 1912/2018 14003MPS CAVOK TEMPO 1918/1924 14006MPS 8000 FEW035TCU SCT040 SCT100 OIII 191100Z 1912/2018 14003MPS 8000 NSC TEMPO 1918/1924 FEW035CB SCT040 BKN100 OIKB 191100Z 1912/2018 22003MPS 8000 FEW035 TEMPO 1912/1918 240007MPS FEW035TCU SCT100 PROB30 1912/1915 4000 SA TEMPO 2001/2005 4000 HZ TEMPO 2012/2018 17007MPS OIKK 191100Z 1912/2018 05004MPS 8000 FEW035 BECMG 1910/1912 FEW035CB SCT040 BKN100 TEMPO 1912/1916 TS SCT030CB SCT035 BKN090 BECMG 1918/1920 FEW035 BECMG 2008/2010 FEW035CB SCT040 BKN100 TEMPO 2012/2018 5000 TSRA SCT030CB SCT035 BKN090 OIMM 191100Z 1912/2018 07003MPS CAVOK TEMPO 1914/1918 14008MPS OISL 191100Z 1912/2018 24003MPS 7000 FEW035 SCT100 TEMPO 1912/1918 24007MPS FEW035CB SCT040 BKN090 PROB40 1912/1918 TS SCT030CB SCT035 BKN090 TEMPO 2009/2018 24007MPS FEW035CB SCT040 SCT100 OISS 191100Z 1912/2018 11003MPS 8000 FEW035CB SCT040 SCT100 TEMPO 1912/1916 21008MPS 4000 TSRA SCT030CB SCT035 BKN100 BECMG 1918/1920 SCT040 TEMPO 2008/2018 21008MPS FEW035 SCT040 SCT100 PROB40 2008/2015 4000 TSRA SCT030CB SCT035 BKN100 OITR 191100Z 1912/2018 26004MPS 8000 SCT030 TEMPO 1912/1918 11007G12MPS FEW035CB SCT040 BKN100 PROB40 1912/1916 5000 TS SCT030CB SCT035 BKN100 TEMPO 2009/2018 FEW035CB SCT040 BKN100 PROB40 2010/2015 26008MPS 4000 TSRA SCT030CB SCT040 BKN100 OITT 191100Z 1912/2018 24004MPS 8000 FEW035 TEMPO 1920/1924 FEW035CB SCT040 SCT100 TEMPO 2015/2018 24008MPS FEW035CB SCT040 BKN100 OIZC 191100Z 1912/2018 17004MPS 7000 FEW035 TEMPO 1912/1915 17008MPS TEMPO 1915/1921 18008MPS FEW030CB FEW035 BKN090 BECMG 1923/2001 02003MPS 4000 BR/HZ SCT025 BECMG 2004/2006 21004MPS 6000 FEW035 TEMPO 2009/2015 21008MPS FEW035CB SCT040 SCT100 OIZH 191100Z 1912/2018 01003MPS CAVOK TEMPO 1912/1918 01008MPS 8000 SCT040 SCT100 OJAI 191100Z 1912/2018 28008KT 4000 HZ FEW030 PROB40 1913/1917 3000 DU TEMPO 2002/2006 VRB01KT 3000 BR OJAM 191100Z 1912/2018 28006KT 4000 HZ FEW030 PROB40 1913/1917 3000 DU TEMPO 2002/2006 VRB01KT 3000 BR OJAQ 191100Z 1912/2018 36015KT 5000 HZ TEMPO 1912/1916 3000 BLDU OKBK 191045Z 1912/2018 VRB03KT 7000 NSC TEMPO 1912/1918 14010G20KT 3000 -TSRA/BLDU FEW030CB SCT040 OLBA 190400Z 1906/2012 25008KT 5000 BR FEW030 BKN180 PROB40 TEMPO 1907/1914 3000 BR BECMG 1914/1916 03006KT 7000 SCT030 SCT080 BECMG 1920/1922 15004KT PROB40 TEMPO 1922/2012 -RA PROB30 TEMPO 2000/2012 22010G20KT -TSRA FEW020CB BKN025 BECMG 2006/2008 23010KT 8000 BKN027 OMAA 191100Z 1912/2018 35010KT 8000 NSC BECMG 1920/1922 12006KT BECMG 2009/2011 34012KT BECMG 2016/2018 05006KT OMAD 191100Z 1912/2018 01010KT 8000 NSC BECMG 1919/1921 09005KT BECMG 2008/2010 34013KT BECMG 2016/2018 05006KT OMDB 191204Z 1912/2018 33014KT 8000 FEW040 PROB30 TEMPO 1912/1917 VRB20G35KT 1500 TSRA BLDU FEW040CB BECMG 1914/1916 10007KT BECMG 2008/2010 34013KT PROB30 TEMPO 2009/2015 VRB20G35KT 1500 BLDU FEW040TCU BECMG 2014/2016 09007KT OMDW 191204Z 1912/2018 33015KT 8000 FEW040 PROB30 TEMPO 1912/1917 VRB20G35KT 1000 TSRA BLDU FEW040CB BECMG 1915/1917 11007KT BECMG 2009/2011 34014KT PROB30 TEMPO 2009/2015 VRB20G35KT 1500 BLDU FEW040TCU BECMG 2015/2017 06005KT OMRK 191204Z 1912/2018 33012KT 8000 FEW040 PROB30 TEMPO 1912/1917 VRB20G35KT 1500 TSRA BLDU FEW040CB BECMG 1914/1916 11008KT PROB30 2008/2012 35010KT PROB30 TEMPO 2009/2015 VRB20G35KT 1500 BLDU FEW040TCU BECMG 2013/2015 11007KT OMSJ 191204Z 1912/2018 33014KT 8000 FEW040 PROB30 TEMPO 1912/1917 VRB20G35KT 1500 TSRA BLDU FEW040CB BECMG 1914/1916 11008KT BECMG 2008/2010 34014KT PROB30 TEMPO 2009/2015 VRB20G35KT 1500 BLDU FEW040TCU BECMG 2014/2016 10007KT OODQ 190500Z 1906/2006 14010KT 8000 NSC TEMPO 1921/2004 VRB03KT 4000 BR BKN010 PROB30 TEMPO 2000/2003 1000 FG OVC008 OOMS 191100Z 1912/2018 06010KT 8000 FEW025 PROB30 TEMPO 1912/1916 4000 -TSRA FEW030CB BKN035 TEMPO 1917/1919 20006KT BECMG 2006/2008 03010KT PROB30 TEMPO 2011/2015 FEW030CB BKN035 OOSA 191140Z 1912/2018 19010KT 9999 FEW025 BECMG 1914/1916 VRB02KT BECMG 2004/2006 17010KT OOSH 191100Z 1912/2018 08010KT 8000 FEW025 PROB30 TEMPO 1912/1915 VRB15G25KT 5000 -TSRA FEW025CB BKN035 BECMG 1916/1918 22006KT BECMG 2006/2008 06010KT PROB30 TEMPO 2011/2015 4000 -TSRA FEW025CB BKN035 OPNH 190930Z 1912/2018 03008KT 5000 HZ NSC FM191800 33005KT 4000 HZ NSC TEMPO 2000/2004 00000KT 2000 FU NSC FM200500 03008KT 5000 HZ NSC ORBD 190930Z 1909/2009 24012KT 5000 -SHRA DUHZ SCT025 BKN080 OVC120 QNH2995INS WND 190V320 TEMPO 1909/1914 VRB15G25KT 3200 -TSRA BLDUHZ SCT025 BKN080CB OVC120 BECMG 1917/1918 VRB06KT 5000 VCSH DUHZ FEW025 SCT120 OVC150 QNH2997INS TX33/1912Z TN22/2003Z ORBI 191100Z 1912/2012 07013KT 7000 BKN030 TEMPO 1912/1918 07013G23KT 5000 -TSSHRA FEW025CB ORER 191100Z 1912/2012 17015KT 6000 BKN040 TEMPO 1914/2012 -SHRA PROB40 TEMPO 1919/2006 -TS FEW025CB ORMM 191000Z 1912/2012 30012KT 8000 FEW040 SCT100 TEMPO 1912/1916 5000 -SHRABLDU BECMG 1918/1920 14006KT 6000 ORNI 191100Z 1912/2012 03010KT 3000 DU BKN040 ORSU 191100Z 1912/2012 16010KT 8000 FEW035TCU BKN045 BECMG 1917/1919 25008KT CAVOK BECMG 2007/2009 13010KT 7000 SCT045 BKN180 TEMPO 2010/2012 21010G20KT 8000 TSSHRA FEW035CB BKN040 OTBD 191102Z 1912/2018 11010KT 8000 FEW030 SCT100 TEMPO 1912/2000 VRB20G30KT 1000 TS FEW030CB SCT100 BECMG 2000/2003 34008KT BECMG 2006/2008 06010KT PROB40 TEMPO 2007/2017 VRB20G30KT 1000 TS FEW030CB SCT100 OTBH 191105Z 1911/2013 14012KT 6000 HZ FEW100 BKN150 QNH2989INS TEMPO 1911/1913 VRB20G35KT 0400 -TSRA DS FEW050 BKN090CB BECMG 1912/1913 10009KT 6000 HZ SCT150 QNH2990INS BECMG 1920/1921 VRB06KT 8000 HZ FEW150 QNH2994INS BECMG 2008/2009 06009KT 6000 HZ VCTS FEW080CB SCT150 QNH2991INS TEMPO 2009/2012 VRB20G30KT 3200 -TSRA BLDU FEW040 BKN080CB TX34/1911Z TN26/2002Z OTHH 191102Z 1912/2018 11010KT 8000 FEW030 SCT100 TEMPO 1912/2000 VRB20G30KT 1000 TS FEW030CB SCT100 BECMG 2000/2003 34008KT BECMG 2006/2008 06010KT PROB40 TEMPO 2007/2017 VRB20G30KT 1000 TS FEW030CB SCT100 PAAQ 191136Z 1912/2012 04011KT P6SM SCT040 OVC070 FM192000 05011KT P6SM -RA SCT030 OVC050 PABE 191140Z 1912/2012 03004KT P6SM OVC070 FM191400 03006KT P6SM VCFG FEW002 SCT100 FM191900 02008KT P6SM SCT050 FM200800 02004KT 3SM BR FEW005 SCT050 PABI 190600Z 1906/2012 12012KT 9999 SCT200 QNH2967INS BECMG 1912/1913 14015G25KT 9999 SCT100 BKN150 QNH2948INS BECMG 1916/1917 14025G35KT 9999 VCSH BKN025 OVC040 610308 510003 QNH2903INS TEMPO 1918/1923 18045G55KT 8000 -SHRA BKN010 530005 TX14/1923Z TN01/1914Z PABR 191142Z 1912/2012 05006KT 5SM -SN BR SCT008 BKN035 TEMPO 1912/1914 3SM -SN BR BKN008 FM191400 07014KT 2SM -SN BKN008 FM192000 07014KT P6SM -SN FEW005 SCT012 OVC020 FM200400 06014KT P6SM -SN OVC008 NOT SKED PABT 191142Z 1912/2012 01006KT P6SM FEW060 FM192000 02010G15KT P6SM SCT050 SCT200 PACD 191140Z 1912/2012 29010KT P6SM -SHRA FEW025 BKN050 FM200600 16005KT P6SM BKN045 PACV 191136Z 1912/2012 06011KT P6SM -RA SCT025 OVC035 FM191500 08013G23KT 6SM -RA OVC050 FM191800 10017G28KT 5SM RA BR OVC025 FM200300 10011G20KT 3SM -RA BR OVC012 PADL 191140Z 1912/2012 01008KT P6SM VCSH FEW030 SCT050 FM192100 25008KT P6SM -SHRA BKN050 FM200800 VRB03KT P6SM VCFG FEW005 BKN040 PADQ 191136Z 1912/2012 01019G28KT 3SM RA BR OVC015 FM191500 32021G31KT 6SM -RA SCT010 OVC025 FM192100 27018G28KT P6SM VCSH SCT025 BKN040 FM200000 27015G23KT P6SM SCT040 FM200600 26009G17KT P6SM SCT250 PADU 191140Z 1912/2012 VRB06KT P6SM VCSH OVC045 PAED 191213Z 1912/2017 01009KT 9999 FEW080 BKN200 QNH2894INS BECMG 1917/1918 01015G25KT 9000 -RA BR OVC040 620406 QNH2888INS BECMG 2004/2005 VRB06KT 9000 -RA BR OVC015 620307 QNH2902INS BECMG 2011/2012 18006KT 9999 NSW BKN030 620307 QNH2938INS TX07/2000Z TN02/1918Z PAEI 191200Z 1912/2018 VRB06KT 9999 FEW100 QNH2940INS BECMG 1920/1921 07007KT 9999 OVC040 610406 QNH2915INS TEMPO 1923/2004 06010G15KT 4800 -SHRA BKN020 610208 BECMG 2011/2012 18005KT 4800 -RASN OVC020 620208 QNH2926INS TX06/2000Z TNM08/1915Z PAEN 191136Z 1912/2012 02018G24KT P6SM VCSH SCT040 OVC060 FM192000 36013KT 6SM -RA BR SCT020 OVC035 FM200100 23008KT P6SM VCSH OVC040 FM200300 19012KT P6SM OVC050 PAFA 191142Z 1912/2018 03006KT P6SM SCT100 BKN200 FM191600 04009KT P6SM SCT040 BKN080 FM192000 04010G15KT P6SM -RA OVC035 FM192200 03010G15KT 6SM -RA BR OVC025 FM201100 36004KT 2SM -SN BR OVC015 PAFB 191200Z 1912/2018 06008KT 9999 SKC QNH2940INS BECMG 1920/1921 07008KT 9999 BKN045 610456 QNH2915INS TEMPO 1923/2004 06010G16KT 4800 -SHRA BKN020 610208 BECMG 2012/2013 20004KT 4800 -RASN OVC015 620208 QNH2926INS TX08/2000Z TNM05/1915Z PAGA 191142Z 1912/2012 10008KT P6SM FEW100 FM191900 35007G13KT P6SM FEW100 FEW200 FM200200 32004KT P6SM FEW100 SCT200 PAGK 191136Z 1912/2012 VRB05KT P6SM SCT060 OVC100 FM191500 VRB05KT P6SM -RA SCT025 OVC040 FM192100 VRB05KT P6SM VCSH SCT030 OVC060 FM200600 16005KT 6SM -RA OVC040 FM201000 17011G20KT 5SM -RA OVC035 PAGS 191141Z 1912/2012 32009KT 6SM -RA SCT025 OVC035 WS020/13040KT FM191300 14015G22KT 5SM RA SCT015 BKN025 OVC035 WS020/13040KT FM191500 14020G35KT 4SM +RA SCT007 OVC015 WS020/16050KT FM192100 15020G30KT P6SM -SHRA SCT015 OVC040 LTD TO CLD VIS AND WIND PAGY 191141Z 1912/2012 03004KT P6SM -RA OVC035 TEMPO 1912/1915 4SM RA BKN025 OVC035 FM191500 21010KT 6SM RA BR SCT025 OVC050 FM191700 21015G25KT 5SM RA BR SCT025 OVC050 WS020/20050KT FM192100 21025G38KT P6SM SHRA SCT030 OVC050 FM200300 21038G54KT P6SM -SHRA OVC050 LTD TO CLD VIS AND WIND PAHN 191141Z 1912/2012 12008KT 5SM -RA BR SCT005 BKN025 OVC035 TEMPO 1912/1915 VRB05KT 4SM RA BR SCT005 BKN009 OVC020 FM191500 12015G25KT 3SM +RA BR BKN015 OVC025 WS020/16030KT FM191800 12020G30KT 4SM RA BR SCT015 OVC025 WS015/16040KT FM192100 14020G30KT 4SM SHRA BR SCT015 OVC025 WS010/17040KT FM200300 15020G30KT 6SM -SHRA BR SCT015 OVC025 WS015/17045KT LTD TO CLD VIS AND WIND PAHO 191156Z 1912/2012 02020G28KT P6SM VCSH OVC040 FM191800 34011KT P6SM -RA SCT030 OVC040 FM200200 25011G19KT P6SM SCT025 BKN040 PAIL 191140Z 1912/2012 01007KT P6SM -RA SCT025 BKN035 FM191800 31008KT P6SM FEW035 BKN050 FM192100 30012G20KT P6SM BKN050 FM200700 27006KT P6SM SCT050 PAJN 191141Z 1912/2012 12012KT P6SM -RA FEW005 BKN035 OVC050 WS020/09040KT FM191400 09015G25KT 4SM RA SCT015 BKN025 OVC035 WS020/15050KT FM191600 12025G35KT 3SM +RA BR SCT015 BKN025 OVC035 WS020/13045KT FM192100 11025G35KT 5SM -SHRA BR SCT025 OVC040 WS020/17035KT FM200600 11020G25KT 6SM -SHRA BR SCT025 OVC040 WS020/17030KT PAKN 191140Z 1912/2012 36008KT P6SM -RA SCT040 OVC050 FM191800 29011KT P6SM OVC100 FM192100 28015G22KT P6SM BKN050 FM200700 27006KT P6SM VCFG FEW005 BKN040 PAKT 191145Z 1912/2012 16008KT 6SM -RA SCT025 OVC035 WS020/16040KT TEMPO 1912/1916 15008G18KT 4SM -RA BR OVC025 FM191600 14015G25KT 6SM -RA BR BKN025 OVC035 WS020/16050KT FM191800 14020G30KT 4SM RA BR OVC025 WS020/16060KT FM192000 16015G25KT 5SM SHRA BR SCT015 OVC025 WS020/19040KT FM200000 16010G18KT P6SM -SHRA SCT015 OVC025 LTD TO CLD VIS AND WIND 1912/1915 PAKW 191145Z 1912/2012 14008KT 6SM -RA SCT030 OVC040 WS020/16040KT FM191500 14010G20KT 5SM RA BKN030 OVC040 WS020/15050KT TEMPO 1915/1919 4SM +RA BR BKN020 OVC030 FM191900 22012G20KT 6SM -SHRA BR BKN025 OVC050 WS020/22035KT FM200100 23008KT P6SM -SHRA BKN035 OVC050 LTD TO CLD VIS AND WIND PAMC 191142Z 1912/2012 VRB03KT P6SM BKN200 FM192100 01010G15KT P6SM BKN120 FM200800 34010KT 6SM -RASN BKN025 PANC 191136Z 1912/2018 36011KT P6SM OVC060 FM191800 36011KT P6SM -RA OVC050 FM200200 27006KT P6SM -RA OVC050 FM200600 18011KT P6SM VCSH SCT015 OVC030 FM201100 17012G20KT P6SM OVC035 PAOM 191149Z 1912/2012 36008KT P6SM OVC015 FM191400 05006KT P6SM VCSH BKN035 FM200200 01008KT P6SM SCT035 BKN100 PAOR 191142Z 1912/2012 VRB03KT P6SM SCT080 BKN160 FM191400 VRB03KT P6SM -FZRA BKN035 OVC050 FM191800 12008KT 6SM -RA BR OVC025 FM200300 09004KT P6SM VCSH SCT005 OVC025 PAOT 191142Z 1912/2012 04005KT 6SM BR OVC006 TEMPO 1912/1915 4SM -SN BR OVC004 FM191600 05006KT P6SM VCSH BKN035 FM192200 01008KT P6SM FEW100 FEW200 PAPG 191145Z 1912/2012 13012G20KT 6SM -RA SCT030 OVC040 WS020/14040KT FM191600 12015G25KT 5SM RA BR BKN030 OVC040 WS020/14050KT TEMPO 1916/1920 4SM +RA BR BKN020 OVC030 FM192000 23010G20KT 4SM SHRA BKN015 OVC025 WS020/20030KT FM200000 26008KT 6SM -SHRA SCT015 OVC025 WS020/19030KT LTD TO CLD VIS AND WIND 1912/1915 PAQT 191142Z 1912/2012 VRB03KT 6SM BR SCT002 BKN009 TEMPO 1912/1914 1/2SM FZFG VV002 FM191400 09008KT 1/2SM FZFG OVC002 FM191800 06014KT 1SM BR OVC003 FM200200 06016KT 5SM BR OVC006 PASC 191142Z 1912/2012 22005KT 6SM BR SCT002 BKN070 TEMPO 1912/1914 1/2SM FZFG VV002 FM191400 09008KT 1/2SM FZFG OVC002 FM191800 06014KT 1SM BR OVC003 FM200200 06016KT 5SM BR OVC006 PASD 191140Z 1912/2012 31011KT P6SM SCT070 FM200400 VRB05KT P6SM FEW070 LTD TO CLD VIS AND WIND PASI 191145Z 1912/2012 11025G35KT P6SM -RA OVC035 WS020/15060KT TEMPO 1912/1915 4SM RA BKN025 OVC035 FM191500 13020G30KT 6SM RA BR SCT025 OVC035 WS020/16050KT FM191800 19015G25KT 5SM SHRA BR BKN025 OVC035 WS020/20040KT FM192200 21012G22KT P6SM -SHRA SCT025 OVC035 WS020/20035KT PASN 191140Z 1912/2012 32011KT P6SM -SHRA FEW030 OVC050 TEMPO 1912/1916 34015KT -SHRA BKN025 BKN035 PASY 191209Z 1912/2012 20009KT 4000 BR FEW018 OVC040 610409 QNH2927INS BECMG 1917/1918 30009KT 9999 NSW BKN015 610409 QNH2928INS BECMG 2002/2003 01009KT 9999 BKN020 610308 QNH2932INS TX09/2003Z TN04/1916Z PATA 191142Z 1912/2012 VRB03KT P6SM FEW200 FM192000 07012G18KT P6SM BKN080 OVC120 FM200200 07012G18KT P6SM VCSH BKN040 PATK 191136Z 1912/2012 02008KT P6SM SCT070 OVC120 FM191800 02012G19KT P6SM -SHRA SCT040 OVC070 FM200000 VRB04KT P6SM -RA SCT040 OVC060 PAUN 191142Z 1912/2012 07010KT P6SM VCSH FEW050 SCT100 FM191600 04012G20KT P6SM FEW100 FEW200 PAVD 191136Z 1912/2012 05008KT P6SM -SHRA SCT040 OVC060 FM191500 05015G25KT P6SM -RA SCT025 OVC045 FM200000 08011KT 6SM -RA BR OVC035 FM200300 VRB03KT 5SM RA BR OVC020 LTD TO CLD VIS AND WIND PAWG 191145Z 1912/2012 10010KT P6SM -RA OVC050 WS020/15040KT TEMPO 1912/1916 10010G20KT 6SM -RA BR OVC035 FM191600 11020G35KT 5SM -RA BR BKN025 OVC035 WS020/15045KT TEMPO 1916/1920 4SM RA BR BKN015 OVC025 FM192100 23015G25KT 4SM SHRA BR OVC025 FM200000 23010G18KT P6SM -SHRA OVC025 LTD TO CLD VIS AND WIND 1912/1915 PAYA 191141Z 1912/2012 08012G20KT 5SM RA BR SCT015 OVC025 WS020/09040KT FM191400 09025G35KT 2SM +RA BR SCT007 BKN015 OVC025 WS020/09040KT FM191600 12035G55KT 2SM +RA BR BKN015 OVC025 WS020/16055KT FM191900 15030G50KT 2SM +SHRA OVC007 WS010/16050KT FM200000 17025G35KT 3SM SHRA VCTS BKN007 OVC015CB WS020/21050KT FM200700 21018G25KT 4SM SHRA BKN007 OVC015 WS020/23040KT LTD TO CLD VIS AND WIND PGRO 190533Z 1906/2006 35008KT P6SM VCSH SCT012 SCT030 PGSN 191128Z 1912/2012 03009KT P6SM VCSH FEW021 SCT030 BKN080= PKMJ 191128Z 1912/2012 08006KT P6SM VCSH FEW015 SCT050 BKN120 PGUA 191000Z 1910/2016 01009KT 9999 SCT015 BKN150 QNH2977INS TEMPO 2002/2005 34012G18KT BKN015 BECMG 2005/2006 32009KT 9999 SCT015 BKN150 QNH2975INS TX31/2003Z TN26/1915Z PGUM 191128Z 1912/2018 02005KT P6SM VCSH FEW017 BKN090 FM192300 04010KT P6SM VCSH FEW017 SCT035 PGWT 190533Z 1906/2006 02008KT P6SM VCSH SCT016 SCT030 PHHI 190700Z 1907/2013 VRB06KT 9999 SCT035 QNH2990INS BECMG 1921/1922 07009KT 9999 BKN030 QNH2994INS TEMPO 1922/2001 07010G15KT 9000 -SHRA BKN025 BECMG 2007/2008 VRB06KT 9999 SCT020 QNH2991INS TX28/2002Z TN19/1914Z PHJR 191120Z 1912/2012 05003KT P6SM FEW040 FM192000 15008KT P6SM FEW030 SCT045 TEMPO 1920/1924 VRB06KT FM200300 04004KT P6SM BKN040 PHKO 191120Z 1912/2012 03006KT P6SM VCSH SCT025 BKN040 FM192000 28009KT P6SM FEW035 BKN060 FM200400 VRB06KT P6SM FEW035 BKN060 PHLI 191120Z 1912/2012 28006KT P6SM SCT020 SCT035 FM192000 05010KT P6SM SCT020 SCT035 FM200800 28006KT P6SM VCSH SCT020 BKN035 PHMK 191120Z 1912/2012 03007KT P6SM FEW025 FEW045 FM192000 02009G16KT P6SM FEW025 SCT045 FM200400 02008KT P6SM FEW025 SCT045 PHNG 1903/2003 05008KT 9999 FEW035 SCT060 QNH2988INS TEMPO 1903/1907 VRB05KT 9000 -SHRA BKN025 BKN035 FM190900 05010KT 9999 FEW025 SCT035 BKN060 QNH2987INS TEMPO 1912/1915 9000 -SHRA BKN025 T25/1913Z T29/1923Z PHNL 191120Z 1912/2018 34004KT P6SM FEW025 SCT045 FM192000 09010KT P6SM FEW025 SCT050 TEMPO 1920/1924 VRB06G12KT FM200200 04009KT P6SM FEW025 SCT050 FM200600 02005KT P6SM FEW025 SCT045 PHNY 191120Z 1912/2012 04009KT P6SM FEW025 FEW035 FM192000 VRB06KT P6SM SCT020 BKN030 FM200300 04010KT P6SM SCT020 SCT030 PHOG 191120Z 1912/2012 05007KT P6SM FEW025 SCT050 FM192000 02011KT P6SM FEW025 SCT050 FM200500 05007KT P6SM FEW025 SCT050 LTD TO VIS AND WIND TIL 191600 PHTO 191120Z 1912/2012 24005KT P6SM VCSH SCT020 BKN035 TEMPO 1912/1916 VRB05KT -SHRA BKN020 BKN030 FM192000 08008KT P6SM VCSH SCT020 BKN035 FM200500 VRB05KT P6SM VCSH SCT020 BKN035 PKMJ 191128Z 1912/2012 08006KT P6SM VCSH FEW015 SCT050 BKN120 PKWA 191128Z 1912/2012 24005KT P6SM VCSH SCT017 SCT035 BKN080 FM191700 15007KT P6SM VCSH FEW018 SCT035 BKN120 PLCH 191114Z 1912/2012 11008KT 9999 SCT018 SCT040 PMDY 191120Z 1912/2012 VRB06KT P6SM VCSH FEW020 SCT030 PTKK 191128Z 1912/2012 23005KT P6SM VCSH FEW014 SCT120 PTPN 190533Z 1906/2006 VRB05KT P6SM SCT018 SCT130 FM191100 34006KT P6SM VCSH BKN020 BKN130 PTRO 191128Z 1912/2012 VRB05KT P6SM VCSH SCT016 BKN120 PTYA 191128Z 1912/2012 VRB05KT P6SM VCSH FEW018 SCT130 PWAK 190821Z 1908/2012 07012G20KT 9999 SCT020 BKN130 QNH2985INS TEMPO 1921/2002 07015G25KT 8000 -SHRA BKN020 TX30/2000Z TN23/1914Z LIMITED METWATCH 1908 TIL 1914 RCFN 191100Z 1912/2012 01005KT 9999 FEW020 BKN032 BECMG 2000/2002 05007KT TEMPO 2005/2010 02008KT 5000 RA FEW010 BKN020 BKN040 BECMG 2010/2012 36005KT RCKH 191100Z 1912/2018 28005KT 9999 FEW020 BKN040 BECMG 1912/1914 01005KT TEMPO 1920/2001 06005KT 4000 BR BECMG 2001/2003 28008KT BECMG 2011/2013 34005KT RCMQ 191100Z 1912/2012 01012KT 9999 FEW012 SCT060 TX30/2006Z TN20/1920Z BECMG 1913/1916 02004KT 7000 TEMPO 1918/1923 5000 BR FEW012 BKN050 BECMG 2001/2004 01010KT 9999 FEW012 BKN060 RCNN 191100Z 1912/2012 03004KT 9000 FEW012 BKN050 TX30/2006Z TN19/1920Z BECMG 1913/1916 7000 BECMG 1921/1924 5000 BR BECMG 2001/2004 34008KT 7000 FEW012 SCT032 BKN080 BECMG 2007/2010 9999 FEW012 SCT060 RCSS 191100Z 1912/2012 09010KT 9999 FEW020 BKN032 TEMPO 1918/1924 10005KT RCTP 191100Z 1912/2018 07015KT 9999 FEW020 BKN032 BECMG 1912/1914 07010KT BECMG 2000/2002 06015KT TEMPO 2015/2018 09010KT FEW012 BKN022 BKN050 RJAA 191106Z 1912/2018 35005KT 9999 FEW020 SCT045 TEMPO 1917/1921 4000 BR TEMPO 2009/2012 -TSRA FEW015 FEW020CB BKN030 RJAH 191106Z 1912/2018 36005KT 9999 FEW015 BECMG 2000/2003 06010KT TEMPO 2006/2009 4000 TSRA BR FEW015 BKN030 FEW030CB BECMG 2006/2009 36006KT RJBB 191108Z 1912/2018 03010KT 9999 FEW030 RJCB 191213Z 1912/2018 33003KT 7000 FEW003 BKN015 TEMPO 1912/1922 0700 FG VV001 BECMG 2000/2003 15005KT BECMG 2009/2012 34005KT RJCC 191105Z 1912/2018 15004KT 9999 FEW020 BECMG 2006/2009 34006KT RJCH 191110Z 1912/2018 01007KT 9999 FEW015 BKN025 BECMG 2000/2003 24010KT BECMG 2009/2012 35005KT RJCK 191109Z 1912/2018 30005KT 9999 FEW020 BECMG 1921/1923 19011KT BECMG 2009/2012 33005KT RJCM 191111Z 1912/2018 20006KT 9999 FEW020 RJEC 191108Z 1912/2018 18005KT 9999 FEW030 BECMG 2003/2006 35005KT BECMG 2015/2018 18004KT RJFF 191108Z 1912/2018 01007KT 9999 FEW020 SCT040 RJFK 191108Z 1912/2018 35006KT 9999 FEW030 RJFM 191107Z 1912/2018 28008KT 9999 FEW030 SCT050 BECMG 2000/2003 03011KT BECMG 2009/2012 30006KT RJFO 191106Z 1912/2018 33009KT 9999 FEW015 BKN050 RJFR 191109Z 1912/2018 34012KT 9999 FEW020 SCT040 RJFS 191105Z 1912/2018 02007KT 9999 FEW030 RJFT 191105Z 1912/2018 02004KT 9000 FEW010 SCT025 BECMG 1914/1916 24005KT BECMG 1922/2000 03010KT RJFU 191105Z 1912/2018 01012KT 9999 FEW025 RJGG 191207Z 1912/2018 03006KT 9999 FEW020 BECMG 2000/2003 32018KT RJNK 191108Z 1912/2018 06004KT 9999 FEW015 BKN050 TEMPO 1912/1917 TS FEW015 BKN030 FEW030CB TEMPO 1917/1921 4000 TSRA BR FEW005 BKN008 FEW015CB BECMG 2000/2003 36015KT BECMG 2009/2012 14004KT RJNS 191107Z 1912/2018 32004KT 9999 FEW010 BECMG 2000/2003 08006KT TEMPO 2009/2012 -TSRA FEW015 BKN030 FEW030CB BECMG 2012/2015 32004KT RJNT 191105Z 1912/2018 21004KT 8000 -SHRA FEW008 BKN015 TEMPO 1912/1918 3000 TSRA BR FEW006 BKN008 FEW020CB TEMPO 1918/2003 4000 -TSRA BR FEW008 BKN015 FEW020CB BECMG 2000/2003 05006KT RJOA 191106Z 1912/2018 34008KT 9999 FEW020 SCT040 BECMG 2000/2003 01008KT BECMG 2012/2015 34006KT RJOB 191109Z 1912/2018 36007KT 9999 FEW025 SCT045 RJOC 191105Z 1912/2018 04010KT 9999 FEW020 BKN030 BECMG 2009/2012 18007KT RJOH 191108Z 1912/2018 02008KT 9999 FEW020 BKN030 BECMG 2012/2015 18006KT RJOI 1906/2005 01008KT 9999 VCSH FEW030 BKN050 BKN070 BKN250 QNH2996INS TEMPO 1904/1909 02018KT 4800 -SHRA BR BKN030 BKN050 BKN070 OVC250 FM190900 34006KT 9999 FEW030 SCT050 SCT070 BKN250 QNH3005INS FM191500 01008KT 9999 SCT015 SCT030 BKN070 BKN250 QNH3009INS TEMPO 1915/1920 02010KT 9000 BR BKN015 BKN030 BKN250 FM192000 02010KT 9999 FEW015 SCT030 SCT045 BKN250 QNH3014INS FM200300 03010G15KT 9999 SCT030 SCT045 QNH3017INS T22/1906Z T14/1920Z 0601 RJOK 191105Z 1912/2018 35012KT 9999 FEW030 TEMPO 2000/2006 35021G32KT RJOM 191108Z 1912/2018 02010KT 9999 FEW020 SCT030 BKN050 RJOO 191107Z 1912/2018 32009KT 9999 FEW025 SCT045 RJOT 191109Z 1912/2018 30005KT 9999 FEW030 SCT050 BECMG 2000/2003 02006KT BECMG 2012/2015 26005KT RJSA 191105Z 1912/2018 21004KT 9999 FEW020 BKN040 RJSF 191105Z 1912/2018 35005KT 3000 -SHRA BR FEW002 BKN006 BKN020 TEMPO 1912/1918 1500 SHRA BR FEW001 BKN003 BKN005 TEMPO 1918/2000 0500 FG VV001 BECMG 2000/2003 9999 NSW FEW020 BKN040 TEMPO 2003/2009 4000 SHRA BR RJSK 191107Z 1912/2018 14004KT 8000 -SHRA FEW010 BKN020 BKN030 TEMPO 1913/2000 3000 SHRA BR FEW003 BKN006 BKN020 BECMG 2000/2003 29008KT BECMG 2012/2015 14004KT RJSN 191105Z 1912/2018 16012KT 8000 -SHRA FEW008 BKN020 TEMPO 1912/1916 3000 TSRA BR FEW005 BKN008 FEW020CB BECMG 1921/1923 31008KT TEMPO 1921/2003 3000 TSRA BR FEW010 BKN015 FEW020CB RJSS 191107Z 1912/2018 34004KT 9999 -SHRA FEW010 BKN020 BKN030 BECMG 2000/2003 02007KT TEMPO 2003/2009 4000 SHRA BR FEW005 BKN008 BKN020 BECMG 2009/2012 34005KT RJTT 191107Z 1912/2018 36011KT 9999 FEW015 SCT060 TEMPO 2006/2009 TS FEW020 SCT030 FEW030CB RJTY 191044Z 1910/2011 31006KT 9999 BKN022 OVC100 QNH3000INS TEMPO 1910/1914 9000 -SHRA BKN018 OVC100 TEMPO 2007/2011 4800 VCTS OVC030CB TX21/2005Z TN12/1920Z RKJK 191025Z 1910/2013 01009KT 9999 FEW030 QNH3023INS BECMG 1919/1920 VRB06KT 9999 FEW200 QNH3026INS TX19/2006Z TN08/1921Z RKPC 191100Z 1912/2018 17005KT 9999 FEW030 TN14/1920Z TX19/2006Z BECMG 1923/1924 03008KT BECMG 2010/2011 17006KT RKPK 191100Z 1912/2018 33006KT 9999 SCT030 TN10/1921Z TX22/2006Z RKSG 191200Z 1912/2018 30006KT 9999 SKC QNH3025INS BECMG 1919/1920 VRB06KT 4800 BR SKC QNH3030INS TEMPO 1921/1924 1600 BR BECMG 2000/2001 32009KT 8000 HZ SKC QNH3032INS TX17/2005Z TN05/1920Z RKSI 191100Z 1912/2018 31005KT CAVOK TN08/1921Z TX18/2005Z BECMG 1916/1917 07005KT BECMG 2000/2001 29006KT BECMG 2012/2013 07005KT RKSM 191100Z 1912/2018 03006KT 9999 SCT040 TN07/1921Z TX21/2006Z RKSO 191100Z 1911/2017 VRB06KT 9999 FEW030 FEW180 QNH3015INS TEMPO 1919/2001 4800 BR TX19/2006Z TN08/1921Z RKSS 191100Z 1912/2018 33005KT CAVOK TN05/1921Z TX19/2005Z BECMG 1921/1922 06005KT BECMG 1923/1924 27006KT BECMG 2011/2012 20005KT RKTN 191100Z 1912/2018 13006KT 9999 SCT050 TN08/1921Z TX22/2006Z RKTU 191100Z 1912/2018 15006KT 9999 SCT030 TN02/1922Z TX20/2006Z BECMG 1920/1921 36006KT 4800 BR BECMG 1921/1922 1600 BECMG 2001/2002 4800 BECMG 2002/2003 9999 NSW ROAH 191105Z 1912/2018 03010KT 9999 FEW030 RODN 191000Z 1910/2014 03012KT 9999 SCT030 QNH3002INS BECMG 1912/1913 01009KT 9999 SCT030 QNH2996INS TX27/2006Z TN17/1918Z ROIG 191108Z 1912/2018 04014KT 9999 FEW020 BKN035 ROTM 1909/2009 01012KT 9999 FEW040 SCT140 QNH3008INS FM191100 02010KT 9999 FEW040 QNH3004INS BECMG 1920/1922 03008KT 9999 SCT030 BKN060 QNH3005INS T18/1918Z T25/2004Z RPLB 191100Z 1912/2012 05004KT 9999 FEW020 SCT300 TX33/2006Z TN24/1922Z TEMPO 1912/1918 06006KT 9000 -TSRA FEW018CB SCT020 BKN080 RPLI 191100Z 1912/2012 12006KT 9999 FEW018 SCT100 TEMPO 1912/1918 08004KT FEW017CB SCT018 BKN100 RPLL 191100Z 1912/2018 11006KT 9999 FEW025 SCT300 TX33/2005Z TN25/1921Z TEMPO 1912/1918 09010KT FEW023 SCT100 TEMPO 1918/1924 06003KT FEW023 BKN300 RPMD 191100Z 1912/2012 17006KT 9999 FEW016 SCT090 BKN290 TEMPO 1912/1918 8000 -TSRA SCT015CB BKN090 OVC290 RPMZ 191100Z 1912/2012 29007KT 9999 FEW017 SCT300 TEMPO 1912/1918 00000KT 9000 -SHRA SCT016CB BKN090 RPVK 191100Z 1912/2012 02005KT 9999 FEW016 SCT240 TEMPO 1912/1918 VRB04KT FEW015CB BKN070 RPVM 191100Z 1912/2018 01004KT 9999 FEW020 SCT300 TEMPO 1912/1918 36004KT FEW018CB FEW020 TEMPO 1918/1924 00000KT FEW020 BKN250 SAAR 191100Z 1912/2012 11010KT 9999 BKN010 TX24/1919Z TN11/2009Z BECMG 1913/1915 10015KT CAVOK BECMG 1916/1918 SCT035 PROB30 TEMPO 1918/1921 5000 SHRA SCT030 FEW035TCU BECMG 2008/2011 BKN015 SABE 191100Z 1912/2012 16010KT 9999 FEW015 BKN025 TX19/1918Z TN15/2009Z BECMG 1913/1915 14015KT SCT030 BECMG 1916/1918 10020KT BECMG 2003/2005 10015KT BECMG 2007/2009 BKN015 SACO 191100Z 1912/2012 20005KT 7000 RADZ SCT010 BKN020 TX18/1919Z TN14/2010Z BECMG 1915/1918 18005KT 9999 SCT015 BKN025 BECMG 2021/2000 05005KT 9999 BKN040 BECMG 2003/2006 16005KT 5000 RADZ SCT008 OVC030 SADF 191100Z 1912/2012 14010KT 9999 FEW015 BKN025 TX19/1918Z TN14/2009Z BECMG 1914/1916 SCT030 BECMG 1921/1923 BKN015 PROB30 TEMPO 2004/2011 11005KT 7000 -DZ OVC008 SAEZ 191100Z 1912/2012 15010KT 9999 OVC012 TX20/1918Z TN13/2009Z BECMG 1916/1918 10015KT SCT010 BECMG 1918/1920 CAVOK PROB40 TEMPO 2004/2012 15010KT 8000 RADZ OVC010 SAME 191100Z 1912/2012 18005KT 9999 VCDZRA BKN030 SCT040 TX24/1920Z TN12/2010Z BECMG 1916/1918 14010KT 9999 BKN040 BCMG 2004/2006 18005KT 6000 DZRA OVC020 SCT030 SANR 191100Z 1912/2012 11015KT 5000 RADZ SCT006 BKN020 TX25/1918Z TN19/2010Z BECMG 1915/1918 16005KT 8000 SCT015 BKN030 SANT 191100Z 1912/2012 20010KT 4000 RADZ SCT004 BKN008 TX28/1918Z TN16/2010Z OVC040 BECMG 2000/2003 VRB03KT 9999 CT015 BECMG 2008/2011 VRB03KT 7000 DZBR SCT008 BKN025 SARE 191100Z 1912/2012 14010KT 9999 SCT010 TX32/1918Z TN18/2009Z BECMG 1917/1919 BKN020 FEW040TCU SARF 191100Z 1912/2012 14010KT CAVOK TX32/1918Z TN19/2009Z BECMG 1917/1919 BKN020 FEW040TCU SARI 191100Z 1912/2012 20005KT 9999 FEW020 TX30/1918Z TN16/2009Z BECMG 1917/1919 9999 BKN020 FEW040TCU SARP 191100Z 1912/2012 12010KT CAVOK TX32/1918Z TN18/2009Z PARTE 1/2 SASA 191100Z 1912/2012 07010KT 4000 RADZ SCT010 BKN030 TX24/1918Z TN14/2010Z 1923/2002 23005KT 9999 FEW015 BKN030 SASJ 191100Z 1912/2012 18010KT 5000 RADZ SCT010 BKN020 TX27/1918Z TN16/2010Z BECMG 2005/2008 27005KT 8000 BKN040 2010/20113 09005KT 9999 SCT025 FEW035 SAVC 191100Z 1912/2012 VRB03KT 9999 FEW030 SCT100 TX14/1919Z TN06/2012Z BECMG 1915/1917 02015KT SCT030 SCT040 BECMG 2000/2002 BKN017 SAWE 191100Z 1912/2012 VRB05KT 3000 BR FEW004 SCT008 TX13/1919Z TNM01/1912Z PROB40 TEMPO 1912/1914 001 FG BKN002 BECMG 1915/1917 30012KT NSW SCT010 BECMG 1923/2001 VRB03KT SAWG 191100Z 1912/2012 VRB03KT CAVOK TX14/1920Z TN01/1912Z BECMG 1914/1914 02015KT TEMPO 1919/1921 02023KT SAWH 191100Z 1912/2012 VRB05KT CAVOK 17/1919Z TN01/1912Z SAZM 191100Z 1912/2012 14010KT 9999 BKN015 TX15/1918Z TN07/2010Z BECMG 1921/2000 09005KT 8000 BKN010 SAZN 191100Z 1912/2012 11015KT 7000 -RA FEW012 BKN035 BKN050 TX09/1920Z TN07/1912Z TEMPO 1912/1921 3000 RA BKN015 OVC030 BECMG 1922/2000 11010KT 8000 -RA BKN010 OVC035 SAZS 191100Z 1912/2012 14010KT 3500 +RA FEW008 BKN015 OVC020 TX07/1918Z TN02/2009Z BECMG 1913/1915 07015KT 9999 BKN020 BECMG 1923/2001 VRB03KT SBAF 190930Z 1912/1924 23008KT 8000 SCT020 BKN030 TX25/1917Z TN21/1924Z BECMG 1912/1914 9999 NSW BKN025 PROB40 TEMPO 1916/1920 6000 RA BKN020 RMK PCX SBAN 190800Z 1912/1924 04005KT 7000 SCT030 TX28/1915Z TN23/1923Z PROB30 1912/1915 2000 TSRA BKN004 FEW030CB PROB30 1915/1918 BKN040 BECMG 1918/1920 05005KT PROB30 1918/1920 BKN030 RMK PDE SBAR 190900Z 1912/1924 09013KT 9999 SCT018 TX29/1915Z TN26/1923Z RMK PEA SBAT 191000Z 1912/1924 03005KT 9999 FEW015 TN27/1912Z TX34/1918Z BECMG 1915/1917 09005KT SCT030 FEW035TCU PROB30 1919/1921 TS SCT035 FEW040CB BECMG 1921/1923 36005KT FEW030 RMK PEH SBBE 191000Z 1912/2012 08008KT 9999 FEW020 TX31/1916Z TN24/2006Z BECMG 1916/1918 36010KT SCT030 FEW035TCU BECMG 1922/1924 06008KT CAVOK RMK PEH SBBI 190930Z 1912/1924 13008KT 9999 SCT008 BKN016 TN13/1912Z TX18/1924Z BECMG 1912/1914 BKN020 BECMG 1917/1919 SCT030 BECMG 1921/1923 BKN012 RMK PCX SBBR 190800Z 1912/2012 05008KT 7000 SCT040 TX29/1917Z TN20/2001Z PROB30 1915/1916 2000 TSRA BKN004 FEW030CB BECMG 1918/1920 06007KT FEW040 BECMG 2000/2002 20005KT CAVOK BECMG 2006/2008 18005KT PROB30 2008/2012 TS SCT030 FEW035CB RMK PDE SBBU 190930Z 1912/1924 12009KT CAVOK TX29/1917Z TN20/1924Z BECMG 1914/1916 13014KT 9999 SCT035 RMK PCX SBBV 191000Z 1912/2012 20005KT 9999 SCT015 TX32/1918Z TN26/2007Z PROB30 TEMPO 1912/1915 5000 TSRA BKN015 BKN025 FEW030CB BECMG 1915/1917 13008KT SCT030 FEW035TCU BECMG 1922/1924 09005KT FEW025 RMK PEH SBBW 190800Z 1912/1924 05005KT 7000 FEW020 TX34/1918Z TN26/1923Z BECMG 1918/1920 SCT020 RMK PDE SBCF 190800Z 1912/2012 02005KT 7000 SCT030 TX26/1915Z TN20/2008Z PROB30 1912/1915 4000 RA BR BKN010 PROB30 1915/1918 3000 TSRA SCT030 FEW035CB BECMG 1918/1920 07005KT FEW080 BECMG 2000/2002 10007KT CAVOK BECMG 2006/2008 11005KT RMK PDE SBCG 190930Z 1912/2012 11008KT 9999 FEW005 FEW030TCU TX32/1918Z TN20/2008Z BECMG 1913/1915 10007KT 9999 SCT030 FEW040TCU PROB40 TEMPO 1915/1923 VCTS SCT022 FEW035CB BECMG 1923/2001 FEW015 SCT025 BECMG 2007/2009 09015KT RMK PCX SBCJ 191000Z 1912/1924 03003KT 9999 SCT010 TN24/1912Z TX28/1917Z BECMG 1915/1917 06005KT SCT025 FEW030TCU PROB30 1919/1921 TS SCT020 FEW030CB BECMG 1921/1923 00000KT CAVOK RMK PEH SBCO 190930Z 1912/1924 15008KT 9999 FEW013 BKN035 TX25/1917Z TN17/1924Z BECMG 1912/1914 9999 BKN025 BECMG 1914/1915 SCT030 BECMG 1921/1923 BKN020 RMK PCX SBCP 190900Z 1912/1924 02005KT 9999 SCT020TX27/1916Z TN23/1924Z BECMG 1912/1914 25007KT 4000 RA BKN020 BECMG 1915/1917 20015KT 7000 NSW SCT020 BECMG 1922/1924 24005KT RMK PHQ SBCR 190930Z 1912/2012 11010KT CAVOK TX35/1917Z TN25/2008Z BECMG 1914/1916 9999 VCTS SCT030 FEW035CB BECMG 1920/1922 12005KT 9999 FEW025 BECMG 2000/2002 27005KT SCT025 PROB40 TEMPO 2007/2012 8000 TSRA SCT025 FEW030CB RMK PCX SBCT 190930Z 1912/2012 13008KT 9999 BKN020 TX20/1916Z TN11/2008Z BECMG 1917/1919 SCT030 BECMG 1921/1923 BKN012 BECMG 2000/2002 BKN007 PROB40 2006/2010 4000 BR BKN004 RMK PCX SBCY 191000Z 1912/2012 30005KT CAVOK TX34/1918Z TN23/2008Z BECMG 1916/1918 33008KT SCT020 FEW025TCU PROB30 1920/1922 TS SCT020 FEW025CB BECMG 1922/1924 36003KT CAVOK RMK PEH SBDN 190930Z 1912/1924 02005KT CAVOK TN24/1912Z TX30/1917Z BECMG 1914/1916 11010KT 9999 SCT030 PROB40 TEMPO 1916/1919 SHRA SCT030 FEW035TCU RMK PCX SBEG 191000Z 1912/2012 18005KT 9999 FEW020 TX35/1918Z TN24/2007Z BECMG 1916/1918 13005KT SCT025 FEW030TCU BECMG 1922/1924 00000KT CAVOK RMK PEH SBFI 190930Z 1912/2012 20003KT 8000 NSC TX28/1918Z TN19/2009Z BECMG 1912/1914 12007KT CAVOK BECMG 1920/1922 16006KT BECMG 2002/2004 SCT020 BECMG 2008/2010 10009KT RMK PCX SBFL 190930Z 1912/2012 18008KT 9999 SCT040 TX22/1915Z TN17/2009Z BECMG 1918/1920 FEW040 BECMG 2002/2004 18010KT BKN020 BECMG 2009/2011 23007KT SCT035 RMK PCX SBFN 190900Z 1912/1924 11013KT 9999 SCT017 TX31/1915Z TN25/1922Z RMK PEA SBFZ 190900Z 1912/2012 09016KT 9999 SCT022 TX31/1915Z TN25/2008Z BECMG 1920/1922 08009KT RMK PEA SBGL 190900Z 1912/2018 24005KT 9999 SCT020TX26/1915Z TN20/2008Z BECMG 1912/1914 22015KT BECMG 1915/1917 4000 RA BKN020 BECMG 1920/1923 28005KT 9999 NSW BECMG 2011/2013 22005KT SCT020 BECMG 2015/2017 17015KT RMK PHQ SBGO 190800Z 1912/2012 01005KT 7000 SCT040 TX32/1917Z TN22/2008Z PROB30 1912/1916 2000 TSRA BKN004 FEW030CB BECMG 1918/1920 35008KT PROB30 1919/1923 TS SCT040 FEW045CB BECMG 2000/2002 11005KT CAVOK BECMG 2006/2008 01005KT RMK PDE SBGR 190930Z 1912/2018 15012KT 9999 BKN015 TX20/1917Z TN14/2006Z PROB30 1912/1916 BKN009 PROB40 TEMPO 1916/1922 15015KT 3000 DZ BR OVC007 BECMG 2002/2004 15007KT BKN007 PROB30 2006/2010 4000 DZ BR OVC006 BECMG 2010/2012 BKN011 BECMG 2014/2016 14010KT BKN020 PROB30 2016/2018 14015G25KT RMK PHH SBGW 190930Z 1912/1924 24006KT 7000 FEW025 TX24/1918Z TN20/1924Z BECMG 1912/1914 19010KT 9999 NSW SCT025 TEMPO 1916/1920 8000 RA RMK PCX SBIH 191000Z 1912/1924 07005KT 9999 FEW015 TN30/1912Z TX36/1918Z BECMG 1915/1917 10008KT SCT025 FEW030TCU BECMG 1921/1923 00000KT CAVOK RMK PEH SBIL 190900Z 1912/1924 07009KT 9999 SCT025 TX30/1915Z TN26/1923Z RMK PEA SBIZ 191000Z 1912/1924 07005KT 9999 SCT015 TN29/1912Z TX35/1918Z BECMG 1915/1917 04005KT SCT025 BECMG 1920/1922 07005KT CAVOK RMK PEH SBJP 190900Z 1912/2012 09013KT 9000 BKN022 TX30/1915Z TN23/2008Z BECMG 1916/1918 SCT025 BECMG 1921/1923 09007KT RMK PEA SBJV 190930Z 1912/1924 00000KT 8000 BKN015 BKN040 TX23/1917Z TN19/1924Z BECMG 1912/1914 15007KT 9999 NSW FEW020 BKN030 BECMG 1920/1922 18005KT BKN020 RMK PCX SBKG 190900Z 1912/1924 09012KT 9999 BKN025 TX31/1917Z TN23/1923Z BECMG 1915/1916 SCT035 RMK PEA SBKP 190930Z 1912/2012 22013KT 8000 SCT030 TX25/1917Z TN17/2006Z PROB40 1915/1918 17010KT SHRA BKN030 FEW045TCU BECMG 1921/1923 15010KT SCT025 BECMG 2000/2002 NSC BECMG 2004/2006 CAVOK BECMG 2010/2012 14015KT RMK PHH SBLO 190930Z 1912/1924 00000KT CAVOK TX28/1918Z TN21/1924Z BECMG 1912/1914 10008KT 9999 SCT035 PROB30 TEMPO 1915/1918 VCSH SCT020 FEW030TCU RMK PCX SBLP 190900Z 1912/1924 06006KT 9999 SCT030 TN32/1912Z TX38/1918Z RMK PEA SBME 190900Z 1912/1924 28005KT 9999 SCT020TX27/1914Z TN23/1924Z BECMG 1912/1914 23015KT TEMPO 1916/1920 5000 RA BKN020 BECMG 1921/1923 25005KT RMK PHQ SBMN 191000Z 1912/2012 18005KT 9999 FEW020 TX35/1918Z TN25/2007Z BECMG 1916/1918 14008KT SCT020 FEW025TCU BECMG 1922/1924 06003KT CAVOK RMK PEH SBMO 190900Z 1912/2012 09014KT 9000 SCT023 TX31/1915Z TN23/2008Z BECMG 1921/1923 08007KT BECMG 2002/2004 06005KT RMK PEA SBMQ 191000Z 1912/2012 04008KT 9999 FEW015 TX34/1917Z TN25/2006Z BECMG 1916/1918 08010KT SCT025 BECMG 1922/1924 04008KT CAVOK BECMG 2003/2005 36005KT BECMG 2009/2011 04005KT RMK PEH SBNF 190930Z 1912/2012 23007KT 9999 BKN018 BKN030 TX23/1917Z TN17/2009Z BECMG 1922/1924 17010KT BECMG 2001/2003 BKN020 PROB40 2007/2011 5000 BR SCT009 BKN018 RMK PCX SBNT 190900Z 1912/2012 11015KT 9999 BKN023 TX31/1915Z TN25/2008Z BECMG 1916/1917 SCT023 BECMG 1921/1923 09008KT RMK PEA SBPJ 190800Z 1912/1924 25005KT 7000 FEW010 TX29/1912Z TN28/1923Z PROB30 1915/1918 3000 TSRA SCT025 FEW030CB BECMG 1918/1920 27005KT FEW040 PROB30 1918/1920 TS FEW025 FEW030CB RMK PDE SBPL 190900Z 1912/2012 12008KT 9999 SCT025 TX33/1917Z TN24/2008Z RMK PEA SBPS 190900Z 1912/2012 07012KT 9999 SCT020 TX29/1915Z TN23/2009Z BECMG 1921/1923 05008KT BECMG 2005/2007 24004KT RMK PEA SBRB 191000Z 1912/2012 07005KT CAVOK TX34/1918Z TN22/2008Z BECMG 1916/1918 33008KT SCT035 FEW040TCU BECMG 1922/1924 33003KT CAVOK RMK PEH SBRF 190900Z 1912/2012 08008KT 9999 SCT022 TX28/1915Z TN25/2009Z RMK PEA SBRJ 190900Z 1912/1924 21005KT 9999 SCT020TX26/1915Z TN23/1924Z BECMG 1912/1914 20015KT BECMG 1915/1917 4000 RA BKN020 BECMG 1920/1923 22005KT 9999 NSW RMK PHQ SBRP 190930Z 1912/2012 29005KT 9999 SCT030 TX28/1917Z TN18/2006Z PROB40 TEMPO 1915/1921 16010KT TSRA BKN030 FEW040CB BECMG 2000/2002 14007KT NSC BECMG 2004/2006 CAVOK RMK PHH SBSC 190930Z 1912/1924 20010KT 6000 BKN009 BKN030 TX25/1918Z TN21/1924Z BECMG 1912/1914 9999 NSW BKN025 PROB40 1916/1921 6000 RA BKN020 RMK PCX SBSJ 190900Z 1912/2012 26005KT 9999 SCT020TX23/1915Z TN18/2009Z BECMG 1915/1917 23010KT 4000 RA BKN020 BECMG 1918/1920 9999 NSW BECMG 2000/2002 19005KT BECMG 2007/2009 7000 BKN010 BECMG 2010/2012 14005KT RMK PHQ SBSL 191000Z 1912/2012 07008KT 9999 SCT020 TX31/1916Z TN25/2006Z BECMG 1915/1917 03015KT BECMG 1920/1922 06008KT CAVOK RMK PEH SBSM 190930Z 1912/1924 12012KT 9999 BKN025 TN19/1912Z TX25/1917Z BECMG 1914/1916 SCT035 RMK PCX SBSN 191000Z 1912/2012 06008KT 9999 FEW015 TX34/1918Z TN24/2008Z BECMG 1913/1915 09010KT BECMG 1917/1919 06010KT SCT023 FEW025TCU BECMG 1922/1924 10003KT CAVOK BECMG 2008/2010 06005KT RMK PEH SBSP 190930Z 1912/2012 19015KT 9999 BKN009 TX21/1917Z TN16/2006Z PROB30 1912/1916 BKN015 PROB30 1916/1920 15015KT 3000 DZ BR OVC006 BECMG 1921/1923 17010KT 6000 RA BKN010 BECMG 2001/2003 8000 NSW BKN008 PROB30 2006/2010 4000 DZ BR OVC006 BECMG 2010/2012 BKN011 RMK PHH SBSV 190900Z 1912/2012 09012KT 9999 SCT020 TX30/1916Z TN25/2007Z BECMG 2002/2003 07007KT RMK PEA SBTE 190900Z 1912/1924 09006KT 9999 SCT030 TN30/1912Z TX35/1918Z RMK PEA SBTT 191000Z 1912/2012 34005KT SCT010 TX33/1918Z TN24/2010Z BECMG 1915/1917 06005KT SCT020 FEW025TCU BECMG 1922/1924 00000KT CAVOK RMK PEH SBUG 190930Z 1912/1924 14014KT CAVOK TN21/1912Z TX30/1918Z RMK PCX SBUL 190930Z 1912/1924 33005KT 9999 SCT030 TX31/1917Z TN23/1923Z BECMG 1914/1916 25005KT PROB30 1917/1923 17007KT 6000 TSRA SCT030 FEW040CB RMK PHH SBUR 190930Z 1912/1924 01005KT 8000 NSC TX32/1917Z TN21/1923Z BECMG 1912/1914 17005KT BECMG 1916/1918 24005KT SCT045 PROB30 1918/1923 17007KT 6000 TSRA SCT030 FEW040CB RMK PHH SBVH 191000Z 1912/1924 36005KT CAVOK TN25/1912Z TX30/1918Z BECMG 1915/1917 33008KT SCT030 FEW035TCU PROB30 1918/1921 TS SCT030 FEW040CB BECMG 1921/1923 30005KT RMK PEH SBVT 190900Z 1912/2012 06012KT 7000 SCT015 SCT020 TX27/1914Z TN23/2008Z TEMPO 1919/1921 4000 RA BR SCT008 BKN020 BECMG 1921/1923 04007KT TEMPO 2006/2009 3000 RA BR SCT008 BKN020 RMK PEA SBYS 190800Z 1912/1924 34005KT 7000 FEW040 TX31/1918Z TN22/1923Z PROB30 1912/1915 4000 RA BR BKN010 BECMG 1918/1920 18005KT SCT040 RMK PDE SCAR 191030Z 1912/2012 18004KT 9999 OVC020 TX20/1917Z TN17/2006Z BECMG 1916/1918 21012KT CAVOK BECMG 1922/2000 18004KT BKN026 BECMG 2004/2006 26004KT OVC026 BECMG 2010/2012 20004KT SCAT 191030Z 1912/2012 35009KT 9999 OVC009 TX19/1918Z TN12/2006Z BECMG 1916/1918 27010KT CAVOK BECMG 1922/2000 24004KT BECMG 2000/2002 OVC006 BECMG 2008/2010 35004KT SCBA 191020Z 1912/2012 14007KT 9999 BKN030 TX09/1918Z TN04/2010Z BECMG 1914/1916 14014KT BECMG 2004/2006 SCT040 SCCF 191030Z 1912/2012 11018KT CAVOK TX25/1918Z TN06/2006Z BECMG 1914/1915 08010KT BECMG 1916/1918 27022KT BECMG 2000/2002 25011KT BECMG 2003/2005 11015KT SCCI 191019Z 1912/2012 17005KT CAVOK TN00/2009Z TX13/1920Z TEMPO 1912/1917 VRB02KT BECMG 1913/1915 11008KT BECMG 2001/2003 05005KT BECMG 2009/2011 14005KT SCCY 191040Z 1912/1924 24005KT 9999 OVC025 TN05/1912Z TX11/1918Z BECMG 1920/1922 BKN040 SCDA 191030Z 1912/2012 20004KT 9999 OVC027 TX19/1917Z TN17/2006Z BECMG 1914/1916 25010KT SCT033 BECMG 1916/1918 22014KT BECMG 1922/2000 BKN030 BECMG 2002/2004 19004KT OVC030 BECMG 2006/2008 30004KT SCEL 191023Z 1912/2012 20010KT CAVOK TX24/1919Z TN06/2011Z TEMPO 1912/1913 VRB02KT 7000 NSC BECMG 1914/1916 17005KT BECMG 1919/1921 21012KT BECMG 2002/2004 16005KT TEMPO 2009/2012 VRB02KT 7000 NSC SCFA 191030Z 1912/2012 18004KT 9999 BKN018 TX17/1917Z TN15/2006Z BECMG 1914/1916 20014KT FEW025 BECMG 1921/1923 BKN020 BECMG 2002/2004 20004KT BECMG 2006/2008 03004KT OVC024 BECMG 2010/2012 20004KT SCIE 191024Z 1912/2012 VRB02KT CAVOK TX16/1918Z TN08/2011Z TEMPO 1912/1918 17004KT SCT030 SCT060 BECMG 1915/1917 22010KT BECMG 1918/ 1920 24012KT BECMG 2000/2002 21004KT SCIP 191039Z 1912/2012 11004KT 9999 SCT025 TX23/1920Z TN16/2010Z TEMPO 1912/1917 03008KT SCT025 BKN050 BECMG 1918/1920 33007KT TEMPO 1922/2002 27004KT BECMG 2003/2005 VRB04KT SCJO 191042Z 1912/1924 VRB02KT 9999 BKN050 TN07/1912Z TX19/1918Z TEMPO 1912/1913 2000 BR BECMG 1920/1921 OVC030 BECMG 1922/1924 33005KT 8000 -SHRA OVC025 SCNT 191156Z 1912/2000 VRB04KT CAVOK TN05/1912Z TX18/1918Z TEMPO 1912/1916 32007KT BECMG 1920/1922 16005KT SCPQ 191020Z 1912/1924 20005KT 9999 BKN050 TN07/1912Z TX16/1918Z BECMG 1914/1916 14005KT BECMG 1923/1924 9000 -SHRA BKN030 SCQP 191016Z 1912/2012 VRB02KT CAVOK TX21/1918Z TN07/2010Z TEMPO 1912/1913 2000 BR SCT005 BECMG 1914/1915 9999 NSW SCT030 BECMG 1916/1918 26008KT TEMPO 1920/1923 8000 -SHRA BKN030 BECMG 2000/2002 VRB02KT OVC030 SCSE 191022Z 1912/2012 00000KT 5000 BR FEW010 TX18/1918Z TN10 /2011Z TEMPO 1912/1914 VRB02KT 0700 FG SCT004 BKN008 BECMG 1914/1916 28010KT CAVOK BECMG 2001/2003 26004KT SCTE 191030Z 1912/2012 VRB02KT 9999 SCT060 BKN080 TX18/1918Z TN07/2010Z TEMPO 1912/1913 3000 BR BECMG 1914/1915 20010KT BECMG 1923/2001 25005KT 9000 -SHRA BKN030 BECMG 2003/2005 33005KT 7000 -SHRA OVC020 BECMG 2007/2009 9999 NSW BKN040 SCVD 191016Z 1912/1924 VRB02KT 1500 BR BKN040 TN04/1912Z TX18/1918Z BECMG 1913/1915 9999 NSW BECMG 1916/1918 30010KT SCT040 SEGU 190430Z 1906/2006 22008KT 9999 BKN020 BKN100 FM191600 16008KT 9999 SCT020 BKN100 FM200000 22014KT CAVOK TX29/1919Z TN22/1909Z SELT 190430Z 1906/2006 VRB03KT 9999 BKN026 FM191300 18006KT 9999 SCT030 FM191800 18016KT 9999 BKN030 PROB30 TEMPO 1920/1923 TSRA FEW023CB BKN030 FM200000 VRB03KT 9999 BKN020 TX22/1919Z TN08/1911Z SEMT 190430Z 1906/20064 20005KT 9999 OVC020 BECMG 1916/1917 27012KT SCT023 BECMG 1922/1923 22008KT BKN023 FM200000 VRB03KT 9999 OVC020 TX28/1920Z TN21/1910Z SEQM 190430Z 1906/2006 VRB03KT 4000 BCFG FEW008 BKN016 BECMG 1911/1912 FEW030 SCT100 FM191800 36015KT 9999 SCT040 PROB30 TEMPO 1920/1923 TSRA FEW023CB BKN030 FM200000 VRB03KT 9999 SCT005 BKN020 TX25/1919Z TN10/1911Z SGAS 190955Z 1912/2012 VRB04KT CAVOK TX28/1919Z TN20/2009Z PROB30 1917/1919 21008KT 8000 -TSRA BKN027 FEW040CB BECMG 1921/2000 17006KT 9999 SCT033 BECMG 2002/2005 07008KT CAVOK SGCO 190955Z 1912/2012 18010KT 9999 OVC020 TX27/1919Z TN20/2009Z BECMG 0916/0919 VRB05KT 9999 TS BKN020 FEW040CB PROB40 0920/1922 21015KT 5000 TSRA BKN017 FEW040CB BECMG 2003/2005 15008KT 8000 RA BKN020 SGEN 190955Z 1912/2012 13007KT CAVOK TX29/1919Z TN18/2009Z PROB30 1918/1920 21005KT 9000 -TSRA BKN027 FEW040CB BECMG 1921/2000 09010KT 9999 SCT030 POB30 2005/2007 VRB04KT 6000 BKN015 SGES 190955Z 1912/2012 17006KT 9999 BKN015 TX29/1919Z TN18/2009Z TEMPO 1918/1920 21007KT 6000 TSRA BKN020 FEW040CB BECMG 1921/2000 VRB05KT 9999 BKN020 PROB30 2005/2007 12004KT 5000 BR BKN010 SPCL 191100Z 1912/2012 35006KT 9999 SCT015 TX33/1919Z TN24/2011Z TEMPO 1919/1922 05010KT 5000 SHRA BKN015 FEW020TCU BKN080 SPGM 191100Z 1912/2012 VRB02KT 8000 SCT015 BKN090 TX32/1919Z TN21/2011Z TEMPO 1912/1914 5000 -RA BR BKN015 OVC080 FM191700 35007KT 9999 SCT030 SCT100 SPHI 191100Z 1912/2012 18006KT 9999 SCT015 TX25/1919Z TN17/2011Z FM191800 21016KT CAVOK FM200800 18006KT 9999 BKN010 BKN050 SPHO 191100Z 1912/2012 VRB01KT 9999 FEW050 BKN070 TX25/1919Z TN10/2011Z TEMPO 1917/1923 FEW040 FEW050TCU BKN080 SPHY 191100Z 1912/2012 00000KT 9999 FEW020 SCT050 TX18/1919Z TNM01/2011Z TEMPO 1914/1921 BKN080 SPJC 191100Z 1912/2012 17010KT BKN020 TX21/1919Z TN17/2010Z FM191500 27010KT 9999 SCT030 BECMG 1920/1922 18010KT BECMG 2002/2006 SCT012 BKN020 SPJI 191100Z 1912/2012 32005KT 9999 SCT020 TX35/1920Z TN17/2011Z TEMPO 1919/1922 5000 DZRA BKN020 BKN100 SPJL 191115Z 1912/2012 VRB04KT FEW015 BKN080 TX17/1919Z TN05/2010Z FM191800 08010KT 8000 SCT020 SCT080 SPJR 191100Z 1912/2012 00000KT 9999 FEW023 SCT050 TX22/1919Z TN10/2011Z FM191600 VRB06KT 9999 SCT023 BKN043 TEMPO 1918/1921 RA SCT023 OVC040 FM200000 00000KT 9999 FEW023 SCT050 SPLO 191115Z 1912/2012 14008KT 9999 BKN030 TX23/1919Z TN16/2011Z SPME 191100Z 1912/2012 VRB02KT 9999 OVC012 TX27/1919Z TN22/2011Z BECMG 1914/1917 35010KT BKN012 BECMG 1923/2001 25006KT SPMS 191100Z 1912/2012 06005KT 9999 SCT015 TX34/1920Z TN23/2011Z TEMPO 1912/1914 5000 BR TEMPO 1920/1923 08010KT 5000 SHRA SCT020 FEW025TCU BKN100 SPQT 191100Z 1912/2012 02005KT 9999 FEW020 SCT100 TX34/1920Z TN24/2011Z TEMPO 1918/1922 08010KT 4000 SHRA BKN020 FEW025TCU BKN100 TEMPO 2008/2012 5000 BR BKN010 BKN100 SPQU 191100Z 1912/2012 06006KT CAVOK TX22/1919Z TN10/2011Z BECMG 1913/1915 25010KT SPRU 191100Z 1912/2012 14004KT 8000 BKN020 TX22/1919Z TN16/2010Z TEMPO 1912/1913 5000 BR SCT006 FM191800 18012KT 9999 FEW030 FM200300 13004KT 8000 NSC BECMG 2006/2008 OVC020 SPSO 191100Z 1912/2012 11004KT 8000 NSC TX21/1919Z TN12/2010Z TEMPO 1912/1913 4000 BR FM191500 33010KT 8000 SCT020 BECMG 1919/1921 24014KT BECMG 2001/2003 VRB04KT 8000 SCT012 BKN016 SPST 191100Z 1912/2012 00000KT 8000 BKN015 BKN080 TX35/1920Z TN22/2011Z TEMPO 1912/1914 5000 -RA BR BKN012 OVC070 FM191500 VRB05KT 9999 SCT020 SCT080 SPTN 191100Z 1912/2012 21004KT 9999 OVC025 TX23/1919Z TN13/2011Z FM191500 24008KT 9999 SCT030 SPTU 191100Z 1912/2012 34002KT 9999 FEW050 TX33/1919Z TN22/2011Z TEMPO 1912/1917 BKN100 SPYL 191100Z 1912/2012 15017KT 9999 BKN020 SCT050 TX27/1919Z TN18/2011Z BECMG 1914/1916 CAVOK BECMG 1918/1920 21012KT SPZO 191100Z 1912/2012 00000KT 9999 FEW050 TX20/1919Z TN07/2011Z TEMPO 1912/1916 FEW040 BKN080 BECMG 1916/1917 10012KT TEMPO 1917/1923 36012KT FEW050TCU BKN080 SUAA 191130Z 1912/2012 12012KT 9999 SCT012 BKN020 TX18/1918Z TN12/2010Z PROB30 TEMPO 1912/1918 3000 DZ BR BKN008 SUCA 191130Z 1912/2012 10018KT 9999 SCT010 BKN020 TX17/1918Z TN14/2010Z PROB30 TEMPO 1912/1918 3000 DZ BR BKN008 SUDU 191130Z 1912/2012 11012KT 9999 SCT010 TX22/1918Z TN10/2010Z SULS 191130Z 1912/2012 14015KT 9999 SCT010 BKN020 TX18/1918Z TN11/2010Z PROB30 TEMPO 1912/1918 3000 DZ BR BKN008 SUMU 191130Z 1912/2012 12015KT 9999 SCT012 BKN020 TX18/1918Z TN12/2010Z PROB30 TEMPO 1912/1918 3000 DZ BR BKN008 SURV 191130Z 1912/2012 11012KT 9999 BKN010 TX24/1918Z TN10/2010Z SUSO 191130Z 1912/2012 10012KT 9999 SCT010 TX25/1918Z TN13/2010Z TIST 191140Z 1912/2012 07009KT P6SM VCSH SCT030 FM191430 04012KT P6SM FEW025 SCT040 FM192300 06010KT P6SM VCSH SCT025 TISX 191140Z 1912/2012 05007KT P6SM VCSH SCT025 FM191430 06014KT P6SM FEW025 SCT040 FM192300 04006KT P6SM VCSH SCT025 TJBQ 191140Z 1912/2012 09010KT P6SM VCSH FEW025 SCT040 FM191400 08015G25KT P6SM SCT030 FM192300 09008KT P6SM VCSH SCT025 NOT SKED 2002/2011 TJMZ 191140Z 1912/2012 05003KT P6SM FEW030 FM191530 08011KT P6SM FEW025 SCT040 FM192200 06006KT P6SM FEW030 NOT SKED TJPS 191140Z 1912/2012 05005KT P6SM FEW030 SCT060 FM191400 13012KT P6SM FEW025 SCT050 FM192330 08006KT P6SM FEW030 NOT SKED TJSJ 191140Z 1912/2012 VRB05KT P6SM VCSH SCT025 SCT060 FM191430 06015G25KT P6SM FEW025 SCT040 FM192200 06010KT P6SM VCSH SCT030 TKPK 191140Z 1912/2012 06012KT P6SM VCSH SCT018 NOT SKED 2002/2011 TLPC 191100Z 1912/2012 10006KT 9999 SCT023 TEMPO 1912/2003 SHRA BKN018TCU PROB30 TEMPO 1918/1924 5000 TSRA FEW016CB TLPL 191100Z 1912/2012 09017KT 9999 SCT023 TEMPO 1912/2003 SHRA BKN018TCU PROB30 TEMPO 1918/1924 5000 TSRA FEW016CB TNCB 191051Z 1912/2018 07013KT 9999 SCT018 TEMPO 1912/2018 6000 SHRA FEW016CB BKN018 PROB30 TEMPO 1912/2018 VRB15G25KT 3000 TSRA SCT010 BKN015CB TNCM 191140Z 1912/2012 07012KT P6SM VCSH SCT018 TXKF 191131Z 1912/2012 03015KT 9999 FEW040 BKN070 PROB30 TEMPO 1912/1916 4800 -SHRA BKN020 UAAA 191100Z 1912/2012 32005MPS 3000 BR FU BKN020CB OVC100 TX07/2008Z TNM04/2001Z TEMPO 1912/1915 24010MPS 1500 SHRASN BKN005 OVC010CB TEMPO 1915/1920 0500 SN FZFG BKN003 TEMPO 1920/2003 16004MPS 0500 FZFG VV002 UACC 191100Z 1912/2012 25007MPS 4000 SNRA BKN006 OVC020 TX06/2010Z TNM02/1918Z TEMPO 1912/1918 1000 SHSN BKN004 BKN010CB BECMG 1920/1922 22006MPS TEMPO 1920/2003 1200 SHRASN BKN003 BKN010CB FM200600 23008MPS 9999 SCT007 BKN020CB TEMPO 2006/2012 23007G12MPS UAII 191100Z 1912/2012 24005MPS 6000 SCT040CB BKN100 TX16/2009Z TN04/2001Z TEMPO 1912/1915 20007G12MPS TEMPO 1915/2003 12004MPS 1000 BR FU TEMPO 2003/2012 30007MPS UAKK 191100Z 1912/2012 23007MPS 2000 -SN BR SCT005 BKN015 TX01/2009Z TNM05/1923Z TEMPO 1913/2001 0800 -SHSN FZFG BKN002 BKN010CB BECMG 2001/2003 3000 BR SCT004 BKN010 TEMPO 2001/2012 23010MPS 1000 SN FZRA BKN003 UATE 191101Z 1912/2012 VRB02MPS 9999 SCT020 TX20/2009Z TN08/2002Z TEMPO 1920/2002 2000 BR BKN003 UATG 191101Z 1912/2012 VRB02MPS 9999 SCT033 TX18/2010Z TN02/2003Z BECMG 1922/1924 3000 BR SCT010 BECMG 2007/2009 21007MPS UATT 191100Z 1912/2012 25005MPS 9999 SCT020 TX16/2011Z TN00/2001Z TEMPO 1920/2006 3000 BR BKN010 UBBB 190509Z 1906/2006 16016KT 9999 SCT025 BKN100 TX23/1911Z TN15/2002Z TEMPO 1906/1915 21018KT BKN015 BKN050 TEMPO 1920/2004 15010KT 3000 BR SCT005 UBBL 190514Z 1906/2006 VRB04KT 9999 SCT040 SCT100 TX23/1911Z TN10/2002Z TEMPO 1906/1915 17008KT SCT017 BKN060 TEMPO 1920/2004 2000 BR BKN005 UBBQ 190511Z 1906/2006 15006KT 9999 SCT040 BKN080 TX23/1911Z TN12/2002Z TEMPO 1906/1915 VRB04KT BKN015 BKN030 TEMPO 1920/2004 3000 BR BKN005 UCFM 191049Z 1912/2012 14003G08MPS 6000 SCT050CB BKN100 TEMPO 1912/1918 26007G12MPS 2000 SHRASN SCT007 BKN030CB PROB40 TEMPO 1912/1918 TS TEMPO 1918/2002 1000 BR FU SCT005 BECMG 2004/2005 32003G08MPS 9999 UCFO 191049Z 1912/2012 12003G08MPS 3000 BR SCT050CB BKN100 TEMPO 1912/1918 24007G12MPS 1000 BR FU SCT003 BKN020CB BECMG 2002/2004 32005MPS UEEE 191100Z 1912/2018 19003G08MPS 5000 -SHSNRA SCT008 BKN017CB OVC070 TEMPO 1912/1915 1000 SHSNRA BR VV004 TEMPO 1915/2002 VRB01MPS 0300 SHSN FZFG VV003 UHBB 191100Z 1912/2012 21003MPS 9999 SCT030CB FM192200 33003MPS CAVOK UHHH 191052Z 1912/2018 13003MPS 9999 SCT008 FM191400 VRB01MPS 2000 BR SCT006 FM191800 27003MPS 0350 FG VV002 FM200100 24005MPS 9999 SCT020 TEMPO 2001/2002 SCT006 SCT020 TEMPO 2002/2008 26008MPS UHMA 191045Z 1912/2012 01003MPS 9999 SCT025 TEMPO 1912/2012 32006MPS 2000 BR SCT006 BKN020 UHMM 191050Z 1912/2018 10003MPS 3100 -SHSNRA FEW011 OVC020CB TEMPO 1912/2008 1000 SHSN FEW005 OVC011CB FM200800 03003G08MPS 6000 -SHSNRA FEW015 BKN020CB TEMPO 2008/2018 3100 -SHSN SCT011 OVC015CB UHPP 191059Z 1912/2018 34003G12MPS 9999 SCT040CB TEMPO 1912/1922 30005G15MPS FM192200 30003G12MPS 9999 NSC FM200900 02003G10MPS 9999 SCT050 UHSS 191100Z 1912/2018 VRB01MPS 9999 BKN030CB BECMG 2000/2003 24003MPS UHWW 191050Z 1912/2012 15003MPS 9999 NSC FM191300 12003MPS 3100 BR SCT011 FM200000 32003MPS 9999 SCT030 FM201000 24003MPS 5000 HZ NSC UIAA 191100Z 1912/2012 30003MPS 9999 SCT040CB UIBB 191100Z 1912/2012 06003MPS 9999 BKN020CB UIII 191100Z 1912/2012 22003MPS 9999 BKN012CB BECMG 1918/1920 32005MPS BKN004CB TEMPO 1921/2012 32010MPS 1500 SHRASN UIUU 191100Z 1912/2012 05003MPS 9999 NSC TEMPO 1912/1921 2700 BR FU BECMG 1921/1923 34006MPS BKN030CB UKDR 190502Z 1906/2006 09005MPS CAVOK BECMG 1916/1918 VRB01MPS UKKK 191102Z 1912/2012 VRB01MPS 9999 SCT030 TX21/1912Z TN03/2004Z TEMPO 1918/1924 2000 BR SCT007 TEMPO 2000/2006 0400 FG SCT002 UKLL 191108Z 1912/2012 28003MPS 5000 BR BKN020 TEMPO 1912/1915 31004MPS 2100 BR SCT007 BKN017CB BECMG 1915/1917 33003MPS 2100 BR BKN007 TEMPO 1917/2009 35003MPS 0400 FG VV002 TEMPO 2009/2012 35003MPS 1100 BR SCT004 UKOO 191103Z 1912/2012 35003MPS 3000 BR BKN007 SCT020CB PROB40 TEMPO 1915/2006 0400 FG VV002 ULAA 191058Z 1912/2012 32005G10MPS 9999 BKN012CB TEMPO 1912/1918 27006G14MPS 3100 -SHRA BKN007 BKN011CB BECMG 1918/1920 30005MPS TEMPO 1920/2009 32003G08MPS 3100 -SHRA BR BKN007 BKN011CB ULLI 191059Z 1912/2012 27006G11MPS 9999 BKN015 TEMPO 1912/1918 29008G14MPS FM191800 32003G08MPS 4000 BR BKN011 BKN015 TEMPO 1921/2000 1200 MIFG BR SCT007 TEMPO 2000/2006 0300 FG BKN002 TEMPO 2006/2012 3100 -SHRA BKN011 BKN015CB ULMM 191050Z 1912/2012 28003G08MPS 9999 BKN006 BKN011 TEMPO 1912/1920 31003MPS 3100 -SHRA BR BKN004 BKN011CB FM192000 25003G08MPS 3100 BR BKN011 TEMPO 1920/2006 22003MPS 0500 FG BKN003 BKN011 BECMG 2006/2008 9999 NSW TEMPO 2008/2012 23003MPS -SHRA BKN011CB UMGG 191100Z 1912/2012 VRB02MPS 9999 SCT013 TEMPO 1915/1918 2000 BR SCT005 TEMPO 1918/2007 0300 FG VV002 TEMPO 2007/2009 2000 BR SCT005 UMKK 191101Z 1912/2012 02004MPS 9999 SCT015 TEMPO 1912/1914 05004MPS BECMG 1914/1916 VRB01MPS SCT011 TEMPO 1921/2003 3100 BR BECMG 1921/1923 24004MPS TEMPO 2003/2009 20004MPS UMMS 191107Z 1912/2012 36005MPS 9999 BKN020 BECMG 1915/1916 VRB02MPS 1200 BCFG BR SCT003 TEMPO 1916/2007 0200 FG VV002 BECMG 2007/2008 02006MPS 9999 NSW BKN030 UNAA 191052Z 1912/2012 18003MPS 3200 BR FU FEW003 BKN011 TEMPO 1915/2003 0300 FG VV002 BECMG 2005/2007 9999 NSW UNBB 191100Z 1912/2012 18003G08MPS 9999 BKN015CB TEMPO 1912/1914 21008G13MPS 1500 SHRA SCT004 BKN011CB TEMPO 1914/2009 0600 +SHSNRA SCT002 BKN011CB UNEE 191100Z 1912/2012 16003G08MPS 9999 SCT020CB TEMPO 1912/1918 3100 -SHRA SCT006 BKN011CB TEMPO 1918/2012 3100 -SHRASN SCT004 BKN011CB UNKL 191050Z 1912/2012 10003MPS 3100 BR SCT011 FM200300 15003G10MPS 9999 SCT040 UNNT 191100Z 1912/2012 18003G08MPS 9999 BKN020CB TEMPO 1915/2006 3100 -SHSNRA BR BKN005 BKN011CB BECMG 2006/2008 21008G13MPS TEMPO 2006/2012 -SHRA BKN016CB UNOO 191055Z 1912/2012 VRB01MPS 6000 BKN020CB TEMPO 1912/1915 1000 SHSN SCT005 BKN020CB BECMG 1915/1917 23003MPS TEMPO 1915/2003 1000 BR SCT005 BKN020CB URKA 191054Z 1912/2012 23005G10MPS 9999 SCT020 BECMG 1915/1917 5000 BR BKN011 BECMG 2000/2001 SCT011 BKN020CB TEMPO 2001/2012 3100 -SHRA BKN005 BKN020CB URKK 191048Z 1912/2012 17003G08MPS 9999 SCT040 TEMPO 1921/2006 3100 BR SCT011 BECMG 2006/2008 22005G10MPS SCT020CB URMM 191059Z 1912/2012 10005G12MPS 9999 BKN015 TX16/1912Z TN08/2003Z TEMPO 1915/2006 09003G08MPS 3100 BR OVC011 URRP 191057Z 1912/2012 10007G12MPS 9999 SCT030 TEMPO 1912/1918 11009G14MPS TEMPO 1918/2006 12003G08MPS 3100 BR SCT011 TEMPO 2006/2012 19003G08MPS 3100 -SHRA SCT011 SCT030CB URSS 191055Z 1912/2012 27004G09MPS 9999 NSC BECMG 1915/1917 05006MPS BECMG 2007/2008 15005G10MPS BKN100 USCC 191100Z 1912/2012 24003G08MPS 5000 BR FU BKN011CB TEMPO 1912/2012 27005G15MPS 3100 -SHRA BKN007CB USHH 191056Z 1912/2012 15003G08MPS 9999 SCT007 BKN011CB TEMPO 1912/1915 4000 BR SCT004 OVC011CB TEMPO 1915/1924 3100 -SHSN BR SCT003 BKN011CB BECMG 1923/2001 18006G12MPS TEMPO 2000/2012 1200 SHSN BR BKN003 OVC011CB USNN 191100Z 1912/2012 20003MPS 4000 BR BKN007 TEMPO 1912/1918 1500 SHSNRA BKN003 BKN015CB BECMG 2006/2007 16006G12MPS USPP 191058Z 1912/2012 25006G11MPS 9999 BKN011 TEMPO 1912/1915 3100 -RA OVC011 BECMG 1915/1917 BKN020 BECMG 1918/1920 31006G15MPS USRR 191055Z 1912/2012 22003MPS 3100 -SHSN BR BKN004 BKN020CB TEMPO 1912/1921 VRB02MPS 0900 FZFG VV002 USSS 191106Z 1912/2012 24003G08MPS 9999 BKN011 BKN020CB TEMPO 1912/1915 26003G12MPS 3100 -SHRA BKN007CB FM191500 24003G08MPS 3100 -RA BR OVC011 TEMPO 1915/2005 SCT006 FM200700 28006G14MPS 9999 -SHRA BKN020CB USTR 191052Z 1912/2012 19004MPS 3100 -SHRASN BR BKN005 BKN015CB TEMPO 1912/2005 24003MPS 0400 SHRASN FG VV002 FM200600 26005G13MPS 9999 SCT011 BKN020CB UTAM 190430Z 1906/2006 07012KT CAVOK 530009 TEMPO 1906/1912 12012KT BECMG 1913/1914 09010KT 5000 NSC UTDD 191200Z 1913/2001 VRB02MPS 6000 FEW066 SCT120 TEMPO 1919/2001 3100 BR FU UTNN 190640Z 1907/2006 VRB04KT CAVOK TEMPO 1907/1912 11008KT UTNU 190423Z 1904/1924 30010G20KT 7000 NSC TEMPO 1904/1906 VRB05KT BKN050 BKN100 UTSA 190501Z 1906/2006 VRB03KT 7000 NSC TEMPO 1906/1917 23010KT UTSB 190500Z 1906/2006 VRB03KT 7000 NSC TEMPO 1906/1917 24010KT UTSS 190500Z 1906/2006 13010KT 9999 NSC TEMPO 1906/1914 27010G20KT UTST 190500Z 1906/2006 VRB06KT 6000 NSC TEMPO 1906/1916 27006G16KT FTW025 SCT060CB SCT100 UTTT 190500Z 1906/2006 22010KT 7000 SCT100 TEMPO 1906/1918 30012G22KT FEW050CB BKN100 UUBW 191057Z 1912/2012 31003MPS 8000 BKN030 TX18/1912Z TN03/2003Z TEMPO 1912/1921 25008MPS -SHRA SCT011 SCT020CB TEMPO 1921/2006 3100 BR FEW003 UUDD 191055Z 1912/2018 32003MPS 9999 BKN015 TX17/1912Z TN03/2003Z TEMPO 1912/1918 26008MPS -SHRA FEW005 BKN012CB PROB40 TEMPO 1921/2007 0300 FG SCT003 UUDL 191100Z 1912/2012 25003MPS 8000 BKN030 TEMPO 2001/2010 -SHRA BKN016CB BKN030 BECMG 2007/2009 29006MPS UUEE 191054Z 1912/2012 30005MPS 9000 SCT030 TX16/1912Z TN02/2003Z UUWW 191050Z 1912/2012 31005MPS 9999 BKN020 TX17/1912Z TN01/2003Z TEMPO 1912/1916 BKN015CB FM191800 30002MPS 5000 BR SCT011 TEMPO 1918/1920 FEW004 TEMPO 1920/1924 0900 FG FEW003 TEMPO 2000/2006 0300 FG VV001 UUYY 191100Z 1912/2012 27005G11MPS 6000 BKN011 BKN020CB TEMPO 1912/1918 27007G14MPS 3100 -SHRA FEW007 BKN015CB TEMPO 2000/2012 3100 -SHRASN FEW007 BKN015CB BECMG 2004/2006 31003G08MPS UWGG 191053Z 1912/2012 25003MPS 9999 BKN020 TX17/1912Z TN05/2003Z TEMPO 2006/2012 29005G10MPS UWKD 191058Z 1912/2012 25005G12MPS 9999 SCT020 TX17/1912Z TN05/2003Z TEMPO 1915/2004 3100 -SHRA BKN011 BKN012CB BECMG 2005/2006 31005G12MPS UWKE 191045Z 1912/2012 24007G12MPS 9999 SCT020 TEMPO 1912/1918 27003G09MPS TEMPO 1918/2006 3100 BR BKN011 BECMG 2006/2009 29006G11MPS UWLW 191045Z 1912/2012 27003G08MPS 8000 SCT020 TEMPO 1912/1921 23006G13MPS TEMPO 1921/2006 4000 -RA BR OVC011 BECMG 2006/2007 32005G12MPS UWOO 191057Z 1912/2012 23006G12MPS 9999 BKN030 TX16/2011Z TN03/2001Z TEMPO 1912/1915 25012MPS TEMPO 1918/2003 23004MPS 3100 BR SCT011 TEMPO 2006/2012 24012MPS SCT020CB UWUU 191059Z 1912/2012 25007G13MPS 9999 BKN030 TEMPO 1912/1921 23005G10MPS TEMPO 1921/2012 3100 -SHRA BKN011CB UWWW 191100Z 1912/2012 23006MPS 9999 SCT020 BKN100 TX16/1912Z TN06/2002Z TEMPO 1912/1921 27007G14MPS BKN011 BKN100 TEMPO 1921/2012 28007G14MPS 3100 -SHRA BR OVC011 BKN015CB VAAH 191100Z 1912/2018 08003KT 4000 FUHZ NSC BECMG 2001/2003 04002KT 2500 HZ NSC BECMG 2004/2006 21003KT 6000 FEW025 BECMG 2012/2014 05002KT 4000 FU NSC VABB 191100Z 1912/2018 28010KT 4000 HZ SCT100 BECMG 1917/1919 15005KT 3000 HZ TEMPO 1912/1920 2000 -TSRA -SHRA SCT012 FEW030CB BKN080 BECMG 1922/1924 09004KT 2000 BR HZ BECMG 2004/2006 VRB03KT 3000 HZ FU BECMG 2008/2010 28008KT 4000 HZ FU VANP 190500Z 1906/2012 VRB02KT 5000 HZ FEW100 BECMG 1912/1914 3000 HZ BECMG 2000/2002 2000 BR NSC VCBI 190500Z 1906/2012 26010KT 9999 SCT018 TX30/1907Z TN25/1900Z PROB30 TEMPO 1909/1912 7000 -TSRA/SHRA SCT016 FEW020CB BECMG 1912/1914 VRB05KT VCRI 190500Z 1906/2012 VRB05KT 9999 FEW018 TX33/1907Z TN24/2000Z PROB40 TEMPO 1909/1915 VRB10G20KT 6000 -TSRA/SHRA BKN016 FEW020CB VDPP 191100Z 1912/2006 13008KT 9999 SCT017 SCT040 TEMPO 1912/1916 5000 TSRA SCT015 FEW017CB BKN040 VDSR 191100Z 1912/2006 14007KT 9999 SCT017 SCT040 TEMPO 1912/1917 5000 TSRA SCT015 FEW017CB BKN040 VDSV 191100Z 1912/2006 25007KT 9999 SCT017 SCT040 TEMPO 1912/1916 5000 TSRA SCT015 FEW017CB BKN040 VEBN 191100Z 1912/2018 VRB02KT 3000 HZ NSC BECMG 2001/2003 00000KT 2000 BR BECMG 2008/2010 26004KT 5000 HZ NSC VECC 190500Z 1906/2012 24005KT 3500 HZ SCT018 BECMG 1918/1920 00000KT 2500 BR BECMG 2001/2003 1400 BR BECMG 2003/2005 24005KT 2800 HZ BECMG 2006/2008 3500 HZ VEPT 190500Z 1906/2012 27005KT 3500 HZ NSC BECMG 1909/1911 5000 HZ FEW250 BECMG 1913/1915 00000KT 3000 HZ NSC BECMG 1923/2001 1800 BR BECMG 2004/2006 18003KT 3000 HZ BECMG 2008/2010 27004KT 5000 HZ FEW250 VGHS 191100Z 1912/2018 26004KT 3500 HZ FEW015 BECMG 1918/1920 16004KT 2000 BR SCT010 BECMG 1920/1922 00000KT 1000 MIFG SCT007 SCT100 BECMG 1923/2001 00000KT 0800 FG BKN005 TEMPO 1923/2003 00000KT 0500 FG BKN003 BECMG 2004/2006 24004KT 2000 BR SCT015 BECMG 2008/2010 24005KT 3500 HZ NSC BECMG 2016/2018 13004KT 3500 HZ SCT015 SCT100 VHHH 191100Z 1912/2018 09015KT 9999 FEW025 SCT040 TX29/2006Z TN24/1922Z VIAR 191100Z 1912/2018 32006KT 5000 HZ NSC BECMG 1920/1921 VRB02KT 3000 BR BECMG 2000/2002 00000KT 2000 BR BECMG 2005/2007 05005KT 5000 HZ FEW100 BECMG 2015/2017 VRB02KT 3000 BR VIDP 191100Z 1912/2018 29005KT 3000 FU SCT100 BECMG 2000/2002 12004KT 1500 BR NSC BECMG 2005/2007 09006KT 3000 HZ FEW040 SCT100 BECMG 2015/2017 32005KT 2000 HZ FEW100 VIJP 191100Z 1912/2018 21006KT 4000 HZ NSC BECMG 1913/1915 VRB02KT 2000 HZ FEW100 BECMG 2004/2006 25006KT 4000 HZ FEW035 BECMG 2013/2015 VRB03KT 2000 HZ FEW100 VILK 191100Z 1912/2018 VRB02KT 3000 HZ NSC BECMG 2001/2003 00000KT 2000 BR BECMG 2008/2010 29005KT 4000 HZ VLLB 191100Z 1912/2012 04004KT 9999 SCT020 SCT060 TEMPO 1914/1920 4000 BR SCT010 BKN050 VLLN 191100Z 1912/2012 04004KT 7000 SCT020 SCT100 TEMPO 1914/1920 2000 BR SCT010 BKN100 VLPS 191100Z 1912/2012 18004KT 9999 SCT020 SCT050 VLSK 191100Z 1912/2012 09004KT 7000 SCT020 SCT100 TEMPO 1914/1920 3000 BR SCT040 BKN100 VLVT 191100Z 1912/2012 09006KT 9999 SCT020 FEW200 TEMPO 1914/1920 4000 BR FEW050 FEW200 VMMC 191100Z 1912/2018 09015KT 9000 FEW015 SCT030 VNKT 190500Z 1906/2006 22004KT 7000 FEW015 BECMG 1907/1909 28008KT 8000 FEW020 BECMG 1914/1915 16003KT 6000 FEW015 BECMG 2000/2002 VRB02KT 4000 BR FEW010 PROB30 2001/2003 2500 BR BECMG 2004/2005 14003KT 6000 FEW015 VOBL 191100Z 1912/2018 09005KT 6000 SCT012 SCT020 TEMPO 1912/1918 3000 TSRA RA SCT012 SCT020 FEW025CB BKN080 BECMG 1921/1922 VRB02KT 3000 BR SCT010 SCT080 TEMPO 2000/2003 1500 BR SCT008 SCT080 BECMG 2003/2004 09005KT 6000 SCT012 TEMPO 2012/2015 3000 TSRA RA SCT012 SCT020 FEW025CB VOCB 191100Z 1912/2018 07010KT 6000 SCT015 SCT080 TEMPO 1912/1918 4000 -TSRA/RA SCT012 FEW020CB OVC080 BECMG 1921/1922 00000KT 4000 -DZ/BR BECMG 2000/2001 3000 BR BECMG 2005/2006 07010KT 6000 TEMPO 2009/2015 SCT015 FEW020CB BKN080 VOCI 191100Z 1912/2018 VRB03KT 5000 HZ SCT015 BKN080 TEMPO 1914/1918 3000 TSRA RA SCT012 FEW025CB BKN080 BECMG 1918/1919 4000 HZ -DZ TEMPO 1922/2003 2000 TSRA BR BECMG 2003/2004 VRB03KT 4000 HZ SCT015 BKN080 BECMG 2006/2007 6000 FEW008 SCT012 FEW025CB BKN080 TEMPO 2012/2016 3000 TSRA RA BECMG 2016/2017 4000 HZ SCT015 SCT080 VOCL 191100Z 1912/2018 VRB03KT 6000 FEW008 SCT012 FEW025CB BKN080 TEMPO 1914/1918 3000 TSRA RA BECMG 1918/1919 4000 HZ SCT012 FEW025CB SCT080 TEMPO 1922/2003 2000 RA BR SCT006 SCT012 FEW025CB BKN080 BECMG 2003/2004 4000 HZ SCT012 BKN080 BECMG 2006/2007 26010KT 6000 SCT012 FEW025CB BKN080 TEMPO 2013/2018 3000 TSRA RA VOHS 191100Z 1912/2018 12007KT 6000 SCT015 BECMG 1920/1922 07006KT 5000 HZ NSC TEMPO 1923/2002 VRB03KT 3000 BR SCT010 BECMG 2003/2005 13008KT 6000 FEW020 SCT025 TEMPO 2010/2015 FEW030TCU BECMG 2015/2016 10005KT 5000 HZ SCT020 VOMD 190500Z 1906/2012 09005KT 6000 SCT018 BKN100 TEMPO 1912/1918 4000 -TSRA/RA SCT015 FEW025CB BKN080 BECMG 1915/1916 VRB02KT 5000 HZ BECMG 2005/2006 09005KT 6000 VOML 191100Z 1912/2018 27010KT 6000 SCT012 SCT020 TEMPO 1912/1918 3000 TSRA RA SCT012 SCT020 FEW025CB BKN080 BECMG 1915/1916 09005KT TEMPO 1921/2003 3000 BR SCT006 SCT012 VOMM 191100Z 1912/2018 09010KT 4000 -DZ/BR SCT018 SCT100 TEMPO 1912/1918 2000 TSRA/RA SCT015 FEW025CB OVC080 BECMG 1921/1922 VRB03KT 3000 -DZ/BR TEMPO 1921/2003 2000 TSRA/RA SCT012CFEW025CB OVC080 BECMR 2005/2006 07010KT 5000 HZ TEMPO 2009/2015 SCT018 FEW025CB BKN100 VOTR 191100Z 1912/2018 11010KT 6000 SCT016 SCT100 TEMPO 1912/1918 4000 -TSRA/RA SCT015 FEW025CB BKN080 BECMG 1921/1922 VRB02KT 4000 BR BECMG 2005/2006 09010KT 6000 TEMPO 2009/2015 4000 -TSRA/RA SCT015 FEW025CG BKN080 VOTV 191100Z 1912/2018 VRB03KT 5000 –TSRA RA FEW010 SCT012 FEW025CB BKN080 TEMPO 1913/1918 3000 TSRA RA BECMG 1917/1918 4000 HZ -RA SCT010 FEW025CB BKN080 TEMPO 1922/2003 2000 TSRA BR BECMG 2003/2004 4000 HZ SCT015 BKN080 BECMG 2005/2006 32010KT 6000 SCT015 FEW025CB BKN080 TEMPO 2010/2015 30005KT 3000 –TSRA RA BECMG 2015/2016 4000 HZ FEW010 SCT015 BKN080 VRMG 190500Z 1906/2012 13006KT 9999 FEW017 TEMPO 1906/1912 4000 TSRA FEW017CB VRMM 190500Z 1906/2012 10006KT 9999 FEW018 VTBD 191100Z 1912/2018 09008KT 9999 FEW020 BECMG 1920/1922 01005KT FEW040 BECMG 2002/2004 08008KT FEW025 TEMPO 2009/2014 VRB15KT 6000 -TSRA FEW018CB SCT030 VTBO 191100Z 1912/2012 00000KT 8000 FEW020 BECMG 1922/1924 03005KT 5000 BR BECMG 2002/2004 08005KT 8000 NSW BECMG 2006/2008 20008KT 9999 TEMPO 2009/2012 VRB15KT 6000 -TSRA FEW018CB SCT022 VTBS 191100Z 1912/2018 08008KT 9999 FEW020 BECMG 1920/1922 02005KT FEW040 BECMG 2002/2004 09008KT FEW025 TEMPO 2009/2014 VRB15KT 6000 -TSRA FEW018CB SCT030 VTBU 191100Z 1912/2012 33004KT 6000 FEW020 SCT100 TEMPO 1913/1918 VRB10KT 3000 TSRA FEW018CB SCT035 BKN100 BECMG 1918/1920 02004KT 5000 BR VTCC 191100Z 1912/2018 32005KT 9999 FEW030 TEMPO 1912/1918 VRB15G25KT 5000 TSRA FEW025CB BKN030 VTCH 191100Z 1912/2012 32005KT 9999 FEW030 BECMG 1922/1924 3000 BR BECMG 2002/2004 9999 NSW VTCL 191100Z 1912/2012 32005KT 9999 FEW030 TEMPO 1912/1918 VRB15G25KT 5000 TSRA FEW025CB BKN030 VTCN 191100Z 1912/2012 32005KT 9999 FEW030 TEMPO 1912/1918 VRB15G25KT 5000 TSRA FEW025CB BKN030 VTCP 191100Z 1912/2012 32005KT 9999 FEW030 BECMG 1922/1924 2000 BR BECMG 2002/2004 9999 NSW VTCT 191100Z 1912/2018 32005KT 9999 FEW030 TEMPO 1912/1918 VRB15G25KT 5000 TSRA FEW025CB BKN030 VTPB 191100Z 1912/2012 18005KT 9999 FEW030 TEMPO 1912/1918 VRB15G25KT 5000 TSRA FEW025CB BKN030 VTPH 191100Z 1912/2012 08005KT 9999 FEW030 TEMPO 1914/1918 VRB15KT 6000 -TSRA FEW018CB SCT028 BECMG 1918/1920 00000KT BECMG 2002/2004 08008KT VTPM 191100Z 1912/2018 32005KT 9999 FEW030 TEMPO 1912/1918 VRB15G25KT 5000 TSRA FEW025CB BKN030 VTPO 191100Z 1912/2012 18005KT 9999 FEW030 BECMG 1922/1924 3000 BR BECMG 2002/2004 9999 NSW VTPP 191100Z 1912/2012 18005KT 9999 FEW030 TEMPO 1912/1918 VRB15G25KT 5000 TSRA FEW025CB BKN030 VTPT 191100Z 1912/2018 32005KT 9999 FEW030 TEMPO 1912/1918 VRB15G25KT 5000 TSRA FEW025CB BKN030 VTSB 191100Z 1912/2012 19005KT 8000 FEW020 BKN100 TEMPO 1913/1919 4000 -RA BR SCT015 BKN100 TEMPO 1919/2001 4000 -RA BR SCT015 BKN100 TEMPO 2001/2005 5000 RA SCT015 BKN100 VTSC 191100Z 1912/2012 22005KT 9999 SCT020 BKN100 TEMPO 1914/1920 3000 RA SCT015 BKN100 TEMPO 1920/2002 5000 RA SCT015 BKN100 TEMPO 2002/2006 5000 RA SCT015 BKN100 VTSE 191100Z 1912/2012 27005KT 8000 FEW020 BKN100 TEMPO 1915/1921 4000 -RA BR SCT015 BKN100 TEMPO 1921/2003 4000 -RA BR SCT015 BKN100 VTSF 191100Z 1912/2012 VRB02KT 9999 SCT020 BKN100 TEMPO 1912/1918 5000 RA SCT015 BKN100 TEMPO 1918/1924 5000 RA SCT015 BKN100 TEMPO 2000/2006 5000 RA SCT015 BKN100 VTSG 191100Z 1912/2012 VRB02KT 8000 SCT020 BECMG 1920/1922 3000 BR BECMG 2000/2002 24008KT 9999 NSW TEMPO 2006/2012 VRB15G30KT 5000 TSRA FEW018CB SCT020 BKN100 VTSH 191100Z 1912/2012 25005KT 9999 SCT020 BKN100 TEMPO 1913/1919 5000 RA SCT015 BKN100 TEMPO 1919/2001 5000 RA SCT015 BKN100 TEMPO 2001/2005 5000 RA SCT015 BKN100 VTSK 191100Z 1912/2012 24005KT 9999 SCT020 BKN100 TEMPO 1915/1921 3000 RA SCT015 BKN100 TEMPO 1921/2003 5000 RA SCT015 BKN100 TEMPO 2003/2007 5000 RA SCT015 BKN100 VTSM 191100Z 1912/2012 30005KT 9999 FEW020 BKN100 TEMPO 1912/1918 3000 RA SCT015 BKN100 TEMPO 1918/1924 5000 RA SCT015 BKN100 TEMPO 2000/2006 5000 RA SCT015 BKN100 VTSP 191100Z 1912/2018 26004KT 9999 SCT020 BKN100 BECMG 2000/2002 26010KT 9999 TEMPO 2006/2012 VRB15G30KT 5000 TSRA FEW018CB SCT020 BKN100 VTSR 191100Z 1912/2012 VRB02KT 9999 SCT020 BECMG 2002/2004 24008KT 9999 TEMPO 2004/2008 VRB15G30KT 5000 TSRA FEW018CB SCT020 BKN100 VTSS 191100Z 1912/2012 VRB02KT 9999 SCT020 BKN100 TEMPO 1914/1920 5000 RA SCT015 BKN100 TEMPO 1920/2002 5000 RA SCT015 BKN100 TEMPO 2002/2006 5000 RA SCT015 BKN100 VTST 191100Z 1912/2012 VRB02KT 9999 SCT020 BECMG 1920/1922 3000 BR BECMG 2000/2002 24008KT 9999 NSW TEMPO 2006/2012 VRB15G30KT 5000 TSRA FEW018CB SCT020 BKN100 VTUD 191100Z 1912/2012 09005KT 9999 FEW020 SCT100 TEMPO 1918/1922 VRB08KT 5000 TSRA FEW018CB BKN020 BKN080 VTUI 191100Z 1912/2012 12005KT 9999 SCT020 SCT100 TEMPO 1918/1922 VRB08KT 5000 TSRA FEW018CB BKN020 BKN080 VTUJ 191100Z 1912/2012 05004KT 9999 SCT025 VTUK 191100Z 1912/2012 06005KT 9000 SCT020 BKN100 TEMPO 1913/1918 VRB08KT 5000 TSRA FEW018CB BKN020 BKN080 VTUL 191100Z 1912/2012 08005KT 9999 FEW020 SCT100 TEMPO 1918/1922 VRB08KT 5000 TSRA FEW018CB BKN020 BKN080 BECMG 1922/1924 2000 BR BECMG 2003/2005 9999 NSW VTUO 191100Z 1912/2012 05004KT 9999 SCT025 BECMG 1920/1922 4000 BR BECMG 1923/2001 9000 NSW VTUQ 191100Z 1912/2012 03004KT 9999 SCT025 BECMG 1922/1924 5000 BR BECMG 2000/2002 9000 NSW VTUU 191100Z 1912/2012 04004KT 9999 FEW028 SCT100 BECMG 1921/1923 5000 BR BECMG 1923/2001 9000 NSW VTUV 191100Z 1912/2012 07004KT 9999 SCT025 BECMG 1922/1924 5000 BR BECMG 2000/2002 9000 NSW VTUW 191100Z 1912/2012 09005KT 9999 FEW020 SCT100 TEMPO 1918/1922 VRB08KT 5000 TSRA FEW018CB BKN020 BKN080 VVCI 191100Z 1912/2012 06008KT 6000 SCT016 BKN030 BECMG 1918/1920 4000 BR TEMPO 1923/2003 2000 -RA BR SCT006 BKN030 BECMG 2005/2006 6000 NSW VVCR 191100Z 1912/2012 VRB02KT 8000 SCT015 SCT040 TEMPO 1912/1916 5000 TSRA SCT013 FEW015CB BKN040 VVCT 191100Z 1912/2012 VRB02KT 9999 SCT015 SCT040 TEMPO 1912/1918 3000 SHRA BKN013 SCT015CB BKN040 BECMG 2003/2004 08010KT TEMPO 2004/2009 5000 SHRA SCT013 FEW015CB BKN040 VVDN 191100Z 1912/2012 07006KT 9999 SCT013 SCT060 TEMPO 1912/1924 4000 SHRA SCT013 FEW015CB BKN050 TEMPO 2007/2012 4000 SHRA SCT013 FEW015CB BKN050 VVNB 191100Z 1912/2012 05004KT 6000 FEW017 BKN045 BECMG 1916/1918 4000 BR TEMPO 1921/2002 1500 -RA BR SCT006 BKN030 BECMG 2004/2005 6000 NSW VVPB 191100Z 1912/2012 08007KT 9999 SCT015 SCT060 TEMPO 1912/1924 4500 SHRA SCT013 FEW017CB BKN050 TEMPO 2008/2012 4000 SHRA SCT012 FEW015CB BKN050 VVPQ 191100Z 1912/2012 24007KT 9999 SCT015 SCT040 TEMPO 1912/1915 5000 SHRA SCT013 FEW015CB BKN040 TEMPO 1915/1920 3000 SHRA BKN013 SCT015CB BKN040 TEMPO 2002/2008 5000 SHRA SCT013 FEW015CB BKN040 VVTS 191100Z 1912/2018 VRB02KT 9999 SCT015 SCT040 TEMPO 1912/1918 5000 TSRA SCT013 FEW015CB BKN040 BECMG 1921/1922 2000 BR BECMG 2001/2002 34010KT 9999 NSW TEMPO 2005/2010 5000 TSRA SCT013 FEW015CB BKN040 VYMD 190500Z 1906/2006 22005KT 7000 SCT020 FEW120 TEMPO 1906/1912 15005KT 6000 SCT020 SCT120 VYYY 191100Z 1912/2012 29005KT 7000 SCT015 TEMPO 2006/2012 32007G17KT 4000 TSRA BKN010 FEW018CB BKN110 WABB 190500Z 1906/2012 21006KT 9999 SCT018 TEMPO 1906/1908 6000 RA FEW017CB BECMG 1910/1912 00000KT WALL 190500Z 1906/2012 20003KT 8000 FEW018CB SCT018 BECMG 1909/1910 FEW020 BECMG 1915/1917 FEW018CB SCT018 TEMPO 1919/1922 4000 TSRA WALS 190500Z 1906/1918 16005KT 9999 FEW016CB SCT016 PROB30 TEMPO 1907/1909 6000 -RA WAQA 190500Z 1906/1918 12005KT 8000 SCT012 BECMG 1910/1911 FEW012CB SCT012 TEMPO 1912/1915 5000 -TSRA FEW012CB BKN012 WAQD 190500Z 1906/1918 11003KT 9999 FEW015 BECMG 1908/1909 22006KT FEW015CB SCT015 TEMPO 1910/1914 4000 TSRA FEW015CB BKN015 WAQJ 190500Z 1906/1918 06004KT 9999 BKN015 PROB30 TEMPO 1906/1909 5000 -TSRA FEW015CB BKN015 BECMG 1909/1910 8000 NSW WAQQ 190500Z 1906/1918 27003KT 9999 FEW015 BECMG 1910/1911 08002KT FEW015CB FEW015 TEMPO 1912/1915 15007KT 5000 -TSRA FEW015CB BKN015 WAQT 190500Z 1906/1918 00000KT 9999 SCT017 WBGB 191100Z 1912/2012 VRB03KT 9999 SCT016 TEMPO 1918/1922 3000 TSRA FEW015CB WBGG 191100Z 1912/2012 VRB03KT 9999 SCT020 WBGR 191100Z 1912/2012 VRB03KT 9999 SCT016 TEMPO 1920/2000 3000 TSRA FEW015CB WBGS 191100Z 1912/2012 VRB03KT 9999 SCT016 TEMPO 1918/1922 3000 TSRA FEW005 FEW015CB WBKK 191100Z 1912/2012 11005KT 9999 FEW014 WBKL 191100Z 1912/2012 22005KT 9999 FEW012 TEMPO 1912/1915 4000 RA FEW010 FEW013CB SCT030 WBKS 191100Z 1912/2012 25005KT 9999 FEW015 TEMPO 1912/1915 5000 RA FEW010 FEW016CB SCT030 WBKW 191100Z 1912/2012 33005KT 9999 FEW017 WBSB 191050Z 1912/2018 20003KT 9999 SCT014 FEW015CB TEMPO 1912/1916 6000 -SHRA TEMPO 1920/1922 5000 -TSRA BECMG 2003/2005 35010KT FEW015 FEW016CB WIDD 191100Z 1912/2012 27005KT 9999 FEW014= WIEE 191100Z 1912/2012 00000KT 9999 SCT020 BECMG 1915/1917 04003KT WIPP 191100Z 1912/2012 10008KT 9999 SCT012 PROB30 TEMPO 1912/1914 5000 RA BKN010 TEMPO 1921/1924 23003KT 5000 BR TEMPO 2008/2012 10015KT 3000 TSRA BKN010 FEW013CB WMKD 190925Z 1909/2006 22005KT 9999 SCT018 TEMPO 1909/1914 6000 -TSRA FEW017CB WMKJ 190500Z 1906/2006 30008KT 9999 FEW018 BECMG 1912/1914 VRB02KT FEW022 TEMPO 1920/2000 27008KT 4000 TSRA FEW017CB SCT020 BECMG 2000/2002 31005KT 9999 FEW018 WMKK 190500Z 1906/2012 32008KT 9999 SCT018 PROB30 TEMPO 1908/1912 33009KT 2000 TSRA FEW015CB SCT018 BECMG 1913/1915 VRB03KT 9999 FEW030 TEMPO 1920/2000 27008KT 4000 TSRA FEW017CB BECMG 2000/2002 33007KT 9999 FEW018 WMKP 190500Z 1906/2006 28005KT 9000 FEW020 SCT024 BKN140 TEMPO 1906/1908 8000 -RA FEW010 SCT024 BECMG 1910/1912 VRB03KT TEMPO 1918/1922 5000 FEW008 FEW017CB WMSA 190500Z 1906/2006 35008KT 9999 FEW017CB PROB30 TEMPO 1908/1912 20010KT 3000 TSRA FEW016CB SCT022 BECMG 1914/1916 VRB02KT FEW026 PROB30 TEMPO 1919/1923 35005KT 6000 -TSRA FEW017CB BECMG 2000/2002 32005KT 9999 FEW018 WPDL 190623Z 1908/1920 30010KT CAVOK FM191100 15006KT CAVOK WSAP 190800Z 1908/2012 25007KT 9999 FEW018CB SCT020 TEMPO 2003/2007 3000 TSRA FEW012CB BKN015 WSSL 190800Z 1908/2012 25007KT 9999 FEW018CB SCT020 TEMPO 2003/2007 3000 TSRA FEW012CB BKN015 WSSS 190800Z 1908/2012 25007KT 9999 FEW018CB SCT020 TEMPO 2003/2007 3000 TSRA FEW012CB BKN015 YAMB 191043Z 1912/2006 VRB05KT 9999 SCT025 FM191700 VRB05KT 9999 BKN025 FM192200 04005KT 9999 SCT030 FM200400 06010KT 9999 FEW040 YBAS 191100Z 1912/2012 28014KT CAVOK FM191400 20010KT CAVOK FM192200 16016G26KT CAVOK FM200300 13014KT CAVOK YBBN 191103Z 1912/2018 VRB05KT 9999 SCT015 FM200000 06009KT 9999 FEW035 FM201000 02005KT 9999 FEW020 FM201400 VRB03KT 9999 SCT015 YBCG 191103Z 1912/2012 VRB05KT 9999 SCT020 FM192300 05010KT 9999 FEW035 FM200700 02009KT 9999 SCT025 YBCS 191123Z 1912/2012 14007KT 9999 FEW020 BKN035 FM200000 09014KT 9999 SCT035 FM200900 12007KT 9999 FEW020 BKN035 YBRK 191101Z 1912/2012 13005KT 9999 SCT020 FM192200 10010KT 9999 FEW030 FM200300 07012KT CAVOK FM201000 08006KT 9999 FEW020 YBRM 191103Z 1912/2012 27012KT CAVOK FM192000 22005KT 9999 BKN016 FM192300 19006KT CAVOK FM200400 27012KT CAVOK YBTL 191136Z 1912/2012 10007KT 9999 FEW015 SCT021 BKN025 FM200000 06015KT 9999 FEW030 FM200900 09007KT 9999 FEW015 SCT021 BKN025 INTER 1915/1922 9999 NSW BKN012 YCFS 191135Z 1912/2012 36010KT 9999 SCT030 FM200000 03014KT 9999 FEW030 FM200900 03010KT 9999 -SHRA BKN090 YCIN 190655Z 1908/1920 31010KT CAVOK FM191200 27005KT CAVOK YFRT 190655Z 1908/1920 20016KT CAVOK BECMG 1909/1911 17010KT CAVOK FM191800 VRB05KT CAVOK YGEL 191041Z 1912/2006 20014KT CAVOK FM191400 14008KT CAVOK FM200300 20014KT CAVOK YGLA 191032Z 1912/1924 09010KT 9999 SCT020 FM191400 14007KT 9999 SCT020 FM192200 09008KT 9999 FEW030 YHID 191126Z 1912/2012 12012KT 9999 FEW020 SCT030 FM200000 09015KT 9999 FEW035 FM201000 12012KT 9999 FEW020 BKN030 YLHI 190533Z 1905/2006 08015KT 9999 -SHRA FEW017 BKN025 FM191500 09012KT 9999 -SHRA BKN020 FM200000 10013KT 9999 -SHRA SCT015 BKN020 INTER 1905/2006 5000 SHRA BKN015 YMAV 191131Z 1912/2012 01012KT CAVOK FM191400 26018G34KT 9999 -SHRA SCT090 FM191600 25013KT 9999 -SHRA SCT020 BKN090 FM200000 18013KT 9999 -SHRA SCT030 BKN040 FM200900 22008KT 9999 SCT025 INTER 1916/1921 4000 SHRA BKN020 YMHB 191128Z 1912/2012 34012KT CAVOK FM191600 34010KT 9999 -SHRA BKN100 FM192200 28015KT 9999 SCT030 FM200700 29012KT 9999 SCT040 YMLT 191132Z 1911/2012 34005KT 9999 FEW010 FM191600 VRB05KT 9999 -SHRA SCT010 BKN100 FM192000 34012KT 9999 -SHRA BKN010 FM192300 30014KT 9999 SCT030 PROB30 1913/1920 0500 FG YMML 191127Z 1912/2018 01013KT CAVOK FM191500 24018G32KT 9999 -SHRA SCT090 FM191700 24014KT 9999 -SHRA SCT015 BKN030 FM192200 21012KT 9999 -SHRA FEW025 BKN035 FM200200 18014KT 9999 BKN035 FM200900 18010KT 9999 BKN025 INTER 1917/1922 4000 SHRA BKN015 YPAD 191118Z 1912/2018 23017KT 9999 -SHRA SCT025 FM200000 23012KT 9999 NSW FEW030 FM201200 12008KT CAVOK INTER 1917/1923 5000 SHRA SCT015 BKN025 YPCC 191059Z 1912/2012 12014KT 9999 SCT020 YPDN 191100Z 1912/2018 28006KT 9999 FEW020 FM200300 30012KT 9999 SCT030 FM201400 04005KT 9999 SCT020 PROB30 TEMPO 1916/1922 VRB20G35KT 1000 TSRA BKN010 SCT020CB PROB30 TEMPO 2006/2012 VRB20G35KT 1000 TSRA BKN010 SCT020CB YPEA 191045Z 1912/2006 21008KT 9999 BKN045 FM191500 36003KT 9999 SCT035 FM200100 31012KT 9999 BKN045 YPGV 190623Z 1908/1920 09008KT 9999 SCT025 YPJT 191042Z 1912/2006 25010KT 9999 SCT045 FM191400 03005KT 9999 SCT035 FM200300 31012KT 9999 BKN045 YPKG 190506Z 1906/2006 23010KT CAVOK FM191200 VRB03KT CAVOK YPKU 191057Z 1910/1920 VRB05KT CAVOK YPLM 191038Z 1910/2012 21014KT CAVOK FM191600 18014KT CAVOK FM200000 16014KT CAVOK FM200600 03010KT CAVOK FM200900 22014KT CAVOK YPPD 191031Z 1910/2012 30014KT CAVOK FM191200 26010KT CAVOK FM200200 03014KT CAVOK BECMG 2004/2006 33016KT CAVOK FM201000 29008KT CAVOK YPPH 191100Z 1912/2018 25010KT 9999 SCT045 FM191400 03005KT 9999 SCT035 FM200300 31012KT 9999 BKN045 FM201200 28010KT 9999 -SHRA BKN030 YPTN 191100Z 1912/2012 11006KT CAVOK FM191500 35008KT CAVOK FM200300 10008KT CAVOK YPWR 190452Z 1906/1924 23024G35KT CAVOK FM191000 22018KT 9999 SCT030 FM191800 20012KT 9999 FEW035 PROB30 INTER 1906/1907 6000 BLDU YPXM 191059Z 1912/2012 13014KT 9999 -SHRA BKN016 YSCB 191109Z 1912/2012 VRB03KT CAVOK FM192300 32014KT 9999 -SHRA SCT035 FM200400 32013KT 9000 -SHRA SCT020 BKN030 BECMG 2007/2009 09005KT 9999 -SHRA SCT015 BKN025 PROB30 TEMPO 2000/2012 VRB25G40KT 3000 TSRA SCT010 BKN018 FEW040CB YSDU 191122Z 1912/2006 04010KT CAVOK FM192200 36018G28KT CAVOK FM200200 34014KT 9999 SCT040 PROB30 TEMPO 2002/2006 VRB25G40KT 3000 TSRA BKN010 FEW040CB YSNF 191151Z 1912/2012 08020G30KT 9999 -SHRA SCT010 BKN025 FM191800 06018G28KT 9999 -SHRA FEW015 BKN030 TEMPO 1912/1920 5000 SHRA BKN005 INTER 1920/2006 5000 SHRA BKN010 YSRI 191142Z 1912/2012 VRB03KT CAVOK FM200000 34010KT 9999 SCT040 FM201000 18010KT 9999 -SHRA SCT005 BKN010 PROB30 1916/1921 0500 FG PROB30 TEMPO 2004/2006 VRB25G35KT 3000 TSRA SCT015 BKN040CB PROB40 TEMPO 2006/2012 VRB25G45KT 3000 TSRA BKN008 SCT030CB YSSY 191108Z 1912/2018 34008KT 9999 FEW008 FM192300 02014KT CAVOK FM200300 04015G25KT 9999 SCT040 FM201000 18015KT 9999 -SHRA BKN008 BKN020 FM201200 18015G25KT 9999 -SHRA SCT010 BKN015 INTER 2012/2016 4000 SHRA BKN008 PROB30 TEMPO 2004/2006 VRB25G35KT 3000 TSRA BKN010 FEW035CB PROB40 TEMPO 2006/2012 VRB25G45KT 2000 +TSRA BKN008 SCT030CB YSTW 191119Z 1912/2006 06008KT CAVOK FM192200 34010KT 9999 SCT030 PROB30 TEMPO 2004/2006 VRB25G40KT 3000 TSRA BKN010 FEW040CB YTNK 190623Z 1908/1920 03008KT CAVOK YTRE 190653Z 1908/1920 03005KT 9999 SCT030 PROB30 1915/1920 0500 FG YWGT 190105Z 1902/1914 01012KT CAVOK FM190800 VRB05KT CAVOK YWLM 191138Z 1912/2012 36008KT CAVOK FM200200 08012KT CAVOK FM200800 03010KT 9999 -SHRA BKN090 PROB30 1916/1921 3000 BR BKN003 ZMUB 191055Z 1912/2018 15006MPS 9999 SCT033 TNM03/1922Z TX09/2007Z BECMG 1919/1921 VRB02MPS SCT033 SCT100 BECMG 2003/2005 24005MPS BECMG 2008/2011 VRB02MPS